ENHM 251950Z AUTO 03004KT 340V100 9999NDV FEW017/// BKN020/// OVC025/// 13/12 Q1017 W///S3 UUOK 251900Z 01004MPS CAVOK 16/15 Q1019 R30/CLRD70 NOSIG RMK QFE745/0994 KIWI 251953Z AUTO 20008G14KT 10SM FEW120 26/18 A2996 RMK AO2 SLP147 T02560178 KJMR 251955Z AUTO 29009KT 10SM SCT037 BKN042 BKN050 18/11 A3006 RMK AO2 KIXA 251940Z AUTO 20007KT 10SM CLR 31/21 A3008 RMK AO2 PPIT 251924Z AUTO 00000KT 10SM FEW005 OVC015 14/13 A3019 RMK AO2 KJMS 251856Z AUTO 33007KT 310V010 10SM SCT041 SCT049 19/11 A3010 RMK AO2 SLP193 T01890111 UUOO 251930Z 35004MPS 9999 SCT050CB 17/14 Q1015 R30/290250 NOSIG RMK QFE748 KIXD 251953Z 21004KT 10SM BKN032 28/21 A3007 RMK AO2 SLP170 T02780206 ENHV 251950Z 25024G35KT 5000 -RA VV011 09/07 Q1010 KM63 251858Z AUTO 23006KT 10SM CLR 27/11 A3014 RMK AO2 LTG DSNT S AND W SLP136 T02710114 PPIZ 251856Z AUTO 18008KT 10SM CLR 07/04 A3007 RMK AO2 SLP185 T00720044 TSNO KIYA 251935Z AUTO 10009KT 5SM -TSRA SCT013 BKN033 OVC070 25/25 A3006 RMK AO2 LTG DSNT ALQS P0007 T02530246 FDSK 251500Z 04010KT CAVOK 29/02 Q1021 NOSIG ENKB 251950Z 03007KT 9999 BKN034 13/10 Q1019 KJNX 251940Z AUTO 20005KT 10SM SCT050 32/20 A3008 RMK AO2 VLPS 251300Z 04002KT 9999 FEW020 SCT050 FEW100 27/26 Q1005 NOSIG KIZA 251927Z AUTO 29007KT 10SM CLR 25/ A2994 RMK AO2 ENLA 251950Z AUTO 09011KT 9999NDV -RA SCT009/// BKN059/// 15/14 Q1015 W///S2 KJOT 251935Z AUTO 25004KT 10SM CLR 29/21 A3004 RMK AO2 T02860211 FDST 251800Z AUTO 06005KT //// // ////// 19/07 Q//// KJQF 251950Z 00000KT 10SM SCT050 34/17 A3014 LBGO 251930Z AUTO VRB02KT 9999 BKN078/// 19/17 Q1020 KIZG 251854Z AUTO 22010KT 200V270 10SM CLR 27/19 A2995 RMK AO2 SLP140 T02720189 ENKR 251950Z 30006KT 9999 FEW040 SCT062 09/03 Q1011 RMK WIND 731FT 29013KT KJRB 251935Z 18008G17KT 8SM OVC049 29/19 A3002 RMK AO1 ENLK 251950Z 26005KT 9999 FEW025 BKN033 10/06 Q1018 KM91 251935Z AUTO 28007KT 10SM SCT044 33/23 A3011 RMK A01 KN03 251935Z AUTO 22008KT 10SM SCT018 SCT024 26/22 A2999 RMK AO2 VLSK 251300Z 14002KT 2000 BR SCT040 BKN100 27/26 Q1006 NOSIG ENMH 251550Z 25012KT 9999 SCT024 SCT040 10/05 Q1010 KLAA 251953Z AUTO 08012KT 10SM BKN035 23/13 A3018 RMK AO2 SLP183 T02280133 TSNO PNO $ FDUS 251200Z AUTO 07006KT //// // ////// 27/M00 Q1023 ENNA 251950Z VRB09KT 9999 FEW033 SCT062 10/04 Q1012 RMK WIND 1800FT 28026KT ENML 251950Z 03008KT 010V080 9999 SCT016 BKN030 14/11 Q1018 ENNE 251950Z AUTO 24004KT 9999NDV BKN027/// BKN079/// 12/09 Q1019 W///S4 KLAF 251854Z 27009KT 10SM BKN035 29/22 A3005 RMK AO2 SLP172 T02890222 ENOA 251950Z 02010KT 9999 OVC015 14/10 Q1018 W///S3 ENMS 251950Z 16002KT 9999 VCFG BKN038 10/08 Q1019 RMK WIND 412FT VRB02KT KLBB 251953Z 13007KT 10SM BKN025 BKN035TCU BKN042 28/19 A3012 RMK AO2 SLP150 CB DSNT NE AND S-SW MOV NE SLO TCU S T02830194 ENNK 251750Z 34007KT 9999 FEW025 BKN040 11/06 Q1017 KLAL 251950Z 05017G20KT 10SM SCT050 33/22 A2998 KJSL 251940Z AUTO 02007KT 310V060 10SM FEW042 31/24 A3000 RMK A01 KJTC 251935Z AUTO 24018G23KT 10SM FEW070 FEW080 19/05 A3033 RMK AO2 LTG DSNT ALQDS KLAM 251935Z AUTO 29010G14KT 10SM SCT110 18/05 A3035 RMK AO2 T01790051 ENNM 251950Z 24003KT 9999 FEW015 SCT025 BKN040 12/11 Q1019 KLAN 251953Z 25015KT 10SM FEW019 SCT027 BKN110 26/21 A2999 RMK AO2 RAE1856 SLP148 P0000 T02610211 KLBE 251950Z 25012KT 10SM SCT040 29/22 A3007 KLBF 251953Z AUTO VRB03KT 10SM CLR 26/09 A3020 RMK AO2 SLP210 T02560089 KJSO 251935Z AUTO 30004KT 10SM BKN060 31/21 A3009 RMK AO2 LTG DSNT NE T03150217 LATI 251950Z VRB04KT 9999 FEW130 28/12 Q1014 NOSIG KLAR 251953Z AUTO 14022G32KT 10SM FEW085 16/03 A3027 RMK AO2 PK WND 15032/1944 SLP172 T01610028 TSNO VMMC 251930Z 19007KT 9999 FEW030 29/26 Q1003 NOSIG KLAS 251856Z 21009G17KT 150V230 10SM FEW120 37/M01 A2988 RMK AO2 SLP085 HZ AND FU VC ALQDS T03721006 KJST 251854Z AUTO 24010KT 10SM SCT030 28/21 A3013 RMK AO2 SLP184 T02780206 KLBL 251935Z 03008KT 10SM OVC016 20/16 A3019 RMK AO1 ENOL 251950Z 03003KT 9999 FEW020 SCT200 11/09 Q1019 NOSIG KJSV 251935Z AUTO 30004KT 10SM CLR 35/20 A3005 RMK AO2 KLAW 251953Z 22005KT 10SM SCT060 BKN100 34/19 A3003 RMK AO2 SLP154 T03440189 KLAX 251953Z 21011KT 7SM FEW027 SCT280 23/16 A2994 RMK AO2 SLP135 T02280156 KLCG 251935Z AUTO 34005KT 10SM CLR 22/15 A3017 RMK AO2 T02200145 KLCH 251953Z 12007KT 10SM CLR 32/25 A3001 RMK AO2 SLP169 T03220250 KLCI 251856Z AUTO 23011G17KT 10SM SCT060 28/19 A2997 RMK AO2 SLPNO T02780189 KN38 251935Z AUTO 23005KT 10SM SCT029 SCT034 BKN055 27/21 A3005 RMK AO2 ENQA 251950Z AUTO 36012KT 9999NDV OVC016/// 13/11 Q1017 W///S3 KLBT 251854Z AUTO VRB03KT 10SM SCT046 SCT060 32/20 A3011 RMK AO2 SLP193 T03220200 KLCK 251935Z AUTO 25011G14KT 10SM SCT028 SCT037 SCT049 31/24 A3004 RMK AO2 T03090242 ENQC 251950Z AUTO 34013KT 9999NDV BKN017/// 14/11 Q1017 W///S3 ENOV 251950Z VRB01KT 9999 FEW015 BKN017 14/12 Q1017 RMK WIND 2175FT 10005KT KLBX 251953Z AUTO 14011KT 10SM FEW037 BKN048 33/26 A3001 RMK AO2 LTG DSNT W SLP162 T03330256 KLCQ 251935Z AUTO 04009KT 360V060 10SM SCT048 31/20 A3005 RMK AO2 VLVT 251630Z 15002KT 3000 TS FEW030/CB/N BKN040 27/25 Q1007 NOSIG KLDJ 251955Z AUTO 00000KT 10SM OVC048 30/19 A3001 RMK AO2 T03040186 KKLS 251856Z AUTO 31007KT 10SM CLR 29/12 A3005 RMK AO2 SLP179 T02890117 ENRA 251950Z 24008KT 9999 SCT035 BKN040 11/07 Q1019 KLEB 251953Z 19007KT 10SM BKN042 OVC070 26/20 A2996 RMK AO2 SLP135 T02610200 KJVL 251945Z 30007KT 10SM FEW040 BKN120 26/14 A3005 KLDM 251934Z AUTO 30007KT 10SM CLR 24/17 A3000 RMK AO2 T02440172 KLEE 251953Z AUTO 06015G21KT 10SM BKN055 BKN070 33/21 A3001 RMK AO2 SLP160 T03280206 PWINO KJWG 251935Z AUTO 27006KT 10SM SCT050 SCT070 BKN090 32/20 A3008 RMK AO2 T03150201 ENQR 251950Z AUTO 05009KT 030V090 9999NDV BKN021/// 13/08 Q1018 W///S3 KN60 251852Z AUTO 30009KT 20/07 A3014 RMK AO1 SLP205 T02000067 UUWW 251930Z 33002MPS 300V020 CAVOK 13/11 Q1022 R06/000070 NOSIG ENSB 251950Z 35014KT 9999 BKN037 02/M05 Q1006 NOSIG RMK WIND 1400FT 35013KT UWGG 251930Z 31001MPS 9000 1300SW R36L/P2000D MIFG BR NSC 12/12 Q1018 R36L/090070 TEMPO 0500 FG RMK QFE757 ENSD 251920Z VRB02KT 9999 FEW035 15/13 Q1017 RMK WIND 1138FT 33003KT ENRM 251920Z VRB01KT 9999 FEW017 BKN063 12/10 Q1020 KJVW 251935Z AUTO 00000KT 9SM A3004 RMK AO2 KJWN 251935Z AUTO 31005KT 10SM FEW038 SCT049 BKN070 33/23 A3010 RMK LCEN 251920Z 29010KT CAVOK 27/22 Q1009 NOSIG ENSE 251950Z AUTO 04012KT 9999NDV BKN020/// 12/08 Q1018 W///S/ ENSF 251950Z AUTO 04010KT 9999NDV OVC020/// ///// Q//// W///S3 ENRO 251950Z AUTO VRB02KT 9999NDV SCT044/// OVC130/// 10/09 Q1018 ENSG 251850Z 00000KT 9999 FEW035 13/13 Q1017 RMK WIND 3806FT VRB02KT ENSH 251950Z VRB02KT 9999 BKN030 10/05 Q1018 KJXI 251935Z AUTO 00000KT 10SM BKN003 OVC060 32/23 A3005 RMK AO2 LTG DSNT E T03200233 KLFI 251858Z COR 18009KT 10SM SCT070 SCT180 31/21 A3008 RMK AO2A SLP193 T03100205 $ COR 1859 KLGA 251951Z 16016KT 10SM FEW055 FEW095 SCT130 SCT170 BKN260 29/19 A3001 RMK AO2 SLP161 T02890194 ENRS 251750Z 23006KT 9999 BKN034 10/07 Q1018 KLFK 251953Z AUTO 20004KT 10SM CLR 33/22 A3003 RMK AO2 SLP163 T03280217 KLGB 251953Z 21008KT 10SM CLR 23/16 A2993 RMK AO2 SLP136 T02330156 ENSK 251950Z VRB01KT 9999 FEW018 BKN024 11/07 Q1018 KLGC 251935Z AUTO 04007KT 10SM SCT047 BKN060 BKN065 33/23 A3012 RMK AO2 T03330231 ENSL 251950Z 07006KT 9999 -SHRA FEW018 BKN100 14/13 Q1017 W12/S2 ENTC 251950Z 24010KT 9999 VCSH FEW020 BKN032 09/06 Q1015 TEMPO BKN014 RMK WIND 2600FT 21011KT KLGD 251935Z AUTO 00000KT 10SM CLR 27/03 A3010 RMK AO1 LBPD 251930Z AUTO 12005KT 090V160 9999 OVC080/// 23/12 Q1020 KLEW 251856Z AUTO 16007KT 10SM CLR 27/21 A2994 RMK AO2 SLP150 T02720211 KJXN 251856Z 26013G20KT 10SM FEW030 FEW042 SCT070 28/22 A2999 RMK AO2 SLP150 T02830222 KLEX 251854Z 24007G15KT 10SM FEW043 33/21 A3012 RMK AO2 SLP188 T03280211 ENSO 251820Z 36003KT 9999 SCT0010 SCT018 16/14 Q1016 KJYG 251935Z AUTO 27009KT 10SM CLR 19/11 A3012 RMK AO2 KJWY 251935Z AUTO 15006KT 10SM CLR 33/21 A3006 RMK AO2 T03270211 ENRY 251950Z VRB02KT 3500 BR BKN003 17/17 Q1017 ENSR 251950Z 28006KT 220V320 9999 FEW025 BKN045 11/04 Q1014 WIND 1119FT 24018KT ENSS 251950Z 25007KT 9999 FEW020 07/03 Q1010 RMK WIND 500FT 24014KT KLFT 251953Z 15009KT 3SM +TSRA BR BKN032 24/22 A3006 RMK AO2 LTG DSNT ALQDS RAB32 TSB03 PRESRR SLP179 P0005 T02390222 $ KLHB 251935Z AUTO 00000KT 10SM CLR 32/23 A3005 RMK AO2 LTG DSNT E T03240228 KJYL 250330Z AUTO 00000KT 10SM CLR A3021 RMK AO2 ENST 251820Z 08003KT 9999 SCT030 BKN037 11/09 Q1019 RMK WIND 300FT 06004KT KJYM 251934Z AUTO 23012G15KT 10SM SCT044 SCT060 28/20 A3001 RMK AO2 T02810202 UUYY 251930Z 33002MPS 290V030 9999 SCT010 BKN021CB 11/10 Q1013 R01/29//51 NOSIG RMK QFE750/1001 EPCE 251930Z VRB02KT CAVOK 16/14 Q1023 RMK 159 089 0/0 = KJYO 251935Z AUTO 00000KT 10SM BKN037 OVC046 32/24 A3005 RMK AO2 ENTO 251950Z VRB01KT 2000 R18/P2000N R36/P2000N BR SCT002 OVC084 17/17 Q1017 ENUG 251950Z AUTO 29026KT 9999NDV BKN022/// 09/05 Q1010 W///S4 KJZI 251935Z AUTO 09011KT 10SM CLR 30/22 A3010 RMK AO2 KJYR 251935Z AUTO 03004KT 10SM CLR 24/15 A3016 RMK AO2 EPDA 251930Z 14005KT CAVOK 18/14 Q1021 RMK 179 078 0/0 = ENVA 251950Z 16003KT CAVOK 12/10 Q1019 RMK WIND 670FT VRB01KT KLGU 251951Z AUTO VRB03KT 10SM CLR 23/03 A3010 RMK AO2 SLP156 T02330033 FGBT 251900Z 11002KT 8000 -RA SCT010 OVC100 23/23 1013 KLIC 251855Z AUTO 14011G16KT 10SM CLR 23/04 A3026 RMK AO2 SLP197 T02280039 KLHM 251935Z AUTO 24006KT 10SM CLR 28/05 A2986 RMK AO1 ENVD 251950Z 29006KT 9999 FEW020 SCT060 06/03 Q1011 EPDE 251930Z 08002KT CAVOK 15/13 Q1025 RMK 145 090 0/0= KJZP 251935Z AUTO 35005KT 10SM SCT046 SCT049 33/08 A3020 RMK AO2 T03270084 KLHQ 251953Z AUTO 24010G16KT 10SM FEW034 SCT070 31/24 A3006 RMK AO2 SLP169 T03110244 EPBY 251930Z 13002KT CAVOK 19/13 Q1023 ENVH 251950Z AUTO 03010KT 1300NDV -RA SCT005/// BKN100/// 15/15 Q1015 RERA W///S2 UWKD 251930Z 35005MPS CAVOK 20/12 Q1015 R29/CLRD70 NOSIG RMK QFE750/1000 UWKE 251930Z 27004MPS CAVOK 20/06 Q1015 R21/090070 NOSIG RMK QFE744/0992 KMAE 251953Z AUTO 31006KT 10SM CLR 32/05 A2987 RMK AO2 SLP112 T03170050 KLHW 251858Z AUTO 01004KT 10SM FEW050 32/20 A3008 RMK AO2 SLP189 T03210195 $ VOBG 251800Z 26008KT 9999 SCT012 SCT080 21/20 Q1012 KLHX 251953Z AUTO 10SM FEW049 26/11 A3019 RMK AO2 SLP172 T02560106 KLJF 251952Z AUTO 29012G15KT 10SM SCT032 22/14 A3010 RMK AO2 KMAF 251953Z VRB04KT 10SM FEW060 FEW085 32/16 A3006 RMK AO2 SLP130 T03220161 LBSF 251930Z 15003KT 9999 FEW068 23/13 Q1022 NOSIG DXNG 251800Z VRB01KT 9999 FEW006 FEW016CB 25/22 Q1014 TEMPO TS KLHZ 251940Z AUTO 25003KT 10SM CLR 32/20 A3011 RMK AO2 KMAI 251953Z AUTO 05013G18KT 10SM FEW060 33/21 A3004 RMK AO2 SLP171 T03280211 VOCB 251900Z 20004KT 6000 FEW015 24/22 Q1010 NOSIG ENVR 251350Z 31004KT 9999 SCT040 OVC080 12/06 Q1018 VOBL 251930Z 28005KT 6000 SCT012 SCT080 21/21 Q1012 NOSIG VOBM 251300Z 27008KT 6000 SCT008 SCT015 BKN080 24/21 Q1011 KLIT 251953Z 15007KT 10SM TS BKN045CB BKN250 28/24 A3007 RMK AO2 RAB36E53 TSB07 SLP183 OCNL LTGICCCCG N-NE TS N-NE MOV NE P0000 T02830244 KO22 251935Z AUTO 20006KT 10SM CLR 33/00 A2994 RMK AO1 KMAN 251915Z AUTO VRB05G12KT 10SM CLR 26/02 A3008 RMK A01 KMAO 251935Z AUTO 04005KT 10SM OVC060 31/19 A3010 RMK AO2 KMBG 251952Z AUTO 32010KT 10SM BKN031 OVC040 17/09 A3017 RMK AO2 SLP215 T01720089 VOCI 251930Z 07002KT 4000 HZ SCT015 SCT090 25/23 Q1009 NOSIG UWKS 251930Z 01003MPS 9999 SCT030CB 17/15 Q1017 R06/010060 NOSIG RMK QFE747 VNKT 251950Z 31005KT 280V350 6000 TS FEW015 FEW025CB BKN100 23/20 Q1014 NOSIG CB TO W NW N AND NE VOCL 251930Z 31004KT 6000 FEW008 SCT012 26/23 Q1009 NOSIG KMCB 251953Z AUTO 12008KT 10SM FEW036 FEW060 33/23 A3004 RMK AO2 LTG DSNT S-W SLP166 T03330228 KMBL 251856Z AUTO 30006KT 10SM CLR 24/17 A2999 RMK AO2 SLP170 T02390167 KMCC 251935Z AUTO 22004KT 8SM CLR 26/10 A2989 RMK AO2 KMCD 251936Z AUTO 22006KT 10SM CLR 22/17 A2993 RMK AO2 T02190169 KMCE 251953Z AUTO 35003KT 10SM CLR 31/07 A2986 RMK AO2 SLP110 T03110072 TSNO KMAW 251955Z AUTO 00000KT 10SM CLR 32/23 A3007 RMK AO2 EPGD 251930Z VRB02KT CAVOK 20/14 Q1023 KMBO 251935Z AUTO 04003KT 10SM CLR 33/23 A3006 RMK AO2 PWINO KMCF 251858Z AUTO 08013KT 10SM CLR 34/24 A2998 RMK AO2 SLP155 T03410239 VOBZ 251730Z 00000KT 2000 HZ SCT020 BKN100 26/25 Q1004 NOSIG KLKR 251955Z AUTO 08004KT 10SM FEW050 33/19 A3011 RMK AO2 PWINO KMCI 251953Z 29003KT 10SM BKN030 28/21 A3006 RMK AO2 SLP170 T02780206 KMBS 251953Z 28012KT 10SM CLR 28/19 A2995 RMK AO2 SLP138 T02830194 KLLJ 251855Z AUTO VRB04KT 10SM CLR 19/00 A3018 RMK AO2 SLP172 T01940000 KMCJ 251915Z AUTO 31012KT 2SM BKN001 OVC010 24/22 A3002 RMK AO1 P0009 KMCK 251953Z AUTO 14007KT 10SM CLR 24/11 A3019 RMK AO2 SLP207 T02440106 LCLK 251930Z 01005KT CAVOK 29/21 Q1008 NOSIG UWLW 251900Z 35003MPS 8000 NSC 23/13 Q1014 R20/CLRD60 NOSIG RMK QFE755 KLKU 251935Z AUTO 00000KT 10SM CLR 33/25 A3006 RMK AO2 KLKV 251935Z 29003KT 10SM CLR 23/M02 A3016 RMK AO1 KMDD 251935Z AUTO 15004KT 10SM SCT050 33/15 A3008 RMK AO2 LTG DSNT NE T03280148 KMCN 251953Z VRB05KT 10SM CLR 34/19 A3010 RMK AO2 SLP185 T03440194 KMCO 251953Z 04017G23KT 10SM SCT046 SCT300 33/21 A2999 RMK AO2 SLP154 T03280206 KMDH 251952Z 21009KT 10SM FEW043 32/22 A3007 RMK AO2 SLP176 T03170222 KLLQ 251953Z AUTO VRB04KT 10SM 36/23 A3004 RMK AO2 SLP166 T03560233 $ KMDJ 251935Z AUTO 09023KT 8SM FEW022 SCT041 BKN080 28/24 A3006 RMK A01 KMEB 251952Z AUTO 00000KT 10SM BKN065 34/18 A3009 RMK AO2 SLP186 T03390183 KLNC 251935Z AUTO 17006KT 10SM CLR 34/21 A3006 RMK AO2 T03380207 KLND 251953Z AUTO 10SM BKN041 17/06 A3025 RMK AO2 SLP202 T01720061 KMCW 251953Z AUTO 27008KT 10SM CLR 23/14 A3012 RMK AO2 SLP190 T02330144 KLMO 251934Z AUTO 06008KT 020V080 7SM CLR 23/05 A3025 RMK AO2 T02310048 KMCX 251935Z AUTO 27004KT 10SM SCT030 BKN036 OVC042 27/20 A3005 RMK AO2 T02720200 KMDQ 251935Z AUTO 32003KT 10SM CLR 32/16 A3012 RMK AO2 KMEH 251856Z AUTO 02005KT 10SM CLR 23/M01 A3017 RMK AO2 SLP203 T02331011 KMEI 251858Z VRB05KT 10SM FEW060 SCT075 35/23 A3009 RMK AO2 SLP183 T03500233 KMDS 251930Z AUTO 30013G20KT 10SM CLR 19/12 A3016 RMK AO2 KLMT 251953Z 03004KT 10SM CLR 26/01 A3011 RMK AO2 SLP152 T02560006 KLNK 251854Z 01007KT 10SM SCT120 24/15 A3015 RMK AO2 SLP203 T02390150 KMDT 251856Z 00000KT 10SM BKN065 OVC250 30/23 A3002 RMK AO2 SLP162 T03000233 KLNL 251935Z AUTO 23012G18KT 10SM BKN050 25/12 A2997 RMK AO2 T02480119 LDDU 251930Z 05009KT 010V110 CAVOK 28/13 Q1016 RE' NOSIG KMFD 251952Z 22011G18KT 10SM FEW036 SCT046 31/22 A3003 RMK AO2 SLP158 T03110222 UWOO 251930Z 05001MPS CAVOK 20/08 Q1017 R26/CLRD65 NOSIG RMK QFE752/1003 KMEM 251854Z 27007KT 10SM SCT040 35/24 A3010 RMK AO2 SLP186 T03500239 ENZV 251950Z 01004KT 5000 BR FEW020 BKN160 17/16 Q1016 KMDW 251953Z 32005KT 10SM FEW035 BKN150 BKN220 29/19 A3002 RMK AO2 SLP154 T02940189 KMFE 251953Z 15010KT 10SM SCT070 38/19 A2995 RMK AO2 SLP139 T03830189 KLNN 251935Z AUTO 27007G16KT 10SM SCT046 BKN060 31/22 A2995 RMK AO1 T03070219 LBWN 251930Z 36008KT CAVOK 22/10 Q1018 NOSIG UWOR 251900Z 19003MPS CAVOK 21/12 Q1018 R25/CLRD65 NOSIG RMK QFE740/0987 KLNP 251935Z AUTO 28005KT 10SM SCT031 SCT037 OVC048 28/16 A3025 RMK AO2 KMDZ 251935Z AUTO 24014G23KT 10SM SCT046 23/14 A3001 RMK AO2 T02260143 KMFI 251854Z AUTO 25013KT 10SM CLR 25/14 A3002 RMK AO2 SLP163 T02500144 KLNR 251856Z AUTO 28006KT 10SM CLR 25/16 A3007 RMK AO2 SLP173 T02500161 KMER 251945Z 29005KT 10SM SKC 33/07 A2987 KLNS 251953Z 21009KT 10SM BKN060 29/23 A3002 RMK AO2 SLP164 T02890233 KO69 251935Z AUTO 36006KT 10SM CLR 19/M41 A2997 RMK AO1 DXSK 251800Z 00000KT 9999 TS FEW013 FEW020CB BKN120 24/22 Q//// KLOL 251953Z AUTO 02006KT 10SM CLR 29/M04 A3006 RMK AO2 SLP136 T02891044 KLPC 251856Z AUTO 26012KT 10SM CLR 18/13 A2998 RMK AO2 SLP156 T01780128 KMGC 251935Z AUTO 00000KT 10SM SCT014 SCT020 OVC034 25/22 A3005 RMK AO2 VOGO 251630Z 29005KT 6000 FEW014 BKN090 27/23 Q1008 TEMPO 5000 RA KMEV 251935Z AUTO 28005KT 10SM CLR 27/M04 A3011 RMK AO2 KLOM 251935Z AUTO 21010KT 10SM BKN033 BKN040 OVC047 27/21 A3003 RMK AO1 KMGE 251858Z 00000KT 10SM BKN046 BKN250 31/21 A3016 RMK AO2A SLP203 T03110207 $ KMGG 251933Z AUTO 30008G14KT 10SM SCT033 21/14 A3008 RMK AO2 T02140144 KMEZ 251955Z AUTO 00000KT 10SM SCT040 32/25 A3008 RMK AO2 TSNO LCPH 251930Z 30008KT 9999 FEW025 27/24 Q1009 KLOR 251953Z AUTO VRB04KT 10SM FEW050 SCT070 33/21 A3006 RMK AO2 SLP175 T03280206 KMFR 251953Z 10SM CLR 33/03 A2993 RMK AO2 SLP120 T03280028 KMGJ 251854Z AUTO 24007KT 10SM BKN047 OVC060 27/22 A3001 RMK AO2 SLP159 T02720217 TSNO KLOT 251935Z AUTO 26007KT 10SM SCT030 28/23 A3004 RMK AO2 T02790228 KLOU 251953Z AUTO 23006KT 10SM CLR 33/20 A3008 RMK AO2 SLP179 T03330200 EPLB 251930Z VRB02KT CAVOK 15/12 Q1026 EPKK 251930Z 05006KT CAVOK 17/12 Q1024 KMGM 251953Z 10SM FEW080 35/19 A3007 RMK AO2 SLP177 T03500194 KMFV 251935Z AUTO 18011KT 10SM CLR 30/16 A3008 RMK AO2 T02970160 KMHE 251953Z AUTO 30011KT 10SM CLR 23/11 A3015 RMK AO2 SLP206 T02280106 KMGN 251934Z AUTO 25008KT 10SM CLR 23/17 A2995 RMK AO2 T02300177 FHAW 251950Z 16013KT 9999 FEW025 BKN040 24/18 Q1015 BLU NOSIG VOHS 251930Z VRB03KT 3500 -RA FEW010 SCT015 OVC080 24/24 Q1009 NOSIG KLOZ 251953Z AUTO 27008KT 10SM CLR 32/20 A3014 RMK AO2 SLP191 T03170200 KO86 251930Z AUTO 16003KT 10SM CLR 32/M02 A2997 RMK AO1 KLPR 251953Z AUTO 26015G20KT 10SM CLR 31/22 A2999 RMK AO2 SLP149 T03110222 KMGR 251931Z AUTO 04006KT 10SM SCT060 33/17 A3008 RMK AO2 KMIA 251953Z 07012G20KT 10SM BKN033TCU BKN080 BKN250 33/24 A2993 RMK AO2 SLP135 TCU ALQDS T03330244 LCRA 251850Z 27011KT CAVOK 27/24 Q1008 NOSIG EPKS 251930Z 12004KT CAVOK 19/12 Q1023 RMK 190 065 1/1 = KMHK 251952Z 04008KT 10SM OVC032 24/19 A3010 RMK AO2 SLP186 T02440189 KLQK 251955Z AUTO 00000KT 10SM SCT049 32/22 A3013 RMK AO2 T03210223 KMIB 251858Z AUTO 31014G18KT 10SM FEW055 22/07 A3009 RMK AO2 SLP193 T02190073 EPMB 251930Z 16002KT CAVOK 19/14 Q1023 RMK 190 072 1/1= EPLK 251930Z 10006KT CAVOK 18/13 Q1024 RMK 183 070 0/0= KMHL 251955Z AUTO 24005KT 10SM SCT031 SCT037 BKN044 30/23 A3006 RMK AO2 P0001 KMIC 251953Z 26010G22KT 10SM CLR 23/12 A3004 RMK AO2 SLP170 T02280117 EPKT 251930Z 09007KT CAVOK 15/12 Q1024 KLRD 251856Z VRB04G16KT 10SM CLR 34/19 A3000 RMK AO2 SLP158 T03440189 $ EPLL 251930Z 07005KT CAVOK 19/13 Q1024 VOHY 251530Z 00000KT 6000 SCT015 SCT020 BKN100 24/21 Q1009 NOSIG KMGW 251953Z 24006KT 10SM SCT027 BKN055 29/22 A3009 RMK AO2 SLP177 T02940217 KMIE 251953Z 28013KT 10SM CLR 31/22 A3005 RMK AO2 SLP163 T03060217 KLRF 251948Z VRB01KT 10SM TS FEW049 SCT095 32/22 A3005 RMK AO2A KMGY 251953Z AUTO 25010KT 10SM FEW036 31/22 A3006 RMK AO2 SLP170 T03110217 KMHR 251945Z 20006KT 10SM SKC 26/12 A2988 EPMI 251930Z 15004KT CAVOK 20/15 Q1022 RMK 201 070 0/0= KLRJ 251935Z AUTO 31006KT 10SM CLR 22/14 A3016 RMK AO2 KMHS 251856Z AUTO 00000KT 10SM CLR 27/04 A3007 RMK AO2 SLP170 T02720039 KP08 251935Z AUTO 00000G11KT 10SM CLR 35/09 A2996 RMK AO2 LEAB 251900Z 17007KT CAVOK 26/07 Q1017 NOSIG KMHT 251953Z 20010KT 10SM FEW050 BKN120 BKN250 29/18 A2995 RMK AO2 SLP150 T02890178 KMHV 251920Z AUTO 28014G20KT 10SM CLR 33/M02 A2996 RMK A01 EPMM 251930Z 09004KT CAVOK 16/13 Q1025 RMK 158 082 0/0= KLSE 251953Z 24009KT 10SM CLR 26/16 A3004 RMK AO2 SLP163 T02610156 KLRO 251935Z AUTO 11003KT 10SM CLR 30/22 A3010 RMK AO2 KLSF 251908Z AUTO 34006KT 10SM BKN055 33/20 A3010 RMK AO2 LEAG 251930Z AUTO 07010KT CAVOK 23/21 Q1014 EPMO 251930Z 11005KT CAVOK 19/13 Q1025 UWSS 251930Z 16002MPS CAVOK 25/09 Q1013 R12/010095 NOSIG RMK QFE748 LEBA 251930Z AUTO 18008KT 9999 NCD 32/10 Q1011 KMIS 251935Z AUTO 08011KT 10SM CLR 30/24 A3004 RMK A01 LEBB 251930Z 34007KT 280V030 CAVOK 24/20 Q1014 NOSIG KLSK 251939Z AUTO 00000KT 10SM SCT026 BKN031 BKN045 15/08 A3031 RMK AO2 KNAK 251954Z AUTO 18007KT 10SM FEW055 30/22 A3003 RMK AO2 SLP170 T03000222 LEAL 251930Z 08007KT 9999 FEW025 26/20 Q1016 NOSIG KMKC 251854Z 00000KT 10SM SCT040 BKN049 28/20 A3005 RMK AO2 SLP168 T02830200 KLRU 251935Z AUTO 17004KT 10SM CLR 29/07 A3015 RMK AO2 LTG DSNT NE SE AND NW T02900071 KNBC 251856Z VRB04KT 10SM FEW050 FEW250 33/18 A3011 RMK AO2 SLP195 T03280183 LEAM 251930Z 08014KT 9999 FEW015 26/19 Q1013 KMIV 251854Z AUTO 15012G15KT 10SM CLR 29/23 A3005 RMK AO2 SLP175 T02890228 KMKE 251952Z 09003KT 10SM SCT130 BKN220 28/17 A3002 RMK AO2 SLP160 T02780167 KMIW 251953Z AUTO 32003KT 10SM CLR 23/17 A3011 RMK AO2 SLP190 T02280172 LEAO 251900Z 06006KT 020V110 CAVOK 31/02 Q1014 KNBG 251855Z 10008KT 10SM SCT020 BKN055 BKN120 BKN250 29/25 A3006 RMK AO2 RAE38 TSE38 SLP180 OCNL LTGIC DSNT SW-NW CB DSNT SW-NW T1 SET P0000 T02890250 $ LEBG 251930Z AUTO VRB02KT CAVOK 24/03 Q1017 KMKG 251855Z 28010KT 10SM SCT200 26/18 A3001 RMK AO2 SLP158 T02610183 KMJQ 251952Z AUTO 26010KT 10SM CLR 22/12 A3013 RMK AO2 LEAS 251942Z 26005KT 230V300 6000 FEW006 SCT018 FEW025CB 20/19 Q1017 RETS TEMPO TSRA SCT020CB KNCA 251856Z 08010KT 10SM SCT050 31/19 A3011 RMK AO2 SLP197 T03110194 KMKJ 251935Z AUTO 24008KT 10SM CLR 29/21 A3025 RMK AO2 T02910212 KP28 251856Z AUTO 02004KT 26/18 A3012 RMK AO1 SLP184 T02560183 KLUA 251935Z AUTO 15004KT 10SM SCT048 32/22 A3006 RMK AO2 VOMD 251900Z 35005KT 6000 FEW020 SCT100 29/23 Q1007 NOSIG KMLB 251953Z AUTO 04017KT 10SM SCT027 32/23 A2999 RMK AO2 SLP154 T03170233 EPOK 251930Z 16006KT CAVOK 19/14 Q1023 RMK 189 076 0/0 = LEBL 251930Z 10004KT CAVOK 25/20 Q1017 NOSIG KMKL 251953Z 24009G16KT 10SM FEW055 31/24 A3010 RMK AO2 LTG DSNT ALQDS RAE1857 SLP189 P0000 T03060239 KMLC 251953Z AUTO VRB04KT 10SM CLR 34/20 A3004 RMK AO2 SLP161 T03440200 KLSV 251858Z 18015G20KT 10SM CLR 37/05 A2987 RMK SLP087 T03650047 $ KLUD 251935Z AUTO 00000KT 10SM CLR 32/17 A3007 RMK AO2 T03200171 KMKN 251935Z AUTO 15006KT 10SM CLR 33/18 A3009 RMK AO2 T03300180 KMLE 251935Z AUTO 33003KT 10SM CLR 23/16 A3014 RMK AO2 T02320161 KMJX 251856Z AUTO 17010G17KT 10SM CLR 30/21 A3004 RMK AO2 SLP177 T03000211 KMLF 251952Z AUTO 12014G19KT 10SM FEW065 SCT090 OVC110 22/04 A3015 RMK AO2 PK WND 19030/1854 RAB1858E13B33E46 SLP160 P0000 T02170044 KMKO 251953Z AUTO 09006KT 10SM BKN055 BKN080 34/21 A3004 RMK AO2 SLP162 T03440206 KLUF 251858Z AUTO 22006KT 10SM FEW200 36/10 A2991 RMK AO2 SLP113 T03580104 $ LECH 251930Z AUTO 11002KT 9999 NCD 23/15 Q1018 KMLI 251852Z 31007KT 10SM SCT120 26/19 A3005 RMK AO2 SLP174 T02560189 $ UWUU 251930Z 17002MPS CAVOK 21/13 Q1016 R14L/0///60 NOSIG RMK QFE751/1001 VOML 251800Z 00000KT 6000 SCT012 SCT080 24/23 Q1010 NOSIG KMKS 251935Z AUTO 00000KT 10SM SCT050 31/17 A3010 RMK AO2 KLTS 251858Z 17008KT 10SM CLR 32/21 A3006 RMK AO2A SLPNO T03170208 KMLJ 251935Z AUTO 00000KT 10SM SCT049 SCT070 SCT080 32/22 A3011 RMK AO2 VOND 250300Z 29002KT 6000 FEW030 27/24 Q1011 LEBT 251900Z AUTO VRB02KT 9999 // NCD 25/18 Q1016 VOMM 251930Z 20008KT 6000 FEW020 FEW025TCU SCT100 30/25 Q1004 NOSIG KLUK 251953Z 23010KT 10SM SCT047 32/23 A3005 RMK AO2 SLP171 T03170233 KMKT 251935Z 27008KT 10SM CLR 21/13 A3010 RMK AO1 KLUL 252035Z AUTO 11005KT 10SM SCT044 BKN050 34/23 A3006 RMK AO2 T03350230 KLUM 251935Z AUTO 24012KT 10SM CLR 25/12 A3003 RMK AO2 T02450124 LECO 251930Z 36005KT 330V040 9999 FEW009 SCT015 BKN022 19/18 Q1017 TEMPO BKN010 KMLP 251953Z AUTO 00000KT 10SM SCT060 17/00 A3028 RMK AO2 SLP170 T01720000 $ KMKY 251935Z AUTO 03011KT 10SM VCTS FEW039 FEW049 SCT065 34/23 A2993 RMK AO1 LTG DSNT ALQDS TSE21B32 DXXX 251930Z 21013KT 9999 SCT010 25/24 Q1012 NOSIG EPPO 251930Z 13006KT CAVOK 22/13 Q1023 LEBZ 251900Z 31002KT CAVOK 33/14 Q1010 KMMH 251935Z AUTO 15007KT 10SM CLR 25/M07 A3021 RMK AO2 T02481072 KMMI 251935Z AUTO 00000KT 10SM CLR 33/21 A3015 RMK EPPR 251930Z 00000KT CAVOK 17/15 Q1023 RMK 174 083 0/0= KMLS 251953Z AUTO 20009KT 10SM CLR 20/05 A3022 RMK AO2 SLP228 T02000050 KLVJ 251953Z AUTO 03007KT 10SM FEW065 33/24 A3004 RMK AO2 LTG DSNT N AND NE SLP171 T03280244 KLWA 251935Z AUTO 32006KT 10SM SCT011 26/21 A3003 RMK AO2 T02560214 KMLT 251953Z AUTO VRB04KT 10SM BKN110 27/19 A2989 RMK AO2 SLP123 T02720189 KMMK 251953Z AUTO 17015G20KT 10SM CLR 29/18 A3001 RMK AO2 SLP162 T02890178 TSNO KLVK 251953Z VRB06KT 10SM CLR 24/11 A2990 RMK AO2 SLP123 T02440111 KLWB 251935Z AUTO 27006KT 10SM SCT039 SCT046 SCT070 29/21 A3019 RMK AO2 T02920205 EPRA 251930Z 11005KT CAVOK 17/12 Q1025 KLWC 251952Z AUTO 20005KT 10SM FEW050 28/20 A3005 RMK AO2 SLP169 T02830200 LEEC 251200Z 22005KT 180V260 CAVOK 33/08 Q1012 KMLU 251953Z 34009KT 10SM BKN041 BKN055 32/25 A3002 RMK AO2 RAB20E35 SLP164 P0000 T03170250 KMML 251856Z AUTO 31014KT 10SM -RA CLR 21/13 A3011 RMK AO2 RAB47 SLP196 P0000 T02110128 KLVL 251935Z AUTO 18007KT 140V200 10SM CLR 32/21 A3007 RMK AO1 T03180207 LECV 251800Z 15007KT 110V190 CAVOK 30/01 Q1018 KLVM 251953Z AUTO VRB03G14KT 10SM CLR 19/01 A3022 RMK AO2 SLP214 T01890006 KLWD 251953Z AUTO VRB03KT 10SM BKN100 24/17 A3011 RMK AO2 SLP189 T02390172 KP53 251756Z AUTO 35007KT 23/14 A2992 RMK AO1 SLP129 T02330139 10244 20194 58000 VOMY 250800Z 25011KT 9999 SCT015 SCT020 28/19 Q1012 KLVN 251952Z AUTO 28010KT 10SM CLR 21/14 A3007 RMK AO2 KMNE 251935Z AUTO 27003KT 10SM VCTS SCT034 SCT046 BKN070 33/26 A3004 RMK AO2 LTG DSNT NW THRU NE T03250256 EPPW 251930Z 10004KT CAVOK 20/13 Q1023 RMK 197 064 0/0 = KLUX 251955Z AUTO 09004KT 7SM CLR 32/20 A3011 RMK AO2 KMNH 251938Z AUTO 17008KT 10SM BKN048 BKN095 18/06 A3032 RMK AO2 LTG DSNT SW KMNI 251955Z AUTO 36005KT 10SM SCT055 32/18 A3009 RMK AO2 KP58 251551Z AUTO VRB04KT 25/22 A2993 RMK AO1 SLP128 T02500217 KLVS 251953Z AUTO VRB03KT 10SM CLR 21/06 A3030 RMK AO2 LTG DSNT W SLP174 T02110061 KP59 251951Z AUTO 31008G24KT 270V360 24/10 A2987 RMK AO1 SLP106 T02390100 KP60 251856Z AUTO 11005KT 13/03 A3032 RMK AO1 SLP228 T01280028 KMOB 251944Z 12008KT 10SM SCT039 SCT047 31/24 A3005 RMK AO2 LTG DSNT SW AND W T03110239 KMMT 251858Z VRB01KT 10SM SCT060 SCT080 SCT250 34/19 A3012 RMK AO2A SLP200 T03410192 $ UWWW 251930Z 21002MPS CAVOK 22/07 Q1015 R23/CLRD60 NOSIG RMK QFE750/1000 KMMU 251945Z 23007KT 15SM OVC046 29/21 A3001 KNEL 251900Z AUTO 19010G18KT 10SM SCT041 31/20 A3002 RMK AO2 SLP165 T03060200 KMMV 251953Z AUTO 01008G16KT 10SM CLR 34/07 A3001 RMK AO2 SLP159 T03390072 KMOD 251953Z 33007KT 10SM CLR 29/11 A2987 RMK AO2 SLP113 T02890111 KLWM 251854Z 20010G17KT 10SM CLR 29/19 A3001 RMK AO2 SLP159 T02890189 KMNM 251856Z AUTO VRB06KT 10SM CLR A2996 RMK AO2 SLPNO FZRANO $ EPSC 251930Z 13008KT CAVOK 20/14 Q1020 KMNN 251953Z AUTO 26010KT 10SM SCT037 32/22 A3003 RMK AO2 SLP161 T03170222 KNFG 251855Z 22007KT 7SM CLR 21/17 A2996 RMK AO2 SLP143 T02110167 $ KNDZ 251856Z 07007KT 10SM SCT042 SCT250 34/23 A3008 RMK SLP170 T03390228 LEGA 251700Z 23006KT 9999 FEW080 SCT120 27/14 Q1016 KP68 251953Z AUTO VRB03KT 24/M06 A3014 RMK AO1 SLP135 T02441056 KLWS 251856Z VRB03KT 10SM CLR 26/05 A3010 RMK AO2 SLP184 T02610050 KP69 251952Z AUTO 00000KT 29/03 A3005 RMK AO1 SLP155 T02890033 KLWT 251854Z AUTO VRB03KT 10SM CLR 18/M01 A3025 RMK AO2 SLP228 T01831006 KLXL 251952Z AUTO 25007KT 10SM SCT030 OVC038 17/11 A3007 RMK AO2 KNFL 251856Z VRB04KT 10SM CLR 27/M06 A3009 RMK AO2 SLP156 T02721056 FGSL 251900Z 23004KT 9999 FEW008 BKN060 25/23 Q1013 NOSIG KLWV 251953Z AUTO 23007KT 10SM FEW039 SCT047 BKN060 32/23 A3006 RMK AO2 SLP174 T03170233 KMNV 251935Z AUTO 00000KT 10SM SCT044 33/22 A3014 RMK A01 LEGE 251930Z 24002KT CAVOK 23/12 Q1017 KNEW 251953Z 11012KT 10SM FEW120 31/23 A3005 RMK AO2 SLP169 T03110233 $ KLXN 251935Z AUTO 08003KT 10SM CLR 24/10 A3020 RMK AO2 T02430095 EPSN 251930Z 13006KT CAVOK 20/13 Q1021 RMK 200 064 0/0= KMOP 251938Z AUTO 29007KT 10SM SCT035 29/20 A2996 RMK AO2 T02880200 KLYH 251854Z VRB06KT 10SM FEW040 33/22 A3011 RMK AO2 SLP184 T03280217 KMNZ 251935Z AUTO 21004KT 10SM CLR 33/15 A3009 RMK AO2 T03300153 KMOR 251935Z AUTO VRB04KT 10SM BKN047 BKN055 32/20 A3015 RMK A01 EPRZ 251930Z 03004KT CAVOK 17/11 Q1025 LDOS 251930Z 34006KT CAVOK 21/16 Q1021 KLXT 251953Z AUTO 23005KT 10SM FEW033 BKN045 28/21 A3007 RMK AO2 SLP172 T02830206 KMOT 251854Z 28016G23KT 10SM FEW049 SCT075 22/07 A3011 RMK AO2 SLP196 T02220072 KMQB 251935Z AUTO 00000KT 10SM SCT021 BKN031 BKN095 27/22 A3009 RMK AO2 T02660216 LEHC 251930Z AUTO VRB02KT 9999 NCD 25/05 Q1017 LDPL 251930Z 05005KT CAVOK 20/14 Q1019 NOSIG KLXV 251953Z AUTO 29007G19KT 260V320 10SM OVC065 07/00 A3050 RMK AO2 PK WND 29027/1928 WSHFT 1859 LTG DSNT N AND SE AND S RAB06E18 TSB19E34 SLP217 P0000 T00720000 $ EPTM 251930Z 10002KT CAVOK 17/13 Q1025 RMK 170 076 0/0= KNFW 251752Z 16009KT 10SM CLR 33/18 A3008 RMK AO2 SLP169 T03330183 10339 20239 58006 $ KMQE 251854Z AUTO 21015G22KT 28/14 A3002 RMK AO1 SLP172 T02780144 KMPO 251953Z AUTO 25008KT 8SM -RA BKN014 BKN042 OVC060 22/19 A3009 RMK AO2 RAB51 SLP180 P0000 T02220194 KMOX 251933Z AUTO 28014KT 10SM SCT034 BKN042 21/12 A3009 RMK AO2 KNGP 251856Z 11010KT 10SM FEW035 FEW080 SCT250 33/25 A3002 RMK SLP164 CB DSNT N-NE AND NW TCU DSNT SE VCSH N-NE AND NW T03280250 KLXY 251935Z AUTO 11004KT 10SM SCT036 32/23 A3006 RMK AO2 LTG DSNT SE T03150227 EPSY 251800Z 00000KT CAVOK 19/14 Q1025 KMQI 251940Z AUTO 21010KT 10SM CLR 29/19 A3011 RMK AO2 T02860185 LEGR 251930Z 17009KT 140V200 9999 FEW090 26/15 Q1015 KMQJ 251934Z AUTO 27010KT 10SM SCT039 SCT045 SCT070 31/23 A3007 RMK AO1 LEGT 251900Z 13004KT CAVOK 31/01 Q1015 LEIB 251930Z 08004KT CAVOK 24/19 Q1016 NOSIG KNHK 251952Z 19007KT 10SM FEW040 FEW070 SCT150 BKN250 30/21 A3004 RMK AO2 SLP172 T03000206 KMRB 251953Z 19005KT 10SM FEW046 30/22 A3003 RMK AO2 SLP163 T03000217 KMRC 251935Z AUTO 24009KT 10SM CLR 34/25 A3010 RMK KNGU 251859Z 26006KT 10SM FEW048 FEW150 SCT300 31/19 A3010 RMK AO2 SLP191 T03110194 KMPV 251951Z AUTO 20013KT 10SM SCT034 OVC047 24/19 A2999 RMK AO2 SLP151 T02440189 KLYV 251936Z AUTO 29011KT 10SM CLR 21/12 A3015 RMK AO2 KNID 251856Z VRB06KT 10SM CLR 33/00 A2992 RMK AO2 SLP106 T03280000 $ KP92 251853Z AUTO 00000KT 25/24 A3006 RMK AO1 SLP179 T02500239 KMRF 251856Z AUTO 18004KT 10SM FEW110 A3024 RMK AO2 SLPNO FZRANO $ KMPZ 251935Z AUTO 00000KT 10SM CLR 25/19 A3008 RMK AO2 T02500185 KMRH 251858Z AUTO 13008KT 10SM FEW050 29/21 A3012 RMK AO2 SLP200 T02890206 TSNO LDRI 251930Z 11005KT 040V200 CAVOK 25/13 Q1019 KMQS 251935Z AUTO VRB06KT 10SM FEW039 FEW050 SCT065 27/22 A3007 RMK AO2 KMRJ 251930Z AUTO 29006KT 10SM SCT120 25/15 A3009 RMK AO2 EPWA 251930Z 12004KT CAVOK 20/12 Q1025 NOSIG KLZU 251945Z VRB05KT 10SM SCT070 33/23 A3014 RMK VISUAL APCH RWY 25 ATIS W JW VORY 251330Z 30006KT 4000 HZ SCT020 BKN100 28/25 Q1004 KMRN 251940Z AUTO 00000KT 10SM CLR 32/20 A3018 RMK AO2 T03210201 KMQY 251944Z 09013KT 10SM TS BKN042CB 29/24 A3012 RMK OCNL CCCGLTG TSB44 TS E-SE MOV E KNIP 251853Z 05015KT 10SM SCT042 BKN085 32/22 A3008 RMK AO2 SLP180 T03170217 KLZZ 251935Z AUTO 10003KT 10SM CLR 33/19 A3006 RMK AO2 T03260193 VOTK 251000Z 31015G25KT 8000 FEW020 35/21 Q1004 KOAJ 251856Z AUTO 05003KT 10SM FEW049 31/19 A3012 RMK AO2 SLP201 T03110194 LFBA 251930Z AUTO 09005KT CAVOK 26/12 Q1013 NOSIG KOAK 251953Z 29008KT 10SM BKN012 18/13 A2996 RMK AO2 SLP143 T01780128 KMRT 251934Z AUTO 24009KT 10SM SCT032 SCT040 SCT060 31/24 A3005 RMK AO2 T03070236 KNJK 251856Z 00000KT 10SM FEW080 38/15 A2983 RMK AO2 SLP116 T03780150 $ KMSL 251953Z AUTO VRB05KT 10SM CLR 33/22 A3011 RMK AO2 SLP188 T03330222 KMTC 251858Z 24014G19KT 10SM SCT041 29/21 A2992 RMK AO2A SLP131 T02900211 LFBC 251930Z AUTO 06004KT CAVOK 29/17 Q1012 NOSIG KNJM 251857Z AUTO 13009KT 10SM CLR 31/18 A3013 RMK AO2 SLP205 T03060183 LFBD 251930Z AUTO 10004KT CAVOK 29/17 Q1012 NOSIG VOTP 251430Z 00000KT 7000 FEW020 SCT100 30/22 Q1006 KMSN 251953Z 25006KT 10SM BKN140 BKN250 26/14 A3005 RMK AO2 SLP170 T02560144 KOBE 251935Z AUTO 04007KT 10SM SCT070 27/25 A2998 RMK AO2 LTG DSNT SE THRU SW LFBE 251930Z AUTO 14004KT CAVOK 27/13 Q1013 NOSIG KMSO 251953Z VRB05KT 10SM CLR 22/01 A3019 RMK AO2 SLP210 T02220011 KMSP 251953Z 26014G19KT 10SM FEW030 BKN250 23/13 A3005 RMK AO2 SLP174 T02280128 KMRY 251854Z 25009KT 9SM BKN010 15/12 A2999 RMK AO2 SLP169 T01500117 LDSP 251930Z 08005KT 020V160 CAVOK 27/13 Q1016 NOSIG VOTR 251930Z 30006KT 5000 HZ SCT016 FEW025CB BKN100 29/22 Q1006 NOSIG LFBG 251930Z AUTO 13002KT CAVOK 30/13 Q1013 NOSIG KMTH 251953Z AUTO 04008KT 10SM VCTS BKN028 OVC048 32/25 A2992 RMK AO2 LTG DSNT N SLP130 T03220250 LFBH 251930Z AUTO 32003KT CAVOK 24/18 Q1012 NOSIG LFAQ 251930Z AUTO 34006KT CAVOK 27/20 Q1013 LEJR 252000Z 18004KT 9999 FEW060CB 26/15 Q1013 LFBI 251930Z AUTO VRB02KT 9999 2600 NSC 29/15 Q1013 NOSIG KMSS 251953Z AUTO 23010G17KT 10SM FEW027 BKN033 28/21 A2987 RMK AO2 SLP113 T02780211 KMTJ 251953Z AUTO 34008KT 10SM CLR 24/06 A3019 RMK AO2 LTG DSNT SE SLP153 T02440056 EPWR 251930Z 11006KT CAVOK 17/13 Q1023 VOTV 251930Z 31004KT 3000 RA SCT015 OVC080 25/20 Q1009 NOSIG LFAT 251930Z AUTO VRB03KT 3600 1300 R14/P2000 BR NSC 21/18 Q1014 LELC 251900Z 07009KT 360V080 CAVOK 25/18 Q1015 NOSIG KNLC 251856Z 05005KT 10SM FEW160 31/07 A2989 RMK AO2 SLP120 RH/22 T03060067 LFBL 251930Z AUTO 10002KT CAVOK 29/11 Q1016 NOSIG KMSV 251935Z AUTO 21008G14KT 10SM SCT018 SCT026 OVC048 24/21 A3006 RMK AO1 LFBM 251930Z AUTO 08001KT CAVOK 28/18 Q1012 NOSIG KMTN 251845Z 14011KT 10SM BKN050 BKN150 30/25 A3005 KMTO 251953Z AUTO 20005KT 10SM FEW035 30/22 A3006 RMK AO2 SLP170 T03000222 KOCF 251950Z 06005KT 10SM SCT055 31/21 A3002 LFBO 251930Z AUTO 12009KT 090V150 CAVOK 28/09 Q1015 NOSIG KMSY 251953Z 17005KT 10SM FEW020 FEW055 SCT110 BKN170 OVC250 30/25 A3005 RMK AO2 SLP179 CB DSNT NE SW AND W-NW T03000250 KMTP 251954Z AUTO VRB06KT 25/20 A3006 RMK AO1 SLP180 T02500200 LFBP 251930Z AUTO 22003KT CAVOK 24/20 Q1013 BECMG 3000 BR BKN005 KOCH 251935Z 00000KT 10SM SCT055 A3003 RMK AO1 KMUI 251858Z AUTO 00000KT 10SM FEW080 SCT200 27/21 A3004 RMK AO2 SLP172 T02730211 KNKT 251954Z 07005KT 10SM SCT044 30/18 A3010 RMK AO2 SLP189 T03000183 LFBT 251930Z AUTO 17006KT CAVOK 23/18 Q1015 NOSIG LFCK 251930Z AUTO 11019KT CAVOK 26/10 Q1016 TEMPO 13020G32KT LELL 251930Z AUTO VRB02KT 9999 NCD 24/18 Q1017 LFBU 251930Z AUTO 00000KT CAVOK 29/10 Q1013 NOSIG LEMD 251930Z 15005KT 100V180 CAVOK 30/03 Q1015 NOSIG KMTV 251935Z AUTO 23004KT 10SM SCT047 32/23 A3014 RMK AO2 LTG DSNT SW T03180228 LELN 251900Z 26004KT 200V290 9999 FEW050TCU 27/09 Q1016 KMVE 251952Z AUTO 34009KT 10SM SCT036 BKN045 22/13 A3013 RMK AO2 KMTW 251856Z AUTO 10SM CLR 26/14 A3000 RMK AO2 SLP172 T02560139 LELO 251900Z 07007KT 010V110 CAVOK 31/05 Q1013 KNKX 251855Z 22007KT 10SM FEW020 25/16 A2997 RMK AO2 SLP142 T02500156 KMUO 251858Z AUTO 07007KT 10SM CLR 24/03 A3010 RMK AO2 SLP176 T02410031 $ LEMG 251930Z 10003KT 040V150 9999 FEW032 24/20 Q1015 NOSIG LFBY 251930Z AUTO 11002KT 9999 // ////// 30/18 Q1012 LEMH 251930Z 05004KT 010V100 9999 FEW020 24/20 Q1017 KMVH 251935Z AUTO 05004KT 10SM BKN060 17/01 A3026 RMK AO2 KOCQ 251935Z AUTO 26008KT 10SM CLR 26/16 A2997 RMK AO1 T02570157 EPZG 251930Z 09003KT 060V120 CAVOK 17/14 Q1022 LFBZ 251930Z AUTO 13004KT 100V160 CAVOK 29/19 Q1012 TEMPO 27015G40KT 0500 FG BKN003 LFCR 251930Z AUTO 14006KT CAVOK 24/10 Q1019 NOSIG KMWA 251945Z 20008KT 20SM SCT045 33/23 A3009 KMUT 251935Z AUTO 26005KT 10SM BKN120 24/19 A3007 RMK AO2 KOEB 251934Z AUTO 25010G18KT 10SM SCT028 SCT039 BKN050 27/20 A3002 RMK AO2 T02740203 KMVL 251754Z AUTO 21009G17KT 180V250 10SM BKN080 BKN090 26/19 A2995 RMK AO2 SLP140 T02560189 10272 20200 56012 TSNO KMWC 251945Z 30006KT 10SM SKC 27/12 A3003 KNMM 251856Z 07004KT 10SM SCT047 34/21 A3009 RMK AO2 SLP195 T03440206 $ KOCW 251940Z AUTO 00000KT 10SM BKN047 29/19 A3009 RMK AO2 T02940193 KMVN 251935Z AUTO 21007KT 10SM SCT042 33/23 A3007 RMK AO1 VOVZ 251800Z 00000KT 4000 BR FEW018 SCT090 27/26 Q1003 NOSIG KODO 251953Z AUTO 26006G14KT 10SM FEW070 SCT095 30/16 A3008 RMK AO2 SLP137 T03000161 LEMO 251900Z 24009KT 9999 FEW030 33/14 Q1011 NOSIG KMWH 251952Z 06005KT 10SM CLR 31/04 A3009 RMK AO2 SLP184 T03060044 KMWK 251940Z AUTO 23004KT 10SM SCT100 32/24 A3015 RMK AO2 T03160243 KMWL 251953Z AUTO 10SM CLR 34/18 A3003 RMK AO2 SLP154 T03390183 KMWM 251934Z AUTO 26012G15KT 10SM CLR 22/13 A3012 RMK AO2 KMWN 251853Z 24031G42KT 0SM FG VV000 14/14 RMK KODX 251953Z AUTO 02008KT 10SM CLR 24/10 A3018 RMK AO2 SLP212 T02440100 KMXF 251858Z AUTO 00000KT 10SM CLR 33/22 A3010 RMK AO2 SLP194 T03330216 KOEO 251935Z AUTO 27011G15KT 10SM CLR 22/13 A3006 RMK AO2 T02200133 KMWO 251935Z AUTO 23010KT 10SM SCT033 SCT046 SCT060 32/22 A3007 RMK AO2 T03210218 KOFF 251858Z AUTO VRB03KT 10SM BKN120 BKN180 23/17 A3013 RMK AO2 SLP202 T02310166 KNOG 251756Z AUTO 16011KT 10SM SCT037 32/24 A3005 RMK AO2 SLP157 T03220239 10328 20228 58007 $ KMVY 251953Z 21014G22KT 10SM FEW028 25/19 A3006 RMK AO2 SLP178 T02500194 $ LEPA 251930Z VRB01KT 9999 FEW016 25/20 Q1016 NOSIG PTKK 251853Z VRB05KT 15SM FEW015 SCT300 26/25 A2982 RMK SLP101 T02580254 KNPA 251856Z 12012KT 10SM FEW025 FEW080 SCT250 32/19 A3007 RMK AO2 SLP183 T03170194 $ KOGA 251935Z AUTO 07003KT 10SM CLR 24/05 A3022 RMK AO2 T02390046 LFGA 251930Z AUTO 28005KT 260V320 CAVOK 25/18 Q1016 KOGB 251953Z AUTO VRB05KT 10SM CLR 33/18 A3009 RMK AO2 SLP187 T03280178 KMWT 251953Z AUTO 00000KT 10SM CLR 29/23 A3005 RMK AO2 SLP164 T02890228 KOFK 251856Z AUTO VRB06KT 10SM CLR 23/12 A3018 RMK AO2 SLP212 T02280117 KOGD 251953Z 35008KT 10SM CLR 26/02 A3008 RMK AO2 SLP137 T02560022 KMYF 251953Z VRB04KT 10SM CLR 24/15 A2995 RMK AO2 SLP136 T02390150 KMXO 251935Z AUTO 31003KT 10SM CLR 25/17 A3007 RMK AO2 KOFP 251854Z AUTO VRB03KT 10SM CLR 32/19 A3008 RMK AO2 SLP183 T03170194 GABG 251800Z 00000KT 9999 FEW030 29/23 Q//// PTKR 251951Z 17005KT 15SM FEW016 SCT300 28/25 A2983 RMK SLP101 T02770254 KNQA 251950Z 02005KT 10SM SCT035 BKN060 BKN250 33/26 A3008 KMYJ 251955Z AUTO 00000KT 10SM SCT031 SCT038 BKN048 30/25 A3006 RMK AO2 PWINO LDZA 251930Z 03006KT CAVOK 20/14 Q1021 NOSIG LFGJ 251930Z AUTO VRB03KT CAVOK 25/19 Q1016 NOSIG KMYL 251951Z AUTO VRB06KT 10SM CLR 22/00 A3018 RMK AO2 SLP177 T02220000 LDZD 251930Z 07005KT 030V110 CAVOK 23/13 Q1017 NOSIG KNOW 251935Z AUTO 00000KT 10SM CLR 22/11 A3011 RMK AO2 T02160105 LEPP 251930Z 09003KT CAVOK 29/05 Q1015 ESCF 251950Z AUTO VRB02KT 9999 NCD 21/18 Q1018 KMYP 251931Z AUTO 29012KT 10SM VCTS CLR 10/M03 A3066 RMK AO2 LTG DSNT ALQS KMZG 251935Z AUTO 08007KT 060V120 1 3/4SM HZ SCT023 32/25 A3002 RMK A01 VIS 1V5 KMZH 251935Z AUTO 26010G18KT 10SM BKN049 19/11 A3000 RMK AO2 KMYR 251945Z 16013KT 10SM SCT030 31/19 A3012 KNQI 251856Z 15009G16KT 10SM SCT042 BKN055 BKN250 33/22 A3000 RMK SLP154 CB DSNT N T2 SET T03330239 GABS 251930Z 17004G15KT 9999 TS FEW020 FEW030CB 28/23 Q1012 NOSIG KNRB 251952Z 03013KT 10SM FEW030 SCT070 BKN250 31/21 A3006 RMK AO2 SLP180 T03110211 KMYV 251953Z AUTO VRB05KT 10SM CLR 28/13 A2986 RMK AO2 SLP115 T02830128 ESDF 251950Z 15006KT CAVOK 17/16 Q1020 FJDG 251855Z 14011KT 9999 FEW020 SCT250 25/22 A2993 RMK SLP132 T02520222 KMYZ 251935Z AUTO 04006KT 10SM CLR 24/16 A3013 RMK AO2 LERI 251800Z 07010KT CAVOK 29/14 Q1015 NOSIG WIBB 251830Z AUTO 00000KT 9999NDV ////// 26/22 Q1007 LESA 251930Z 25006KT 220V280 9999 FEW042 28/10 Q1016 KOJA 251935Z AUTO 01003KT 10SM BKN050 BKN070 BKN080 31/19 A3007 RMK AO2 KOJC 251953Z 19006KT 10SM BKN029 27/21 A3006 RMK AO2 SLP168 T02720211 LGAD 251920Z 00000KT 9999 FEW025 SCT080 BKN180 24/17 Q1011 KPAE 251953Z 01007KT 10SM CLR 27/11 A3010 RMK AO2 SLP188 T02670106 KNSE 251856Z 03007KT 350V060 10SM SCT040 SCT250 32/22 A3008 RMK AO2 SLP170 T03220217 $ KNQX 251953Z 05010KT 10SM SCT028CB BKN180 BKN250 31/25 A2991 RMK AO2 SLP127 CB OHD-NE MOV SW T1 SET T03110250 $ KPAH 251953Z 26004KT 10SM FEW042 34/23 A3007 RMK AO2 SLP176 T03390228 KMZZ 251935Z AUTO 26012G19KT 7SM SCT038 BKN045 29/20 A3006 RMK AO2 T02890201 FIMP 251900Z 31003KT 9999 SCT018 17/16 Q1023 KNSI 251857Z 29014KT 10SM SCT008 BKN013 17/10 A2998 RMK AO2 SLP150 T01670100 $ LERS 251930Z VRB02KT CAVOK 24/17 Q1017 FIMR 251500Z 05003KT 9999 FEW018 21/18 Q1021 KNRS 251856Z 26010KT 10SM FEW017 23/16 A2998 RMK AO2 SLP152 T02330156 $ LFKB 251930Z 25003KT CAVOK 23/13 Q1016 NOSIG LERT 251900Z 13013KT 9999 VCTS RA FEW050CB SCT150 27/16 Q1012 NOSIG KOKB 251952Z AUTO VRB06KT 9SM CLR 23/15 A2993 RMK AO2 SLP136 T02280150 LGAL 251920Z 04011KT CAVOK 26/15 Q1016 KOKC 251952Z 19008KT 10SM VCTS BKN060CB BKN090 BKN250 33/18 A3004 RMK AO2 SLP153 OCNL LTGICCG E-SE AND SW TS E-SE AND SW MOV NE T03280183 LFKC 251800Z 28004KT 240V330 CAVOK 26/14 Q1016 LFJL 251930Z AUTO 12009KT CAVOK 26/17 Q1016 NOSIG RCFN 251200Z 18002KT 9999 FEW022 SCT040 BKN070 28/25 Q1004 NOSIG RMK A2966 KPAM 251856Z AUTO 06008KT 10SM CLR 33/18 A3005 RMK AO2 SLP179 T03260180 KNTD 251856Z 22009KT 6SM HZ FEW009 BKN012 20/16 A2996 RMK AO2 SLP147 T02000156 PNO $ KPAN 251935Z AUTO 28009KT 10SM CLR 27/10 A3020 RMK AO2 KPAO 251947Z 34010KT 8SM FEW011 20/14 A2994 LESO 251930Z VRB01KT CAVOK 27/22 Q1011 KPBF 251953Z AUTO 31015G21KT 5SM VCTS -RA BR FEW027 BKN038 OVC060 25/23 A3007 RMK AO2 LTG DSNT W-NE RAB40 SLP180 P0006 T02500233 LFKF 251930Z AUTO 02003KT CAVOK 20/15 Q1016 NOSIG KPBG 251953Z AUTO 14007KT 10SM FEW043 SCT050 BKN060 28/22 A2987 RMK AO2 SLP116 T02780217 KPBH 251935Z AUTO 25009G20KT 10SM CLR 23/13 A2999 RMK AO2 T02300125 KPBI 251953Z 05016KT 10SM SCT022CB BKN036 BKN250 32/25 A2996 RMK AO2 SLP143 CB NW-N MOV SW CB DSNT ALQDS T03170250 LFJR 251930Z AUTO 08003KT CAVOK 26/18 Q1013 LFKJ 251930Z AUTO 04003KT CAVOK 23/18 Q1016 NOSIG WIDD 251900Z 00000KT 8000 -RA SCT014 25/24 Q1009 LEST 251930Z 01008KT 330V050 1800 BR OVC001 17/17 Q1018 NOSIG LFLB 251930Z AUTO 15002KT CAVOK 21/17 Q1017 KNUC 251856Z 26013KT 10SM BKN013 19/13 A2999 RMK SLP154 T01890133 LESU 251600Z 22011KT CAVOK 33/06 Q1018 LETL 251930Z AUTO 16008KT 9999 NCD 22/09 Q1020 LGBL 251850Z VRB03KT 9999 FEW035 SCT080 24/17 Q1016 BLU LFLC 251930Z AUTO VRB03KT CAVOK 29/15 Q1015 NOSIG PTPN 250253Z 09010KT 15SM SCT018 BKN300 32/27 A2978 RMK LAST LGAV 251950Z 04026G36KT 9999 FEW030 SCT070 26/14 Q1013 NOSIG KOKM 251935Z AUTO 18009G16KT 130V200 10SM CLR 34/21 A3004 RMK AO2 T03440210 KOLE 251935Z AUTO 27006KT 10SM BKN027 BKN032 BKN041 25/20 A3005 RMK AO2 LETO 251900Z 16003KT CAVOK 31/01 Q1015 NOSIG KOLF 251953Z AUTO 25013G18KT 10SM FEW070 OVC100 23/04 A3016 RMK AO2 SLP210 T02330044 KOLG 251935Z AUTO 28012G20KT 10SM BKN040 OVC045 20/11 A2999 RMK AO1 ESGG 251950Z 18009KT CAVOK 20/13 Q1017 KNUI 251953Z AUTO 16009KT 10SM FEW044 FEW075 31/22 A3004 RMK AO2 SLP171 T03060217 KOMA 251952Z 34005KT 10SM FEW030 SCT140 BKN170 BKN250 24/16 A3013 RMK AO2 SLP197 T02390161 LFKS 251930Z AUTO 29006KT 260V320 CAVOK 26/12 Q1016 ESGJ 251950Z 19007KT CAVOK 21/16 Q1018 WIEE 251530Z 11002KT 7000 -RA BKN018 24/23 Q1010 LEVC 251930Z 08004KT CAVOK 26/20 Q1016 NOSIG KNTU 251856Z 15005KT 10SM SCT040 SCT300 33/19 A3008 RMK AO2 SLP189 T03330194 KPDC 251935Z AUTO 21005KT 10SM CLR 25/15 A3006 RMK AO2 T02470152 LFLL 251930Z 12006KT CAVOK 28/15 Q1016 NOSIG LFMC 251930Z AUTO VRB01KT 9999 ////// 27/14 Q1017 LEVD 251930Z VRB06KT 9999 TS SCT015 FEW030CB 27/09 Q1015 RESHRA KOLM 251854Z 03009KT 10SM CLR 27/10 A3009 RMK AO2 SLP189 T02720100 KPCM 251935Z AUTO 05010G14KT 005V065 10SM SCT046 SCT050 SCT065 34/24 A3000 RMK AO2 KOKV 251935Z AUTO 00000KT 10SM SCT043 SCT049 31/22 A3005 RMK AO2 LFMD 251930Z AUTO 36003KT CAVOK 24/16 Q1017 NOSIG LFLN 251930Z AUTO 13005KT 9999 ////// 26/17 Q1015 KPBX 251935Z AUTO 23004KT 10SM SCT060 SCT070 30/23 A3015 RMK AO2 T03020226 LFLP 251930Z AUTO 02004KT CAVOK 24/16 Q1018 ESGP 251950Z 16009KT CAVOK 21/15 Q1016 KNUQ 251856Z 34006KT 10SM CLR 20/12 A2996 RMK AO2 SLP146 T02000122 KOKZ 251935Z AUTO 00000KT 10SM SCT060 SCT075 BKN085 33/21 A3011 RMK AO2 T03280211 KOMH 251935Z AUTO 00000KT 10SM 32/22 A3007 RMK AO2 LFMH 251930Z AUTO VRB02KT CAVOK 27/13 Q1017 NOSIG PTSA 242350Z 05012KT 10SM FEW023 SCT300 31/24 A2983 LAST LFMI 251930Z AUTO VRB02KT CAVOK 25/17 Q1017 NOSIG ESGR 251950Z AUTO 00000KT 0200 R01/0450N R19/0900U FG FEW068/// 18/16 Q1017 KONA 251953Z AUTO 29009KT 10SM CLR 25/14 A3005 RMK AO2 KOLS 251854Z AUTO 00000KT 10SM CLR 30/13 A3013 RMK AO2 SLP134 T03000128 KPEA 251055Z AUTO 00000KT 7SM CLR 19/18 A3006 RMK AO2 T01900180 LFLS 251930Z AUTO VRB01KT CAVOK 23/15 Q1018 KOMK 251953Z AUTO 02013KT 10SM CLR 31/02 A3009 RMK AO2 SLP179 T03110022 KPDK 251953Z 00000KT 10SM SCT050 BKN060 33/20 A3013 RMK AO2 SLP181 T03330200 LFMK 251930Z AUTO 09010KT CAVOK 25/13 Q1016 LFLU 251800Z AUTO 18008KT CAVOK 30/14 Q1015 ESIB 251950Z AUTO 09003KT 9999 NCD 18/17 Q1017 KOLU 251935Z AUTO 06005KT 10SM CLR 23/12 A3016 RMK AO2 PWINO FZRANO RVRNO ESGT 251950Z 16003KT CAVOK 19/18 Q1017 LFML 251930Z AUTO 00000KT CAVOK 26/16 Q1017 NOSIG KOLV 251850Z 20007KT 10SM BKN040 BKN070 A3009 KOMN 251950Z 04012G18KT 10SM SCT030 29/23 A3004 LFLW 251930Z AUTO 12005KT 080V150 CAVOK 25/10 Q1019 PTRO 251850Z 00000KT 14SM BKN016 BKN300 25/24 A2981 KPCW 251933Z AUTO 24013KT 10SM FEW080 34/23 A2997 RMK AO2 $ KNUW 251856Z 27007KT 10SM FEW040 BKN250 21/10 A3014 RMK AO2 SLP206 T02060100 $ LFMN 251930Z VRB01KT CAVOK 26/20 Q1017 NOSIG LFMO 251930Z AUTO 13005KT CAVOK 25/13 Q1018 NOSIG LFLX 251930Z AUTO 02003KT CAVOK 26/16 Q1014 NOSIG KOLY 251935Z AUTO 18006KT 10SM SCT033 SCT060 31/24 A3007 RMK AO2 LFMP 251930Z AUTO 02006KT CAVOK 23/16 Q1016 NOSIG LFLY 251930Z AUTO 12003KT CAVOK 27/15 Q1016 NOSIG KOLZ 251935Z AUTO 29005KT 10SM CLR 24/16 A3010 RMK AO2 KPCZ 251935Z AUTO 25010KT 10SM CLR 28/14 A3002 RMK AO2 T02750143 LEVS 251930Z 13003KT CAVOK 29/01 Q1016 KOOA 251935Z AUTO 00000KT 10SM CLR 23/17 A3009 RMK AO2 T02280173 LFOA 251930Z AUTO 03003KT CAVOK 29/14 Q1014 LEVT 251930Z VRB01KT CAVOK 27/04 Q1015 LFOB 251930Z AUTO 01007KT CAVOK 27/19 Q1013 NOSIG KPDT 251953Z 02011KT 360V070 10SM CLR 29/00 A3007 RMK AO2 SLP166 T02940000 LFMT 251930Z 19002KT CAVOK 23/20 Q1017 NOSIG LFMU 251930Z AUTO 00000KT CAVOK 23/14 Q1017 NOSIG LGEL 251920Z 33008KT 9999 FEW025 27/15 Q1012 KONL 251935Z AUTO 33011KT 10SM CLR 23/08 A3021 RMK AO2 T02320081 LFOC 251930Z AUTO 27002KT CAVOK 25/15 Q1014 KONM 251935Z AUTO 07007KT 10SM CLR 29/02 A3016 RMK AO2 LTG DSNT SE AND W T02890022 LFMV 251930Z AUTO 00000KT CAVOK 24/15 Q1017 NOSIG ETAD 251858Z AUTO 13003KT 9999 CLR 26/14 A3003 RMK AO2 VIS 3200 RWY23 RAB52 SLP142 P0000 T02550144 $ LFOE 251930Z AUTO 01004KT 340V060 CAVOK 28/18 Q1013 LEVX 251930Z 01012KT 340V050 9999 FEW020 21/18 Q1015 NOSIG KONO 251953Z AUTO 12007KT 10SM CLR 28/03 A3008 RMK AO2 SLP171 T02780028 KPDX 251953Z 31009KT 10SM FEW060 31/09 A3000 RMK AO2 SLP160 T03060089 KPEO 251953Z AUTO 32004KT 10SM SCT038 BKN048 OVC060 29/21 A2997 RMK AO2 SLP140 T02890206 TSNO KNXF 251856Z AUTO 25009KT 8SM CLR 22/17 A2996 RMK AO2 SLPNO T02220167 $ RCKH 251900Z 28006KT 240V300 4500 BR FEW015 BKN030 BKN060 29/26 Q1003 NOSIG RMK A2964 KONP 251935Z AUTO 34008KT 10SM CLR 27/08 A3002 RMK AO2 LFMY 251930Z AUTO 00000KT CAVOK 23/14 Q1018 NOSIG LFOH 251930Z AUTO 35002KT CAVOK 20/17 Q1014 KPEQ 251935Z AUTO 00000KT 10SM VCTS CLR 26/20 A3008 RMK AO2 LTG DSNT SW T02560204 LEXJ 251930Z 27012KT 230V300 9000 SCT013 BKN025 23/20 Q1015 KPGA 251953Z AUTO 29006KT 10SM FEW044 27/06 A3004 RMK AO2 RAB39E53 SLP109 P0000 T02720061 TSNO LFOJ 251930Z AUTO 23003KT CAVOK 27/16 Q1014 GAKA 251800Z 24004KT 9999 TS SCT030 FEW033CB BKN140 28/23 Q1007 ORAGE SECTEUR S LFPB 251930Z AUTO VRB02KT CAVOK 31/16 Q1013 NOSIG LFOK 251930Z AUTO 11001KT CAVOK 28/15 Q1015 NOSIG KONT 251953Z 17004KT 10SM CLR 30/12 A2991 RMK AO2 SLP112 T03000122 KNYC 251851Z 30/18 SLPNO $ LFPC 251930Z AUTO 11003KT CAVOK 26/19 Q1013 KPGD 251953Z AUTO 07012KT 10SM FEW029 31/24 A2997 RMK AO2 LTG DSNT S SLP147 T03060244 GAKD 251800Z 18004KT 9999 FEW030 34/24 Q1008 PTTP 251950Z 14003KT 15SM FEW019 BKN300 26/24 A2988 RMK SLP117 T02560239 WIHH 251200Z 10005KT 4000 -RA FEW017CB SCT018 27/24 Q1010 RMK CB TO NE KONX 251940Z AUTO 13005KT 10SM 30/18 A3009 RMK AO2 T02990183 KOPF 251953Z 06013KT 10SM FEW030 FEW035 SCT080 33/25 A2994 RMK AO2 LTG DSNT SW AND W SLP138 T03280250 KPEX 251953Z AUTO 29009KT 10SM SCT033 BKN039 BKN045 18/11 A3010 RMK AO2 T01840113 VQPR 250930Z 00000KT 9999 TS FEW040 FEW050CB SCT060 SCT150 19/13 Q1019 NOSIG LFOP 251930Z AUTO 02005KT CAVOK 25/18 Q1014 NOSIG KNXP 251856Z 19011G24KT 10SM FEW120 FEW150 37/01 A2999 RMK AO2 SLP113 T03670006 KNYG 251756Z 19009KT 10SM FEW075 BKN150 BKN200 30/23 A3006 RMK AO2 SLP182 T03000233 10300 20228 58016 $ LFPG 251930Z 15006KT 070V220 CAVOK 32/17 Q1013 NOSIG KONZ 251953Z AUTO 23015G20KT 10SM SCT041 BKN048 OVC110 29/21 A2995 RMK AO2 T02890205 KPEZ 251935Z AUTO 19004KT 10SM CLR 33/21 A3003 RMK AO2 T03280212 ETAR 251858Z AUTO 00000KT 9999 CLR 20/17 A3001 RMK AO2 VIS 2400 RWY08 SLP158 T02010173 $ LFQA 251930Z AUTO 00000KT CAVOK 22/18 Q1014 LFQB 251930Z AUTO 00000KT CAVOK 24/17 Q1014 LFOT 251930Z 08002KT CAVOK 28/15 Q1013 NOSIG KNYL 251857Z 15011KT 10SM FEW100 38/17 A2984 RMK AO2 SLP102 T03780172 KOPL 251935Z AUTO 08005KT 10SM TS SCT039 SCT050 SCT070 30/25 A3002 RMK AO2 LTG DSNT ALQS T03020246 KPHD 251953Z AUTO 22009KT 10SM FEW039 33/23 A3003 RMK AO2 SLP160 T03280228 LFPM 251930Z AUTO 13005KT CAVOK 28/17 Q1013 LFOV 251930Z AUTO 33006KT CAVOK 28/16 Q1013 ESKM 251950Z AUTO 23004KT 9999 BKN099/// 18/16 Q1016 KOPN 251935Z AUTO 06004KT 10SM SCT048 BKN065 BKN075 31/17 A3014 RMK AO2 LFPN 251930Z AUTO 24004KT CAVOK 29/17 Q1013 NOSIG ESKN 251950Z 10003KT CAVOK 18/16 Q1017 KPHF 251854Z 15009G17KT 10SM FEW042 31/21 A3009 RMK AO2 SLP187 T03110206 LFPO 251930Z 23004KT CAVOK 29/17 Q1013 NOSIG GAKO 251800Z 36008KT 9999 FEW030 FEW040CB 29/23 Q//// LFQG 251800Z AUTO VRB01KT CAVOK 33/17 Q1014 LEZG 251930Z 10013KT CAVOK 30/08 Q1014 WIII 251900Z 24003KT 6000 SCT020 25/23 Q1009 NOSIG LGHI 251850Z 01016KT 9999 FEW025 26/19 Q1010 KPIA 251854Z 33004KT 10SM BKN020 BKN030 OVC038 27/23 A3006 RMK AO2 SLP174 T02670228 KORB 251933Z AUTO 24009KT 10SM SCT010 BKN020 OVC029 17/13 A2991 RMK AO2 KPIB 251935Z AUTO 02004KT 10SM SCT044 SCT050 33/23 A3007 RMK AO1 LFRB 251930Z AUTO 35007KT 2500 BR OVC002 17/16 Q1016 TEMPO 01015G25KT SCT015CB BKN025 BECMG 9999 NSW LFPT 251930Z AUTO 24006KT CAVOK 28/15 Q1013 GAKT 251800Z 00000KT 9999 RERA SCT030 FEW040CB 31/25 Q//// GAMB 251800Z 00000KT 9999 FEW030 FEW055CB 32/23 Q1010 LEZL 251930Z 22017KT 9999 FEW060CB 31/13 Q1011 NOSIG KPHL 251854Z 20015G21KT 10SM BKN036 BKN050 BKN080 OVC260 30/21 A3003 RMK AO2 SLP170 T03000211 $ KORC 251935Z AUTO 30008KT 10SM CLR 22/14 A3015 RMK AO2 LFRC 251930Z AUTO 07004KT 5000 BR NSC 18/17 Q1014 KPGV 251945Z AUTO 00000KT 7SM SCT050 32/20 A3010 RMK AO2 KORD 251951Z 33004KT 10SM FEW030 SCT100 BKN200 BKN250 28/17 A3002 RMK AO2 SLP159 T02830172 $ LFPV 251930Z AUTO 24003KT CAVOK 29/17 Q1014 LFRD 251930Z AUTO 30004KT CAVOK 19/16 Q1014 TEMPO TSRA SCT060CB BKN100 KORE 251952Z AUTO 18011KT 10SM CLR 27/18 A2999 RMK AO2 SLP155 T02670183 KPIE 251953Z 06009KT 10SM SCT040 34/23 A2996 RMK AO2 SLP145 T03390228 KPHN 251935Z AUTO 20006KT 10SM SCT024 SCT030 SCT037 28/24 A2993 RMK AO2 KORF 251951Z 17010KT 10SM CLR 29/19 A3006 RMK AO2 SLP179 T02940194 RCMQ 251900Z 00000KT 1600 BR FEW010 BKN060 26/25 Q1004 RMK A2966 AWOS R36 WIND N/A KPHP 251855Z AUTO 30012G19KT 280V340 10SM CLR 21/07 A3022 RMK AO2 SLP222 T02060067 KORG 251935Z AUTO 13004KT 10SM CLR 34/19 A3003 RMK AO2 LTG DSNT NE AND W T03360192 LFRG 251930Z AUTO 31005KT CAVOK 20/18 Q1014 NOSIG KPIH 251953Z 01010KT 10SM FEW120 25/02 A3011 RMK AO2 SLP159 T02500017 KORH 251854Z 19010KT 10SM CLR 26/17 A3005 RMK AO2 SLP172 T02610172 LFQQ 251930Z AUTO 36006KT 9000 NSC 27/20 Q1013 NOSIG LFRH 251930Z AUTO 28004KT CAVOK 19/17 Q1014 TEMPO FEW040 BKN110TCU LFRI 251930Z AUTO 30004KT CAVOK 25/17 Q1013 KOSA 251935Z AUTO 23005KT 10SM CLR 33/20 A3006 RMK AO1 T03320200 LFRJ 251930Z AUTO 36004KT 5000 BR OVC003 17/17 Q1016 TEMPO 0500 FG BKN005 BKN025TCU KOQT 251953Z AUTO 26007KT 10SM SCT045 SCT055 31/22 A3015 RMK AO2 SLP191 T03110217 KPHT 251935Z AUTO 00000KT 10SM CLR 29/25 A3011 RMK LFRK 251930Z AUTO 34003KT 9000 NSC 21/17 Q1014 NOSIG LFSB 251930Z 25002KT CAVOK 22/19 Q1016 NOSIG KOQU 251950Z 23018KT 12SM SCT200 27/16 A3002 ESMK 251950Z AUTO 14006KT 9999 NCD 17/16 Q1019 KORL 251953Z 06016G21KT 10SM FEW047 SCT060 32/21 A3000 RMK AO2 SLP161 T03220211 KOSC 251954Z AUTO 26007KT 10SM CLR 30/17 A2991 RMK AO2 T02950170 KPIL 251953Z AUTO 09014KT 050V110 10SM CLR 33/25 A2997 RMK AO2 SLP148 T03280250 ETEB 251858Z AUTO 12004KT 9999 CLR 24/09 A3011 RMK AO2 DZB13E20 SLP188 P0000 T02430088 LFRL 251930Z AUTO 34007KT 4800 BR BKN005 OVC100 18/16 Q1016 TEMPO 0500 BCFG SCT020TCU RCNN 251900Z 00000KT 5000 BR FEW010 BKN050 27/24 Q1003 RMK A2962 KPIM 251935Z AUTO 09004KT 10SM SCT050 34/22 A3013 RMK AO2 T03350219 LFSD 251930Z AUTO VRB01KT CAVOK 27/17 Q1016 LFRM 251930Z AUTO 10002KT 8000 NSC 27/17 Q1013 NOSIG ESND 251950Z AUTO 09005KT 060V130 9999 SCT110/// ///// Q1018 LFRN 251930Z AUTO 29003KT CAVOK 25/17 Q1013 TEMPO TSRA SCT060CB BKN100 KPHX 251951Z VRB05KT 10SM FEW100 FEW150 SCT250 37/11 A2988 RMK AO2 SLP098 CB DSNT N AND NE T03720111 LGIO 251920Z AUTO /////KT //// // ////// 25/14 Q1016 RE// LFRO 251930Z AUTO 30006KT 4100 BR BKN002 17/17 Q1016 TEMPO 35015G25KT BECMG CAVOK KQC5 251856Z AUTO 20003KT M M FEW170 21/21 A2998 RMK AO2 LTG DSNT E SLPNO T02090208 $ KNZY 251952Z 26009KT 10SM FEW016 22/15 A2994 RMK AO2 SLP139 T02170150 $ LFSG 251930Z AUTO 00000KT CAVOK 23/18 Q1016 ESNG 251950Z 32005KT CAVOK 10/05 Q1014 KOSH 251953Z 24007KT 10SM CLR 26/15 A3002 RMK AO2 SLP154 T02560150 LFRQ 251930Z AUTO 35003KT 330V040 CAVOK 19/17 Q1015 TEMPO -TSRA PTYA 251950Z 00000KT 12SM FEW016 FEW300 26/24 A2983 RMK SLP101 T02570242 ESMQ 251950Z 18009KT CAVOK 17/17 Q1020 KPIR 251953Z AUTO 32018G22KT 10SM SCT060 22/08 A3017 RMK AO2 SLP212 T02170078 LGIR 251920Z 31009KT 9999 FEW020 26/23 Q1011 NOSIG LFSI 251930Z AUTO 11003KT 9999 ////// 24/19 Q1014 KORS 251955Z AUTO 34005KT 10SM CLR 22/14 A3009 RMK AO2 LFRS 251930Z AUTO 34003KT CAVOK 26/16 Q1013 BECMG 27010KT LFRT 251930Z AUTO 34005KT 320V020 CAVOK 19/16 Q1015 KPIT 251951Z 24011KT 10SM SCT037 BKN250 31/19 A3004 RMK AO2 SLP169 T03060194 ESMS 251950Z 13009KT CAVOK 19/15 Q1019 KPKB 251953Z 21009G15KT 10SM FEW036 FEW047 SCT110 32/23 A3008 RMK AO2 LTG DSNT W AND NW SLP174 T03170233 GANK 251800Z 00000KT 9999 FEW030 29/22 Q//// LGKC 251550Z 06019G30KT 9999 FEW016 25/20 Q1012 LFRU 251930Z AUTO 32003KT 3300 BR OVC003 17/16 Q1015 ESNK 251950Z AUTO VRB02KT 9999 OVC160/// 14/10 Q1017 ESMT 251950Z 13007KT CAVOK 21/14 Q1018 LHBC 251745Z 02006KT CAVOK 22/12 Q1021 LFSL 251930Z AUTO 15004KT 120V180 CAVOK 29/11 Q1015 NOSIG ESNL 251950Z AUTO 25004KT 9999 SCT043/// 12/10 Q1016 KPKD 251953Z AUTO 29015KT 10SM FEW030 OVC044 18/13 A3004 RMK AO2 RAE05 SLP174 P0000 T01780128 TSNO KQBD 251855Z AUTO 34007KT 10SM SCT140 BKN170 22/03 A3011 RMK AO2 LTG DSNT SE SLP109 WND DATA ESTMD T02230028 LFRV 251930Z AUTO 30003KT 9999 NCD 22/18 Q1014 LFSN 251930Z AUTO 11002KT CAVOK 24/18 Q1016 KQD3 251856Z AUTO 00000KT 9999 CLR 34/21 A2966 RMK AO2 SLP041 T03370210 ESNN 251950Z 30003KT CAVOK 15/12 Q1018 ESOE 251950Z 13003KT 4000 BR FEW047 SCT060 19/18 Q1018 RERA LGKF 251850Z 00000KT 9999 FEW018CB SCT020 SCT080 28/21 Q1012 KQBF 251856Z AUTO 00000KT 9999 FEW200 27/22 A2977 RMK AO2 LTG DSNT SW SLPNO T02740215 LFSO 251930Z AUTO 15005KT CAVOK 25/18 Q1016 NOSIG ESNO 251950Z 27004KT CAVOK 13/10 Q1017 ESMX 251950Z 16004KT CAVOK 18/14 Q1020 KOTG 251856Z AUTO 29008KT 10SM CLR 21/13 A3014 RMK AO2 SLP206 T02060133 KS25 251935Z AUTO 32011G17KT 10SM SCT065 20/04 A3015 RMK AO2 KOTH 251935Z 06007KT 8SM CLR 32/06 A2993 RMK AO1 LFRZ 251930Z AUTO 29005KT 9999 NCD 25/18 Q1013 NOSIG LFTH 251930Z AUTO 00000KT CAVOK 24/16 Q1017 NOSIG ESNQ 251950Z 33010KT CAVOK 07/04 Q1014 GANR 251800Z 36010KT 9999 TSRA SCT030 FEW040CB BKN150 24/23 Q1011 ORAGE ET PLUIE A LA STATION ESPA 251950Z 27004KT CAVOK 12/09 Q1014 ESNS 251950Z AUTO 27005KT 9999 BKN062/// 14/12 Q1015 LFST 251930Z AUTO 23003KT CAVOK 22/18 Q1016 NOSIG KQBL 251456Z AUTO 00000KT 10SM BKN085 30/ A3016 RMK AO2 SLP215 WND DATA ESTMD $ ESOK 251950Z 13003KT 0500 R03/P1500N R21/P1500N FG VV002 17/17 Q1017 KOSU 251953Z 24011G17KT 10SM BKN030 31/24 A3004 RMK AO2 SLP163 T03060239 LGKL 251850Z 00000KT 9999 FEW020 SCT070 BKN180 23/21 Q1011 ESNU 251950Z 25003KT CAVOK 14/10 Q1016 KOTM 251953Z AUTO VRB03KT 10SM CLR 25/17 A3008 RMK AO2 SLP179 T02500167 ESNV 251950Z AUTO VRB01KT 9999 BKN058/// ///// Q1017 ESPE 251950Z AUTO 28005KT 9999 OVC062/// 11/09 Q1015 LGKO 251920Z 28005KT CAVOK 24/22 Q1008 LFSX 251930Z AUTO 09002KT CAVOK 23/21 Q1016 NOSIG ESNX 251950Z AUTO 27007KT 9999NDV NCD 10/06 Q1016 LGKP 251920Z 29014KT 9999 FEW020 25/23 Q1009 LHBP 251930Z 05005KT CAVOK 20/12 Q1023 NOSIG ETGG 251920Z 08003KT 9999 SCT300 20/19 Q1015 BLU+ ESNZ 251950Z 31005KT CAVOK 12/07 Q1018 LGKR 251950Z 08004KT 9999 FEW020 28/21 Q1012 NOSIG ETHA 251920Z AUTO 09002KT //// // ////// 19/14 Q1021 /// VRMM 251900Z 30013KT 9999 SCT017TCU BKN260 27/25 Q1011 NOSIG WIMM 251900Z 08004KT 8000 -RA FEW016CB SCT018 BKN025 25/24 Q1007 KS39 251940Z AUTO 00000KT 10SM CLR 26/M00 A3013 RMK AO2 ETHB 251920Z 17004KT 9999 26/10 Q1015 BLU+ LHDC 251915Z 01006KT CAVOK 21/12 Q1022 NOSIG ETHC 251920Z 14007KT 9999 FEW260 26/10 Q1015 BLU+ KPMD 251953Z AUTO 23014KT 10SM CLR 34/03 A2994 RMK AO2 SLP106 T03390033 LGLM 251920Z 06012KT CAVOK 26/14 Q1014 LGKV 251920Z 06006KT 9999 FEW025 26/13 Q1016 KPKV 251936Z AUTO 12009KT 10SM CLR 32/27 A3002 RMK AO2 KOVE 251953Z AUTO 18005KT 10SM CLR 30/12 A2987 RMK AO2 SLP115 T03000117 KPLN 251854Z AUTO 26007KT 10SM CLR 24/16 A2994 RMK AO2 SLP137 T02390161 KOUN 251935Z AUTO 20004KT 10SM CLR 32/20 A3005 RMK AO2 LFTW 251930Z AUTO 21004KT CAVOK 23/17 Q1017 ETHE 251920Z AUTO 00000KT //// // ////// 22/17 Q1014 /// ESOW 251950Z 22003KT 9999 -RA FEW027 BKN035 19/18 Q1018 ETHF 251920Z VRB02KT 9999 21/12 Q1017 BLU+ KQDG 251856Z AUTO 15003KT 9999 CLR 23/22 A2960 RMK AO2 SLP025 T02320218 PWINO $ LGKZ 251750Z 02005KT 9999 FEW020TCU BKN070 23/11 Q1018 ETGQ 251920Z AUTO VRB03KT //// // ////// 26/14 Q1015 /// KPLR 251935Z AUTO 05003KT 10SM CLR 34/22 A3011 RMK A01 LGLR 251850Z 11004KT 9999 FEW080 24/16 Q1016 RMK FEW180 BLU KOWA 251935Z AUTO 26007KT 10SM CLR 23/14 A3009 RMK AO2 KPNA 251935Z AUTO 25003KT 10SM SCT050 16/00 A3029 RMK AO2 LGMK 251920Z 36010KT 9999 FEW018 25/20 Q1011 KOWB 251856Z 25010KT 10SM SCT043 34/23 A3010 RMK AO2 T03380233 SLP187 KPNC 251953Z AUTO VRB06KT 10SM BKN042 31/21 A3005 RMK AO2 LTG DSNT SE SLP162 T03060211 KOVL 251953Z AUTO 28010G16KT 10SM SCT034 21/13 A3009 RMK AO2 KPLU 251935Z AUTO 00000KT CLR 29/11 A3009 RMK AO2 ETHL 251920Z 08006KT 9999 23/16 Q1019 BLU+BLU+ KOWD 251953Z 23009KT 10SM CLR 31/17 A2998 RMK AO2 SLP153 T03060167 ETIC 251858Z AUTO 00000KT 9999 CLR 21/12 A3011 RMK AO2 RAB24E25DZB25E30RAB30E34 SLP185 P0000 KPNE 251854Z 20008G17KT 180V240 10SM SCT037 BKN055 30/21 A3004 RMK AO2 SLP170 T03000211 ETHN 251920Z 12005KT 9999 23/10 Q1019 BLU+BLU+ LFVP 251900Z 23013KT CAVOK 20/17 Q1016 NOSIG KPMP 251953Z 05016KT 10SM FEW020 SCT045 32/26 A2995 RMK AO2 LTG DSNT W SLP143 T03220261 KQEI 251950Z AUTO 32008G12KT 9999 SCT025 BKN060 18/15 A2984 RMK A02 TSNO ETIH 251858Z AUTO 28005KT 9999 CLR 20/15 A3013 RMK AO2 SLP192 PWAK 251944Z AUTO 29003KT 8000 BR SCT015 BKN070 BKN120 28/26 A2987 RMK AO2 RAB27E34 $ KQEJ 251950Z AUTO 13002KT 9999 SCT028 BKN060 18/14 A2980 RMK A02 TSNO KOVS 251953Z AUTO 21006KT 10SM CLR 26/16 A3006 RMK AO2 SLP178 T02560161 ETHS 251920Z 08004KT 9999 FEW300 21/11 Q1016 BLU+ ESSA 251950Z VRB02KT 9999 DZ FEW033 BKN047 17/17 Q1018 TEMPO RA KOXB 251953Z AUTO 20007G18KT 10SM CLR 28/19 A3007 RMK AO2 SLP181 T02830194 TSNO LGMT 251920Z 33008KT 9999 FEW025 26/20 Q1012 KPOB 251937Z AUTO VRB02KT 10SM SCT060 34/18 A3007 RMK AO2 KPOC 251947Z 24008KT 10SM CLR 28/15 A2995 ESSB 251950Z VRB02KT 9999 SCT045 18/17 Q1018 KQEL 251950Z AUTO 06002KT 9999 OVC025 20/17 A2981 RMK A02 TSNO KOXC 251950Z 22010G15KT 10SM FEW040 SCT250 27617 A3007 KPMU 251935Z AUTO 00000KT 10SM CLR 33/23 A3007 RMK AO2 T03340227 ETIK 251858Z AUTO 00000KT 9999 CLR 23/10 A3009 RMK AO2 SLP178 T02250102 KPNM 251954Z AUTO 28011G17KT 10SM SCT036 21/13 A3006 RMK AO2 KPMV 251935Z AUTO 03004KT 10SM BKN120 23/15 A3014 RMK AO2 T02300153 ESSD 251950Z AUTO VRB02KT 9999 SCT008/// BKN055/// OVC068/// 17/16 Q1017 RESHUP KQEN 251950Z AUTO 09004G12KT M0400 RA FG CLR 13/12 A2990 RMK A02 TSNO KPOE 251906Z AUTO VRB04KT 7SM VCTS FEW040 SCT049 BKN100 27/25 A3004 RMK AO2 LTG DSNT N-E RAE06 TSE1859 KPOF 251953Z AUTO VRB03KT 10SM FEW049 33/22 A3006 RMK AO2 SLP172 T03280217 TSNO KQEP 251950Z AUTO 27002KT 4800 HZ CLR 22/20 A2967 RMK A02 TSNO KOWP 251935Z AUTO 13005KT 10SM SCT055 BKN065 BKN080 34/21 A3003 RMK AO2 T03400208 GASG 251800Z 00000KT 9999 FEW030 29/24 Q//// KQEQ 251950Z AUTO 01004KT 3200 -RA BR CLR 21/19 A2958 RMK A02 TSNO RCSS 251900Z VRB02KT 9999 FEW020 28/22 Q1003 NOSIG RMK A2964 KQER 251950Z AUTO 03004KT 9999 CLR 18/15 / RMK A02 TSNO KOXI 251935Z AUTO 26005KT 10SM SCT032 BKN039 OVC049 26/10 A3004 RMK AO1 KPNS 251953Z 07006KT 10SM CLR 33/20 A3004 RMK AO2 SLP173 T03330200 LGPA 251920Z AUTO 02017KT //// // ////// 26/19 Q1010 RE// KPPA 251935Z AUTO 01003KT 10SM SCT034 SCT040 27/16 A3017 RMK AO2 T02710160 ESTA 251950Z 07003KT CAVOK 18/14 Q1018 KPNT 251935Z AUTO 25006KT 10SM SCT029 BKN049 OVC090 28/23 A3006 RMK AO2 T02770233 GASK 251800Z 22004KT 9999 SCT020TCU 27/23 Q//// ESSL 251950Z VRB02KT CAVOK 23/17 Q1017 KQEV 251950Z AUTO 35002KT 9999 CLR 25/21 A2969 RMK A02 TSNO WIPP 251800Z 04001KT 9999 FEW012 27/26 Q1009 NOSIG KQEW 251950Z AUTO 28001KT 9999 OVC075 26/20 A2968 RMK A02 TSNO FKKD 251900Z 23004KT 9999 FEW006 BKN010 FEW010CB 26/24 Q1012 NOSIG GASN 251800Z 00000KT 9999 FEW030 31/25 Q//// KPPF 251952Z AUTO VRB04KT 10SM CLR 33/20 A3005 RMK AO2 SLP164 T03280200 RCTP 251930Z 18003KT 9999 FEW020 26/23 Q1003 NOSIG RMK A2964 KQEX 251950Z AUTO 01003KT 9999 CLR 26/20 A2971 RMK A02 TSNO LGNX 251550Z 36008KT CAVOK 27/21 Q1010 KQEY 251950Z AUTO 27002KT 6000 HZ SCT020 BKN047 22/20 A2973 RMK A02 TSNO ESSP 251950Z 00000KT CAVOK 19/17 Q1017 KOXR 251951Z 26009KT 10SM OVC013 21/16 A2995 RMK AO2 SLP140 T02060156 $ KOZA 251935Z AUTO 19010G18KT 10SM CLR 33/10 A3011 RMK AO2 KQFT 251950Z AUTO 32005KT 4000 +RA CLR 21/19 A2971 RMK A02 TSNO ESST 251750Z 16004KT 3500 DZ BKN002 BKN005 OVC008 18/18 Q1018 KQFU 251950Z AUTO 12002G12KT 4000 /CLR 22/20 A2974 RMK A02 TSNO KPOU 251953Z 19003KT 10SM OVC039 27/19 A2999 RMK AO2 RAB43E52 SLP150 P0000 T02670194 FKKL 250900Z 24005KT 160V290 9999 FEW040 30/24 Q1013 KQFV 251950Z AUTO 18006G12KT 1200 /CLR 19/16 A2978 RMK A02 TSNO ESTL 251950Z AUTO 11009KT 9999NDV NCD 19/15 Q1019 KPOV 251936Z AUTO 23006KT 10SM SCT038 SCT046 31/18 A3002 RMK AO2 T03090184 KOXV 251935Z AUTO 00000KT 10SM SCT120 22/17 A3009 RMK AO2 ESSV 251950Z 20014KT CAVOK 19/13 Q1020 ESUD 251950Z AUTO 26004KT 9999 FEW047/// BKN090/// 12/08 Q1016 KQFW 251950Z AUTO 12002KT 9000 HZ FEW008 BKN014 20/17 A2977 RMK A02 TSNO FKKN 251700Z 00000KT 9999 TS SCT020 FEW023CB 23/20 Q1015 KQFX 251950Z AUTO 05002KT 2800 HZ SCT008 22/20 A2972 RMK A02 TSNO KPPO 251935Z AUTO 29005KT 10SM SCT016 SCT022 BKN032 27/25 A3005 RMK AO2 T02720245 KPOY 251935Z AUTO 02005KT 10SM SCT050 18/00 A3025 RMK AO2 KPPQ 251935Z AUTO 24007KT 10SM BKN035 30/23 A3006 RMK AO2 T02980225 KPQI 251856Z AUTO 23007KT 10SM OVC048 28/19 A2985 RMK AO2 SLP140 T02780189 LFYR 251930Z AUTO 00000KT CAVOK 22/17 Q1013 FKKR 251900Z 29004KT 9999 TS FEW016 FEW020CB 28/24 Q1010 NOSIG KPRB 251953Z AUTO 21010KT 10SM CLR 28/07 A2991 RMK AO2 SLP120 T02780072 TSNO KPQL 251953Z AUTO 12010KT 10SM FEW030 32/24 A3004 RMK AO2 SLP172 T03170244 TSNO KPRC 251953Z 24008KT 10SM VCTS BKN080 BKN095 26/09 A3016 RMK AO2 LTG DSNT NE AND E SLP138 OCNL LTGCG DSNT E T02610094 KPQN 251921Z AUTO 28009KT 10SM CLR 21/12 A3014 RMK AO2 KQHN 251855Z 20003KT 8000 HZ CLR 25/M05 A2988 RMK SLP052 Q1012 DA5313 KPRG 251935Z AUTO 23005KT 10SM SCT040 SCT047 30/23 A3007 RMK AO2 T03010225 ESUP 251950Z AUTO 32005KT 9999 NCD 09/05 Q1013 LGPZ 251850Z 09011KT 9999 FEW025 SCT180 28/13 Q1012 KOZR 251931Z AUTO 07008KT 10SM CLR 33/22 A3008 RMK AO2 KOZS 251935Z AUTO 16005KT 10SM SCT039 32/21 A3007 RMK AO2 LGSA 251920Z 00000KT 9999 FEW018 SCT025 25/22 Q1011 KQJB 251856Z AUTO 18005KT 9999 CLR 26/19 A2993 RMK AO2 SLPNO T02570189 VTBD 251930Z 28003KT 240V330 9999 FEW020CB SCT040 26/25 Q1006 NOSIG ESUT 251950Z AUTO 31007KT 280V340 9999 FEW019/// SCT037/// 09/07 Q1018 REDZ KPSC 251953Z 32005KT 10SM CLR 29/09 A3005 RMK AO2 SLP174 T02940089 KRAC 251953Z AUTO 27008KT 240V300 10SM CLR 28/16 A3004 RMK AO2 SLP166 T02780156 ETND 251320Z 14009KT 9999 FEW250 32/14 Q1016 BLU+ KOZW 251934Z AUTO 29009G17KT 7SM -RA SCT040 BKN080 OVC100 25/22 A2998 RMK AO2 T02460216 KPRN 251856Z AUTO 03003KT 10SM SCT046 34/21 A3011 RMK AO2 SLP187 T03390206 $ ETMN 251920Z 12004KT 9999 FEW300 24/18 Q1015 BLU+FCST CANCEL KPRO 251955Z AUTO 00000KT 10SM CLR 23/17 A3013 RMK AO2 T02320172 KPSF 251854Z AUTO 20011G16KT 10SM OVC030 26/19 A3001 RMK AO2 SLP137 T02610189 KQHY 250956Z AUTO 00000KT 10SM CLR 24/23 A3011 RMK AO2 SLP198 T02440230 LGRP 251950Z 23011KT CAVOK 26/22 Q1008 NOSIG ETNG 251950Z 24001KT CAVOK 25/18 Q1015 ETNH 251920Z 10002KT 9999 FEW250 21/18 Q1015 BLU+ LIBA 251855Z 29007KT CAVOK 23/16 Q1016 RMK SKC VIS MIN 9999 WIND THR11 29007KT WIND THR29 29008KT BLU VTCC 251900Z 04001KT 9999 SCT035 26/23 Q1009 A2979 NOSIG KPRS 251935Z AUTO 14007KT 10SM SCT044 SCT120 28/16 A3009 RMK AO2 LTG DSNT N AND W T02800161 LGSK 251750Z 03008KT 9999 FEW020 SCT030 27/18 Q1015 KPSK 251935Z AUTO 28007KT 10SM -RA BKN038 OVC048 29/22 A3020 RMK AO2 T02850220 KPTB 251930Z AUTO 19005KT 10SM SCT049 33/19 A3007 RMK AO2 T03310192 KT20 251935Z AUTO 00000KT 10SM SCT040 SCT047 SCT050 32/24 A3002 RMK AO2 LTG DSNT S T03180239 LIBC 251750Z 01009KT CAVOK 26/16 Q1014 KRAL 251953Z VRB03KT 10SM CLR 30/14 A2991 RMK AO2 SLP111 T03000139 ETNL 251920Z 14005KT 9999 23/12 Q1018 BLU+ VTBO 251100Z 18010KT 7000 FEW021 SCT300 29/25 Q1004 LIBD 251950Z 36010KT CAVOK 25/17 Q1016 KRBD 251953Z VRB04KT 10SM FEW050 34/22 A3003 RMK AO2 SLP160 T03440217 LGSM 251750Z 00000KT CAVOK 28/22 Q1007 KPSM 251858Z 21010KT 10SM SCT045 BKN200 29/18 A2996 RMK AO2A SLP148 T02940184 LHKE 251945Z 02002KT CAVOK 19/12 Q1022 NOSIG RMK BLU KPSN 251935Z AUTO 00000KT 10SM SCT039 SCT045 31/23 A3008 RMK AO2 T03170233 VTCH 251200Z VRB02KT 9999 TS FEW025CB BKN028 26/22 Q1005 A2968 RERA LIBF 251550Z 34016KT CAVOK 28/14 Q1016 ETNN 251920Z 16006KT 9999 FEW300 27/15 Q1015 BLU+ KPSO 251955Z AUTO 29014G26KT 10SM TS SCT070 SCT090 SCT120 21/02 A3034 RMK AO2 LTG DSNT W THRU N T02120015 LGSO 251920Z AUTO 02012KT 310V040 //// // ////// 25/19 Q1011 RE// LGRX 251850Z 09009KT 9999 FEW025 28/16 Q1011 RMK FEW080 BKN200 BLU KPRX 251935Z 16003KT 10SM CLR 34/22 A3006 RMK AO1 LIBG 251750Z 01016KT CAVOK 27/12 Q1013 KRAP 251952Z 01009KT 10SM BKN055 19/05 A3025 RMK AO2 SLP233 T01940050 KPSP 251953Z 13006KT 10SM CLR 36/13 A2984 RMK AO2 SLP099 T03610128 KRBG 251953Z AUTO VRB04KT 10SM CLR 32/06 A2993 RMK AO2 SLP131 T03170061 LGTG 251850Z 30004KT 9999 FEW030 23/14 Q1015 BLU LIBH 251855Z 34007KT CAVOK 28/16 Q1014 RMK SKC QUK / QUL / VIS MAR 20 KM VIS MIN 9999 VTBS 251930Z VRB02KT 9999 FEW020 27/24 Q1006 NOSIG LGSR 251920Z 27007KT CAVOK 26/21 Q1010 VTCL 251200Z 11003KT 9999 SCT025 BKN100 29/27 Q1005 A2968 VTBU 251930Z 22006KT 6000 FEW020CB 29/24 Q1005 NOSIG LICA 251850Z VRB03KT 9999 FEW030 24/21 Q1015 KRAS 251935Z AUTO 13007KT 10SM CLR 32/25 A3001 RMK AO2 T03170245 KRCA 251858Z AUTO 35008KT 10SM BKN050 17/05 A3026 RMK AO2 SLP243 T01740050 $ ETNS 251920Z AUTO 09004KT 9999 // ////// 23/17 Q1015 /// LICB 251850Z VRB01KT 9999 FEW030 24/19 Q1015 KPTK 251953Z 28020G25KT 10SM FEW031 SCT046 BKN120 BKN250 29/21 A2996 RMK AO2 SLP138 T02890211 $ KPUB 251953Z AUTO 14010KT 090V170 10SM CLR 25/08 A3019 RMK AO2 SLP173 T02500078 ETNT 251920Z 08004KT 9999 FEW300 23/19 Q1014 BLU+ VTCN 251300Z 02002KT 9999 SCT025 SCT100 26/26 Q1005 A2969 LICC 251950Z 03003KT 9999 FEW070 26/17 Q1014 KPUC 251953Z AUTO 15008KT 10SM CLR 24/01 A3015 RMK AO2 LTG DSNT N SLP143 T02390006 KRBL 251854Z AUTO 11003KT 10SM CLR 33/04 A2986 RMK AO2 SLP107 T03330044 LICD 251850Z 36010KT CAVOK 25/23 Q1014 KQN2 251856Z AUTO 00000KT 9999 -SHRA VCTS FEW008 BKN011 22/21 A2999 RMK AO2 LTG DSNT NW SHRAB23 SLPNO T02180209 KRCE 251915Z AUTO 23004G15KT 10SM FEW055 33/18 A3006 RMK AO2 LIBN 251755Z 34011KT CAVOK 26/21 Q1014 VTCP 251900Z AUTO 17008KT 100V230 1100 R01/P1500N // ////// 25/23 Q1006 KPTN 251856Z AUTO 18006KT 3SM +RA BR FEW028 BKN070 OVC080 26/24 A3007 RMK AO2 LTG DSNT ALQDS TSE38RAB27 SLP184 P0011 T02610244 KQN3 251856Z AUTO 17003KT 9999 CLR 27/24 A2984 RMK AO2 SLP095 T02740241 GAYE 251800Z 22010KT 9999 FEW030 33/25 Q//// ETNW 251920Z AUTO 13007KT 9999 // ////// 26/10 Q1015 /// LICF 251855Z 32005KT 9999 FEW020 26/21 Q1014 RMK SCT SCT080 QUK / QUL / VIS MAR 20 KM MON INVIS VAR RAPID VIS MIN 9999 KPSX 251953Z AUTO 15008KT 10SM SCT030 SCT037 32/24 A3001 RMK AO2 LTG DSNT NE SLP162 T03220239 KRBO 251935Z AUTO 13008KT 10SM SCT060 BKN070 34/22 A2999 RMK AO2 T03420220 LICG 251755Z /////KT 9999 FEW015 24/21 Q1014 LIBP 251850Z 26002KT CAVOK 23/18 Q1018 LGSY 251750Z 02020KT 9999 FEW020 SCT180 25/19 Q1012 RMK FEW080 BLU KT35 251935Z AUTO 17004KT 10SM BKN040 BKN050 OVC070 33/23 A3004 RMK AO2 LTG DSNT SE T03250231 LIBQ 251755Z 02025KT 9999 FEW006 14/13 Q1020 VTCT 251900Z AUTO 36002KT 9999 SCT160/// 24/24 Q1007 LIBR 251945Z 33013KT CAVOK 25/23 Q1015 NOSIG LICJ 251950Z 04008KT CAVOK 25/21 Q1017 KPTS 251955Z AUTO 00000KT 10SM SCT075 33/23 A3003 RMK AO2 T03300225 LGTS 251920Z VRB03KT 9999 FEW030 25/16 Q1016 NOSIG KPUJ 251935Z AUTO 01004KT 10SM SCT050 SCT055 35/23 A3016 RMK AO2 KPTT 251935Z AUTO 04005KT 10SM OVC014 20/15 A3014 RMK AO2 T01960152 KPVB 251935Z AUTO 27004KT 10SM CLR 25/17 A3008 RMK AO1 T02450168 LICL 251255Z 26008KT 9999 SCT020 28/22 Q1012 RMK SCT QUK 1 QUL 0 VIS MAR 18 KM VIS MIN 9999 KPVC 251856Z AUTO 21014G22KT 10SM CLR 27/19 A3004 RMK AO2 SLP172 T02670189 KPVD 251951Z 23010G19KT 10SM FEW037 FEW150 BKN300 28/18 A3003 RMK AO2 SLP168 T02780178 KRCM 251915Z AUTO 18003KT 10SM SCT029 SCT040 29/21 A3005 RMK AO2 LIBV 251855Z 36010KT CAVOK 22/16 Q1016 RMK SKC VIS MIN 9999 WIND THR32 36010KT WIND THR14 36010KT BLU KRDD 251953Z AUTO 32006KT 10SM CLR 36/02 A2982 RMK AO2 SLP091 T03610017 KPTV 251856Z AUTO 23005KT 10SM CLR 31/11 A2990 RMK AO2 SLP128 T03110111 ETOU 251858Z AUTO 00000KT 9999 CLR 26/11 A3000 RMK AO2 SLP155 T02570111 GCFV 251930Z 36014KT 9999 SCT020 25/18 Q1011 GCGM 251930Z AUTO 23008KT 190V250 9999 NCD 23/18 Q1012 RMK R09/24004KT 170V280 ARP/23006KT 170V280 KPTW 251854Z AUTO 19006KT 9SM BKN033 BKN047 OVC065 27/22 A3006 RMK AO2 SLP173 T02720217 KRBW 251935Z AUTO 11005KT 10SM CLR 33/14 A3010 RMK AO2 KPVE 251935Z AUTO 28006KT 10SM FEW038 30/24 A3013 RMK KPVF 251935Z AUTO 22005KT 10SM CLR 29/00 A3000 RMK AO1 LIBY 251855Z 01015KT CAVOK 26/15 Q1012 RMK SKC QUK / QUL / VIS MAR 15 KM VIS MIN 9999 KPVG 251935Z 18004KT 10SM FEW044 SCT050 31/20 A3009 RMK AO1 KRDG 251854Z 20005KT 10SM FEW030 FEW110 28/21 A3003 RMK AO2 SLP170 T02830211 LICR 251850Z 02007KT CAVOK 26/18 Q1014 KRCR 251935Z AUTO 26009G14KT 10SM SCT028 SCT037 SCT045 28/22 A3005 RMK AO2 GCHI 251930Z AUTO 36017KT 9999 FEW015/// 23/20 Q1013 LIEA 251950Z 26003KT CAVOK 22/19 Q1017 KPWA 251953Z 25007KT 10SM CLR 35/18 A3003 RMK AO2 LTG DSNT S SLP151 T03500183 KPVJ 251935Z AUTO 15004KT 10SM SCT055 34/20 A3004 RMK AO2 T03420204 LIEB 251855Z 11002KT CAVOK 23/20 Q1015 RMK FEW FEW080 QUK / QUL / VIS MAR 20 KM MON INVIS VIS MIN 9999 LICT 251855Z 03009KT CAVOK 26/22 Q1014 KRDK 251935Z AUTO 00000KT 10SM FEW120 22/17 A3014 RMK AO2 LIEC 251855Z 06004KT CAVOK 24/20 Q1016 RMK SKC QUK / QUL / VIS MAR 20 KM VIS MIN 9999 KPWC 251953Z AUTO 28008KT 244V314 10SM SCT027 SCT046 BKN050 19/13 A3005 RMK AO2 LIED 251855Z 06003KT CAVOK 25/18 Q1015 RMK SKC VIS MIN 9999 WIND THR35 06004KT WIND THR17 05003KT BLU KRCV 251925Z AUTO 14007KT 10SM TS CLR 19/06 A3034 RMK AO2 LTG DSNT S THRU W T01920056 KQND 251856Z AUTO 00000KT 9999 FEW070 BKN110 28/24 A2986 RMK AO2 LTG DSNT S SLPNO T02770240 KRDM 251856Z 34005KT 10SM CLR 26/01 A3014 RMK AO2 SLP187 T02610006 LIEE 251950Z 10005KT CAVOK 25/18 Q1017 KPUW 251953Z AUTO 30003KT 10SM CLR 26/01 A3012 RMK AO2 SLP191 T02610006 FLHN 251000Z 11013KT CAVOK 25/10 Q1024 KRCX 251935Z AUTO 27014G18KT 10SM CLR 24/13 A3002 RMK AO2 T02350131 KPWG 251944Z AUTO 15009KT 10SM VCTS SCT045 32/22 A3005 RMK AO2 LTG DSNT ALQDS TSB33 LICZ 251855Z 10006KT 9999 FEW030CB SCT060 BKN110 27/25 Q1015 RETS RMK BKN VIS MIN 9999 WIND THR28 10007KT WIND THR10 10008KT A2999 BLU KRCZ 251935Z AUTO 18005KT 10SM SCT060 33/20 A3009 RMK AO2 T03320196 KRDR 251858Z AUTO 36015KT 10SM SCT050 20/09 A3004 RMK AO2 SLP178 T02020091 KPWK 251952Z 36006KT 10SM CLR 28/17 A3003 RMK AO2 SLP163 T02830167 ETSA 251920Z 08005KT 9999 21/13 Q1020 BLU+ ETSB 251920Z 15006KT 9999 25/13 Q1018 BLU+BLU+ KRDU 251951Z 23004KT 10SM FEW055 BKN250 33/19 A3009 RMK AO2 SLP184 T03280194 KPVU 251855Z 29007KT 10SM FEW120 BKN140 23/M01 A3010 KPWM 251951Z 18009KT 10SM SCT120 SCT200 26/18 A2994 RMK AO2 SLP139 T02560178 KRFD 251854Z 26005KT 10SM FEW032 BKN130 BKN250 26/17 A3007 RMK AO2 SLP176 T02610172 KPXE 251935Z AUTO 04006KT 10SM CLR 35/18 A3011 RMK AO2 T03450175 KPVW 251935Z AUTO 18005KT 10SM SCT035 28/18 A3012 RMK AO2 T02800176 LIEO 251950Z VRB01KT CAVOK 22/18 Q1017 KREO 251952Z AUTO 27/M02 A3011 RMK AO1 SLP165 T02671022 KT65 251935Z AUTO 12009KT 080V140 10SM SCT055 SCT070 A2995 RMK AO2 LTG DSNT S ETSH 251920Z 10007KT 9999 23/14 Q1019 BLU+ KRFI 251935Z AUTO 26003KT 10SM CLR 32/22 A3006 RMK AO2 LTG DSNT NE T03210218 ETSI 251920Z AUTO 14003KT 9000 // ////// 20/13 Q1019 /// LHPA 251945Z 13002KT CAVOK 16/14 Q1022 NOSIG RMK BLU KPWT 251935Z AUTO 06006KT 10SM CLR 28/11 A3012 RMK AO1 KT70 251953Z AUTO 16009KT 130V190 7SM CLR 33/19 A2996 RMK AO2 $ ETSL 251920Z AUTO 08003KT 6000 // ////// 20/12 Q1020 /// ETSN 251920Z 35001KT 9999 19/11 Q1019 BLU+ LGZA 251920Z 34004KT 9999 FEW015 FEW018TCU SCT020 BKN080 26/22 Q1011 GCLA 251930Z 02013KT 350V050 9999 FEW035 24/19 Q1013 KRGK 251935Z AUTO 29011G16KT 10SM CLR 23/11 A3004 RMK AO2 FLKK 251900Z /////KT CAVOK 15/07 Q1025 KPYM 251952Z AUTO 20011G20KT 170V230 10SM CLR 27/17 A3002 RMK AO2 SLP166 T02720167 KT82 251935Z AUTO 15006KT 10SM CLR 31/12 A3009 RMK AO2 T03060124 LHPP 251645Z 03006KT 9999 FEW005 24/12 Q1021 LHPR 251915Z AUTO 00000KT CAVOK 17/14 Q1022 RMK BLU FMCH 251800Z VRB01KT 9999 FEW020 23/19 Q1019 NOSIG KRHI 251953Z AUTO 25011G22KT 10SM FEW050 FEW055 24/14 A2999 RMK AO2 SLP152 T02440144 TSNO AGGH 251900Z 00000KT 35KM FEW014 BKN100 22/22 Q1012 KRIC 251854Z 22011KT 10SM FEW050 FEW180 BKN250 32/19 A3007 RMK AO2 SLP183 T03220194 KQRD 251558Z AUTO VRB03KT 10SM FEW085 31/20 A3013 RMK AO2 SLP207 KPYX 250535Z AUTO 33015KT 10SM BKN110 20/18 A3011 RMK AO2 T02000177 KRHP 251900Z AUTO 21003KT 10SM SCT038 BKN070 30/23 A3018 RMK AO2 T03030225 GCLP 251930Z 36023KT 9999 SCT030 25/18 Q1011 NOSIG KPZQ 251934Z AUTO 29007G14KT 10SM CLR 28/15 A2993 RMK AO2 T02770152 KQRH 251856Z AUTO 00000KT 9000 BR BKN170 31/25 A2966 RMK AO2 LTG DSNT W SLP037 T03090248 KSAA 251935Z AUTO 01006KT 10SM CLR 18/03 A3028 RMK AO2 KSAC 251953Z 19006KT 10SM CLR 27/11 A2987 RMK AO2 SLP115 T02670106 KRIL 251953Z AUTO 05004KT 10SM CLR 23/04 A3018 RMK AO2 SLP162 T02330039 KSAD 251951Z AUTO 26006KT 10SM CLR 34/07 A3001 RMK AO2 SLP108 T03390072 KRHV 251947Z VRB05KT 10SM SKC 24/13 A2995 FMEE 251930Z AUTO 17007KT 9999 BKN030 19/16 Q1022 NOSIG KSAF 251953Z VRB05KT 10SM TS SCT090 24/06 A3025 RMK AO2 LTG DSNT E TSB51 SLP150 T02440061 KQQY 251855Z AUTO 22004KT 9999 BKN150 30/04 A2998 RMK AO2 SLP129 T03030035 $ KU16 251758Z AUTO 02008KT 10SM CLR 23/M01 A3009 RMK AO2 SLP811 T02331011 10233 20139 58006 $ FMCZ 251930Z AUTO 15004KT 9999 NCD 23/17 Q1019 KSBA 251953Z 23006KT 9SM CLR 21/16 A2994 RMK AO2 SLP138 T02060156 KSBD 251848Z 23005KT 5SM HZ SKC 30/10 A2995 KRKD 251856Z AUTO 20010G15KT 10SM CLR 23/19 A2998 RMK AO2 SLP152 P0001 T02330189 KRIV 251858Z AUTO 12006KT 10SM CLR 30/11 A2995 RMK AO2 SLP128 T03040107 LHSM 251545Z 07004KT 9999 FEW040 25/15 Q1022 ETWM 251920Z AUTO 00000KT 5000 // ////// 22/18 Q1014 /// LHSN 251945Z 03006KT CAVOK 19/13 Q1022 NOSIG RMK BLU KRIW 251953Z AUTO 06006G15KT 10SM SCT032 BKN043 15/07 A3027 RMK AO2 SLP218 T01500067 KSAN 251951Z 23007KT 10SM FEW019 FEW200 22/16 A2996 RMK AO2 SLP145 T02220156 FMEP 251930Z AUTO 07005KT 9999 FEW025 SCT058 19/16 Q1022 KSAR 251935Z AUTO 20006KT 10SM SCT041 SCT050 BKN060 31/24 A3007 RMK AO2 T03130239 KSAT 251951Z 16007KT 10SM FEW045 FEW250 32/21 A3004 RMK AO2 SLP154 T03170206 KSAV 251953Z 10SM FEW055 SCT070 SCT250 34/18 A3007 RMK AO2 SLP183 T03390178 KSBM 251953Z AUTO 24009KT 10SM CLR 26/14 A3001 RMK AO2 SLP159 T02610139 KSCD 251935Z AUTO 00000KT 10SM CLR 35/24 A3011 RMK AO2 T03460236 KRLD 251935Z AUTO 07005KT 10SM CLR 30/06 A3006 RMK AO2 T03030056 LHUD 251915Z 02006KT CAVOK 22/13 Q1021 GBYD 252000Z 16004KT 9999 FEW011 SCT110 27/24 Q1009 KSBN 251854Z 29010KT 10SM SCT013 BKN020 BKN028 25/22 A3005 RMK AO2 RAE1756 SLP168 P0000 T02500217 KSAW 251950Z 26012G18KT 10SM SKC 25/11 A2993 LJCE 251930Z 00000KT CAVOK 19/16 Q1022 KSBO 251935Z AUTO 06004G19KT 10SM BKN070 33/16 A3010 RMK AO2 KSCF 251935Z AUTO 11010KT 10SM CLR 29/25 A3005 RMK A01 KRKP 251953Z AUTO 13010KT 10SM CLR 33/23 A3000 RMK AO2 SLP159 T03330228 KSBP 251856Z 27003KT 10SM CLR 21/13 A2998 RMK AO2 SLP149 T02110128 KSCH 251945Z 00000KT 10SM SCT029 OVC039 23/22 A2998 KSAZ 251954Z AUTO 28013G17KT 10SM BKN032 BKN040 19/12 A3005 RMK AO2 KRKR 251939Z AUTO 14004KT 10SM SCT070 BKN090 33/22 A3003 RMK AO2 KRKS 251954Z AUTO 08008KT 10SM CLR 19/00 A3025 RMK AO2 SLP185 T01940000 LIMA 251650Z 03004KT 330V090 CAVOK 30/15 Q1018 KSBS 251935Z AUTO 26011G17KT 240V300 10SM CLR 20/00 A3026 RMK AO1 T02010002 KSDA 251935Z AUTO 36004KT 10SM FEW022 OVC120 23/M37 A3014 RMK AO2 KSDB 251948Z AUTO 18012KT 10SM CLR 30/06 A3010 RMK AO2 SLP128 T03000056 KSCK 251855Z VRB05KT 10SM CLR 26/11 A2990 RMK AO2 SLP125 T02560111 LIMC 251950Z VRB01KT CAVOK 23/17 Q1020 NOSIG KU42 251935Z AUTO 03004KT 10SM CLR 25/00 A3009 RMK AO1 T02521004 LIME 251950Z 03005KT CAVOK 22/16 Q1020 KRME 251953Z 15004KT 10SM OVC027 26/22 A2995 RMK AO2 SLP138 T02560222 LIMF 251950Z 34006KT CAVOK 24/18 Q1020 KSDF 251856Z 26014KT 10SM SCT048 SCT250 33/20 A3009 RMK AO2 SLP182 T03330200 KQVF 251900Z AUTO 12004G11KT 10SM FEW023 25/20 A3003 RMK AO2 SLP166 WND DATA ESTMD T02450198 LIMG 251750Z 07004KT 040V100 CAVOK 30/18 Q1015 KRMG 251953Z AUTO 10003KT 10SM CLR 33/20 A3010 RMK AO2 SLP181 T03330200 KSBY 251854Z 18013KT 10SM CLR 30/21 A3007 RMK AO2 SLP184 T03000206 $ LIMH 251755Z /////KT CAVOK 10/05 Q1039 KSCR 251940Z AUTO 00000KT 10SM SCT050 BKN065 32/20 A3010 RMK AO2 T03180196 LIMJ 251950Z VRB02KT CAVOK 26/19 Q1017 KSEA 251953Z 34012KT 10SM FEW050 FEW250 29/12 A3009 RMK AO2 SLP191 T02940117 $ LIMK 251755Z 09004KT CAVOK 25/15 Q1021 FKYS 251900Z 15003KT 100V190 9999 BKN010 21/19 Q1018 BECMG BKN006 LIML 251950Z 09003KT 070V140 CAVOK 25/16 Q1019 NOSIG KSDL 251953Z VRB05KT 10SM CLR 36/10 A2993 RMK AO2 SLP105 T03560100 KRNC 251935Z AUTO 31004KT 10SM FEW043 33/23 A3014 RMK KSDM 251953Z 28007KT 10SM CLR 24/16 A2995 RMK AO2 SLP136 T02440156 KRND 251858Z AUTO VRB05KT 10SM FEW043 31/22 A3006 RMK AO2 SLP171 T03090219 LIMN 251755Z 18004KT CAVOK 25/17 Q1018 KRMN 251935Z AUTO 20003KT 10SM CLR 30/22 A3009 RMK AO2 T03010224 KSEE 251847Z VRB06KT 10SM HZ SKC 28/14 A2996 LIMP 251850Z 05007KT CAVOK 26/13 Q1019 KSEG 251953Z AUTO 16008KT 10SM FEW040 FEW050 29/23 A3001 RMK AO2 SLP158 T02890233 KRNH 251935Z AUTO 26008KT 10SM CLR 22/13 A3004 RMK AO2 T02240128 LIMS 251755Z 11009KT 080V140 CAVOK 27/16 Q1017 KROA 251854Z 31008KT 10SM SCT046 33/21 A3013 RMK AO2 SLP189 T03280211 KSFB 251953Z 10SM FEW045 33/20 A3001 RMK AO2 SLP160 T03280200 $ LIMU 251855Z 25003KT CAVOK 27/21 Q1017 RMK SKC QUK / QUL / VIS MAR 25 KM VIS MIN 9999 KROC 251854Z 25008KT 10SM FEW037 SCT040 OVC200 30/21 A2994 RMK AO2 SLP136 T03000211 KRNM 251953Z 30006KT 10SM CLR 30/15 A2995 RMK AO2 SLP128 T03000150 KSEM 251935Z AUTO 06007KT 10SM BKN043 BKN055 BKN060 33/22 A3008 RMK AO2 VTPH 251200Z VRB03KT 9999 FEW028 30/25 Q1004 KSFF 251953Z VRB03KT 10SM FEW070 27/01 A3012 RMK AO2 SLP189 T02720011 KRNO 251855Z 00000KT 10SM CLR 26/M04 A3011 RMK AO2 SLP145 T02561044 LIMY 251755Z 33003KT CAVOK 29/20 Q1020 KRNP 251935Z AUTO 24007KT 10SM BKN022 BKN030 28/24 A2996 RMK AO2 T02770238 KRMY 251925Z AUTO 27014G18KT 10SM SCT025 SCT039 BKN046 28/21 A3000 RMK AO2 KSDY 251856Z AUTO 32009KT 10SM 21/05 A3017 RMK AO2 SLPNO T02110050 KSEP 251935Z AUTO 00000KT 10SM CLR 33/17 A3010 RMK AO2 T03260170 KROG 251858Z 19007KT 10SM FEW041 SCT060 33/22 A3012 RMK AO2 SLP183 T03280217 $ LIMZ 251850Z 33001KT CAVOK 25/18 Q1019 LIPA 251855Z 02004KT 9999 FEW070 22/19 Q1020 RMK FEW VIS MIN 9999 WIND THR05 02004KT WIND THR23 02004KT A3012 BLU GCRR 251930Z 01013KT 340V040 9999 BKN028 25/19 Q1011 KU68 251935Z AUTO 00000KT 10SM CLR 18/02 A3024 RMK AO2 VTPM 251000Z 00000KT 9999 SCT025 BKN070 28/24 Q1004 RMK LIPB 251950Z 16005KT CAVOK 26/17 Q1019 KRNT 251953Z 31010KT 10SM CLR 29/11 A3006 RMK AO2 SLP182 T02890111 KSET 251854Z AUTO 28005KT 10SM FEW038 SCT048 32/22 A3004 RMK AO2 SLP166 T03170222 LIPC 251855Z 00000KT CAVOK 24/20 Q1018 FNBC 251600Z 34005KT 9999 BKN014 23/23 Q//// VTPO 251100Z 22002KT 9999 FEW022 32/26 Q1003 KRNV 251935Z AUTO 20005KT 10SM SCT046 BKN080 BKN095 32/26 A3005 RMK AO2 LTG DSNT NW T03230263 KSFM 251856Z AUTO 22007KT 10SM FEW048 29/19 A2997 RMK AO2 SLP154 T02940194 $ KRPD 251935Z AUTO 25012G18KT 7SM CLR 22/12 A3004 RMK AO2 T02170118 VTPP 251900Z AUTO 00000KT 9999 R14/M0025N // ///066 26/24 Q1006 LIPE 251950Z 08003KT CAVOK 22/14 Q1019 LIPF 251755Z 08002KT CAVOK 26/14 Q1019 KSGF 251952Z 17009KT 10SM CLR 32/21 A3007 RMK AO2 SLP166 T03220211 KSFO 251903Z 32014KT 10SM FEW007 18/12 A2995 RMK AO2 T01830122 FNBG 251600Z 28008KT 9999 FEW015 23/19 Q1012 LIPH 251950Z VRB01KT CAVOK 23/18 Q1019 KSGH 251919Z AUTO 23010G17KT 10SM SCT028 BKN033 BKN042 30/25 A3008 RMK AO2 KSFQ 251935Z AUTO 17007KT 10SM SCT042 31/19 A3008 RMK AO2 T03050194 KSEZ 251935Z AUTO 20004KT 10SM CLR 28/10 A3015 RMK AO2 LTG DSNT N E AND SW KRPH 251935Z AUTO 12003KT 10SM SCT055 35/20 A3003 RMK AO2 T03450195 LIPI 251355Z /////KT CAVOK 29/13 Q1019 RMK SKC VIS MIN 9999 WIND THR06 23005KT WIND THR24 25003KT BLU KROS 251953Z AUTO 27009G17KT 10SM BKN036 21/13 A3004 RMK AO2 T02130126 KRPJ 251935Z AUTO 29005KT 10SM BKN110 25/18 A3007 RMK AO2 T02530183 KSGJ 251858Z 03012KT 7SM SCT024 BKN090 30/21 A3008 RMK AO2 SLP186 T03000211 FNCA 251600Z 22006KT 8000 FEW020 SCT025 24/22 Q1013 EVLA 251950Z AUTO 16004KT 9999 NCD 17/16 Q1023 KRQB 251935Z AUTO 25010G14KT 10SM CLR 28/14 A2998 RMK AO2 T02760139 LIQC 251855Z ///02KT CAVOK 25/25 Q1015 RMK SKC QUK / QUL / VIS MAR 20 KM VIS MIN 9999 LIPL 251855Z /////KT CAVOK 25/16 Q1019 RMK SKC VIS MIN 9999 WIND THR31 13006KT BLU KSHD 251935Z AUTO 18005KT 10SM BKN050 BKN065 BKN080 31/22 A3010 RMK AO2 T03070220 KROW 251951Z VRB04KT 10SM FEW065 28/14 A3012 RMK AO2 SLP138 T02780144 KRQE 251953Z AUTO 16016G21KT 10SM -RA FEW029 SCT070 OVC100 16/09 A3028 RMK AO2 WSHFT 1938 RAB26 SLP167 T01610089 TSNO PNO LIPO 251850Z 13004KT CAVOK 25/15 Q1019 KROX 251954Z AUTO 32012G17KT 10SM CLR 19/12 A2999 RMK AO2 KSFY 251935Z AUTO 29005KT 10SM SCT110 25/17 A3006 RMK AO2 T02500168 LIPQ 251950Z 08004KT CAVOK 24/13 Q1019 KSFZ 251856Z AUTO VRB06KT 10SM CLR 28/19 A3004 RMK AO2 SLP185 T02780189 VTSB 251900Z 21005KT 7000 FEW020 25/24 Q1007 LIPR 251945Z 23003KT CAVOK 24/23 Q1018 KSGR 251953Z AUTO 08009KT 10SM BKN060 32/22 A3002 RMK AO2 LTG DSNT NE AND E SLP165 T03170217 LIPS 251855Z 02002KT CAVOK 24/18 Q1019 RMK SKC VIS MIN 9999 WIND THR26 00000KT WIND THR08 03002KT BLU VTSC 250900Z 01009KT 330V040 9999 SCT022 BKN100 31/25 Q1005 RWY20 INFO J LIRA 251950Z 12005KT CAVOK 24/15 Q1016 KSGS 251951Z AUTO 27008KT 10SM CLR 23/13 A3005 RMK AO2 T02280128 GCTS 251930Z VRB04KT 9999 FEW025 25/18 Q1012 NOSIG KSGT 251935Z AUTO 30006KT 10SM TS SCT035 SCT042 28/19 A3007 RMK AO1 LTG DSNT ALQDS LIPU 250600Z VRB03KT CAVOK 22/16 Q1020 VTSE 251200Z 30003KT 6000 FEW020 27/25 Q1005 KSGU 251935Z 27007KT 10SM CLR 33/08 A2996 RMK AO1 LTG DSNT E KSHL 251935Z AUTO 28007KT 10SM CLR 22/14 A3013 RMK AO2 VTSF 251300Z 17003KT 140V200 9000 FEW018 27/23 Q1006 LIRE 251855Z 00000KT CAVOK 24/18 Q1016 RMK SKC VIS MIN 9999 WIND THR13 03001KT WIND THR31 00000KT BLU VTSG 251300Z 25003KT 160V290 9999 SCT020 26/24 Q1008 INFO J RWY32 LIQN 251850Z 23005KT CAVOK 26/14 Q1016 KSHN 251953Z AUTO 12006KT 10SM CLR 31/10 A3004 RMK AO2 SLP171 T03060100 LIQO 251755Z 27010KT CAVOK 23/09 Q1017 KRPX 251935Z AUTO 00000KT 10SM 19/03 A3013 KSIF 251940Z AUTO 24004KT 7SM SCT039 32/23 A3010 RMK AO2 T03200226 VTSH 251000Z 30004KT 9999 FEW020 SCT040 BKN100 30/24 Q1005 NOSIG LIPX 251950Z 07004KT CAVOK 23/16 Q1020 LIRF 251950Z 26002KT CAVOK 24/20 Q1016 NOSIG KRQO 251955Z AUTO 21005KT 10SM CLR 33/16 A3005 RMK AO2 LIRG 251755Z 20005KT CAVOK 28/15 Q1015 LIPY 251850Z VRB02KT CAVOK 23/17 Q1018 WMBA 251900Z 02001KT 9000 FEW030 SCT150 BKN260 25/23 Q1008 LIRH 251755Z 15004KT 9999 FEW040 29/14 Q1015 LIPZ 251950Z 34006KT 310V030 CAVOK 23/17 Q1019 NOSIG LIRI 251850Z 02010KT CAVOK 28/15 Q1014 VTSK 251100Z 27010KT 9999 FEW020 SCT030 BKN100 BKN300 31/22 Q10 04 A2966 KSHR 251953Z AUTO VRB04KT 10SM OVC050 21/05 A3024 RMK AO2 SLP222 T02060050 FMMI 252000Z 00000KT 9999 FEW020 12/11 Q1026 NOSIG LIRK 251855Z AUTO 13005KT //// 14/12 Q1026 VTSM 251600Z 31005KT 9000 FEW020 29/23 Q1009 KSIK 251955Z AUTO 00000KT 10SM SCT048 SCT110 33/22 A3008 RMK AO2 PWINO LIRL 251755Z 28005KT CAVOK 28/17 Q1014 KSJC 251953Z 29007KT 8SM CLR 23/13 A2993 RMK AO2 SLP133 T02330128 KRRL 251935Z AUTO 25013KT 10SM SCT048 24/15 A3001 RMK AO2 T02420151 LIRM 251855Z 10002KT CAVOK 27/20 Q1015 KTAD 251854Z AUTO 11007KT 10SM CLR 22/09 A3025 RMK AO2 SLP179 T02220094 $ KSHV 251856Z 22007KT 10SM SCT038 SCT280 34/26 A3005 RMK AO2 SLP171 CB DSNT N-NE MOV E TCU DSNT ALQDS T03390256 LIQW 251355Z 16003KT CAVOK 28/19 Q1017 VTSP 251930Z 00000KT 8000 SCT018 BKN100 25/23 Q1009 NOSIG LIRN 251950Z 04006KT 010V070 CAVOK 27/13 Q1016 NOSIG VTSR 251100Z 19006KT 160V220 7000SW -RA BKN024 28/25 Q1005 ATIS U/S EXPECTED ILS APCH RWY02 LIRP 251945Z 17003KT CAVOK 25/20 Q1016 NOSIG VTSS 251930Z 13003KT 9999 FEW020 BKN100 25/25 Q1007 NOSIG LIRQ 251950Z VRB02KT CAVOK 27/13 Q1017 VTST 251200Z 00000KT 9999 SCT020 26/25 Q1007 RWY08 INFO N WMAU 251900Z 28003KT 9999 FEW024 SCT140 BKN270 27/23 Q//// QFF1007 LIRS 251855Z 20002KT CAVOK 27/21 Q1014 KSKA 251858Z AUTO VRB04KT 10SM CLR 25/00 A3016 RMK AO2 SLP203 T02450003 LIRT 251855Z 06006KT CAVOK 18/11 Q1021 RMK SKC MON INVIS VAL INVIS VIS MIN 9999 VTUD 251900Z AUTO VRB02KT CAVOK 26/25 Q1006 KRRT 251954Z AUTO 31009KT 10SM RA SCT026 BKN035 OVC041 16/13 A29026 BKN RMK AO2 LIRU 251650Z 24007KT CAVOK 30/12 Q1014 KRSL 251953Z AUTO 06008KT 10SM CLR 25/14 A3013 RMK AO2 SLP192 T02500139 FMMT 251900Z 00000KT 9999 FEW017 19/18 Q1021 NOSIG LIRV 251755Z 06007KT CAVOK 28/15 Q1016 KTAN 251952Z AUTO 21011G18KT 10SM CLR 27/17 A3002 RMK AO2 SLP166 T02720172 KSJN 251854Z AUTO 00000KT 10SM CLR 28/06 A3020 RMK AO2 SLP134 T02780056 TSNO KRSN 251937Z AUTO 11004KT 10SM SCT028 SCT039 BKN085 32/27 A3006 RMK AO2 LTG DSNT W AND NW FMNM 251900Z VRB03KT 9999 FEW020 24/20 Q1019 NOSIG FMNN 251500Z 24004KT 9999 FEW020 SCT233 25/18 Q1016 LIRX 251755Z 01015KT CAVOK 25/18 Q1016 KSKF 251858Z 16006KT 10SM SCT040 SCT250 30/22 A3005 RMK AO2A SLP168 T03020224 $ KRSP 251854Z AUTO 30006KT 10SM SCT028 SCT032 27/21 A3011 RMK AO2 SLP187 T02720211 $ VTUI 251930Z AUTO 14003KT 9999 BKN100/// OVC180/// 27/25 Q1005 A2970 KSIY 251953Z AUTO 00000KT 10SM CLR 30/01 A3001 RMK AO2 SLP145 T03000006 LIRZ 251850Z 36010KT CAVOK 23/14 Q1017 VTUK 251900Z VRB02KT 9999 SCT025 BKN090 25/24 Q1006 NOSIG VTUL 251930Z AUTO 00000KT 9999 FEW038/// OVC170/// 25/23 Q1007 NOSIG KSJS 251935Z AUTO 25007KT 10SM SCT041 32/22 A3013 RMK AO2 T03200223 KSJT 251951Z 15009G16KT 10SM CLR 35/11 A3005 RMK AO2 SLP148 T03500106 $ KSLB 251955Z AUTO 33007KT 10SM 23/15 A3014 RMK AO2 KRST 251854Z 25007KT 10SM CLR 23/16 A3009 RMK AO2 SLP185 T02280161 KTCC 251953Z AUTO 12006KT 10SM CLR 27/13 A3016 RMK AO2 SLP159 T02670128 KSLC 251854Z 34008KT 10SM FEW110 SCT140 BKN220 25/M03 A3008 RMK AO2 SLP138 VIRGA ALQDS CB DSNT NE AND NW T02501028 VTUO 250800Z VRB02KT 8000 -RA SCT018 SCT100 BKN300 26/25 Q1005 A2968 INFO I RWY 04 KRSV 251935Z AUTO 28003KT 10SM SCT049 SCT065 SCT070 31/25 A3007 RMK AO2 T03120249 KRSW 251953Z 05013KT 10SM VCTS SCT035 SCT100 34/23 A2994 RMK AO2 LTG DSNT S AND SW SLP137 T03390228 KRTN 251953Z AUTO VRB05KT 10SM CLR 23/06 A3025 RMK AO2 LTG DSNT NE AND NW SLP167 T02330056 KRUE 251953Z AUTO 14007KT 10SM TS FEW050 FEW080 SCT100 25/22 A3006 RMK AO2 LTG DSNT E-S RAB14E45 TSB1857 SLP171 P0005 T02500217 KSLE 251856Z 36010G17KT 10SM CLR 31/09 A3000 RMK AO2 SLP157 T03110094 KTBN 251858Z AUTO 25005KT 10SM FEW150 31/23 A3009 RMK AO2 SLP180 T03090226 VTUQ 251900Z AUTO VRB01KT ////NDV ////// 24/24 Q1007 A2974 KSJX 251935Z AUTO 23008KT 10SM CLR 24/17 A2994 RMK AO2 T02370169 VVCR 251930Z 31003KT 9999 FEW015 BKN050 28/25 Q1006 NOSIG GCXO 251930Z 29019KT 9999 FEW002 SCT011 19/16 Q1015 BECMG BKN010 KSLG 251935Z AUTO 22007G14KT 10SM FEW065 34/18 A3010 RMK AO1 KSLH 251935Z AUTO 26006KT 10SM CLR 25/15 A2992 RMK AO2 T02470148 KTAZ 251935Z AUTO 27003KT 10SM SCT033 SCT039 SCT045 29/23 A3006 RMK AO2 T02900226 VVCT 251100Z 25005KT 180V290 9999 FEW015 29/24 Q1005 NOSIG KTBR 251935Z AUTO 05005KT 10SM CLR 34/19 A3010 RMK AO2 T03380189 KSLI 251858Z 22008KT 10SM CLR 24/16 A2994 RMK AO2A SLP141 T02380160 FNGI 251600Z 09009KT CAVOK 32/M01 Q1017 VTUU 251900Z 00000KT 9999 FEW030 SCT100 26/25 Q1006 NOSIG KRTS 251935Z AUTO 12009KT 10SM CLR 25/M07 A3013 RMK AO2 LJLJ 251930Z VRB02KT 9999 FEW050 18/15 Q1022 NOSIG KSLK 251951Z AUTO 23012G17KT 10SM SCT025 BKN033 BKN050 25/19 A2995 RMK AO2 SLP133 T02500189 VTUV 251400Z 00000KT 9000 FEW022 26/25 Q1007 A2973 INFO O RWY 36 LJMB 251930Z 31003KT CAVOK 17/15 Q1023 LIVC 251755Z 04036KT CAVOK 11/M11 Q1028 VTUW 251930Z AUTO 14004KT 120V180 9999 FEW004/// OVC180/// 26/25 Q1006 A2971 VVDN 251930Z 21002KT 9999 FEW015 SCT060 27/25 Q1006 NOSIG KTCL 251953Z 07007KT 10SM CLR 34/23 A3007 RMK AO2 SLP181 T03390233 LIVD 251755Z 09010KT CAVOK 21/12 Q1024 KTCM 251858Z AUTO 02011KT 10SM CLR 28/11 A3009 RMK AO2 SLP191 T02810106 $ LIVE 251855Z 00000KT CAVOK 16/14 Q1024 RMK SKC VIS MIN 9999 KSLN 251953Z 03009KT 10SM BKN030 26/18 A3012 RMK AO2 SLP188 T02560178 KSME 251935Z AUTO 28006KT 10SM BKN039 BKN050 30/21 A3014 RMK AO2 LIVF 251755Z 11004KT CAVOK 22/10 Q1020 KTDF 251940Z AUTO 21005KT 10SM CLR 31/21 A3012 RMK AO2 KSMF 251953Z 00000KT 10SM CLR 27/11 A2986 RMK AO2 SLP110 T02720111 KSKX 251935Z AUTO 27003KT 10SM CLR 22/06 RMK AO1 LTG DSNT NW KSLO 251935Z AUTO 21005KT 10SM SCT036 SCT060 32/23 A3006 RMK AO2 T03220233 KTBX 251935Z AUTO 17009KT 10SM CLR 10/05 A3041 RMK AO2 PWINO KRUQ 251940Z AUTO 00000KT 10SM SCT049 32/22 A3011 RMK AO2 T03240215 KSLR 251935Z AUTO 21007KT 10SM SCT044 BKN050 BKN065 33/22 A3007 RMK AO2 LTG DSNT E T03340218 KTCS 251953Z AUTO 00000KT 10SM CLR 29/04 A3015 RMK AO2 LTG DSNT W AND NW SLP126 T02890044 KSNA 251953Z 22012KT 10SM FEW300 23/16 A2993 RMK AO2 SLP135 T02330156 KTEB 251951Z 17008KT 10SM OVC050 29/18 A2999 RMK AO2 SLP154 T02890178 EVRA 251950Z 22004KT CAVOK 17/14 Q1023 NOSIG KRUT 251856Z AUTO 21008KT 10SM OVC034 25/19 A2998 RMK AO2 SLP163 T02500194 $ KSNC 251935Z AUTO 20009G21KT 10SM CLR 26/18 A3005 RMK AO2 LKCV 251900Z 12005KT CAVOK 22/11 Q1022 NOSIG RMK BLU BLU KSMN 251935Z AUTO 02004KT 10SM CLR 20/01 A3015 RMK AO1 LIVO 251755Z 00000KT CAVOK 19/16 Q1022 KSMO 251951Z 24008KT 9SM CLR 22/16 A2994 RMK AO2 SLP137 T02170156 KRWF 251953Z AUTO 29015G18KT 10SM FEW035 22/13 A3010 RMK AO2 SLP190 T02220133 LIVP 251755Z 20008KT CAVOK 16/10 Q1029 KSMP 251856Z AUTO VRB03KT CLR 23/04 A3024 RMK AO2 SLP205 T02330039 KSMQ 251953Z AUTO VRB05KT 10SM OVC047 29/21 A2999 RMK AO2 SLP154 T02890206 KSNH 251935Z AUTO 00000KT 10SM CLR 34/23 A3009 RMK A01 LIVR 251755Z 12010KT 9999 SCT020 15/13 Q1029 KRWI 251953Z AUTO 20008KT 160V250 10SM SCT048 32/21 A3008 RMK AO2 SLP184 T03220206 KTDR 251933Z AUTO 07012G19KT 10SM CLR 33/20 A3003 RMK AO2 WSHFT 28 LTG DSNT SW KRVS 251953Z 18008KT 10SM SCT065 35/21 A3001 RMK AO2 SLP163 T03500211 KSMS 251935Z AUTO 00000KT FEW055 32/19 A3010 RMK AO2 KSOA 251935Z AUTO 16010KT 10SM CLR 31/13 A3013 RMK AO2 LIVT 251855Z 09002KT CAVOK 26/14 Q1019 RMK SKC QUK / QUL / VIS MAR 20 KM VIS MIN 9999 KSNK 251935Z AUTO 14011KT 32/17 A3008 RMK AO2 LTG DSNT W AND NW T03210174 PWINO KRWL 251953Z AUTO 10SM CLR 18/02 A3027 RMK AO2 SLP178 T01830017 KSNL 251935Z AUTO 24006KT 10SM OVC050 33/21 A3005 RMK AO2 T03260205 FNHU 251600Z 05013KT CAVOK 26/01 Q1022 KRXE 251953Z AUTO VRB03KT 10SM CLR 21/M03 A3016 RMK AO2 SLP184 T02111028 FMSD 251900Z 06004KT 9999 FEW016 SCT033 20/16 Q1022 KSMX 251951Z 31011KT 10SM FEW010 19/13 A2997 RMK AO2 SLP148 T01890133 KTDZ 251953Z AUTO 26015G22KT 10SM FEW050 31/22 A2999 RMK AO2 SLP148 T03110217 KSPA 251955Z AUTO 00000KT 10SM BKN047 OVC055 32/20 A3012 RMK AO2 KSNS 251953Z 28013KT 10SM BKN015 18/12 A2997 RMK AO2 SLP156 T01780117 KSPB 251953Z AUTO 14004KT 10SM CLR 32/12 A3000 RMK AO2 SLP158 T03170122 KSNT 251951Z AUTO 34008KT 300V010 22/M04 A3021 RMK AO1 SLP150 T02171044 KSPD 251856Z AUTO 07005KT 21/14 A3022 RMK AO1 SLP186 T02060139 $ KRWV 251930Z AUTO 00000KT 10SM SCT039 SCT045 32/21 A3007 RMK AO2 KTEW 251952Z AUTO 26008KT 10SM SCT018 BKN060 OVC080 26/22 A2999 RMK AO2 T02600215 KSPF 251915Z AUTO 00000KT 10SM CLR 16/03 A3029 RMK AO2 KTEX 251935Z AUTO 15006KT 10SM TS SCT041 SCT070 BKN100 14/05 A3042 RMK AO2 LTG DSNT NE THRU S T01420054 KSPG 251953Z 07010KT 10SM CLR 31/24 A2994 RMK AO2 SLP139 T03060239 KSNY 251953Z AUTO 12007KT 090V200 10SM FEW065 23/05 A3025 RMK AO2 SLP213 T02330050 KSOP 251856Z AUTO VRB03KT 10SM SCT060 A3012 RMK AO2 SLPNO FZRANO $ KTFP 251935Z AUTO 14010G15KT 10SM CLR 34/24 A2999 RMK AO2 T03410237 KTGI 251918Z AUTO 18015G18KT 10SM CLR 30/20 A3007 RMK AO1 KSPI 251952Z 25004KT 10SM SCT033 BKN050 OVC060 30/22 A3005 RMK AO2 SLP171 T03000217 KTHA 251935Z AUTO 29004KT 10SM SCT046 BKN055 BKN075 33/21 A3015 RMK KSPL 251935Z AUTO 09005KT 10SM 30/26 A3000 RMK AO1 KRYM 251856Z AUTO 28012KT 10SM OVC028 18/12 A3007 RMK AO2 SLP186 T01760118 TSNO $ KRYN 251945Z 00000KT 10SM CLR 34/10 A3001 KSOW 251935Z AUTO 30011G14KT 10SM BKN080 OVC120 23/04 A3025 RMK AO2 LTG DSNT NE AND NW KSQE 251935Z AUTO 27013KT 1 3/4SM BR SCT003 BKN009 OVC034 25/24 A3008 RMK A01 KSQI 251856Z AUTO 29007KT 10SM CLR 26/19 A3007 RMK AO2 SLPNO T02610194 KSPR 251935Z AUTO 14007KT 10SM CLR 27/24 A3005 RMK A01 KSPS 251952Z 15015KT 10SM SCT065 37/19 A3002 RMK AO2 SLP148 T03670189 MBGT 251900Z 15015KT 9999 BKN020 31/22 Q1010 EVVA 251950Z AUTO 21005KT CAVOK 18/17 Q1022 KSRB 251935Z AUTO VRB05KT 10SM FEW042 36/24 A3013 RMK KRYT 251853Z AUTO 00000KT 10SM SCT037 SCT048 31/21 A3004 RMK AO2 SLP159 T03060206 $ KSQL 251750Z 05004KT 10SM SCT018 17/13 A2999 KRZL 251935Z AUTO 24008KT 10SM SCT024 SCT036 BKN041 28/22 A3005 RMK AO2 KSRC 251856Z AUTO 00000KT 10SM CLR 33/24 A3009 RMK AO2 LTG DSNT S SLP190 T03330239 FNKU 251400Z 12020KT 9999 FEW014 26/07 Q1019 KRYV 251935Z AUTO 31005KT 10SM CLR 25/14 A3004 RMK AO2 T02510140 KSPW 251953Z AUTO 29009KT 10SM CLR 23/13 A3013 RMK AO2 SLP199 T02330133 KRYW 251935Z AUTO 00000KT 10SM CLR 32/19 A3008 RMK AO2 T03220186 KRZN 251935Z AUTO 28012G21KT 10SM SCT037 BKN045 22/12 A3003 RMK AO2 T02170118 KTIF 251935Z AUTO 00000KT 10SM CLR 23/09 A3024 RMK AO2 T02320088 KRYY 251855Z VRB05KT 10SM SCT045 32/21 A3011 WMKA 251900Z 10002KT 9999 FEW030 BKN260 25/24 Q1007 LJPZ 251930Z 12004KT CAVOK 22/15 Q1019 WMKB 251900Z 07003KT 8000 FEW025 SCT140 BKN270 24/23 Q1007 NOSIG KRZR 251935Z AUTO VRB05KT 10SM FEW050 SCT065 34/21 A3011 RMK A01 WMKC 251900Z 21002KT 9999 FEW020 BKN220 26/24 Q1007 WMKD 251900Z 11001KT 6000 FEW002 SCT160 BKN260 25/25 Q1007 NOSIG KRZT 251934Z AUTO 27011G16KT 10SM SCT041 SCT048 31/22 A3006 RMK AO2 LTG DSNT E KTIK 251858Z AUTO 16003KT 10SM SCT049 SCT065 33/20 A3005 RMK AO2 SLP167 T03330200 $ WMKE 251100Z 00000KT 8000 FEW002 FEW016CB SCT020 BKN220 26/25 Q1005 RETSRA KSSC 251858Z AUTO 13007KT 100V200 10SM SCT060 33/19 A3010 RMK AO2 SLP192 T03250191 $ GEML 251930Z AUTO 08005KT 050V130 9999 FEW024/// SCT042/// 25/21 Q1015 KTHV 251953Z AUTO VRB03KT 10SM FEW042 SCT060 31/22 A3002 RMK AO2 SLP164 T03110217 FNLU 251900Z 26004KT 9999 FEW023 21/20 Q1013 KW13 251935Z AUTO 00000KT 10SM SCT048 SCT060 SCT070 31/21 A3011 RMK AO1 T03110210 KSSF 251953Z 15007KT 10SM FEW043 33/22 A3001 RMK AO2 SLP151 T03280217 FNMO 251600Z 27011KT 9999 BKN012 22/19 Q1015 WMKI 251900Z 04005KT 9999 FEW030 SCT150 BKN280 24/22 Q1009 KTIP 251935Z AUTO 26004KT 10SM BKN030 BKN036 28/23 A3006 RMK AO2 T02820233 WMKJ 251900Z VRB01KT 9999 -RA FEW022 BKN130 26/25 Q1007 KSRQ 251953Z 07013G19KT 10SM CLR 36/21 A2992 RMK AO2 SLP131 T03560211 WMKK 251930Z 29003KT 9000 FEW017CB SCT140 BKN280 26/23 Q1007 KSSI 251953Z AUTO 05009G18KT 10SM FEW090 31/22 A3008 RMK AO2 SLP187 T03060222 KSRR 251935Z AUTO 01003KT 10SM VCTS 22/05 A3033 RMK AO2 LTG DSNT N AND SE AND W WMKL 251900Z 00000KT 9999 FEW025 BKN280 26/24 Q1007 WMKM 251900Z 33002KT 9999 FEW017CB SCT028 BKN270 27/25 Q1007 LKKB 251900Z 09006KT CAVOK 22/11 Q1021 NOSIG WMKN 251900Z 23003KT 9999 SCT022 BKN150 26/25 Q1006 KTKC 251954Z AUTO 28006KT 10SM CLR 22/14 A3013 RMK AO2 T02240142 KSTC 251953Z 28010KT 10SM BKN041 20/12 A3007 RMK AO2 SLP190 T02000122 KW22 251935Z AUTO 24006KT 10SM 29/24 A3013 RMK AO2 PWINO WMKP 251930Z 35003KT 9000 FEW025 SCT140 BKN270 25/24 Q1007 TEMPO 4000 TSRA KTIW 251953Z 36010KT 10SM CLR 26/09 A3007 RMK AO2 SLP179 T02610094 KSTE 251935Z AUTO 28009G14KT 10SM CLR 25/14 A3003 RMK AO2 T02490138 KUBE 251935Z AUTO 24014G17KT 10SM CLR 21/11 A3002 RMK AO2 KTIX 251855Z 03016KT 7SM SCT033 32/20 A3004 KUAO 251953Z 02010KT 10SM CLR 32/08 A3001 RMK AO2 SLP159 T03220083 LLBG 251950Z VRB03KT CAVOK 27/21 Q1009 NOSIG KTKI 251953Z 21005KT 10SM CLR 34/19 A3004 RMK AO2 SLP163 T03390189 KSTJ 251953Z 01006KT 10SM FEW024 OVC036 25/21 A3009 RMK AO2 SLP182 T02500206 KSUA 251947Z 02014G21KT 4S VCTS RA BKN015 BKN030 30/26 A2999 KW29 251940Z AUTO 18008KT 150V210 10SM SCT055 SCT075 31/23 A3004 RMK AO2 KSTK 251930Z AUTO 15009G14KT 10SM CLR 25/04 A3021 RMK AO2 KW31 251935Z AUTO 20004KT 10SM CLR 30/23 A3009 RMK AO1 T03000229 KSTL 251951Z 27010KT 10SM FEW042 BKN065 BKN250 33/21 A3005 RMK AO2 SLP160 T03330206 KSUE 251856Z AUTO 27008KT 10SM CLR 25/15 RMK AO2 SLPNO T02500150 $ KSTP 251953Z 28011KT 10SM CLR 23/13 A3005 RMK AO2 SLP172 T02280133 KTLH 251953Z 07012KT 10SM SCT055 33/18 A3004 RMK AO2 SLP172 T03280183 VVNB 251930Z 06006KT 4700 BR NSC 29/28 Q1004 NOSIG KSTS 251953Z 18006KT 10SM FEW013 18/12 A2993 RMK AO2 SLP129 T01780117 KTMA 251935Z AUTO 06012KT 10SM SCT055 33/18 A3008 RMK AO2 T03270180 KTMB 251953Z 08013KT 10SM VCTS SCT085 33/24 A2993 RMK AO2 LTG DSNT SW-NW SLP133 T03280239 LKKU 251600Z 02004KT 270V050 CAVOK 27/11 Q1021 KSVC 251935Z AUTO 12007KT 110V220 10SM TS SCT075 BKN110 27/07 A3020 RMK AO2 LTG DSNT W THRU E T02740072 KTKV 251935Z AUTO 25007KT 200V280 10SM SCT049 SCT055 24/14 A3000 RMK AO2 T02360135 LKKV 251900Z 08005KT CAVOK 20/12 Q1022 FOGM 251500Z /////KT 9999 SCT011 OVC025 27/23 Q//// LKLN 251900Z AUTO 12003KT CAVOK 23/11 Q1021 KSUN 251948Z 13009KT 10SM FEW120 22/03 A3017 KTME 251935Z AUTO 00000KT 10SM CLR 33/22 A3004 RMK AO2 KW43 251935Z AUTO 33003KT 10SM CLR 17/02 A3028 RMK AO2 KTKX 251935Z AUTO 27006KT 10SM CLR 33/25 A3006 RMK AO2 FOGO 251500Z 00000KT 9000 TS SCT013 FEW020CB BKN025 24/21 Q//// KUCP 251856Z AUTO 23008KT 10SM BKN035 30/22 A3005 RMK AO2 SLP178 T03000222 $ KUDG 251856Z AUTO VRB06KT 10SM CLR 33/20 A3012 RMK AO2 SLP202 T03330200 KSVH 251940Z AUTO 00000KT 10SM SCT043 32/22 A3012 RMK AO2 T03150221 FOGR 251500Z 04006KT 9999 SCT010 OVC030 28/23 Q//// KSUS 251854Z 24008KT 10SM FEW042 SCT049 BKN060 32/22 A3004 RMK AO2 SLP163 T03170222 LKNA 251900Z 09005KT CAVOK 21/09 Q1024 NOSIG RMK BLU BLU KSUT 251940Z AUTO 13007KT 10SM BKN039 29/21 A3011 RMK AO2 T02930205 KTMK 251935Z AUTO 03009G14KT 10SM CLR 33/05 A3001 RMK AO2 KTNB 251935Z AUTO 27010G14KT 10SM CLR 28/17 A3027 RMK AO2 T02770171 KSUU 251858Z AUTO 24017KT 10SM CLR 22/11 A2989 RMK AO2 SLP128 T02150113 PWINO PNO $ KSVN 251858Z AUTO 07007KT 020V120 10SM SCT050 32/23 A3008 RMK AO2 SLP189 T03220233 KSUW 251930Z AUTO 27011G16KT 10SM SCT039 SCT048 OVC060 20/13 A2998 RMK AO2 T02010125 KSUX 251952Z 32010KT 10SM CLR 23/13 A3014 RMK AO2 SLP204 T02280133 KSWF 251945Z 24006KT 15SM BKN030 26/22 A3002 KUCY 251935Z AUTO VRB06KT 10SM CLR 33/24 A3008 RMK VVPB 251930Z 17004KT 9999 FEW020 BKN070 27/24 Q1006 NOSIG KTOA 251847Z 30005KT 10SM FEW016 26/17 A2995 KTOB 251953Z AUTO 29011G15KT 10SM CLR 24/14 A3009 RMK AO2 LKMT 251930Z 36002KT CAVOK 19/14 Q1023 NOSIG KTOC 251935Z AUTO 15003KT 10SM SCT047 34/23 A3013 RMK AO2 T03360231 KW63 251935Z AUTO 20006KT 10SM SCT070 32/21 A3008 RMK AO1 KSWO 251953Z 01011KT 10SM -RA BKN060 OVC080 32/20 A3003 RMK AO2 RAB52 SLP153 P0000 T03170200 KTOI 251953Z AUTO 04008KT 10SM FEW047 SCT075 32/22 A3009 RMK AO2 SLP183 T03220217 KTPA 251953Z 05008G15KT 020V090 10SM FEW047 SCT250 34/22 A2997 RMK AO2 SLP146 T03390217 KUES 251945Z 27005KT 10SM SKC 24/13 A3005 LLET 251950Z 34007KT CAVOK 34/18 Q1007 KTOL 251952Z 25017G24KT 10SM FEW047 31/21 A2998 RMK AO2 PK WND 25026/1923 SLP146 T03060211 KTNU 251935Z AUTO 00000KT 10SM SCT120 23/17 A3010 RMK AO2 PWINO LKPD 251900Z 10007KT CAVOK 22/11 Q1022 NOSIG RMK BLU BLU KSWW 251935Z AUTO 18005G14KT 10SM SCT050 32/15 A3011 RMK AO2 LTG DSNT W T03240153 VVPQ 251830Z 26007KT 9999 FEW017 28/25 Q1006 NOSIG KSYF 251935Z AUTO 10008G18KT 7SM CLR 24/03 A3021 RMK AO2 T02440025 KTPF 251935Z AUTO 04014G19KT 10SM CLR 36/25 A2997 RMK AO2 FNSO 251600Z 22005KT 9999 FEW013 ///// Q1013 KTOP 251953Z AUTO 35005KT 10SM 27/20 A3006 RMK AO2 SLP172 T02720200 $ KW75 251935Z AUTO 17008G14KT 150V210 10SM CLR 31/22 A3006 RMK AO1 T03080219 KTPH 251856Z AUTO 29007KT 10SM CLR 28/M07 A3011 RMK AO2 SLP118 T02831072 KTOR 251953Z AUTO 14011KT 10SM BKN055 21/05 A3026 RMK AO2 SLP218 T02110050 TSNO KSYI 251935Z AUTO 21003KT 10SM FEW044 SCT050 34/24 A3013 RMK LLHA 251650Z 32007KT 9999 FEW023 28/23 Q1008 KW78 251935Z AUTO 30004KT 10SM SCT047 SCT060 SCT070 34/20 A3007 RMK AO1 T03350201 KSXT 251856Z AUTO VRB06KT 10SM CLR 26/03 A3010 RMK AO2 SLP131 T02610028 KTPL 251951Z AUTO 10004KT 10SM BKN042 32/23 A3005 RMK AO2 SLP177 T03220228 KW81 251935Z AUTO 22005KT 10SM CLR 32/22 A3008 RMK AO1 T03210220 FNUB 251600Z 13017KT CAVOK 27/02 Q1023 FNSU 251700Z 24005KT 9999 OVC010 23/// Q1015 KSYM 251930Z AUTO 23007G13KT 10SM SCT043 SCT050 31/22 A3013 RMK AO2 KTQE 251854Z AUTO 36009KT 10SM CLR 23/16 A3015 RMK AO2 SLP201 T02330156 KUGN 251855Z 28006KT 10SM FEW120 27/18 A3003 RMK AO2 SLP156 T02720183 KSYN 251925Z AUTO 28008KT 10SM CLR 23/14 A3006 RMK AO2 FNUE 251600Z 13007KT CAVOK 27/07 Q1018 FNUG 251600Z 27006KT 9999 FEW017 26/18 Q1014 WMSA 251900Z 29004KT 8000 FEW017CB SCT140 BKN280 26/23 Q1008 KTQH 251935Z AUTO 22007KT 10SM CLR 34/20 A3006 RMK AO2 KSYR 251854Z 24007KT 10SM SCT028 BKN046 BKN070 BKN220 28/22 A2993 RMK AO2 SLP130 T02780222 LKPR 251930Z 11007KT CAVOK 21/11 Q1021 NOSIG LLIB 251450Z 30010KT CAVOK 32/16 Q1008 KSZL 251858Z 26005KT 10SM BKN036 BKN250 29/23 A3005 RMK AO2A SLP171 T02850231 GFLL 251900Z 24006KT 9999 BKN012 FEW027CB 27/24 Q1011 RMK CB-NE MBPV 252000Z 11016KT 9999 SCT015 31/25 Q1009 KW96 251935Z AUTO 00000KT 10SM SCT047 32/21 A3006 RMK AO1 T03150209 KTRI 251953Z VRB04KT 10SM FEW040 SCT080 SCT150 32/21 A3016 RMK AO2 SLP185 T03170206 MDAB 251900Z 09004KT 9999 BKN018 OVC070 27/24 Q1011 KSZT 251935Z AUTO 14004KT 10SM CLR 23/03 A3015 RMK AO2 KTRK 251945Z 32007KT 10SM SKC 25/M04 A3016 RMK NOSPECI KW99 251935Z AUTO 25005KT 10SM CLR 32/22 A3006 RMK AO2 T03200224 KUIL 251953Z AUTO 24007KT 10SM CLR 26/11 A3007 RMK AO2 SLP181 T02610111 KTRL 251953Z AUTO 22006KT 10SM FEW041 33/22 A3004 RMK AO2 SLP166 T03280222 KTRM 251952Z AUTO VRB04KT 10SM CLR 37/14 A2978 RMK AO2 SLP087 T03670144 TSNO KVAD 251858Z AUTO 04012KT 10SM SCT055 31/18 A3009 RMK AO2 SLP189 T03130184 $ KUIN 251854Z AUTO 35003KT 10SM FEW018 BKN030 OVC036 27/22 A3006 RMK AO2 SLP174 T02670222 KVAF 251935Z AUTO 06004KT 9SM 30/25 A3002 RMK A01 KTTA 251940Z AUTO 14004KT 10SM CLR 31/20 A3009 RMK AO2 T03120201 LKTB 251930Z 06007KT 020V080 CAVOK 20/13 Q1023 NOSIG FOOB 251500Z /////KT 6000 TSRA BKN010TCU FEW016CB OVC100 25/22 Q1010 KTTD 251953Z 25006KT 10SM CLR 32/11 A2999 RMK AO2 SLP156 T03170106 KUKF 251940Z AUTO 24005KT 10SM SCT080 SCT085 32/22 A3018 RMK AO2 LTG DSNT SE KTTF 251931Z AUTO 23013KT 10SM SCT036 SCT042 BKN110 30/23 A2996 RMK AO2 T02960229 KTSP 251935Z AUTO 31013G18KT 10SM CLR 29/M01 A3007 RMK AO2 KVBG 251945Z 30009KT 10SM FEW005 BKN010 17/13 A2998 RMK AO2A BKN010 V SCT MDBH 251900Z 13007KT 9999 FEW018CB BKN018 BKN070 28/24 Q1011 CB/SE/S/NW FOOG 251900Z /////KT 6000 -RA SCT006 OVC023 24/23 Q1014 VVTS 251930Z 21006KT 8000 SCT015 BKN040 27/26 Q1006 NOSIG KUKI 251856Z AUTO 14004KT 10SM CLR 26/09 A2990 RMK AO2 SLP117 T02560089 KVCB 251953Z AUTO 23005KT 10SM CLR 29/11 A2988 RMK AO2 SLP117 T02890111 FOOK 251500Z 00000KT 9999 SCT014TCU FEW020CB 24/21 Q1012 RETSRA FOOL 251900Z 19006KT 150V220 9999 SCT011 26/23 Q1013 NOSIG KTTN 251953Z 24009KT 10SM BKN030 OVC035 29/20 A3001 RMK AO2 SLP155 T02890200 FOON 251800Z /////KT 9999 SCT011 23/22 Q1014 KVAY 251854Z AUTO 20006KT 10SM SCT038 BKN060 BKN070 30/21 A3002 RMK AO2 SLP164 T03000206 KVBS 251445Z AUTO 11011KT 10SM SCT018 BKN024 29/27 A3008 RMK A01 FOOR 251500Z /////KT 9999 SCT004 OVC008 24/22 Q//// KTTS 251858Z AUTO 05011G16KT 10SM BKN032 31/22 A3003 RMK AO2 SLP173 T03090218 KVBT 251935Z AUTO 22003KT 10SM FEW050 32/19 A3010 RMK AO1 KUKT 251935Z AUTO 00000KT 10SM SCT031 SCT060 BKN070 28/22 A3004 RMK AO1 FOOT 251500Z 22008KT 8000 SCT010 OVC020 25/22 Q1013 KTVC 251953Z 24008KT 10SM FEW037 BKN170 26/15 A2995 RMK AO2 SLP140 T02610150 KTUL 251953Z 16008KT 10SM SCT055TCU OVC250 36/21 A2999 RMK AO2 SLP146 TCU NW T03560211 KULM 251934Z AUTO 28008KT 10SM 21/13 A3010 RMK AO2 KVBW 251935Z AUTO 18004KT 10SM SCT046 SCT070 33/22 A3008 RMK AO2 T03260218 KVDF 251955Z AUTO 04007KT 015V075 10SM CLR 36/23 A2997 RMK AO2 KTVF 251911Z AUTO 30013G22KT 10SM FEW024 BKN031 OVC042 18/11 A3003 RMK AO2 KTUP 251953Z 08003KT 10SM BKN060 34/21 A3006 RMK AO2 SLP174 T03390206 $ RJAA 251930Z 34002KT 9999 MIFG FEW020 22/22 Q1006 NOSIG RMK 1CU020 A2972 KTVI 251935Z AUTO 08015G18KT 10SM CLR 33/20 A3008 RMK AO2 KVDI 251935Z AUTO 05009G14KT 10SM CLR 33/20 A3009 RMK AO2 KTUS 251953Z VRB06KT 10SM CLR 34/10 A3002 RMK AO2 SLP114 T03440100 KVCT 251951Z 17012KT 10SM CLR 31/24 A3002 RMK AO2 LTG DSNT W AND NW SLP162 T03060239 KTVK 251355Z AUTO 01003KT 10SM CLR 21/19 A3009 RMK AO2 KTVL 251953Z AUTO VRB03KT 10SM CLR 25/00 A3017 RMK AO2 SLP165 T02500000 KVCV 251935Z AUTO 17008KT 10SM SCT080 SCT110 34/02 A2997 RMK AO2 RJAF 250700Z 16009KT 120V190 9999 FEW050 SCT100 31/19 Q1008 LKVO 251300Z 12009KT 050V160 CAVOK 28/10 Q1022 KTWF 251953Z 03009KT 8SM CLR 24/02 A3011 RMK AO2 SLP150 T02440022 MDCY 251900Z 16010KT 9999 SCT020 BKN300 29/25 Q1011 RJAH 251900Z VRB01KT 9999 FEW020 22/20 Q1006 KTVR 251953Z AUTO 08004KT 10SM FEW060 FEW080 34/24 A3003 RMK AO2 SLP173 T03390244 KUNI 251935Z AUTO 22005KT 10SM SCT036 SCT047 32/23 A3006 RMK AO2 LTG DSNT NE AND E T03200232 RJBB 251930Z 16005KT 9999 FEW010 27/24 Q1004 BECMG 12004KT KX60 242055Z AUTO 07008KT 360V010 10SM CLR 35/21 A3009 RMK AO1 TSNO RJBD 251000Z 12008KT 9999 FEW025 28/21 Q1006 KVEL 251953Z AUTO 05004KT 10SM BKN120 21/01 A3016 RMK AO2 SLP171 T02110011 RJBE 251200Z 18004KT 140V210 9999 FEW020 BKN045 28/26 Q1006 KTWM 251934Z AUTO 27009G18KT 10SM SCT038 BKN055 21/14 A2993 RMK AO2 SABE 251900Z 08005KT CAVOK 22/12 Q1013 KUNO 251953Z AUTO 00000KT 10SM BKN039 BKN075 32/21 A3011 RMK AO2 SLP182 T03170211 KTVY 251955Z AUTO 35006G14KT 330V030 10SM CLR 23/05 A3009 RMK AO2 LTG DSNT S SAAR 251900Z 02008KT 9000 NSC 26/12 Q1011 KVER 251935Z AUTO 00000KT 10SM SCT035 BKN042 30/21 A3005 RMK AO2 T03020214 RJAT 242345Z 07006KT 9999 FEW000 SCT015 BKN020 25/21 Q1014 RMK 1ST000 3CU015 5CU020 A2996 RJCB 251100Z 16010KT 9999 FEW010 22/20 Q1004 KVES 251935Z AUTO 25009G16KT 7SM SCT041 31/23 A3005 RMK AO2 KTXK 251953Z 09003KT 10SM VCTS BKN038 OVC047 31/24 A3003 RMK AO2 LTG DSNT ALQDS TSB21E36 SLP162 T03110244 EYKA 251950Z 00000KT CAVOK 15/14 Q1025 RJCC 251930Z 15009KT 6000 FEW003 BKN004 BKN080 22/22 Q1001 RMK 1ST003 6ST004 7AC080 A2957 KUNU 251935Z AUTO 27004KT 10SM CLR 25/14 A3006 RMK AO2 T02480144 RJAW 251800Z 26004KT 220V290 2500 BR SCT002 BKN004 27/26 Q1002 RMK 3ST002 6ST004 A2959 KUNV 251953Z 22005KT 10SM SCT033 SCT044 SCT060 29/22 A3004 RJCH 251100Z 11004KT 9999 FEW007 BKN045 BKN/// 23/21 Q1004 RJCK 251140Z 20016KT 0200 R35/0350N FG -SHRA VV001 21/21 Q1006 RMK A2972 RJBT 250900Z 35003KT 9999 FEW035 29/25 Q1005 RJDC 251200Z 07011KT 9999 FEW025 SCT080 BKN100 28/26 Q1005 RJCM 251100Z 21008KT 9999 FEW010 SCT/// 23/19 Q1003 RJCN 250900Z 22010KT 9999 FEW007 BKN009 BKN010 23/22 Q1005 RJCO 250639Z 15018G28KT 9999 FEW010 SCT210 25/21 Q1004 RMK 1ST010 3CI210 A2964 SACO 251900Z 05018KT CAVOK 30/06 Q1010 SADF 251900Z 05008KT CAVOK 23/11 Q1013 KUOX 251935Z AUTO 32004KT 10SM BKN050 33/22 A3009 RMK AO2 LTG DSNT W KTYQ 251935Z AUTO 26011G17KT 10SM CLR 29/22 A3008 RMK AO2 T02910218 FQCH 251800Z 11009KT CAVOK 18/11 Q1026 KTYR 251953Z VRB03KT 10SM CLR 33/22 A3005 RMK AO2 SLP167 T03330222 RJCT 250715Z VRB02KT 9999 FEW006 SCT008 BKN015 24/22 Q1005 RMK 1ST006 4ST008 5SC015 A2970 RJEB 250700Z VRB02KT 9999 FEW050 28/22 Q1001 KTYS 251953Z 00000KT 10SM SCT047 SCT060 33/20 A3012 RMK AO2 SLP186 T03330200 FQBR 252000Z /////KT CAVOK 22/19 Q1022 RJEC 251100Z 19008KT 9999 FEW030 SCT100 BKN/// 23/19 Q1003 KVGT 251953Z 21011KT 10SM CLR 38/02 A2987 RMK AO2 SLP099 T03780017 $ RJCW 250900Z 19008KT 9999 FEW030 BKN/// 23/18 Q1000 KVIH 251953Z AUTO 26004KT 10SM FEW037 SCT047 SCT055 30/23 A3007 RMK AO2 SLP169 T03000228 KTZR 251845Z 22010KT 10SM BKN025 BKN035 BKN043 29/25 A3006 RJDT 251100Z 30004KT 9999 FEW025 SCT/// 28/24 Q1004 MDJB 251900Z 00000KT 6000 RA FEW010 BKN012 OVC070 25/24 Q1012 CB/SE/S/SW/NW RJFE 250109Z 10005KT 040V150 9999 FEW015 SCT070 BKN090 33/25 Q1006 RMK 1CU015 3AC070 5AC090 A2971 LLSD 251950Z 30005KT CAVOK 28/22 Q1009 RJFF 251930Z 12002KT 9999 FEW030 SCT040 BKN050 28/22 Q1003 RMK 1CU030 3CU040 5SC050 A2964 KUSE 251935Z AUTO 25016G21KT 10SM FEW055 30/22 A2999 RMK AO2 RJFG 250900Z 09008KT 030V120 9999 FEW010 SCT020 27/23 Q1004 KVJI 251935Z AUTO 25003KT 10SM SCT031 SCT050 SCT070 30/21 A3021 RMK AO2 T03010211 RJFK 251200Z 10009KT 9999 FEW030 26/22 Q1006 RMK 1CU030 A2973 KUTA 251955Z AUTO 00000KT 10SM CLR 33/24 A3006 RMK AO2 TSNO KVIS 251856Z AUTO 29004KT 10SM CLR 31/11 A2989 RMK AO2 SLP125 T03060106 KY19 251935Z AUTO 33010KT 10SM SCT044 OVC080 18/08 A3017 RMK AO2 RJFM 251200Z 06008KT 9999 FEW020 BKN030 29/25 Q1005 KWAL 251854Z 18016KT 10SM CLR 29/15 A3010 RMK AO2 SLP189 T02890150 RJFO 251300Z 16008KT CAVOK 28/25 Q1005 KY23 251935Z AUTO 28009G18KT 240V320 10SM CLR 22/12 A3002 RMK AO2 T02230122 RJGG 251930Z 08003KT 9999 VCSH FEW010 26/22 Q1005 NOSIG SAEZ 251900Z VRB03KT CAVOK 25/08 Q1013 RJFR 251900Z 16003KT 9999 FEW020 BKN060 28/25 Q1004 RJFS 251900Z 07004KT 9999 BKN045 28/23 Q1003 RJFT 251200Z 07006KT 9999 SCT045 27/22 Q1006 RJFU 251200Z 34008KT 9999 FEW030 BKN050 30/25 Q1004 EYPA 251950Z 18004KT CAVOK 16/14 Q1024 KY31 251934Z AUTO 27006KT 10SM CLR 28/16 A2993 RMK AO2 T02810160 KVLD 251953Z 03010G20KT 10SM FEW060 32/19 A3006 RMK AO2 SLP185 T03220189 KUTS 251953Z AUTO 00000KT 10SM SCT055 32/22 A3004 RMK AO2 LTG DSNT SE SLP167 T03170222 KUVA 251935Z AUTO 12010KT 10SM CLR 32/20 A3004 RMK AO2 T03200195 KVLL 251935Z AUTO 24012G20KT 10SM SCT040 SCT060 SCT095 31/20 A2997 RMK AO2 T03100196 GGOV 251900Z 24011KT 9999 FEW005 SCT014TCU 28/24 Q1009 NOSIG KVKY 251935Z AUTO 10020KT 10SM CLR 31/23 A3004 RMK A01 KWDG 251950Z 33005KT 10SM SCT090 BKN200 33/19 A3005 SBAA 251900Z 12011KT 9999 BKN035 40/13 Q1010 MDLR 251900Z 15006KT 9999 FEW016CB SCT018 OVC070 30/26 Q1011 CB/SW/W/NW KY50 251856Z AUTO 27008KT 10SM CLR 26/16 A3004 RMK AO2 SLP186 T02610156 KY49 251935Z AUTO 29012G20KT 10SM BKN020 BKN029 OVC044 17/13 A3001 RMK AO2 T01700128 KVNC 251955Z AUTO 10010G15KT 10SM SCT047 SCT055 SCT065 30/25 A2995 RMK AO2 TSNO KUUU 251953Z AUTO 21011G16KT 10SM CLR 26/19 A3004 RMK AO2 SLP171 T02560189 LMML 251945Z 35006KT 9999 FEW029 21/18 Q1014 NOSIG KY51 251935Z AUTO 22006KT 10SM SCT030 24/17 A3008 RMK AO1 T02440168 SBAF 251900Z 16005KT CAVOK 27/13 Q1019 RJKA 251000Z 06020KT 9999 FEW015 SCT025 30/26 Q1001 KWDR 251935Z AUTO 00000KT 10SM SCT042 SCT048 32/21 A3017 RMK AO1 KVOA 251935Z AUTO 07018KT 10SM CLR 32/22 A3003 RMK A01 EYSA 251950Z 23005KT CAVOK 16/13 Q1025 BLU NOSIG SBBE 252000Z 32004KT 9999 SCT030 31/24 Q1010 SBAN 251900Z 12004KT 9999 BKN040 29/09 Q1021 KY63 251938Z AUTO 31009KT 10SM BKN030 OVC039 17/12 A3010 RMK AO2 T01710121 FQIN 251400Z 12008KT CAVOK 28/11 Q1024 SBBG 251900Z 34003KT CAVOK 27/13 Q1015 SBAQ 250200Z 12004KT CAVOK 20/15 Q1021 SBBH 251800Z 06007KT CAVOK 26/06 Q1021 SBBI 251800Z 32007KT CAVOK 24/13 Q1022 SBAR 251900Z 11013KT 9999 SCT012 BKN070 25/21 Q1017 SBCA 251900Z 03012KT CAVOK 28/15 Q1019 SBAT 251800Z 07005KT 6000 SCT027 FEW030TCU ///// Q1010 SBCB 251900Z 09020KT CAVOK 23/17 Q1021 SBAU 242300Z 17008KT CAVOK ///// Q1017 SBCC 251900Z 08011KT 9999 SCT025 FEW030TCU 34/16 Q1012 KY70 251933Z AUTO 26009KT 10SM OVC090 26/21 A2999 RMK AO2 T02580209 KVOK 251858Z 26010KT 10SM FEW040 SCT200 25/16 A3005 RMK AO2A SLP176 KVPC 251953Z AUTO 00000KT 10SM FEW050 34/20 A3012 RMK AO2 SLP186 T03390200 MDPC 251900Z 14014KT 9999 FEW016CB BKN018 BKN080 29/26 Q1012 CB/NW/N KUXL 251935Z AUTO 11003KT 10SM SCT032 33/25 A3003 RMK AO2 T03280245 PWINO SBAX 251900Z 22007KT CAVOK 29/08 Q1021 SBCF 252000Z 09004KT CAVOK 24/06 Q1022 SBCG 252000Z 34007KT 9999 SCT040 FEW045TCU 33/10 Q1015 KUYF 251935Z AUTO 25011G14KT 10SM BKN028 BKN041 OVC047 31/26 A3006 RMK AO2 SBBQ 251900Z 08006KT CAVOK 21/09 Q1025 SBCH 251900Z 34008KT CAVOK 29/12 Q1018 KVNY 251951Z 16008KT 140V200 10SM CLR 28/15 A2992 RMK AO2 SLP121 T02780150 SBCI 251900Z 09007KT 9999 FEW025 38/12 Q1010 SBBR 251900Z 10009KT 9999 SCT045 27/08 Q1020 SBCJ 251900Z 09007KT 9999 FEW035 SCT100 30/16 Q1015 KUZA 251854Z AUTO 25005KT 10SM FEW055 33/18 A3013 RMK AO2 SLP187 T03330183 SBBU 251900Z 28004KT CAVOK 31/14 Q1018 SBCM 251900Z 17005KT CAVOK 26/12 Q1017 FPST 251900Z 08010KT 9999 FEW020 SCT110 27/24 Q1013 NOSIG SBBV 252000Z 10006KT 9999 SCT020 FEW025TCU BKN080 28/22 Q1011 SBBW 251800Z 05015KT 9999 SCT020 36/15 Q1015 FQLC 252000Z 13006KT CAVOK 15/08 Q1026 SAME 251900Z 05006KT CAVOK 26/M00 Q1006 SBCO 251900Z 31006KT CAVOK 27/13 Q1016 SBCP 251900Z 09020KT CAVOK 25/16 Q1021 MDPP 251900Z 13010KT 9999 FEW022CB BKN022 BKN280 31/24 Q1009 CB/W/N SBCR 251900Z 08005KT CAVOK 35/14 Q1011 SBCT 251900Z 30004KT CAVOK 24/11 Q1022 KVPS 251855Z 08008KT 10SM SCT050 SCT250 33/21 A3007 RMK AO2A SLP188 T03300204 $ KVRB 251953Z 04010KT 10SM CLR 29/24 A2998 RMK AO2 SLP152 T02940244 FQMA 252000Z 02008KT CAVOK 18/16 Q1022 NOSIG SBDN 251900Z 05006KT CAVOK 33/12 Q1016 SBCX 251530Z 02008KT CAVOK 21/12 Q1022 RJNG 251536Z 00000KT 9999 FEW030 SCT060 27/23 Q1006 RMK 1CU030 4SC060 A2972 SBCY 251900Z 13014KT 9999 SCT030 FEW040TCU 32/13 Q1012 SBEG 252000Z 10007KT 9999 FEW025 FEW030TCU 32/21 Q1010 KWHP 251953Z 14006KT 8SM SKC 27/14 A2996 SBCZ 251900Z 32002KT 9999 SCT030 32/19 Q1012 KVQQ 251950Z 08015KT 10SM SCT043 31/22 A3005 KVPZ 251911Z AUTO 31004KT 10SM BKN020 OVC040 26/22 A3005 RMK AO2 T02560217 RJOA 251200Z 26003KT 9999 FEW020 26/23 Q1007 SBEK 251900Z 03010KT 5000 -TSRA SCT010 FEW025CB BKN100 30/25 Q1009 RJNK 251900Z 19006KT 9999 FEW030 BKN050 27/20 Q1003 RJOB 251200Z VRB02KT 9999 FEW020 26/23 Q1007 EYVI 251950Z 17001KT CAVOK 16/13 Q1025 NOSIG RJOC 251100Z 05004KT 9999 FEW040 SCT050 BKN/// 29/25 Q1004 KVQT 251935Z AUTO 13013KT 10SM CLR 29/24 A3005 RMK A01 SAOC 251900Z 36019KT CAVOK 29/05 Q1008 RJOE 250005Z 14006KT 9999 -SHRA SCT008 BKN015 28/23 Q1009 RMK 3ST008 6CU015 A2980 MDSD 251900Z 26004KT 8000 -RA SCT012CB FEW014 OVC070 25/24 Q1011 CB/ALL QDS RJOF 251532Z 10008KT 9999 FEW030 BKN080 28/20 Q1005 RMK 1CU030 5AC080 A2968 KVSF 251754Z AUTO 17007KT 10SM SCT047 26/19 A2999 RMK AO2 RAB15E29 SLP155 P0000 60000 T02560189 10261 20156 56013 TSNO KWJF 251856Z 24015G21KT 10SM CLR 34/04 A2995 RMK AO2 SLP115 T03440044 RJOH 251900Z 18004KT 9999 FEW080 BKN090 26/23 Q1003 RJOI 251855Z 30005KT 9999 FEW230 27/21 A2968 RMK SLP050 T02670211 SBFI 251900Z 34008KT CAVOK 30/17 Q1015 SBES 251900Z 07018KT CAVOK 24/13 Q1020 RJNS 251200Z 32003KT 9999 FEW010 BKN020 25/23 Q1008 SANT 251900Z 36003KT 4000 FU NSC 32/09 Q1009 RJOK 251100Z 19003KT 9999 FEW015 SCT025 29/23 Q1006 RJNT 251200Z 17002KT 9999 FEW060 26/25 Q1005 KVTA 251854Z AUTO 22010KT 10SM FEW049 30/24 A3004 RMK AO2 SLP165 T03000239 SBFL 251900Z 02012KT CAVOK 23/16 Q1018 RJOM 251200Z 27003KT 210V310 9999 FEW020 27/23 Q1005 SBFN 252000Z 15012KT 9999 SCT017 26/22 Q1015 RJNW 251000Z 13003KT 100V160 9999 FEW030 26/26 Q1006 LOAN 251800Z 12004KT 25KM SKC RJOO 251100Z 23007KT 190V280 9999 FEW025CB BKN045 29/23 Q1006 RMK 1CB025 5CU045 A2971 CB SE RJNY 251231Z 05001KT 9999 FEW015 BKN025 27/23 Q1007 RMK 1CU015 5CU025 A2976 RJOP 250136Z 18008KT 140V200 9999 SCT025 32/25 Q1007 RMK 3CU025 A2974 FQNP 251900Z /////KT CAVOK 21/15 Q1023 RJOR 251200Z 18003KT 9999 FEW025 SCT080 BKN120 28/25 Q1005 RJOS 251746Z 24006KT 9999 FEW025 BKN070 27/23 Q1005 RMK 1CU025 5AC070 A2968 SBFS 251700Z /////KT 9999 FEW020 ///// Q//// KVTI 251935Z AUTO 00000KT 10SM CLR 24/16 A3008 RMK AO2 RJOT 251200Z 17005KT 9999 FEW030 25/25 Q1006 VYMD 251230Z 04003KT 6000 SCT025 31/27 Q1002 SBGL 251900Z 14010KT CAVOK 25/15 Q1019 MDST 251900Z 11013KT 9999 FEW020CB FEW022 BKN300 29/22 Q1010 CB/SE/S/SW/W/NW SBGM 251900Z 24004KT 8000 NSC 35/18 Q1011 FQPB 251900Z 16014KT 9999 FEW020 24/20 Q1020 LOAV 251800Z 12005KT 25KM SKC 22/13 RMK SKC RJOW 251000Z 03002KT 9999 FEW030 SCT/// 28/24 Q1004 KWLD 251854Z AUTO 32003KT 10SM BKN030 BKN036 29/22 A3008 RMK AO2 SLP175 T02890217 SBGO 251900Z 16005KT 9999 SCT049 31/07 Q1018 KVTN 251952Z AUTO 33009G15KT 10SM CLR 22/07 A3022 RMK AO2 SLP225 T02220067 RJOY 251000Z 10008KT 060V150 9999 VCSH FEW015 FEW025CB SCT035 BKN045 29/23 Q1005 SBFZ 251900Z 08014KT 9999 FEW030 29/20 Q1012 KVTP 251928Z AUTO 03010G15KT 10SM VCTS SCT015 BKN037 OVC050 13/07 A3048 RMK AO2 LTG DSNT S AND NW KXBP 251935Z AUTO 00000KT 10SM CLR 33/20 A3007 RMK AO2 T03270202 SBGR 251900Z 20003KT CAVOK 25/13 Q1021 KVUJ 251940Z AUTO 10003KT 10SM BKN060 33/20 A3015 RMK AO2 T03300202 SBIC 251900Z 09004KT 9999 FEW020 33/24 Q1011 SARC 251900Z 09005KT CAVOK 31/12 Q1011 KWMC 251856Z AUTO VRB04KT 10SM CLR 26/M03 A3011 RMK AO2 SLP151 T02561033 SBGW 251900Z 05003KT 340V100 CAVOK 27/14 Q1020 SARE 251900Z 11006KT 060V150 5000 FU NSC 31/14 Q1010 SARF 251900Z 09013KT 9999 NSC 33/17 Q1011 KVUO 251953Z AUTO 30008KT 10SM CLR 31/09 A3000 RMK AO2 SLP160 T03110094 SBIH 251800Z 07005KT 9999 SCT022 FEW023TCU 33/23 Q1011 KVVG 251935Z AUTO 12009G15KT 10SM 33/21 A2991 RMK A01 SARI 251900Z 36005KT CAVOK 30/18 Q1016 RJSA 251200Z 28005KT 9999 FEW040 BKN/// 23/22 Q1005 SASA 251900Z 36005KT CAVOK 31/01 Q1012 SBHT 251900Z 15004KT 9999 BKN030 32/23 Q1011 RKJB 251900Z AUTO 11002KT 3000 ///021 25/25 Q1005 SBIL 251800Z 16012KT 9999 FEW025 25/18 Q1019 RJSC 251000Z 35009KT 9999 FEW010 FEW030CB BKN050 25/23 Q1006 SARL 251900Z 05012KT 8000 NSC 28/15 Q1013 FQQL 251900Z 00000KT CAVOK 20/17 Q1022 SBJF 251900Z 06008KT CAVOK 21/13 Q1023 RJSF 251100Z 15006KT 9999 FEW030 24/22 Q1009 SBIP 251800Z 35004KT CAVOK 28/17 Q1020 SARP 251900Z 32004KT CAVOK 31/15 Q1013 RJSH 250345Z 21010KT 180V240 9999 FEW025 32/23 Q1005 RMK 2CU025 A2970 RJSI 251000Z 20007KT 9999 FEW020 BKN035 BKN060 25/22 Q1007 SASJ 251900Z 07005KT CAVOK 31/04 Q1011 SCBA 251900Z VRB02KT 9999 SCT030 BKN050 12/05 Q1002 RJSK 251200Z 12005KT 9999 FEW020 25/22 Q1005 RKJK 251858Z AUTO 35004KT 10SM FEW080 SCT160 SCT180 26/23 A2966 RMK AO2 SLP048 T02630228 $ HAAB 251900Z 28006KT 9999 SCT024 14/12 Q1026 RJSN 251200Z 13003KT 9999 FEW025 BKN045 29/24 Q1005 KVVV 251954Z AUTO 30010KT 10SM SCT040 OVC046 19/11 A3011 RMK AO2 RJSO 250019Z 24005KT 200V310 9999 FEW008 SCT012 BKN015 24/21 Q1007 RMK 1ST008 4ST012 6SC015 A2976 RJTF 250800Z 22009KT 180V250 9999 SCT030 30/22 Q1006 SBKG 251800Z 12013KT CAVOK 29/13 Q1016 SBJP 251900Z 14014KT 9999 SCT030 27/20 Q1015 SCAP 251900Z VRB04KT 9999 SCT030 13/04 Q1011 SBIZ 251900Z 15008KT 9999 BKN030 38/14 Q1009 SBJR 251800Z 14008KT CAVOK 26/16 Q1019 RJTI 250700Z 17011KT 140V200 9999 FEW030 30/24 Q1006 RJSR 251000Z 23003KT 160V270 9999 FEW050 BKN070 26/22 Q1005 SCAR 251900Z 22008KT 9999 OVC030 18/11 Q1015 SCAS 251900Z 00000KT 9999 SCT010 BKN040 11/10 Q1002 RJSS 251200Z 17012KT 9999 FEW020 BKN045 25/23 Q1006 SBLB 251800Z 15006KT 9999 FEW030 24/14 Q1022 W///S3 RJTK 250620Z 20005KT 170V230 9999 FEW015 SCT035 28/23 Q1007 RMK 1CU015 4CU035 A2973 SCAT 251900Z 22010KT 180V250 CAVOK 18/09 Q1017 RJSU 242205Z VRB02KT 9999 FEW001 SCT006 BKN010 25/23 Q1009 RMK 1ST001 3ST006 6ST010 A2980 SCCC 251900Z 36009KT 9999 BKN040 13/05 Q1004 SBJU 251800Z 00000KT CAVOK 34/11 Q1015 SBJV 251900Z 12007KT 9999 FEW030 23/16 Q1019 KVWU 251933Z AUTO 27014G21KT 10SM BKN020 OVC027 17/14 A2997 RMK AO2 SBLE 251900Z 14005KT 9999 BKN030 BKN070 25/17 Q1020 RJTO 250800Z VRB04KT 9999 FEW015 29/23 Q1006 SCCF 251900Z 26014KT CAVOK 24/M16 Q1025 RJSY 251200Z 09005KT 9999 FEW040 25/22 Q1005 SBKP 251900Z 22006KT CAVOK 27/04 Q1020 SCCH 251900Z 32005KT 9999 OVC025 13/10 Q1017 SCCI 251900Z 25008KT 9999 SCT030 08/02 Q1007 NOSIG SBMA 251900Z 10004KT 9999 SCT027 37/18 Q1010 SCDA 251900Z 22009KT 9999 BKN035 18/11 Q1015 RJTT 251930Z 11003KT 9999 FEW015 25/24 Q1006 NOSIG RMK 1CU015 A2971 RJTU 242315Z VRB02KT 9999 FEW008 BKN025 27/23 Q1010 RMK 1ST008 5CU025 A2985 SAVC 251900Z 07008KT 9999 FEW040 16/04 Q1006 SBMD 251900Z 10005KT 9999 SCT025 33/23 Q1011 SBME 251800Z 09015KT CAVOK 26/16 Q1020 SBLO 251900Z 08005KT CAVOK 30/15 Q1018 SBLP 251800Z 24010KT 9999 FEW030 34/11 Q1015 SBMG 251900Z 02006KT CAVOK 31/15 Q1017 RJTY 251900Z AUTO 31003KT 10SM SCT014 24/21 A2977 RMK AO2 SBLS 251900Z 13006KT CAVOK 25/06 Q1022 SBMK 251900Z 02006KT CAVOK 27/06 Q1019 KVYS 251935Z AUTO 30005KT 10SM SCT026 SCT037 SCT055 27/22 A3005 RMK AO2 T02680216 SBML 242300Z 13010KT CAVOK 22/16 Q1020 KWRB 251858Z AUTO 35006KT 10SM FEW075 32/21 A3011 RMK AO2 SLP196 T03230209 FQTT 251600Z 12009KT CAVOK 27/08 Q1021 SAWE 251900Z 25005KT CAVOK 10/06 Q1006 SBMN 252000Z 13004KT 9999 SCT020 32/23 Q1010 SBNF 251900Z 01011KT CAVOK 23/// Q1019 SBMO 252000Z 12009KT CAVOK 25/18 Q1017 SAWG 251900Z 25004KT 180V320 9999 SCT025 10/00 Q1007 SCCY 251900Z VRB05KT 9999 -DZ SCT020 BKN050 10/07 Q1002 SAWH 251900Z 27015KT 9999 FEW038 SCT048 06/01 Q1006 SBMQ 251900Z 06012KT 9999 FEW027 35/24 Q1010 LOIH 250900Z 00000KT 35KM SKC 24/18 Q1020 RMK SKC KXIH 251935Z AUTO 12006KT 10SM CLR 31/24 A3003 RMK A01 SBMS 251800Z 14007KT 9999 FEW030 36/13 Q1011 KWRI 251858Z AUTO 20010KT 10SM SCT041 30/21 A3000 RMK AO2 SLP158 T03040210 SCFA 251900Z 20014KT 9999 SCT013 SCT020 17/10 Q1015 NOSIG SAVT 251235Z 29003KT 6000 BCFG FEW035 06/06 Q1008 SBMT 251900Z 13004KT CAVOK 26/09 Q1021 SCEL 251900Z VRB03KT 6000 NSC 19/03 Q1017 NOSIG KWRL 251953Z AUTO VRB03KT 10SM CLR 18/05 A3022 RMK AO2 SLP213 T01830050 SBMY 251800Z 12002KT 9999 SCT024 33/23 Q1012 SBOI 252000Z 12006KT 9999 FEW040 32/30 Q1011 SBPA 251900Z 29005KT 250V330 CAVOK 26/13 Q1016 SBPB 251900Z 07019KT CAVOK 30/22 Q1010 SBNT 251900Z 14018KT 9999 FEW025 27/20 Q1014 SBPC 251800Z 26008KT CAVOK 28/08 Q1023 RKPC 251900Z 21002KT CAVOK 24/20 Q1005 NOSIG SCFM 251900Z 18009KT 9999 FEW030 08/01 Q1007 SCGE 251900Z 35012KT 1000 RA BR BKN006 OVC020 12/12 Q1017 SBPF 251930Z 31008KT CAVOK 23/15 Q1019 RKNY 251900Z 03017KT 3000 RA BR SCT005 BKN025 OVC070 17/16 Q1011 WS ALL RWY NOSIG SBPJ 251800Z 12012KT 9999 SCT040 36/13 Q1012 LPBJ 251900Z 23014KT 9999 FEW035 31/12 Q1011 RKPK 251900Z 27003KT CAVOK 26/25 Q1004 NOSIG SCFT 251900Z 26007KT 200V290 9999 VCSH BKN046 SCT200 11/04 Q1007 SBPK 252000Z 10006KT CAVOK 20/16 Q1016 MGCB 251900Z 05004KT 9999 SCT018 261/18 QFE 871.3 SBPL 251900Z 16012KT 9999 FEW020 SCT040 BKN080 27/19 Q1016 KWST 251953Z AUTO 20013KT 10SM CLR 26/17 A3006 RMK AO2 SLP177 T02610172 SBPP 252000Z 00000KT CAVOK 31/14 Q1016 SBPR 251800Z 08004KT CAVOK 25/08 Q1022 LPAZ 251930Z 29006KT 260V320 9999 FEW030 22/14 Q1022 SBPS 252000Z 14006KT 070V210 9999 SCT020 23/17 Q1020 SBRB 251900Z 30003KT 5000 FU SCT040 35/16 Q1011 SCIC 251900Z 26008KT 9999 SCT030 SCT200 19/10 Q1017 SBPV 251900Z 02005KT 9999 FEW035 35/16 Q1010 KXLL 251935Z AUTO 21006KT 10SM BKN027 BKN034 OVC065 28/22 A3004 RMK AO2 SAZM 251900Z 36012KT CAVOK 22/10 Q1012 SAZN 251900Z 00000KT CAVOK 19/10 Q1009 SCIE 251900Z 25008KT 210V280 3000 -DZ BR SCT008 BKN020 BKN030 11/10 Q1018 SBRF 252000Z 15012KT 9999 SCT023 26/21 Q1016 SCGZ 251900Z 23009KT 9999 FEW0743 SCT056 BKN076 07/M01 Q1006 SCHR 251900Z 22003KT 9999 FEW015 BKN035 10/06 Q1001 SBRJ 251900Z 16008KT CAVOK 25/17 Q1019 SAZS 251930Z 29020G30KT 4000 RA FEW010 SCT030 BKN040 08/05 Q1009 KWVI 251953Z AUTO 21005KT 10SM OVC007 16/13 A2997 RMK AO2 SLP150 T01560133 LPCS 251930Z 36016KT 9999 FEW006 20/17 Q1012 KXNA 251953Z 19010KT 10SM CLR 34/21 A3007 RMK AO2 SLP165 T03390211 SBSC 251900Z 15010KT CAVOK 26/14 Q1019 FSIA 251900Z 18009KT 9999 FEW017 25/21 Q1014 NOSIG SBQV 251900Z 12010KT 9999 BKN030 18/12 Q1023 KWVL 251856Z AUTO VRB06G15KT 10SM CLR 27/20 A2991 RMK AO2 SLP160 T02720200 KWWD 251856Z AUTO 18016KT 10SM 28/21 A3007 RMK AO2 SLP184 T02830211 $ SBSG 252000Z 17010KT 140V210 9999 FEW027 26/20 Q1014 SBRP 251900Z 12007KT CAVOK 31/09 Q1018 RKSG 251949Z VRB06KT 5SM -DZ BKN028 24/22 A2968 RMK AO2A DZB45 SCIP 251900Z 10010KT 010V130 9999 FEW020 SCT040 20/10 Q1027 NOSIG SCIR 251900Z 22010KT 9999 SCT040 13/06 Q1021 RKSI 251930Z 03006KT 7000 -RA FEW015 BKN030 OVC100 22/19 Q1005 NOSIG SBTA 251900Z VRB02KT CAVOK 27/12 Q1019 SBSJ 251900Z 23002KT CAVOK 27/05 Q1021 KXMR 251858Z AUTO 04010KT 360V060 10SM CLR 31/22 A3002 RMK AO2 SLP169 T03120224 $ SBTC 251800Z 15010KT 9999 FEW020 26/18 Q1020 SBSL 252000Z 04014KT 9999 FEW020 30/20 Q1011 SBSM 251900Z 11007KT CAVOK 28/15 Q1015 SBTE 251900Z 10007KT CAVOK 37/11 Q1009 SBSN 251900Z 06007KT 9999 FEW030TCU ///// Q1010 SBTF 251900Z 00000KT 9999 FEW020 SCT100 31/24 Q1011 SCJO 251900Z 31012KT 9999 BKN030 14/10 Q1011 RKSO 251936Z VRB06KT 5SM -RA BR SCT020 BKN031 24/21 A2967 RMK AO2A RAB26 CIG 020V031 $ SBSP 251900Z 15009KT CAVOK 23/14 Q1022 KXNO 251858Z AUTO 06005KT 9SM FEW200 32/18 A3012 RMK AO2 SLP199 T03230176 $ SBSR 251900Z 00000KT 9999 FEW040 32/09 Q1018 SBUA 251900Z 23002KT 9999 SCT020 FEW028TCU BKN100 28/23 Q1011 RKSS 251934Z 34006KT 5000 -RA BR SCT005 BKN025 OVC080 21/20 Q1006 NOSIG SBTK 251800Z 04003KT 9999 SCT030 35/20 Q1013 MGES 251900Z 36010KT 9999 BKN020TCU 27/18 QFE 909.4 FEW200 TCU ENE/E SBST 251900Z 28002KT 8000 OVC029 21/16 Q1020 KXNT 251935Z AUTO VRB04G11KT 10SM SCT030 BKN049 28/21 A3001 RMK AO2 LPFL 251900Z 21006KT 160V260 9999 BKN015 FEW018TCU 24/20 Q1018 SBSV 252000Z 16013KT 9999 SCT017 SCT070 26/16 Q1018 RKTN 251900Z 35003KT CAVOK 27/21 Q1003 NOSIG SBUF 251800Z 11014KT 9999 SCT020 SCT080 30/17 Q1016 RKTP 251200Z 25003KT 9000 BR SCT025 BKN060 BKN130 27/24 A2969 SBUG 251900Z 02006KT CAVOK 28/14 Q1013 LPFR 251930Z 08005KT 9999 FEW030 26/19 Q1011 SBTT 251900Z 13006KT 9999 SCT020 FEW025TCU 33/21 Q1011 SBTU 251900Z 14003KT 9999 SCT025 FEW026TCU 34/19 Q1012 SBUL 251800Z 17006KT 9999 FEW045 28/08 Q1020 RKTU 251933Z 32002KT 9000 -RA FEW020 BKN030 OVC070 25/23 Q1004 NOSIG VYYY 251630Z 00000KT 7000 R21/2000N BKN015 FEW020CB BKN110 25/25 Q1007 SBVH 251900Z 03005KT 7000 FEW030 FEW033TCU 33/15 Q1013 SBUR 251800Z 12006KT CAVOK 29/06 Q1020 SCMK 251900Z 35020KT 9999 BKN020 10/07 Q1004 KWYS 251930Z AUTO 35008KT 10SM CLR 17/M05 A3025 RMK AO2 MGGT 252000Z 36014KT 9999 SCT020 BKN200 25/15 Q1024 A3024 NOSIG KXPY 251935Z AUTO 06006KT 10SM SCT070 SCT095 28/24 A3006 RMK A01 YABA 252000Z AUTO 04003KT 9999 // NCD 07/05 Q1014 LPHR 251930Z 26012KT 9999 FEW016 BKN035 23/19 Q1020 SBVT 251900Z 12009KT 9999 FEW030 SCT070 24/14 Q1022 KXSA 251935Z AUTO 19006KT 10SM CLR 31/21 A3007 RMK AO2 T03060208 MGHT 251900Z 00000KT 9999 SCT025 24/14 QFE 820.0 WSAP 251500Z 19009KT 9999 FEW016 BKN140 27/24 Q1009 KYIP 251953Z AUTO 29012KT 10SM BKN048 BKN065 OVC090 31/22 A2996 RMK AO2 SLP137 T03060217 TSNO SCNT 251900Z 16008KT 9999 FEW036 08/M00 Q1007 MHAM 251900Z 23008KT 9999 FEW030 37/24 SCON 251900Z 30015KT 270V330 9999 BKN020 12/07 Q1006 LPLA 251900Z /////KT 9999 FEW025 SCT035 24/20 Q1021 MHCA 251900Z 12004KT 9999 SCT030 33/21 HZ LQBK 251930Z 3002KT CAVOK 18/16 Q1021 NOSIG KYKM 251953Z 20006KT 10SM CLR 31/04 A3008 RMK AO2 SLP177 T03110039 $ KYKN 251935Z AUTO 29011G16KT 10SM CLR 23/11 A3015 RMK AO1 SCPQ 251900Z 31013KT 270V330 9999 SCT024 11/06 Q1007 MHCH 251900Z 18006KT 9999 BKN034TCU 33/24 TCU N CTE E S SBYS 251900Z 20004KT CAVOK 30/08 Q1019 LPMA 251930Z 01016G26KT 340V040 9999 SCT015 23/17 Q1015 SCRD 251900Z 23010KT CAVOK 16/10 Q1018 SCRG 251900Z 24006KT 4000 HZ NSC 18/09 Q1016 SCQP 251900Z 27009KT 240V310 9999 -SHRA SCT025 OVC049 11/08 Q1015 KXVG 251936Z AUTO 24006KT 7SM SCT026 BKN033 OVC046 18/13 A3001 RMK AO2 FSPP 251800Z 19010KT //// //// 25/22 Q1014 SCRM 251900Z 31009KT 9999 OVC011 M05/M07 Q1002 MGMM 251900Z 32004KT 9999 SCT018TCU 32/22 Q1014 A2994 TCU ESE SCSE 251900Z 27008KT CAVOK 16/10 Q1017 LOWG 251950Z VRB01KT CAVOK 18/15 Q1023 NOSIG KYNG 251951Z 22009KT 10SM SCT037 SCT250 31/22 A3001 RMK AO2 SLP153 T03060217 LOWI 251950Z 13004KT CAVOK 23/14 Q1020 NOSIG SCTB 251900Z 24004KT 150V300 5000 HZ NSC 20/02 Q1017 MGMT 251900Z 18004KT CAVOK 35/24 Q1007.9 FEW200 LOWK 251950Z AUTO VRB01KT 9999 NCD 20/14 Q1023 SEAM 251900Z 14008KT 9999 SCT050 22/09 Q1027 LOWL 251950Z AUTO 08008KT 9999 NCD 20/13 Q1020 NOSIG SCTE 251900Z 32010KT 9999 -SHRA BKN030 10/07 Q1011 NOSIG SCSN 251900Z 25011KT CAVOK 15/11 Q1019 SECA 251900Z 13013KT 090V160 9999 FEW040 30/10 Q1016 LOWS 251950Z 21004KT CAVOK 19/16 Q1019 NOSIG MGPB 251900Z 36010KT 9999 TS FEW020 FEW030CB SCT200 32/25 Q1012 A2988 CB/TS SSE/S CB N LPPD 251930Z 26007KT 9999 FEW025 22/16 Q1022 SCTN 251900Z 36018KT 9999 FEW019 BKN026 12/09 Q1008 LOWW 251950Z 11005KT CAVOK 21/12 Q1022 NOSIG LOWZ 251700Z 00000KT 50KM SKC 29/16 Q1018 RMK SKC LOXT 251750Z 13005KT 50KM SKC 23/14 Q1021 RMK SKC SCVD 251900Z 31016KT 280V340 9000 -SHRA FEW025 BKN035 13/08 Q1013 SECO 251900Z 16005KT 9999 SCT026 BKN100 31/22 Q1012 LOXZ 251950Z VRB03KT 30KM SKC 17/12 Q1024 RMK SKC LPPR 251930Z 32003KT 290V350 4500 BR SCT003 17/17 Q1014 LPPS 251930Z 03013KT 360V060 9999 SCT014 BKN030 22/17 Q1016 SECU 251900Z 02018KT 9999 SCT040 22/04 Q1025 LPPT 251930Z 31016KT 9999 FEW012 20/17 Q1012 SCVM 252000Z 24010KT CAVOK 17/11 Q1018 YBAF 251930Z AUTO 23005KT 9999 // NCD 08/05 Q1016 MGQZ 251900Z 36014KT 9999 BKN022TCU 21/12 QFE 773.0 TCU SMC S YBAS 252000Z AUTO 28004KT 9999 // NCD 04/M00 Q1023 MGSJ 251900Z 20006KT 9999 FEW020TCU SCT200 33/24 Q1010 A2983 TCU N MGRT 251900Z 22010KT 9999 FEW020 34/21 Q1013 A2991 VOL. STA. MARIA Y SANTIAGUITO EN ACTIVIDAD YBBN 251930Z 29004KT CAVOK 09/05 Q1016 NOSIG LRBC 251900Z 34007KT CAVOK 19/13 Q1022 YBCG 252000Z AUTO 00000KT 9999 // NCD 07/05 Q1016 YBCK 252000Z AUTO 13003KT //// // ////// 09/06 Q1019 YAMB 251930Z AUTO 32001KT 9999 // NCD 05/04 Q1016 LRAR 251900Z 02006KT CAVOK 21/13 Q1020 MHLC 251900Z 28008KT 9999 SCT024CB SCT200 30/24 Q1012 A2989 NOSIG LRBM 251930Z AUTO 04004KT 020V080 9999 FEW042/// SCT240/// ///// Q1022 YBDG 251930Z AUTO 24001KT 9999 // NCD 02/01 Q1020 MHLE 251900Z 05008KT 9999 BKN022 21/16 LRBO 251900Z 32006KT 9999 SKC 20/11 Q1021 BLU BLU YBCS 251930Z 15007KT CAVOK 22/19 Q1013 NOSIG SEGS 251900Z 32014KT 9999 FEW020 28/19 Q1014 RMK A2994 LRBS 251930Z 01003KT CAVOK 21/12 Q1021 NOSIG SEGU 251900Z 15010KT 9999 FEW030 31/21 Q1008 NOSIG RMK A2979 YBCV 252000Z AUTO 00000KT 9999 // ////// 04/04 Q1019 LRCK 251930Z 34008KT CAVOK 22/09 Q1018 NOSIG MGTU 251900Z 27006KT 9999 FEW018 35/24 LRCL 251930Z 27003KT CAVOK 17/13 Q1022 MHLM 251900Z 04005KT 9999 FEW028TCU SCT080 30/27 Q1012 A2989 NOSIG YANG 252000Z AUTO 09005KT 9999 // NCD 09/M02 Q1019 LRCT 251900Z 32004KT 9999 SCT060 18/12 Q1022 BLU BLU YBDV 252000Z AUTO 21006KT //// // ////// 09/07 Q1021 SEJD 251900Z 11004KT 360V160 9999 SCT023 BKN100 32/22 Q1014 RMK A2994 LRCV 251900Z AUTO 36006KT 9999 FEW100 19/17 Q1020 LQMO 251900Z VRB02KT 9999 FEW060 27/14 Q1015 BGBW 251950Z 26004KT 9999 BKN075 12/05 Q1012 ROAH 251930Z 02010KT 9999 FEW015 29/25 Q0998 RMK 1CU015 A2948 YBGD 252000Z AUTO 07008KT 9999 // NCD 14/M03 Q1016 SFAL 251550Z 36022KT 9999 RA FEW010 SCT020 OVC080 05/04 Q1007 GMAD 251930Z 25006KT 220V280 8000 TS FEW030CB SCT100 23/19 Q1010 NOSIG MHNO 251900Z 34018KT 9999 FEW040 29/18 HZ GMAG 251800Z 26014KT CAVOK 27/18 Q1007 NOSIG FTTA 251900Z 00000KT 9999 TS FEW020 FEW050CB 24/23 Q1013 FTTC 251500Z 22006KT 9999 TS SCT040 FEW050CB 31/22 Q1011 FTTD 251500Z 00000KT 9999 TS FEW040TCU FEW050CB 26/24 Q1010 HDAM 251500Z 10009KT FEW030CB 33/26 Q1003 YBHI 252000Z AUTO 25005KT 9999 // NCD 03/01 Q1023 KZPH 251955Z AUTO 06010G16KT 10SM CLR A2999 RMK AO2 MGZA 251900Z 07004KT 9999 FEW022 34/22 QFE 986.6 FEW200 SEMC 251900Z 02008KT 360V060 9999 VCSH SCT033TCU SCT100 24/15 Q1017 FTTJ 251900Z 00000KT 8000 FEW030 27/24 Q1010 NOSIG YBHM 251955Z AUTO 16010KT 9999 // SCT013 BKN017 OVC024 20/18 Q1014 MHPL 251900Z 36006KT 9999 SCT026TCU 32/25 Q1012 TCU ALL GMAT 251800Z 36016KT 9999 SCT010 23/18 Q1010 NOSIG YARG 251930Z AUTO 20002KT 9999 // NCD 17/M01 Q1015 BGGH 251950Z 19012KT 9999 BKN052 10/06 Q1011 SELT 251900Z 10014G24KT 070V130 9999 SCT030 20/04 Q1028 LRIA 251900Z 34008KT CAVOK 18/08 Q1021 YARM 251930Z AUTO 27009KT 9999 // NCD M01/M01 Q1015 FVBU 251900Z 12009KT CAVOK 16/M02 Q1028 NOSIG RODN 251858Z AUTO 02007KT 10SM FEW047 28/28 A2950 RMK AO2 SLP994 T02770277 $ FTTY 250800Z 24010KT CAVOK 33/21 Q1013 YCBA 251930Z AUTO 04004KT 9999 // NCD M01/M01 Q1020 YCBB 251930Z AUTO 21006KT //// // ////// 03/01 Q1018 SEMT 251900Z 24012KT CAVOK 32/20 Q1010 RMK A2983 WSSL 251500Z 17005KT 9999 FEW018 BKN150 29/25 Q1009 RMK 1430Z Q1009 LQSA 251930Z VRB01KT 9999 SCT055 18/15 Q1023 SENL 251900Z 04004KT 9999 VCSH SCT020 BKN100 30/23 Q1013 YBKE 251930Z AUTO 23004KT //// // ////// 02/00 Q1021 MHSC 251858Z 32015KT 9999 FEW065 SCT120 BKN210 31/22 A2993 RMK AO2A SLP091 T03090223 $ MHRO 251900Z 28008KT 9999 FEW020 31/24 Q1012 A2989 NOSIG YCAR 252000Z AUTO 03005KT 9999 // NCD 09/05 Q1014 WSSS 251930Z 21003KT 180V240 9999 -RA FEW016 SCT150 BKN260 26/24 Q1008 NOSIG YCAS 252000Z AUTO 30005KT //// // ////// 07/05 Q1017 FVCZ 251500Z 15007KT CAVOK 27/05 Q1026 FVFA 251500Z 07011KT 040V100 CAVOK 26/03 Q1021 NOSIG MHTE 251900Z 01006KT 9999 SCT028TCU SCT250 30/27 Q1012 TCU N NW SW HZ YCBP 252000Z AUTO 17007KT 9999 // NCD 06/05 Q1023 MHTG 251900Z 33012KT 9999 BKN030 SCT250 30/17 Q1017 A3003 NOSIG GMFF 251900Z 18012KT 9999 FEW033 SCT100 BKN230 32/14 Q1013 NOSIG YBMA 252000Z AUTO 17004KT 9999 // NCD 04/03 Q1020 YBKT 252000Z AUTO 17011KT //// // ////// 15/04 Q1018 MHSR 251900Z 35004KT 9999 BKN025TCU SCT250 25/17 TCU SE W NW HZ YBLN 252000Z AUTO 02010KT //// // ////// 14/06 Q1012 GMFK 251900Z 31019KT 9999 TS SCT030 FEW040CB SCT100 30/09 Q1018 TEMPO TSRA GMFM 251900Z 25002KT 6000 SCT023 FEW026CB SCT100 32/13 Q1014 NOSIG BGJN 251950Z 22006KT 9999 SCT040 BKN140 11/03 Q1012 GMFO 251900Z 36014KT 9999 FEW020 23/21 Q1014 NOSIG YBNA 251930Z AUTO 27005KT 9999 // NCD 09/05 Q1016 MHTR 251900Z 26005KT 9999 SCT025CB 30/25 CB NE WSW TCU E SE HZ YBMK 252000Z AUTO 12006KT 9999 // OVC056 17/16 Q1014 SERB 251900Z 06020KT 9999 SCT040 21/08 Q1028 FVHA 251900Z 11005KT 060V120 CAVOK 13/01 Q1028 NOSIG RMK QFE 859.6 YCEE 252000Z AUTO 32002KT //// // ////// 07/07 Q1024 SEQM 251926Z 07013G24KT 360V120 9999 SCT040 24/03 Q1022 NOSIG RMK A3018 YCDO 251930Z AUTO 27006KT //// // ////// 01/01 Q1020 BGKK 251950Z 32003KT 2500 VCFG OVC030 05/04 Q1014 YCCY 252000Z AUTO 19007KT //// // ////// 10/05 Q1020 ROIG 251100Z 34009KT 310V010 9999 FEW018 BKN/// 30/26 Q1001 LQTZ 251930Z VRB02KT CAVOK 17/15 Q1021 SESA 251900Z 21010KT 9999 BKN015 23/19 Q1011 YCDU 251930Z AUTO 00000KT 0300 // BKN001 00/00 Q1024 YCEM 252000Z AUTO 00000KT //// // ////// 05/05 Q1020 SESD 251900Z 00000KT 9999 SCT020 28/19 Q1011 GLRB 251930Z 00000KT 9999 SCT013 FEW023CB BKN100 23/22 Q1012 RMK CB-SW/W SERO 251900Z 30006KT 240V010 9999 FEW020 28/23 Q1010 YBNS 251930Z AUTO 28009KT 9999 // SCT042 OVC050 08/05 Q1019 YBOK 251900Z AUTO 08003KT 9999 // OVC001 01/00 Q1017 YCFL 252000Z AUTO 17008KT //// // ////// 24/22 Q1013 SESM 251900Z 13002KT 9999 SCT030 BKN100 28/18 Q1017 RMK A3003 YAYE 252000Z AUTO 17004KT 9999 // NCD 02/M01 Q1023 LROD 251930Z 11004KT CAVOK 18/13 Q1021 YCFS 251930Z AUTO 33004KT 9999 // NCD 07/04 Q1016 SGAS 251900Z 07006KT 010V090 CAVOK 33/16 Q1011 SEST 251900Z 17018KT 9999 -RA SCT020 23/20 Q1010 RMK A2985 HEBA 251900Z 04005KT CAVOK 26/22 Q1011 NOSIG FVKB 251500Z 27004KT CAVOK 26/15 Q1018 NOSIG YBPN 252000Z AUTO 00000KT 9999 // BKN053 OVC083 18/17 Q1014 LSGC 251950Z AUTO VRB01KT CAVOK 19/15 Q1022 SETN 251900Z 28013KT 9999 BKN026 28/23 Q1010 A2982 LSGG 251950Z VRB01KT CAVOK 23/17 Q1018 NOSIG LROP 251930Z 03004KT CAVOK 21/14 Q1020 NOSIG YCHK 252000Z AUTO 12004KT 9999 // NCD 11/M02 Q1018 HEAR 251100Z 31007KT CAVOK 33/19 Q1009 NOSIG SETU 251900Z 12010KT 9999 BKN026 16/05 Q1031 HECA 251930Z 03013KT CAVOK 30/21 Q1011 NOSIG HEAT 251900Z 36010KT CAVOK 30/12 Q1010 NOSIG HEAX 251800Z 02003KT CAVOK 28/21 Q1010 NOSIG MHYR 251900Z 09005KT 9999 SCR025TCU 30/19 TCU ALL HZ YBRK 252000Z AUTO 21005KT 9999 // NCD 12/08 Q1016 YBRL 252000Z AUTO 00000KT //// // ////// 13/06 Q1016 LSGS 251750Z 26010KT 9999 FEW100 30/13 Q1016 YBRM 252000Z AUTO 11005KT 9999 // NCD 15/01 Q1013 YCIN 252000Z AUTO 13007KT //// // NCD 18/M05 Q1012 GMMB 251900Z AUTO VRB08KT //// R32/P2000N NCD 25/22 Q1012 NOSIG GMMC 251900Z 26002KT 8000 SCT016TCU SCT026CB 24/22 Q1009 FWCL 251600Z 19007KT CAVOK 22/09 Q1023 NOSIG YBSG 252000Z AUTO 00000KT //// // SCT057 23/20 Q1012 GMMD 251900Z 08016G26KT 6000 BKN040CB SCT230 31/14 Q1013 TEMPO 08010KT GMME 251930Z 26005KT 5000 SCT008 BKN015 24/22 Q1011 NOSIG GMMH 251900Z 02023KT 8000 R03///// NSC 22/19 Q1009 NOSIG GMMI 251900Z 34008KT 6000 NSC 24/18 Q1010 NOSIG LRSB 251900Z VRB02KT 9999 FEW070 15/13 Q1022 NOSIG LTAC 251920Z 36006KT CAVOK 20/12 Q1016 NOSIG SGEN 251900Z 03015KT CAVOK 31/15 Q1013 GMML 251900Z 04017KT CAVOK 26/16 Q1010 NOSIG KZZV 251953Z AUTO 22007KT 10SM CLR 31/23 A3004 RMK AO2 LTG DSNT SE AND S SLP164 T03110233 YBRY 251930Z AUTO 10010KT 9999 // NCD 13/M02 Q1018 YBTH 251930Z AUTO 21008KT 9999 // NCD 01/01 Q1017 ROMY 251100Z 35011KT 9999 VCSH SCT016 BKN/// 30/26 Q1000 LTAF 251920Z 19002KT 9999 FEW035 27/25 Q1008 NOSIG GMMN 251930Z 34007KT 9999 SCT020TCU BKN100 25/21 Q1011 NOSIG LTAG 251920Z 13004KT CAVOK 27/25 Q1008 NOSIG SGES 251900Z 06007KT CAVOK 31/18 Q1014 LTAI 251920Z 00000KT CAVOK 26/22 Q1008 NOSIG YBSU 251930Z AUTO 26004KT 9999 // NCD 06/05 Q1016 LTAJ 251920Z 24008KT 9999 SCT040 28/16 Q1010 NOSIG LTBA 251920Z 02010KT 350V050 CAVOK 23/16 Q1016 NOSIG YBTL 252000Z AUTO 22006KT 9999 // OVC044 19/16 Q1014 YBUD 252000Z AUTO 22006KT 9999 // NCD 10/05 Q1017 YCKN 252000Z AUTO 28003KT 9999 // OVC076 22/21 Q1013 LTAL 251550Z 17005KT 9999 FEW020CB SCT033 BKN090 18/16 Q1018 RETSRA LRTC 251900Z AUTO 32006KT 9999 BKN070/// 21/10 Q1018 LTBD 251550Z 29008KT 9999 FEW035 33/20 Q1006 LRSM 251900Z AUTO 06007KT 9999 NCD 18/12 Q1022 FVMV 251500Z 12010KT CAVOK 23/M02 Q1026 LTAN 251850Z 34014KT CAVOK 26/09 Q1015 NOSIG LTBF 251850Z 01017KT 9999 FEW020 SCT035 23/18 Q1015 NOSIG GMMW 251900Z 03007KT 350V050 9999 FEW020 21/16 Q1014 NOSIG LTBG 250015Z 03010KT 340V050 9999 SCT035 BKN100 24/22 Q1012 RESHRA NOSIG RMK RWY18 03017KT LTAP 251920Z 03010KT 9999 BKN042 BKN180 23/15 Q1014 NOSIG GMMX 251930Z 30006KT 250V340 9999 SCT033 FEW040CB 33/12 Q1012 NOSIG BGSF 251950Z AUTO 09012KT 9999NDV BKN150/// 17/01 Q1011 LTBH 251850Z 05016KT CAVOK 25/13 Q1015 LTBI 250604Z 00000KT 9999 SCT035 BKN100 21/17 Q1015 RESHRA NOSIG RMK RWY09 VRB01KT LTAR 251850Z 36006KT CAVOK 17/14 Q1020 GMMZ 251900Z VRB01KT 9999 SCT040 FEW050CB 31/08 Q1017 NOSIG LTAS 251430Z 27005KT 240V310 9999 TS FEW021CB SCT032 BKN100 24/20 Q1014 RMK RWY18 34004KT 310V020 LTBJ 251920Z 35014KT 330V040 CAVOK 29/17 Q1009 NOSIG LTCA 251850Z 12005KT 9999 SCT035 BKN100 30/09 Q1012 BECMG TL1950 21012KT LTCB 251850Z 20003KT 160V270 9999 SCT035 BKN090 26/22 Q1012 LTAT 251920Z 21008KT CAVOK 25/06 Q1011 NOSIG LTAU 251920Z VRB02KT CAVOK 22/07 Q1015 NOSIG LTCC 251920Z 30004KT CAVOK 27/09 Q1009 NOSIG LTCD 251850Z VRB01KT 9999 FEW030CB SCT040 21/13 Q1017 RETSRA TEMPO -TSRA LRTM 251900Z 09005KT CAVOK 15/12 Q1022 LRSV 251900Z 33008KT CAVOK 18/10 Q1023 YDBY 252000Z AUTO 18007KT //// // ////// 14/M05 Q1013 LTAW 251250Z 02013KT 9999 SCT040 31/18 Q1010 LTCE 251920Z 07005KT 010V140 9999 FEW045 BKN100 18/08 Q1025 NOSIG LTBO 251350Z 05007KT 360V110 9999 FEW033TCU SCT037 30/12 Q1013 BIBD 251600Z 07001KT 9999 FEW008 BKN020 BKN050 13/// Q1012 LTCF 251850Z 36002KT 9999 SCT035 15/09 Q0825 LTCG 251920Z VRB02KT 9999 SCT018 BKN035 26/21 Q1012 TEMPO TL2100 -TSRA LTAY 251850Z 02010KT 9999 FEW025CB SCT035 28/15 Q1013 RETS LTAZ 251920Z 03017KT CAVOK 26/15 Q1014 LTBQ 251937Z 31003KT 290V350 8000 -SHRA FEW020CB BKN025 22/21 Q1016 TEMPO -TSRA RMK RWY09 34004KT 280V050 LTBR 251920Z 01005KT 340V050 9999 SCT035 23/18 Q1016 NOSIG LTCI 251850Z 13004KT 9999 SCT040 BKN080 18/07 Q1021 NOSIG LRTR 251930Z 01004KT CAVOK 21/15 Q1020 LSMA 251950Z AUTO 21003KT 160V240 9999NDV NCD 22/21 Q1018 RMK LTBS 251920Z 05004KT CAVOK 26/22 Q1008 NOSIG LTCJ 251920Z 03004KT CAVOK 25/10 Q1009 LTDA 251850Z 23015KT 9999 SCT035 28/22 Q1007 YCMM 252000Z AUTO 00000KT //// // ////// 00/00 Q1024 LTCK 251750Z 12004KT 040V190 9999 SCT035 BKN080 24/07 Q1017 BIAR 251900Z 04002KT 9999 OVC012 10/08 Q1012 LTCL 251350Z 28011KT CAVOK 39/04 Q1008 LTBU 251920Z 35010KT CAVOK 21/15 Q1017 LSMD 251950Z AUTO 14003KT 9999NDV NCD 23/20 Q1018 RMK LTCM 251250Z 35009KT 9999 SCT030 BKN090 27/21 Q1011 LSME 251950Z AUTO 00000KT 9999NDV NCD 25/21 Q1018 RMK BGTL 251858Z AUTO 28006KT 9999 CLR 09/01 A2991 RMK AO2 SLP112 T00890010 LTCN 251850Z 28016KT CAVOK 29/21 Q1009 HEGN 251900Z 34009KT CAVOK 33/12 Q1006 NOSIG LTCO 251550Z 07008KT 040V120 9999 FEW025CB SCT030 24/03 Q1020 LTBY 251850Z 26009KT CAVOK 20/16 Q1017 LTCP 251550Z 05004KT 9999 SCT040 36/05 Q1008 LTBZ 251850Z 04017KT 9999 FEW040 20/14 Q1007 LRTZ 251900Z VRB02KT 9999 SKC 20/15 Q1018 BLU BLU YCMT 252000Z AUTO 19004KT //// // ////// 12/06 Q1017 YCNK 251930Z AUTO 29006KT //// // ////// 04/03 Q1016 LTCR 251650Z 02007KT 9999 FEW040 SCT100 36/07 Q1008 LTCS 251920Z 18001KT CAVOK 32/06 Q1012 YCNM 252000Z AUTO 00000KT //// // ////// M01/M01 Q1020 LTCT 251150Z VRB07KT 9999 FEW030TCU SCT036 33/10 Q1012 YCOE 252000Z AUTO 19003KT //// // ////// 23/19 Q1013 LTCU 251850Z 35008KT 9999 FEW035 26/08 Q1016 LTCV 251350Z 26016KT 9999 SCT040 BKN100 40/04 Q1008 LSMM 251950Z AUTO 12003KT 9999NDV NCD 21/18 Q1019 RMK LTCW 251350Z 15010KT 9999 SCT035 BKN080 26/04 Q1021 YBWP 252000Z AUTO 17002KT 9999 // NCD 24/20 Q1012 LSMP 251950Z AUTO VRB02KT 9999NDV NCD 23/19 Q1018 RMK RORS 251000Z 34018KT 9999 FEW017 BKN/// 30/26 Q1000 LSMS 251950Z AUTO VRB01KT 9999NDV NCD 27/14 Q1018 RMK BLU LTFA 250533Z 05011KT 030V090 9999 FEW040 26/20 Q1009 RMK RWY17 02014KT YCOM 251930Z AUTO 23007KT 9999 // BKN022 01/00 Q1017 LTFC 251920Z 36004KT 9999 FEW035 26/10 Q1013 LTFD 251850Z 09017KT 9999 SCT035 25/14 Q1014 YBWX 252000Z AUTO 13010KT //// // ////// 20/16 Q1014 YCNY 251930Z AUTO 19005KT //// // ////// 12/03 Q1019 LTFE 251920Z 15003KT 110V200 CAVOK 27/20 Q1009 NOSIG LTFG 251850Z VRB02KT CAVOK 25/24 Q1008 LTFH 251850Z 29013KT 9999 FEW015 SCT028 BKN090 25/21 Q1013 TEMPO -TSRA BIEG 251900Z 36006KT 9999 -RA SCT007 BKN020 OVC060 11/10 Q1012 LTFJ 251920Z 02011KT 9999 SCT030 22/18 Q1016 NOSIG RPLB 251900Z VRB03KT 8000 -RA SCT018 OVC080 26/25 Q1005 A2968 GMTA 251900Z 08006KT NSC 26/21 Q1013 NOSIG RPLC 251900Z 06001KT 9999 FEW018CB SCT020 BKN300 26/24 Q1008 RMK A2977 CB S LTFK 251250Z 02016KT 9999 FEW025 29/17 Q1013 ROTM 251858Z 03006KT 9999 SCT030 BKN200 27/27 A2951 RMK SLP976 T02720267 RPLI 251800Z 18010KT 9999 FEW019 SCT100 27/26 Q1005 RMK A2968 FWKI 251500Z 09010KT CAVOK 21/07 Q1023 NOSIG RPLL 251900Z 25006KT 220V280 9999 SCT016 BKN070 27/27 Q1006 RERA NOSIG RMK A2971 RPMD 251800Z 26003KT 9999 FEW015CB BKN090 BKN290 27/25 Q1009 RMK A2980 GMTN 251900Z 09011KT 8000 SCT020 24/20 Q1013 NOSIG HEMA 251900Z 28007KT CAVOK 32/08 Q1006 NOSIG GMTT 251930Z 09015KT 9999 SCT016 BKN100 27/15 Q1010 NOSIG HEMM 251900Z 09007KT CAVOK 28/23 Q1011 NOSIG BIHN 251900Z 00000KT 9999 FEW005 SCT013 BKN022 12/// Q1012 HELX 251900Z 00000KT CAVOK 33/14 Q1007 NOSIG RPMZ 251800Z 00000KT 9999 FEW017 BKN100 26/24 Q1011 RMK A2985 BIHU 250734Z 19003KT 9999 BR SCT004 BKN008 07/// Q1014 FVWN 251500Z 09005KT CAVOK 27/01 Q1021 MKJP 251900Z 17008KT 9999 VCSH SCT020 SCT022CB BKN045 31/23 Q1009 MKJS 251900Z 04008KT 9999 SCT022 31/26 Q1009 YCUN 252000Z AUTO 05010KT //// // ////// 11/04 Q1016 BIIS 251900Z 07005KT 9999 FEW015 FEW040 12/09 Q1011 LUBL 251930Z AUTO 35008KT 9999 NCD 19/10 Q1022 YDLQ 252000Z AUTO 23001KT //// // ////// 00/00 Q1021 YCWA 252000Z AUTO 11004KT 9999 // NCD 10/M03 Q1019 GOGG 251900Z 20008KT 9999 SCT016 28/25 Q1009 BIKF 251930Z 02005KT 9999 SCT008 BKN018 OVC024 11/10 Q1012 GOGK 251800Z 22006KT 9999 SCT016TCU 33/25 Q1008 HEPS 251900Z 33008KT CAVOK 27/23 Q1011 NOSIG GOGS 251900Z 22008KT 9999 BKN013TCU 29/25 Q1009 YCWR 252000Z AUTO 00000KT //// // ////// M00/M00 Q1019 HESC 251900Z 36005KT CAVOK 25/10 Q1019 NOSIG HESG 251000Z 31017KT CAVOK 37/11 Q1007 NOSIG HESH 251900Z 01008KT CAVOK 34/17 Q1005 NOSIG YDPO 252000Z AUTO 25006KT 9999 // NCD 05/02 Q1015 HESN 251900Z 32008KT CAVOK 35/07 Q1007 NOSIG LSZA 251950Z 01003KT CAVOK 21/19 Q1020 NOSIG LSZB 251950Z 12003KT 080V160 CAVOK 21/19 Q1018 NOSIG RPVD 251800Z 00000KT 9999 FEW015 BKN220 26/24 Q1008 A2977 LSZC 251950Z AUTO VRB04KT CAVOK 23/20 Q1018 LSZG 251950Z AUTO 11001KT CAVOK 22/19 Q1018 LSZH 251950Z VRB02KT CAVOK 22/18 Q1018 NOSIG HETR 251900Z 31007KT CAVOK 29/23 Q1006 RPVM 251900Z 23003KT 9999 FEW020 BKN300 28/24 Q1008 RMK A2977 LSZL 251950Z AUTO 00000KT 9999NDV SCT051 22/20 Q1019 RMK RPVP 251800Z 33004KT 9999 FEW019 SCT250 26/25 Q1008 A2977 LSZR 251950Z AUTO VRB02KT CAVOK 22/19 Q1018 MMAA 251841Z 25008KT 8SM SCT080 SCT300 31/25 A2986 RMK 8/032 CU N LSZS 251950Z AUTO 17006KT CAVOK 15/14 Q1027 FWUU 251000Z 13008KT 9999 BKN025 18/13 Q1024 FXMM 251400Z 00000KT CAVOK 22/M04 Q1029 NOSIG YELD 252000Z AUTO 13006KT //// // ////// 24/21 Q1013 CAHR 251900Z AUTO 21016G24KT 26/17 RMK AO1 PK WND 20024/1859 SLP132 T02600169 58016 BIRK 251900Z 34003KT 300V360 9999 -DZ BR SCT005 BKN012 OVC041 11/09 Q1012 MMAN 251940Z 13005KT 6SM FEW035 30/19 A3004 RMK 8/500 HZY DSNT ISOL CI GOOD 251800Z 24004KT 9999 SCT016 32/24 Q1007 YFBS 252000Z AUTO 00000KT //// // ////// M00/M00 Q1019 GOOG 251800Z 18006KT 9999 SCT013 SCT100 34/24 Q//// MMAS 251745Z 00000KT 8SM BKN018 BKN025 OVC090 17/12 A3035 RMK SLP172 8/57/ HZY PRESFR MMCB 251904Z RTD 00000KT 10SM SCT200 26/14 A3014 RMK 8/004 CU LUKK 251930Z 02008KT CAVOK 21/10 Q1020 R08/CLRD// NOSIG GOOK 251800Z 22008KT 9999 SCT013TCU 32/26 Q1009 FYGB 251900Z AUTO 05003KT //// // ////// 19/M06 Q1027 YFDF 252000Z AUTO 11008KT 9999 // NCD 12/M02 Q1017 MMCE 251844Z 02008KT 7SM FEW015TCU SCT070 BKN300 30/24 A2994 RMK 8/248 CBBC 251900Z AUTO 32004KT 290V350 9SM CLR 24/15 A3017 RMK SLP218 DENSITY ALT 800FT FYGF 251800Z 09003KT CAVOK 15/M05 Q1025 YEML 252000Z AUTO 17007KT 9999 // SCT047 BKN086 11/07 Q1017 MMBT 251847Z 00000KT 7SM FEW030 32/24 A2992 RMK 8/100 HZY MMCL 251841Z 05005KT 10SM BKN090 OVC250 31/23 A2995 RMK 8/074 BINOVC ISOL CU MMCM 251850Z 00000KT 7SM BKN015 32/25 A2989 RMK 8/500 MMCN 251840Z 11008KT 10SM FEW020 FEW100 34/19 A2991 RMK 8/130 HZY MMCP 251845Z 34010KT 7SM SCT025 31/25 A2990 RMK 8/100 GOOY 251930Z 21008KT 9999 FEW008 28/24 Q1008 NOSIG MMCS 251847Z 00000KT 10SM FEW120 BKN200 29/16 A3009 RMK 8/032 MMCT 251842Z 09010KT 8SM BKN020 34/24 A2991 RMK 8/400 MSGTX MMMD MMCU 251843Z 24004KT 10SM SCT025 BKN080 BKN200 23/13 A3022 RMK 8/172 TCU VC MMCV 251843Z 18010KT 10SM SKC 35/12 A2998 RMK ISOL AC/CI MMDO 251847Z 00000KT 12SM BKN020 OVC035 19/12 A3032 RMK 8/8// BINOVC ISOL AC CI MMCZ 251941Z 07008KT 8SM FEW015TCU SCT250 30/26 A2989 RMK 8/208 FZAA 250714Z 27014KT 3000 BR SCT014 OVC016 24/20 Q1016 BECMG 1500 BIVM 251647Z 12008KT 9999 SCT006 SCT040 12/12 Q1012 MMEP 251853Z 18002KT 12SM SCT015CB BKN160 29/18 A3010 RMK 8/330 GOSM 251500Z 24004KT 9999 SCT013 SCT230 35/26 Q1008 GOSP 251800Z 24006KT 9999 SCT016TCU 36/22 Q1005 GOSS 251600Z 23004KT 190V300 CAVOK 32/25 Q1007 GOTK 251800Z 32004KT 9999 TS SCT013 SCT015 FEW030CB 33/24 Q1007 MMGL 251849Z 00000KT 8SM BKN020TCU BKN100 23/15 A3025 RMK 8/230 DSNT CB SW CI MMGM 251845Z 17008KT 10SM FEW030 33/25 A2988 RMK 8/400 HZY FYKM 251800Z 00000KT CAVOK 23/09 Q1022 MMIA 251840Z 00000KT 8SM SCT020CB BKN200 28/20 A3005 RMK 8/301 YERN 252000Z AUTO 07003KT //// // ////// 05/01 Q1023 GOTT 251800Z 18008KT 9999 FEW016 33/26 Q1007 FYKT 251800Z 02005KT CAVOK 21/M07 Q1023 MMHO 251847Z 00000KT 10SM FEW030 35/21 A2996 RMK 8/100 HZY NCRG 251900Z 16004KT 9999 BKN023 22/14 Q1021 FYML 251900Z AUTO 11005KT //// // ////// 21/M12 Q1025 YESP 252000Z AUTO 02010KT 9999 // NCD 08/07 Q1020 MMIO 251840Z 34007KT 10SM SCT060 29/17 A3025 RMK 8/100 YGBI 252000Z AUTO 12008KT //// // ////// 26/22 Q1013 FYLZ 251900Z AUTO 13003KT //// // ////// 25/00 Q1015 FYOA 251300Z 08007KT CAVOK 33/M01 Q1017 YFLI 252000Z AUTO 25021KT 9999 // BKN034 OVC040 10/05 Q1016 MNBL 251900Z 07004KT 9999 SCT023 SCT090 30/25 Q1010 YGDH 251930Z AUTO 00000KT //// // ////// M01/M02 Q1018 FYOO 251900Z AUTO 07004KT //// // ////// 22/M06 Q1020 MNCH 251900Z 22004KT 9999 SCT025TCU 34/26 Q1009 TCU/SE/S MMMA 251840Z 11010KT 8SM BKN025TCU 34/22 A2999 RMK 8/200 ISOL CI MMLM 251842Z 16012KT 10SM FEW020 SCT100 SCT220 31/22 A2995 RMK 8/138 MMMD 251944Z 02006KT 7SM SCT025CB BKN250 32/26 A2990 RMK 8/303 MMLO 251944Z 00000KT 10SM SCT030TCU BKN120 BKN250 23/14 A3031 RMK 5//// 9// 8/238 MSGTX MMMM FYOW 251900Z AUTO 10003KT //// // ////// 22/M05 Q1023 MMLP 251841Z 15004KT 10SM FEW040 33/18 A2995 RMK 8/100 ISOL AC YGEL 252000Z AUTO 03014KT 9999 // NCD 08/05 Q1013 MMLT 251851Z 07009KT 8SM SCT050 32/23 A2989 RMK 8/200 MMML 251851Z 12012KT 10SM SKC 37/16 A2983 MMMM 251848Z 05002KT 8SM SCT030TCU BKN100 23/15 A3027 RMK 8/270 CB/N/W CI MMMT 251842Z 36010G20KT 12SM SCT020 SCT200 30/25 A2994 RMK 8/103 DIST CBS W SE MMNL 251844Z 13011KT 12SM SKC 33/19 A3000 YGFN 251930Z AUTO 00000KT 9999 // NCD 04/03 Q1016 MMMV 251840Z 00000KT 10SM SCT050 SCT20 30/19 A3003 RMK 8/502 MMMX 251843Z 34007KT 5SM SCT020 22/09 A3034 NOSIG RMK 8/100 HZ CI FYRN 251800Z 09006KT CAVOK 25/02 Q1021 SKBG 251900Z 34012KT 9999 -DZ SCT012 BKN080 23/21 A2992 MMMY 251840Z 11009KT 6SM SKC 30/17 A3001 RMK ISOL SC HZY MMMZ 251846Z 28004KT 12SM SCT024TCU BKN080 OVC100 31/26 A2994 RMK 8/27/ BINOVC SKAR 251900Z 34003KT 9999 SCT030 30/16 A2996 MMPA 251940Z 10006KT 6SM BKN020TCU 32/24 A3002 RMK 8/200 HZY CB FRMG ALQDS RTS MMPB 251845Z 02004KT 8SM FEW018 22/05 A3034 RMK 8/100 HZY SKCC 251900Z 13018KT 9999 FEW022 SCT200 35/18 A2975 FYRU 251900Z AUTO 14003KT //// // ////// 22/01 Q1025 MMPE 251504Z 10010KT 8SM SKC 30/20 A2990 RMK HZY SKBO 251900Z 17007KT 9999 SCT020 SCT080 19/07 A3027 SKCG 251900Z 36010KT 9999 SCT015 SCT200 31/27 A2973 MMPG 251840Z 12008KT 10SM FEW030 33/21 A3003 RMK 8/500 HZY SKBQ 251900Z 02010KT 9999 SCT015 SCT200 33/25 A2976 SKCL 251900Z 32014KT 9999 FEW040 BKN120 31/19 A2987 MMPN 251842Z 18010KT 8SM FEW025CB SCT070 BKN120 BKN260 22/15 A3021 RMK 8/972 HZY PCPN ZNS ARND MMOX 251845Z 00000KT 12SM SCT025 25/13 A3022 RMK 8/100 MMPQ 251843Z 00000KT 7SM BKN030 31/23 A2991 RMK 8/100 HZY MSGTX MMMD MMPR 251844Z 25004KT 15SM BKN100 OVC150 29/24 A2993 RMK 8/07/ BINOVC DSNT TCU-NE MMPS 251845Z RTD 22008KT 15SM SKC 31/26 A2995 RMK CU N HZY YHBA 251930Z AUTO 21005KT 9999 // ////// 10/05 Q1016 SKEJ 251900Z 00000KT 9999 FEW010TCU SCT200 31/24 A2973 RMK TCU/SE YFRT 252000Z AUTO 11004KT //// // ////// 03/03 Q1025 MMQT 251845Z 13003KT 6SM SCT020TCU BKN100 22/13 A3034 RMK 8/230 HZY BKPR 252000Z 02009KT 9999 FEW050 21/15 Q1021 NOSIG FYWB 251500Z 30008KT CAVOK 24/13 Q1011 MMSD 251845Z 11014KT 12SM FEW040TCU SCT120 32/21 A2995 RMK 8/230 CI FYWE 251500Z 12006KT CAVOK 27/M07 Q1025 MNJG 251900Z 36006KT 9999 SCT020 27/21 Q1010 YGLA 252000Z AUTO 19004KT 9999 // SCT068 13/05 Q1016 YGLB 251930Z AUTO 35002KT //// // ////// M01/M02 Q1017 FYWH 251900Z 00000KT CAVOK 12/M14 Q1028 TAPA 251900Z 10009KT 9999 FEW018 30/24 Q1012 NOSIG MMSL 251746Z 21005KT 10SM SCT150 29/21 A3004 RMK 8/030 MMTC 251840Z 00000KT 10SM BKN020 BKN080 28/18 A3016 RMK 8/170 ISOL TCU SC YHAY 251930Z AUTO 23006KT //// // ////// M00/M01 Q1021 MMRX 251841Z 13010KT 8SM FEW035 34/15 A2998 RMK 8/100 HZY FU MMSP 251845Z 05005KT 15SM SCT025TCU BKN080 21/11 A3028 RMK 8/230 GQNO 251930Z 28011KT 8000 NSC 26/23 Q1007 NOSIG MMTG 251842Z 06005KT 8SM FEW018 30/18 A2996 RMK 8/100 MMTJ 251845Z 30009KT 6SM SKC 24/14 A2999 RMK HZY ST W MNJU 251900Z 09006KT 9999 SCT020 SCT080 32/24 Q1011 MMTM 251844Z 14006KT 7SM SCT020 31/22 A3000 RMK 8/100 HZY YFTZ 252000Z AUTO 18005KT //// // ////// 13/M05 Q1014 FYWW 251900Z AUTO 10006KT //// // ////// 20/M12 Q1027 MMTO 251846Z 21004KT 6SM SCT015TCU SCT070 BKN200 20/07 A3041 RMK 8/232 MMTP 251941Z 26010KT 10SM SCT030CB 31/26 A2978 RMK 8/300 YGLS 252000Z AUTO 10011KT //// // ////// 06/M03 Q1021 SKIB 251900Z 19008KT 9999 FEW030 SCT100 35/15 A2997 MMVA 251843Z 00000KT 7SM SCT012 SCT120 32/23 A2995 RMK 8/120 HZY K04V 251936Z AUTO 23008KT 10SM VCTS SCT050 SCT065 BKN120 18/06 A3034 RMK AO2 LTG DSNT SW MMUN 251943Z 04005KT 7SM SCT018 BKN250 32/24 A2990 RMK 8/108 MDT CU K06D 251935Z AUTO 29013G18KT 10SM CLR 19/07 A3009 RMK AO2 K04W 251933Z AUTO 28011G16KT 10SM BKN041 OVC047 20/12 A3003 RMK AO2 MNMG 251900Z 07010KT 9999 SCT023TCU 34/22 Q1008 A2978 TCU/N/E/S NOSIG GQPP 251900Z 35018KT 4000 DRSA NSC 22/19 Q1007 TEMPO 6000 K05U 251840Z AUTO 04006KT 10SM CLR 23/M08 A3019 RMK A01 SKIP 251900Z 10012KT 9999 SCT020 15/05 A3039 MMVR 251845Z 03008KT 7SM SCT015TCU 31/23 A2998 RMK 8/200 HZY DSNT CB SE SLAL 251900Z 04012KT 9999 FEW020 22/M03 Q1026 K08D 251955Z AUTO VRB05G18KT 10SM FEW065 20/05 A3015 RMK AO2 LWOH 252000Z 36006KT 9999 SCT050 21/14 Q1020 SLCA 251900Z 36005KT 5000 FU NSC 32/09 Q1013 SLCB 251900Z 01006KT 9999 FEW033 FEW036CB SCT200 26/M01 Q1021 SKLC 251900Z 04007KT 9999 TS SCT015CB BKN070 28/25 A2979 RMK CB VCSH/NE/E LXGB 251850Z 08011KT 9999 FEW013 SCT200 23/21 Q1014 NOSIG MNPC 251900Z 08008KT 8000 BKN016 31/27 Q1010 HZ NFFN 252000Z 06003KT 9999 FEW030 22/17 Q1018 NOSIG YHID 252000Z AUTO 00000KT 9999 // NCD 23/22 Q1012 SKMD 251900Z 36006KT 9999 SCT030 SCT100 28/13 A3003 MMZC 251842Z 07004KT 10SM BKN030 19/11 A3034 RMK 8/400 SLCO 251900Z 04005KT 6000 FEW035 35/21 Q1012 SLCP 251900Z 30010KT 2500 FU NSC 35/15 Q1015 MMZH 251845Z 23005KT 6SM FEW015 BKN250 33/25 A2987 RMK 8/102 HZY ISOL AC SKLT 251900Z 08003KT 9999 SCT020 SCT200 33/22 A2984 MMZO 251841Z 21010KT 10SM FEW020 SCT210 33/26 A2988 RMK 8/104 SKMR 251900Z 29006KT 9999 FEW018 BKN120 32/25 A2975 K11R 251935Z AUTO 05004KT 10SM SCT040 33/23 A3005 RMK AO2 LTG DSNT E AND SE T03300231 YGTE 252000Z AUTO 13005KT //// // NCD 22/17 Q1014 YGTH 251930Z AUTO 00000KT 9999 // NCD M01/M01 Q1020 K12N 251954Z AUTO VRB03KT 26/22 A3003 RMK AO1 SLP162 T02560217 SKMZ 251900Z 03010KT 8000 VCSH BKN030 17/15 A3024 RMK VCSH/NW/N/NE YHLC 252000Z AUTO 11004KT //// // ////// 16/M05 Q1016 MNRS 251900Z 08004KT 9999 FEW012CB BKN015 30/26 Q1009 CB/NE/E/SE/S SLET 251900Z 31019G34KT 4000 FU NSC 33/15 Q1010 TBPB 251900Z 13011KT 9999 FEW020 BKN300 31/24 Q1012 NOSIG SKPC 251900Z 19010KT 9999 VCSH BKN020TCU 32/23 A2971 RMK VCSH/TCU/S LWSK 252000Z 01011KT 9999 FEW050 25/16 Q1018 NOSIG YGTN 252000Z AUTO 21006KT 9999 // SCT095 16/11 Q1016 SKNV 251900Z 19010KT 9999 BKN110 37/10 A2979 NFKD 251800Z AUTO 06003KT //// 18/17 Q1019 SKPE 251900Z 01006KT 9999 FEW025 SCT100 28/16 A2996 LYBE 251930Z 30004KT CAVOK 22/15 Q1020 NOSIG MPBO 251800Z 00000KT 9999 SCT018 SCT080 ///// Q1013 SKPS 251900Z 16009KT 9999 SCT030 28/07 A3008 YHML 251930Z AUTO 32004KT 7000 // OVC037 04/03 Q1021 MPDA 251925Z 12008KT RA SCT005 SCT015CB BKN090 Q1009 RWY WET LYBT 251930Z 28005KT CAVOK 20/15 Q1020 NOSIG SKPV 251900Z VRB02KT 9999 FEW018 31/26 A//// SKRG 251900Z 10010KT 9999 FEW023TCU SCT200 23/09 A3021 RMK TCU W/N SKRH 251900Z 01012KT 9999 FEW020 31/27 A2972 K14Y 251933Z AUTO 23011G15KT 10SM BKN026 OVC034 17/11 A3009 RMK AO2 NFNA 252000Z 00000KT 9999 FEW020 20/18 Q1019 K0A9 251935Z AUTO VRB05KT 10SM FEW041 31/21 A3016 RMK AO2 SLJE 251900Z 36004KT 3000 FU FEW020 37/19 Q1013 YIFL 251930Z AUTO 23005KT 9999 // SCT034 BKN125 20/19 Q1013 K18A 251935Z AUTO 00000KT 10SM SCT040 33/23 A3014 RMK AO2 T03280229 SKSM 251900Z 31006KT 9999 FEW020TCU BKN200 32/26 A2974 RMK TCU/SE YHOO 252000Z AUTO 12004KT //// // ////// 10/M03 Q1016 SLJO 251900Z 32006KT 5000 FU NSC 35/18 Q1014 SKSP 251900Z 04004KT 9999 FEW018 SCT200 30/27 A2982 NFNR 251700Z AUTO 12007KT //// 27/24 Q1014 SKUC 251900Z 32005KT 9999 BKN015TCU 29/27 A2983 RMK TCU N/NW TDCF 251900Z 14006KT 9999 BKN020 31/21 Q1011 SKUI 251900Z 00000KT 9999 BKN020 30/24 A2977 NGFU 251900Z 08006KT 9999 FEW020TCU 29/25 Q1013 K0E0 251935Z AUTO 35004KT 10SM VCTS CLR 25/07 A3028 RMK AO2 LTG DSNT SW THRU NE T02460073 K21D 251933Z AUTO 28007KT 10SM CLR 22/14 A3006 RMK AO2 SLMG 251900Z 27006KT 5000 FU NSC 36/19 Q1013 SLLP 251900Z 11010KT 090V150 9999 SCT020 FEW023CB BKN200 13/M02 Q1035 YJAB 252000Z AUTO 14003KT //// // ////// 25/22 Q1013 K20U 251935Z AUTO 28012G16KT 10SM SCT055 BKN080 19/04 A3022 RMK AO2 K20V 251936Z AUTO 31006KT 294V354 10SM SCT050 OVC090 15/00 A3031 RMK AO2 P0001 LTG DSNT ALQS K0F2 251935Z AUTO 19003KT 10SM SCT049 33/20 A3006 RMK AO2 T03320199 SKVP 251900Z 22008KT 9999 SCT015TCU SCT200 32/22 A2980 RMK TCU S/N K0CO 251942Z AUTO 34006KT 10SM TS SCT049 SCT060 BKN120 05/M02 A3058 RMK AO2 LTG DSNT S THRU NW SKVV 251900Z 20004KT 9999 SCT023 BKN090 30/20 A2990 K22N 251935Z AUTO 00000KT 10SM OVC041 26/21 A3004 RMK AO2 HKEL 251900Z 00000KT 9999 FEW017 SCT080 14/13 YHUG 252000Z AUTO 23006KT //// // ////// 10/07 Q1019 NFTF 251900Z 00000KT 9999 FEW018 BKN030 21/14 Q1022 SLOR 251900Z 19007KT 9999 FEW020 18/M01 Q1034 K24J 251955Z AUTO 05006KT CLR 33/18 A3007 RMK AO1 NFTL 251900Z 10010KT 9999 SCT010 SCT017 BKN100 22/14 Q1020 SLPO 251900Z 25005KT 9999 NSC 17/M02 Q1035 SLPS 251900Z 06008KT 9000 NSC 36/16 Q1011 SLRB 251900Z 36020KT 8000 NSC 37/19 Q1013 NFTV 251900Z 09007KT 9999 FEW017 BKN040 22/16 Q1020 LYKV 251930Z VRB01KT 9999 SCT046 21/21 Q1021 NOSIG MPMG 251915Z 23003KT 9000 VCSH FEW008 SCT015CB SCT090 26/25 Q1010 RETSRA RWY WET K0J4 251858Z AUTO 05008KT 10SM FEW046 32/20 A3011 RMK AO2 SLP192 T03170200 SLRI 251900Z 34008KT 3000 FU NSC 35/19 Q1011 K1A5 251940Z AUTO 28007KT 10SM SCT080 31/20 A3018 RMK AO2 T03070195 SLSA 251900Z 32007KT 5000 FU FEW020 36/18 Q1011 K1A6 251935Z AUTO 00000KT 10SM SCT045 SCT050 SCT060 29/25 A3015 RMK AO2 T02930249 K1A9 251935Z AUTO 00000KT 10SM OVC049 35/22 A3009 RMK AO2 T03520221 SLRQ 251900Z 36004KT 4000 FU FEW017 32/24 Q1011 SLSI 251900Z 33010KT 6000 SCT020 32/18 Q1012 LYNI 251930Z 31006KT CAVOK 22/18 Q1020 K1B7 251925Z 09018KT 10SM SCT025 32/26 A3006 SMJP 250300Z 08002KT CAVOK 26/23 Q1013 NOSIG SLRY 251900Z 35008KT 3000 FU NSC 33/22 Q1013 SLTJ 251900Z 13010KT 9999 NSC 31/02 Q1016 MPPA 251900Z 29004KT 8000 -RA FEW001 SCT016CB BKN090 22/21 Q1010 RWY WET K28J 251935Z AUTO 09013G19KT 10SM BKN090 31/31 A3005 RMK AO2 TSNO HKJK 251900Z 14007KT CAVOK 17/09 Q1024 NOSIG K1AM 251858Z AUTO 32005KT 10SM CLR 18/03 A3024 RMK AO2 SLP193 T01770030 $ K1AN 251856Z AUTO 30012G18KT 10SM SCT043 BKN075 20/08 A3007 RMK AO2 SLP203 T01990077 $ LYPG 251930Z 02009KT 9999 FEW040 28/14 Q1015 NOSIG SLTR 251900Z 24006KT 160V280 5000 FU NSC 34/18 Q1011 HKKI 251900Z 36008KT 9999 FEW022CB BKN090 21/18 Q1019 K1BM 251858Z AUTO 09005KT 10SM SCT065 SCT075 17/04 A3024 RMK AO2 SLP247 T01690036 $ K1BN 251856Z AUTO 30014G21KT 10SM SCT045 BKN075 19/07 A3013 RMK AO2 SLP207 T01910073 PWINO $ K1AW 251858Z AUTO 14006G12KT 10SM BKN036 17/06 A3029 RMK AO2 SLP226 T01650058 $ ZBAA 251930Z 36003MPS CAVOK 15/11 Q1017 NOSIG LZIB 251930Z VRB02KT CAVOK 19/13 Q1022 SLVM 251900Z 03005KT 2000 FU NSC 35/13 Q1008 K1F0 251935Z AUTO 16005KT 10SM BKN050 33/16 A3005 RMK AO2 K1CM 251858Z AUTO 35004KT 10SM BKN055 15/02 A3026 RMK AO2 SLP250 T01530023 $ K1CN 251856Z AUTO 30012G20KT 10SM FEW055 BKN075 20/07 A3014 RMK AO2 SLP210 T02000068 $ K1BW 251858Z AUTO M 10SM BKN037 16/07 A3032 RMK AO2 SLP233 T01640066 $ SLVR 251900Z 33015G26KT 3000 FU NSC 33/14 Q1011 HKML 251600Z 17013KT 9999 FEW022 SCT080 25/20 Q1016 K1DM 251858Z AUTO M 10SM CLR 17/04 A3021 RMK AO2 LTG DSNT NW SLP244 T01700044 $ K1DN 251856Z AUTO 34007KT 10SM BKN055 18/07 A3014 RMK AO2 SLP212 T01830065 PWINO $ K1CW 251858Z AUTO 08006G14KT 10SM CLR 18/06 A3032 RMK AO2 SLP234 T01810059 $ HKMO 251900Z 17006KT 9999 FEW020 24/21 Q1018 NOSIG GUCY 251900Z 29004KT 9999 BKN013 FEW023CB BKN110 26/24 Q1011 CB/NE-N NOSIG SLYA 251900Z 00000KT 4000 FU NSC 33/12 Q1010 YJLC 252000Z AUTO 17007KT //// // ////// 08/06 Q1019 NGTA 251900Z 12004KT 9999 FEW020 SCT300 27/23 Q1011 TDPD 251900Z 13003KT 9999 BKN017 30/24 Q1013 MPSM 251900Z 24003KT 9999 SCT018CB BKN080 24/23 Q1009 RETSRA RWY DAMP K1EM 242058Z AUTO 31013G19KT 10SM FEW032 BKN047 BKN070 14/07 A3032 RMK AO2 SLP275 T01390065 $ K1H2 251935Z AUTO 00000KT 10SM SCT034 SCT043 BKN075 30/25 A3007 RMK AO2 T03030246 CERM 251900Z AUTO 25005KT 23/18 RMK AO1 PK WND 23022/1845 SLP100 T02280184 55006 K1EN 251856Z AUTO 32013G17KT M M FEW050 BKN060 18/06 A3012 RMK AO2 SLP211 T01830063 PWINO $ K0R0 251915Z AUTO 11006KT 10SM SCT041 SCT050 33/24 A3009 RMK AO2 K33V 251935Z AUTO 25013G22KT 10SM CLR 17/M05 A3032 RMK AO2 HKNW 251900Z 00000KT SKC 16/08 Q1023 MPTO 251920Z 10006KT 3200 +TSRA FEW005 SCT012CB OVC060 30/28 Q1009 RWY WET TEMPO 5000 TSRA K1FN 251856Z AUTO 29011G17KT 10SM FEW047 BKN070 BKN075 20/07 A3005 RMK AO2 SLP214 T01950070 $ K1EW 251858Z AUTO 10014G20KT 10SM SCT044 BKN100 19/07 A3028 RMK AO2 SLP224 T01860068 $ K0R4 251935Z AUTO 04006KT 10SM CLR 33/24 A3005 RMK AO2 LTG DSNT SE THRU SW T03300241 NGTT 251900Z 13006KT 9999 FEW020 SCT300 27/23 Q1011 K1J0 251858Z AUTO 04007KT 10SM FEW049 32/21 A3009 RMK AO2 SLP147 T03220211 K2A0 251935Z AUTO VRB04KT 10SM 34/23 A3011 RMK A01 YIVO 251930Z AUTO 23005KT //// // ////// 03/02 Q1021 LYTV 251930Z VRB03KT CAVOK 28/14 Q1014 K1GM 251858Z AUTO 07004KT 10SM CLR 16/00 A3023 RMK AO2 SLP233 T01590000 $ K1GN 251856Z AUTO 30016G21KT 10SM FEW055 SCT070 21/05 A3011 RMK AO2 SLPNO T02060048 $ LZKZ 251930Z 01004KT CAVOK 19/12 Q1024 K0S9 251935Z AUTO 33007G13KT 300V010 10SM CLR 27/10 A3009 RMK AO2 K1K1 251935Z AUTO 31004KT 10SM SCT033 27/18 A3009 RMK AO2 T02690184 K1HM 251858Z AUTO 31005KT 10SM BKN070 BKN085 18/00 A3023 RMK AO2 SLP232 T01820001 $ K1HN 251856Z AUTO 29013G18KT 10SM FEW049 BKN070 21/06 A3013 RMK AO2 SLP211 T02140057 $ K1GW 251858Z AUTO 14002G14KT 10SM CLR 20/05 A3026 RMK AO2 SLP219 T02030050 $ LYUZ 251930Z AUTO 34005KT //// // ////// 16/16 Q1024 LYVR 251930Z 00000KT CAVOK 19/19 Q1020 NOSIG K1L0 251935Z AUTO 14005KT 1SM VCTSHZ BKN038 BKN055 OVC120 29/25 A3006 RMK AO2 VIS M1/4V5 LTG DSNT ALQS T02870248 GVAC 252000Z 02019KT 9999 FEW014 26/22 Q1009 NOSIG K36U 251935Z AUTO 00000KT 10SM CLR 22/M02 A3013 RMK AO2 K1IN 251856Z AUTO 27011G16KT 10SM FEW060 21/03 A3013 RMK AO2 SLPNO T02050029 $ K1HW 251858Z AUTO 08007G17KT 10SM CLR 20/07 A3027 RMK AO2 SLP233 T01960070 $ SOCA 251930Z AUTO 08012KT CAVOK 30/24 Q1010 TEMPO 3000 SHRA SCT015TCU GVBA 251900Z 01018KT 9999 SCT015 28/23 Q1010 NOSIG K2C8 251935Z AUTO 36009KT 10SM FEW044 SCT049 BKN060 20/09 A3003 RMK AO2 K40B 251916Z AUTO 20013G21KT 170V230 25/17 A2986 RMK AO1 SLP104 T02460171 58008 K1JM 251858Z AUTO 24003KT 10SM SCT065 18/01 A3023 RMK AO2 SLP246 T01770008 $ ZBHH 251900Z 06002MPS CAVOK 09/04 Q1023 NOSIG K1JN 251856Z AUTO M 10SM FEW048 19/05 A3012 RMK AO2 SLP206 T01930052 $ K1IW 251858Z AUTO 11009G16KT 10SM FEW060 22/05 A3025 RMK AO2 SLP218 T02150046 $ K1M4 251856Z AUTO 00000KT 10SM SCT040 SCT050 33/23 A3016 RMK AO2 SLP215 T03280228 K0V4 251935Z AUTO 17003KT 10SM BKN038 BKN047 33/23 A3007 RMK AO1 T03250232 K1M5 251935Z AUTO 26007KT 10SM CLR 33/23 A3012 RMK A01 K2D5 251935Z AUTO RMK AO2 PWINO PNO TSNO K40J 251935Z AUTO 04008KT 10SM SCT060 33/18 A3005 RMK AO2 T03260177 K1KM 251858Z AUTO 03005KT 10SM CLR 18/M01 A3025 RMK AO2 SLP241 T01771009 $ K1KN 251856Z AUTO 31010G18KT 10SM FEW045 SCT050 20/02 A3013 RMK AO2 SLP208 T01970024 $ K1JW 251858Z AUTO 13010G16KT 10SM CLR 20/05 A3026 RMK AO2 SLP220 T02040050 $ YKII 252000Z AUTO 25015KT 9999 // SCT033 OVC040 10/03 Q1018 LZPP 251930Z VRB02KT CAVOK 19/13 Q1023 HLLM 251950Z 02008KT 6000 SCT020 26/19 Q1015 K1LM 251858Z AUTO 01007G19KT 10SM CLR 16/M02 A3025 RMK AO2 SLP249 T01641020 $ K1LN 251856Z AUTO 34011G16KT 10SM SCT055 21/05 A3012 RMK AO2 SLP202 T02120047 $ K1KW 251858Z AUTO 13011G20KT 10SM FEW046 19/07 A3026 RMK AO2 SLP221 T01890069 $ AYGN 250600Z 24005KT 9999 BKN020 SCT050 29/24 Q1009 RMKS K0VG 251930Z AUTO 26005KT 10SM CLR 32/21 A3018 RMK AO2 YLBD 252000Z AUTO 14005KT 9999 // NCD 20/05 Q1012 K42J 251935Z AUTO 08010KT 10SM FEW048 32/20 A3004 RMK AO1 TSNO MSAC 251950Z 19004KT 9999 FEW040 34/25 Q1009 A2981 K1P1 251955Z AUTO 00000KT 10SM OVC080 26/19 A2995 RMK AO2 T02560185 K1MM 251858Z AUTO 35006KT 10SM CLR 17/00 A3025 RMK AO2 SLP247 T01661004 $ TFFF 251930Z AUTO 11010KT 9999 FEW036 32/23 Q1011 TEMPO 12015G25KT 3000 SHRA FEW018CB SCT023TCU K1MN 251856Z AUTO 29012G18KT 10SM FEW055 21/04 A3011 RMK AO2 SLP202 T02060042 PWINO $ K1LW 251858Z AUTO M 10SM FEW110 20/05 A3029 RMK AO2 SLP217 T01970051 $ K2G4 251945Z AUTO 28004KT 10SM SCT018 BKN024 BKN030 24/20 A3019 RMK AO1 K2DP 251856Z AUTO 18010KT 10SM FEW050 29/20 A3012 RMK AO2 SLPNO T02850198 $ K2G9 251935Z AUTO 26008KT 10SM SCT032 27/19 A3013 RMK AO2 LZSL 251930Z 35002KT 9999 SCT062 18/14 Q1024 K1NM 251858Z AUTO 31002KT 10SM FEW060 17/01 A3021 RMK AO2 SLP238 T01720005 $ K1NN 251856Z AUTO 32009G22KT 10SM SCT050 21/08 A3011 RMK AO2 SLP198 T02050080 PWINO $ K1MW 251858Z AUTO 11011G20KT 10SM CLR 21/04 A3025 RMK AO2 SLP221 T02110043 $ TFFR 251930Z AUTO 12012KT 090V150 9999 BKN027/// BKN045/// ///CB 30/24 Q1012 TEMPO 3000 SHRA SCT015TCU MRLB 251900Z 12008KT 9999 SCT035 SCT120 33/23 A2980 NOSIG K2I0 251935Z AUTO 24007KT 10SM CLR 34/20 A3010 RMK AO2 T03380204 K1OM 251858Z AUTO M 10SM FEW060 17/04 A3022 RMK AO2 LTG DSNT NW SLP234 T01710039 $ K1ON 251856Z AUTO 30013G21KT 10SM SCT050 21/09 A3009 RMK AO2 SLP197 T02080089 PWINO $ K1NW 251858Z AUTO 11012G17KT 10SM CLR 21/05 A3024 RMK AO2 SLP205 T02120053 TSNO $ YLEC 252000Z AUTO 14005KT //// // ////// 06/00 Q1022 K1R7 251955Z AUTO 00000KT 10SM FEW038 A3006 RMK AO2 LTG DSNT S LZTT 251930Z VRB01KT 9999 SCT046 14/11 Q1026 MRLM 251900Z 09007KT CAVOK 30/25 A2981 YKMP 251930Z AUTO 26005KT //// // ////// 03/02 Q1016 SMZO 250000Z 00000KT 9999 SCT015 FEW018CB 29/23 Q1011 NOSIG K46D 251935Z AUTO 33009G17KT 10SM FEW043 FEW049 FEW055 20/09 A3011 RMK AO2 K1OW 251858Z AUTO M 10SM FEW120 19/03 A3027 RMK AO2 SLP211 T01910031 PWINO $ K1S5 251955Z AUTO 15005KT 10SM CLR 28/08 A3007 RMK AO2 T02790083 K2J9 251935Z AUTO FEW060 32/18 A3007 RMK AO1 YLEO 252000Z AUTO 02011KT 9999 // NCD 10/M01 Q1020 YKNT 252000Z AUTO 13014KT //// // ////// 10/M03 Q1020 MROC 251900Z 24013KT 9999 FEW025 SCT050 BKN250 26/20 A2997 NOSIG K46U 251920Z AUTO VRB03KT 9SM CLR 21/M01 A3020 RMK A01 K49A 251935Z AUTO 31004KT 10SM BKN047 A3020 RMK AO2 YKOW 252000Z AUTO 16006KT //// // SCT110 20/10 Q1015 K3D2 251935Z AUTO 25008KT 230V300 10SM CLR 24/16 A2996 RMK AO2 T02410159 YLHI 252000Z AUTO 16003KT 9999 // SCT059 16/09 Q1013 K1V4 251954Z AUTO 26/19 A2992 RMK AO1 SLP123 T02560189 SPCL 251900Z 02006KT 9999 SCT020 32/22 Q1012 RMK PP000 K3AU 251935Z AUTO 24005KT 10SM SCT032 SCT090 28/20 A3008 RMK AO2 YLHR 252000Z AUTO 00000KT //// // OVC035 24/23 Q1012 LZZI 251930Z 12004KT CAVOK 17/13 Q1023 YKSC 252000Z AUTO 00000KT 9999 // OVC041 08/07 Q1023 AYNZ 251900Z 00000KT 9999 FEW030 23/23 Q1011 MRPV 251900Z 10007KT 9999 FEW045 SCT100 BKN200 28/15 A2996 NOSIG YMBA 252000Z AUTO 00000KT //// // ////// 18/16 Q1015 YLIS 251930Z AUTO 01007KT 9999 // NCD 06/05 Q1016 ZBSJ 251900Z 34002MPS CAVOK 19/18 Q1017 NOSIG OAHR 251655Z 03014KT CAVOK 26/09 Q1015 RMK BLU YMBD 252000Z AUTO 28009KT 9999 // BKN045 07/04 Q1023 YKRY 252000Z AUTO 00000KT 9999 // NCD 00/M01 Q1018 K2P2 251940Z AUTO 22009KT 10SM SCT120 24/16 A2995 RMK AO2 T02360156 ZBTJ 251930Z 33002MPS 6000 NSC 19/15 Q1016 NOSIG AYPY 251900Z 00000KT 9999 BKN040 24/23 Q1010 OAKB 251850Z 00000KT CAVOK 22/13 Q1018 NOSIG RMK BLU BLU YMAV 251930Z AUTO 30008KT 9999 // OVC052 06/06 Q1020 YLLE 252000Z AUTO 13011KT 9999 // BKN082 09/05 Q1021 YMAY 251930Z AUTO 17003KT 9999 // OVC004 01/01 Q1020 GVNP 251900Z 03017KT 9999 FEW016 29/22 Q1009 NOSIG OBBI 251900Z 10006KT 8000 SKC 35/28 Q1003 NOSIG K54J 251935Z AUTO 05009G16KT 10SM BKN049 32/20 A3008 RMK AO2 T03180200 SPGM 251900Z /////KT 9999 FEW040 32/20 Q1014 RMK BIRD HAZARD RWY19 PP000 YMCO 252000Z AUTO 28008KT //// // ////// 07/05 Q1017 NIUE 251900Z AUTO 12008KT //// // ///////// 20/14 Q1021 YMDG 251930Z AUTO 03004KT 360V070 //// // ////// M00/M01 Q1017 MTCH 251900Z 36007KT 7000 SCT020CB BKN060 31/24 Q1008 A2978 SPHI 251900Z 19014KT CAVOK 23/17 Q1011 RMK BIRD HAZARD RWY 19/01 PP000 SPHO 251900Z VRB03KT 9999 SCT040TCU 24/11 Q1025 RMK PP000 MSLP 251850Z 23009KT 190V260 9999 FEW036 33/26 Q1009 A2981 YMEK 252000Z AUTO 04008KT 9999 // NCD 11/M02 Q1018 K4A6 251935Z AUTO 30005KT 10SM FEW045 33/23 A3012 RMK AO2 K4A7 251935Z AUTO 34003KT 10SM SCT048 33/24 A3014 RMK AO2 T03260236 K3J7 251935Z AUTO 18004KT 10SM BKN048 BKN060 OVC075 33/22 A3010 RMK AO2 SPJC 251900Z 19010KT 150V220 9999 BKN015 20/15 Q1013 NOSIG RMK PP000 MSLU 251950Z 16004KT CAVOK 38/23 Q1007 A2975 YMEN 251930Z AUTO 30007KT 9999 // BKN047 06/05 Q1020 K1YT 251923Z AUTO 02010G20KT 4SM M M 30/02 A3007 RMK AO2 $ K4A9 251935Z AUTO 02004KT 10SM CLR 32/18 A3013 RMK AO2 K57C 251935Z AUTO 28005KT 10SM SCT120 26/16 A3004 RMK AO2 T02550164 SPHY 251900Z /////KT 9999 SCT015 SCT070 15/06 Q1034 RMK BIRD HAZARD RWY03/21 PP000 K3K3 251935Z AUTO 03008KT 10SM BKN023 OVC028 20/15 A3021 RMK AO2 YMER 251930Z AUTO 27009KT 9999 // NCD 07/02 Q1017 SPJI 251900Z 00000KT CAVOK 35/21 Q1020 RMK PP000 YMGB 252000Z AUTO 15006KT //// // ////// 24/21 Q1013 OAMS 251850Z 22008KT 9999 FEW200 29/M02 Q1013 BLU+ BLU+ YMGD 252000Z AUTO 19004KT 9999 // SCT025 OVC034 25/20 Q1013 SPJL 251900Z VRB03KT 9999 SCT020 19/01 Q1034 RMK PP000 AYVN 250600Z 09007KT 9999 FEW020 31/25 Q1008 SPJR 251930Z 04012KT 360V090 9999 FEW027 24/04 Q1026 YMHB 251930Z AUTO 33010KT 9999 // NCD 06/01 Q1013 ZBYN 251930Z 01001MPS CAVOK 18/14 Q1019 NOSIG AYWK 250000Z 18007KT 9999 FEW020 SCT300 30/24 Q1011 K2V5 251855Z AUTO 09007G15KT 10SM CLR 25/05 A3023 RMK AO2 LTG DSNT W YMIA 252000Z AUTO 21005KT 9999 // NCD 03/02 Q1023 YLRE 252000Z AUTO 16007KT 9999 // BKN056 09/07 Q1019 SPME 251900Z 33006KT 9999 SCT025 26/20 Q1009 RMK BIRD HAZARD RWY 32/14 PP000 SPLO 251900Z 17008KT 9999 OVC030 19/13 Q1013 RMK PP000 K4BM 251937Z AUTO 21004KT 10SM SCT055 13/M02 A3055 RMK AO2 LTG DSNT S GVSV 251900Z 08021KT 9999 FEW017 29/22 Q1010 NOSIG K3LF 251935Z AUTO 22004KT 10SM CLR 34/22 A3006 RMK AO2 T03350218 K2W6 251945Z AUTO 22008KT 10SM SCT065 30/20 A3006 RMK AO1 YMHU 252000Z AUTO 14007KT 9999 // NCD 19/00 Q1017 K3N8 251935Z AUTO 31011G18KT 10SM BKN029 BKN035 OVC043 17/11 A3005 RMK AO2 T01660111 YMIN 252000Z AUTO 10004KT //// // ////// 04/03 Q1023 SPMS 251900Z 08005KT 9999 FEW015 34/21 Q1014 RMK BIRD HAZARD RWY 09/27 PP000 MSSA 251950Z 14001KT 9999 FEW037 32/19 Q1017 A3003 YNAR 252000Z AUTO 00000KT //// // ////// 00/00 Q1021 YLST 252000Z AUTO 06007KT 9999 // NCD 05/M02 Q1020 YLTN 252000Z AUTO 05009KT //// // ////// 08/M00 Q1021 MSSM 251950Z 22007KT 9999 SCT030 34/22 Q1007 A2976 DAAD 251800Z 09008KT CAVOK 34/10 Q1012 YNBR 251930Z AUTO 00000KT 9999 // NCD 02/00 Q1018 DAAE 251900Z 00000KT 9999 FEW016 26/23 Q1014 YMMB 252000Z AUTO 30004KT 9999 // SCT030 SCT035 BKN050 08/06 Q1020 DAAG 251930Z 03007KT 360V060 9999 SCT013 24/21 Q1015 MSSS 251950Z 34006KT 9999 FEW040 31/21 Q1015 A2998 DAAJ 251900Z 00000KT 9999 FEW046 SCT100 33/09 Q1014 MUCC 251850Z 06014KT 9000 FEW020 33/24 Q1012 DABB 251930Z 05008KT CAVOK 25/22 Q1014 DABC 251930Z 05005KT 020V080 CAVOK 24/14 Q1018 K4I3 251935Z AUTO 23009G16KT 200V270 10SM SCT035 SCT044 SCT060 32/24 A3006 RMK AO2 MUCF 251850Z VRB05KT 9999 BKN020 36/23 Q1011 K2WX 251856Z AUTO 31011KT 18/06 A3018 RMK AO1 SLP217 T01830056 YMLT 251949Z AUTO 33006KT 0250 // BKN001 00/M00 Q1014 DAAP 251900Z 01015KT 9999 FEW040 36/05 Q1011 YMML 251930Z 29007KT 9999 BKN045 05/04 Q1020 NOSIG K4I7 251935Z AUTO 26005KT 10SM SCT043 SCT050 30/23 A3008 RMK AO2 K3R7 251914Z AUTO 00000KT 10SM SCT035 SCT070 32/24 A3003 RMK AO2 LTG DSNT ALQS YMND 251930Z AUTO 29009KT 9999 // NCD 06/03 Q1016 YMNE 252000Z AUTO 07005KT 9999 // NCD 04/M02 Q1020 MUCL 251850Z 09006KT 020V140 9000 FEW020 32/23 Q1012 DAAS 251900Z 04010KT 9999 FEW030 26/12 Q1019 DAAT 251930Z 14006KT 9999 FEW040CB BKN046TCU 29/05 Q1019 MUCM 251850Z 06016KT 030V090 9000 SCT020 35/21 Q1011 YMNG 252000Z AUTO 00000KT 9999 // BKN041 01/01 Q1021 DAAV 251900Z 00000KT CAVOK 26/21 Q1013 TGPY 251900Z 12013KT 9999 FEW018CB 31/26 Q1010 CB-S DAAY 251900Z 24010KT 7000 SCT030 30/16 Q1020 K5A6 251935Z AUTO 09003KT 10SM SCT048 SCT060 SCT100 35/23 A3006 RMK AO2 T03460227 SPQT 251900Z VRB04KT 9999 SCT020 FEW030TCU 32/22 Q1011 NOSIG RMK BIRD HAZARD RWY 06/24 PP000 K65S 251935Z AUTO 17003KT 10SM 23/04 A3016 RMK AO2 LTG DSNT N SPQU 251900Z 23009KT 200V300 CAVOK 20/M06 Q1025 NOSIG RMK PP000 YNEN 251930Z AUTO 13006KT 9999 // BKN074 OVC085 27/20 Q1012 DABS 251930Z 12004KT CAVOK 27/09 Q1019 MUCU 251851Z 15011KT 9000 SCT020CB 32/23 Q1010 DABT 251900Z 08014KT 9999 FEW026 28/13 Q1017 YMOG 252000Z AUTO 04006KT //// // ////// 10/01 Q1017 K3T5 251935Z AUTO 00000KT 10SM CLR 33/25 A3001 RMK AO2 LTG DSNT E T03290247 K66R 251935Z AUTO 08004KT 10SM CLR 33/23 A3002 RMK AO2 LTG DSNT NE T03300232 SPRU 251900Z 15010KT 9999 FEW010 24/17 Q1012 RMK PP000 K5C1 251935Z AUTO 16004KT 10SM CLR 30/17 A3009 RMK AO1 SPSO 251900Z 27007KT 220V310 CAVOK 21/15 Q1013 RMK BIRD HAZARD RWY 22/04 PP000 YMOR 251930Z AUTO /////KT 9999 // NCD 02/01 Q1018 DAEF 251800Z 03010KT CAVOK 33/04 Q1013 SPST 251900Z 21004KT 9999 SCT025 34/23 Q1011 RMK BIRD HAZARD RWY 17/35 PP000 SPTN 251900Z /////KT 9999 SCT030 19/12 Q1015 RMK PP000 DAEN 251800Z 02012KT CAVOK 34/07 Q1012 YMRB 252000Z AUTO 14009KT 9999 // SCT023 OVC110 13/09 Q1016 YNGU 252000Z AUTO 13004KT //// // ////// 20/18 Q1016 YNHL 252000Z AUTO 00000KT //// // ////// 01/01 Q1022 DAFH 251800Z 18010KT CAVOK 32/08 Q1016 MUHA 251855Z 06010KT 030V090 9000 FEW025TCU SCT030 33/23 Q1013 SPTU 251900Z VRB04KT 9000 FEW013 35/19 Q1011 RMK BIRD HAZARD RWY 01/19 HZ PP000 K4M9 251935Z AUTO 23004KT 10SM 33/24 A3007 RMK AO2 PWINO PNO MUGM 251856Z 10016KT 9999 -RA SCT030CB BKN055 BKN280 36/24 A2981 RMK RAB55 SLP094 CB OHD MOV SW T2 SET P0000 T03610239 MTPP 251900Z 12011KT 9999 SCT027 BKN050 29/23 Q1009 A2981 MUHG 251853Z 07012KT 020V100 9000 SCT025 34/22 Q1010 SPUR 251205Z 15006KT 9999 SCT013 19/16 Q1015 RMK BIRD HAZARD RWY 19/01 PP000 K4O4 251935Z AUTO 21006KT 10SM SCT040 SCT047 33/20 A3006 RMK AO2 YMRY 251930Z AUTO 27006KT 9999 // NCD 06/01 Q1017 YMTG 252000Z AUTO 31005KT 9999 // OVC037 07/04 Q1021 K4MR 251858Z AUTO 09006KT 10SM FEW040 25/14 A3019 RMK AO2 SLP170 T02500142 $ K5H4 251935Z AUTO 31013KT 10SM FEW043 FEW049 20/09 A3012 RMK AO2 P0033 PWINO PNO SPZA 251930Z 32005KT 230V360 CAVOK 28/16 Q1013 SPYL 251900Z 19015KT CAVOK 25/17 Q1010 RMK BIRD HAZARD RWY 17/35 PP000 DBBB 251900Z 21010KT 9999 SCT012 25/23 Q1011 NOSIG K6A1 251935Z AUTO 07006KT 10SM 34/20 A3013 RMK AO2 T03420203 K74V 251935Z AUTO 09004KT 10SM BKN110 21/02 A3019 RMK AO2 K6A2 251935Z AUTO 00000KT 10SM SCT047 SCT065 SCT080 33/23 A3015 RMK AO2 SPZO 251930Z 36011KT 310V060 9999 SCT046TCU SCT080 17/03 Q1028 RMK BIRD HAZARD RWY 28 UAAA 251930Z 21005MPS 9999 FEW050CB SCT100 21/07 Q1014 R88/CLRD65 NOSIG K6B0 251935Z AUTO 20008KT 10SM BKN036 OVC050 25/20 A2995 RMK AO2 T02490200 UAAH 251130Z 22004MPS CAVOK 29/02 Q1014 R05/0///60 NOSIG RMK QFE723/0965 YMYB 252000Z AUTO 23007KT 9999 // NCD 10/04 Q1017 K6B9 251935Z AUTO 22008KT 10SM FEW022 27/22 A2997 RMK AO2 UACC 251930Z VRB01MPS CAVOK 17/12 Q1019 R04/0/0070 NOSIG RMK QFE732/0977 K4V0 251935Z AUTO 07005KT 10SM BKN110 21/04 A3019 RMK AO2 LTG DSNT SE T02050040 DAOB 251900Z 32006KT CAVOK 27/12 Q1017 TJBQ 251950Z 09013G16KT 10SM SCT042 BKN075 30/25 A2989 DAOF 251900Z 18005KT 6000 FEW030CB BKN100 40/07 Q1008 YNRC 252000Z AUTO 35005KT //// // ////// 06/05 Q1022 UACK 251400Z 26003MPS CAVOK 25/11 Q1018 R02/010070 NOSIG RMK QFE740/0986 DAOI 251900Z 00000KT CAVOK 30/16 Q1011 K79J 251856Z AUTO 08006KT 10SM SCT047 BKN060 34/21 A3010 RMK AO2 SLP185 T03440206 K5LA 251935Z AUTO 08009G17KT 10SM FEW023 SCT095 30/24 A3005 RMK AO2 LTG DSNT N AND S AND SW UADD 251900Z 20004MPS 9999 NSC 20/05 Q1014 NOSIG RMK QFE704/0938 K5M9 251935Z AUTO 24007KT 10SM CLR 33/20 A3011 RMK AO2 T03330200 DAOL 251900Z 05014KT 9999 FEW026 SCT100 24/21 Q1014 UACP 251130Z 30004MPS 9999 FEW033CB SCT100 30/12 Q1017 NOSIG RMK QFE750/1000 DAON 251930Z 34008KT 9999 FEW026 SCT233 25/19 Q1014 DAOO 251930Z 06008KT 020V080 9999 FEW016 24/19 Q1014 DAOR 251900Z 19003KT 9999 FEW040 SCT100 35/09 Q1015 YPAD 251930Z 01004KT 9999 FEW018 BKN043 07/06 Q1023 NOSIG K82C 251935Z AUTO 26007KT 10SM CLR 25/17 A3005 RMK AO2 T02530168 YPAG 252000Z AUTO 00000KT 9999 // NCD 03/01 Q1024 DAOV 251900Z 35010KT 9999 FEW030 27/16 Q1014 DAOY 251900Z 33003KT 9999 FEW030 30/06 Q1020 YNSM 252000Z AUTO 03004KT //// // ////// 05/05 Q1021 OEAB 251900Z 18006KT 9999 SCT020 21/15 Q1023 NOSIG MUSC 251850Z 08012KT 060V120 9000 BKN020 33/23 Q1013 OEAH 251900Z 04004KT CAVOK 36/21 Q1004 NOSIG OEBA 251900Z 22005KT 8000 FEW030 28/20 Q1017 NOSIG YPCC 252000Z AUTO 14011KT //// // SCT076 26/23 Q1007 YOLD 252000Z AUTO 16007KT 9999 // NCD 06/03 Q1023 YNTN 252000Z AUTO 17009KT 9999 // NCD 15/07 Q1017 YPBO 252000Z AUTO 10004KT 9999 // NCD 12/M02 Q1017 K82V 251935Z AUTO 10011G16KT 10SM SCT049 SCT060 20/05 A3028 RMK AO2 OEAO 251900Z 33008KT 9999 SCT045 39/01 Q1009 OEBH 251900Z 13005KT CAVOK 33/04 Q1012 NOSIG OEAR 251900Z 00000KT CAVOK 35/20 Q1006 MWCB 251900Z 05008KT 040V110 9999 FEW018 32/26 Q1010 K6I2 251925Z AUTO 23008KT 10SM CLR 33/22 A3011 RMK AO2 YPEA 252000Z AUTO 03012KT 9999 // NCD 16/04 Q1013 YPED 252000Z AUTO 04004KT 9999 // SCT043 05/04 Q1024 K5R8 251935Z AUTO 12003KT 10SM SCT039 32/24 A3002 RMK AO2 LTG DSNT NE E AND W T03160237 YOLW 252000Z AUTO 10005KT //// // ////// 14/11 Q1015 DAUA 251900Z 15010KT 7000 FEW043TCU SCT046 40/01 Q1007 YPDN 251930Z AUTO 16009KT 9999 // BKN095 OVC110 26/13 Q1011 DAUB 251900Z 00000KT CAVOK 33/15 Q1013 TJIG 251948Z 16012KT 10SM SCT015 SCT030 BKN080 32/23 A2990 DATM 251200Z 27016KT 3000 DRSA NSC 38/19 Q1010 OEDF 251900Z 07004KT CAVOK 33/24 Q1003 NOSIG DAUE 251900Z 06008KT CAVOK 34/11 Q1014 UAII 251930Z 12003MPS CAVOK 19/06 Q1013 R10/0///70 NOSIG RMK QFE724/0966 MWCR 251900Z 05012KT 9999 SCT018 32/26 Q1011 NOSIG DAUG 251900Z 14010KT CAVOK 32/10 Q1015 DAUH 251930Z 08004KT CAVOK 31/13 Q1013 YOOD 252000Z AUTO 19006KT //// // ////// 06/04 Q1022 DAUI 251900Z 07021KT 8000 DRSA NSC 39/08 Q1008 YNWN 252000Z AUTO 22003KT 9999 // NCD 06/M02 Q1018 OEDM 251800Z 09016KT 9999 FEW040 36/01 Q1009 DAUK 251900Z 00000KT CAVOK 31/17 Q1013 DAUL 251900Z 21012KT 9999 FEW033 33/09 Q1015 DAUO 251900Z 10004KT CAVOK 32/14 Q1013 OEDR 251900Z 08008KT CAVOK 34/26 Q1002 NOSIG MUVR 251851Z 02015KT 9000 SCT020 33/24 Q1012 UBBB 251930Z 16005KT CAVOK 25/20 Q1013 R88/CLRD// NOSIG YOOM 252000Z AUTO 19006KT 9999 // NCD 08/05 Q1021 K5T9 251935Z AUTO 14010G17KT 100V190 10SM FEW050 33/19 A3001 RMK A01 DAUT 251900Z 06012KT CAVOK 39/09 Q1009 DAUU 251900Z 09008KT CAVOK 33/10 Q1013 ZGGG 251930Z 00000MPS 4500 BR SCT036 30/27 Q1002 NOSIG UBBG 251930Z 15013KT 9999 FEW050CB BKN100 30/12 Q1014 R12/CLRD// NOSIG K6L4 251935Z AUTO 25008KT 10SM SCT049 30/23 A3014 RMK AO2 ZGHA 251900Z 35005MPS 5000 BR NSC 30/26 Q1003 NOSIG DAUZ 251900Z 36010KT CAVOK 32/06 Q1012 UAKK 251930Z 12003MPS CAVOK 10/09 Q1019 R05/0///70 NOSIG RMK QFE717/0956 TIST 251853Z 12014KT 10SM FEW030 31/26 A2991 RMK AO2 SLP128 T03060256 UBBL 252000Z 00000KT 9999 NSC 25/22 Q1012 R33/CLRD// RMK MT OP UBBN 251930Z 09008KT 9999 FEW050CB SCT100 28/07 Q1013 R14R/CLRD// NOSIG RMK MT OP QFE685 TISX 251953Z 13010KT 10SM FEW030 SCT045 32/25 A2990 RMK AO2 SLP125 T03170250 K5SM 251932Z AUTO 03012G25KT 350V080 10SM SCT050 SCT060 OVC090 10/02 A3052 RMK AO2 TSNO UBBQ 2519900Z 13005KT 9999 NSC 25/17 Q1015 R16/CLRD// NOSIG RMK MT OP YPGV 252000Z AUTO 13008KT 9999 // SCT017 BKN022 OVC099 24/21 Q1013 OEGN 251900Z 00000KT 9999 FEW030 SCT100 30/22 Q1006 NOSIG K7BM 251934Z AUTO 00000KT 10SM VCTS SCT055 BKN065 OVC075 15/01 A3044 RMK AO2 LTG DSNT NE E AND SW UBBY 251900Z 07007KT 9999 FEW100 26/14 Q1018 R33/////// NOSIG RMK MT OP OEGS 251900Z 07009KT 9999 SCT040 38/09 Q1007 OEGT 251900Z 31026KT CAVOK 32/18 Q1008 NOSIG OEHL 251900Z 05004KT CAVOK 34/04 Q1013 UBEE 251500Z 18006KT CAVOK 33/17 Q1010 R30/CLRD// NOSIG YPKA 252000Z AUTO 18009KT 9999 // NCD 13/08 Q1014 YPKG 252000Z AUTO 03005KT 9999 // NCD 08/03 Q1021 TJNR 251953Z AUTO 13007KT 10SM FEW040 FEW060 SCT110 29/26 A2992 RMK AO2 RAB15E26 SLP131 T02890261 PNO YPJT 252000Z AUTO 03011KT 9999 // NCD 15/03 Q1013 YPLC 252000Z AUTO 33007KT 9999 // SCT046 04/04 Q1024 ZHCC 251900Z 01006MPS CAVOK 21/15 Q1015 NOSIG ZGKL 251900Z VRB01MPS 4000 BR NSC 27/27 Q1004 NOSIG UAOO 251900Z 01004MPS CAVOK 20/M00 Q1014 NOSIG RMK QFE749/0998 OEJN 251900Z 27008KT CAVOK 33/23 Q1004 NOSIG YPKT 252000Z AUTO 15004KT //// // ////// 20/10 Q1013 OEKJ 251900Z 12009KT CAVOK 38/05 Q1009 YPKU 252000Z AUTO 18004KT 9999 // NCD 17/08 Q1013 OEKK 251900Z 04004KT CAVOK 38/16 Q1007 NOSIG YPLM 251930Z AUTO 28005KT 9999 // NCD 12/10 Q1014 OEKM 251900Z 18008KT 9999 FEW022 21/17 Q1022 NOSIG K6R3 251935Z AUTO 00000KT 7SM VCTS SCT029 BKN050 BKN070 28/27 A3005 RMK AO2 LTG DSNT SW P0001 T02830266 TJPS 250850Z 06005KT 10SM FEW030 BKN060 28/25 A2990 K6R6 251853Z AUTO 10004KT 31/18 A3006 RMK AO1 SLP139 T03110178 OEMA 251900Z 25007KT 9999 FEW045 40/02 Q1009 NOSIG K8A0 251935Z AUTO 10004KT 10SM OVC047 32/25 A3013 RMK AO2 K96D 251935Z AUTO 31009G16KT 10SM CLR 20/18 A3003 RMK AO2 YPMQ 251930Z AUTO 27006KT 9999 // NCD 07/05 Q1016 SUAA 251900Z 00000KT CAVOK 25/12 Q1014 YPOD 252000Z AUTO 27008KT 9999 // OVC036 09/03 Q1021 OEMK 251900Z 03002KT CAVOK 34/24 Q1005 ZGNN 251900Z VRB01MPS CAVOK 27/24 Q1004 NOSIG OEMN 251900Z 34004KT CAVOK 34/19 Q1007 SUAG 251600Z 34010KT CAVOK 26/12 Q1015 OENG 251900Z 06008KT CAVOK 32/04 Q1012 NOSIG UARR 251900Z 16003MPS CAVOK 20/08 Q1016 R22/CLRD70 NOSIG RMK QFE758/1011 TJSJ 251856Z 08012KT 10SM FEW036 SCT045 SCT060 32/24 A2990 RMK AO2 SLP125 T03170244 UASK 251900Z VRB01MPS 9999 NSC 10/07 Q1017 R12/090060 NOSIG RMK QFE737/0983 YPPD 251930Z AUTO 13005KT 9999 // NCD 13/M02 Q1014 YPPF 251930Z AUTO 35005KT 9999 // OVC044 06/06 Q1023 UATE 251930Z 03004MPS CAVOK 18/03 Q1015 R12/0///70 NOSIG RMK QFE759/1012 K7L2 251935Z AUTO 30010KT 10SM SCT031 BKN037 OVC080 18/12 A3019 RMK AO2 UATG 251930Z 00000MPS CAVOK 20/09 Q1016 R14/CLRD70 NOSIG RMK QFE764/1018 UASP 251930Z 12003MPS CAVOK 12/06 Q1018 R03/0///70 NOSIG RMK QFE753/1004 YPPH 251930Z 03009KT CAVOK 16/02 Q1014 NOSIG UASS 251730Z 04002MPS CAVOK 18/08 Q1018 R08/0///60 NOSIG RMK QFE743/0990 OEPA 251900Z 13008KT CAVOK 37/19 Q1006 NOSIG ZGOW 251900Z 34001MPS 5000 BR NSC 28/27 Q1003 NOSIG ZHHH 251900Z 01004MPS 340V040 9999 SCT010 OVC040 25/24 Q1007 NOSIG K8D3 251856Z AUTO 31014G22KT 19/11 A3010 RMK AO1 SLP183 T01890106 UATT 251930Z 15004MPS CAVOK 22/07 Q1017 R13/CLRD70 NOSIG RMK QFE743/0991 K7N0 251856Z AUTO VRB05KT 10SM CLR 30/25 A3007 RMK AO2 LTG DSNT SW AND NW TSE12RAE13 SLP182 T03000250 PNO $ CMGB 251945Z AUTO 20003KT 22/20 RMK AO1 SLP116 T02200203 58007 CMFM 251900Z AUTO 24006KT 18/17 RMK AO1 SLP115 T01750173 55004 UAUU 251930Z 16003MPS 9999 FEW033CB SCT200 17/05 Q1018 R15/CLRD70 NOSIG RMK QFE747/0996 OERF 251900Z 00000KT CAVOK 36/M03 Q1006 SUDU 251900Z 00000KT CAVOK 25/13 Q1013 OERK 251900Z 10004KT CAVOK 35/01 Q1009 NOSIG OESH 251900Z 08009KT CAVOK 35/00 Q1008 NOSIG OERR 251900Z 04008KT CAVOK 35/11 Q1008 NOSIG OETB 251900Z 20008KT 9999 FEW040 35/06 Q1010 NOSIG OESK 251900Z 08005KT CAVOK 36/M02 Q1009 NOSIG UCFL 251000Z 06006MPS 9999 FEW030CB SCT100 24/10 Q1018 RMK V/G/CH/Z UCFM 251930Z 11004MPS CAVOK 22/10 Q1013 R08/CLRD70 NOSIG YPTN 252000Z AUTO 12007KT 9999 // NCD 22/05 Q1015 UCFO 251930Z 17003MPS 9000 FEW050CB SCT180 21/12 Q1015 R12/CLRD70 NOSIG OETF 251900Z 23006KT CAVOK 28/09 Q1016 NOSIG ZGSZ 251900Z 22004MPS CAVOK 29/27 Q1003 NOSIG TKPK 251900Z 09011KT 9999 FEW022 31/25 Q1013 TKPN 251900Z 13010KT 9999 SCT024 31/25 Q1012 K7R3 251609Z 07007KT 10SM SKC 29/27 A3009 OETR 251900Z 10008KT CAVOK 32/04 Q1011 K9A5 251935Z AUTO 00000KT 10SM SCT095 SCT120 35/16 A3012 RMK AO2 T03500156 SVAC 251900Z 20006KT OVC007 29/24 Q1011 YREN 252000Z AUTO 27004KT //// // ////// 04/04 Q1023 OEWD 251900Z 15006KT 9999 SCT030 BKN080 35/16 Q1007 NOSIG YPWR 252000Z AUTO 14008KT 9999 // NCD 06/04 Q1023 OEWJ 251900Z 36004KT CAVOK 30/25 Q1004 NOSIG YPXM 252000Z AUTO 09009KT 9999 // BKN015 OVC019 24/22 Q1011 SVBC 251933Z /////KT 1000 -TSSH FEW010 BKN013 CB/E 30/26 Q1009 SVBI 251900Z /////KT 9999 SCT017 29/// Q1011 SVBM 251900Z 18009KT 9999 SCT016 32/16 Q1013 MYGF 251900Z 03011KT 9999 TS VCSH FEW012CB FEW015TCU BKN020 29/27 A2992 RMK TS SW MOV SW CB SW-SE TCU W VCSH SW/W K9D7 251915Z AUTO 31015KT 10SM FEW055 21/08 A3009 RMK AO2 OEYN 251900Z 00000KT CAVOK 36/09 Q1001 NOSIG K7W4 251935Z AUTO 20003KT 10SM CLR 32/24 A3006 RMK AO1 T03170237 SVCR 251900Z 06020KT 9999 FEW020 35/24 Q1006 K7W6 251940Z AUTO 15005KT 10SM CLR 29/20 A3010 RMK AO2 T02870201 SULS 251900Z 16009KT CAVOK 22/13 Q1015 SVCU 251800Z 18008KT 9999 SCT013 35/19 Q1013 HTDA 251900Z 12010KT 9999 FEW023 BKN080 24/21 Q1019 NOSIG K9F2 251941Z 07005KT 7SM BKN040 A3002 SUMU 251900Z 15007KT CAVOK 23/13 Q1014 NOSIG YSBK 251930Z AUTO 29001KT 9999 // NCD 04/03 Q1017 YSCB 251930Z 17004KT 9999 FEW030 M01/M02 Q1017 NOSIG TLPC 251900Z 13008KT 9999 FEW026 31/25 Q1012 NOSIG SVFM 251900Z /////KT 9999 BKN040 ///// Q//// SVGD 251800Z 31003KT 9999 OVC017 28/24 Q//// HSOB 251600Z 05004KT CAVOK 31/17 Q1011 HSNN 251700Z 18004KT 9999 FEW050 28/21 Q1012 SVGI 250600Z /////KT 9999 SCT010 24/20 Q//// YRMD 252000Z AUTO 15008KT //// // ////// 08/06 Q1019 TLPL 251900Z 14011KT 9999 FEW026 31/25 Q1012 NOSIG YSCN 251930Z AUTO 00000KT 9999 // NCD 04/03 Q1017 YSCO 252000Z AUTO 33005KT //// // ////// 06/02 Q1018 YSCR 252000Z AUTO 02012KT //// // ////// 10/02 Q1018 SVGU 251900Z /////KT 9999 BKN017 25/19 Q1012 HSPN 251700Z 01009KT 3000 36/21 Q1005 MZBZ 251900Z 34008KT 9999 FEW012 SCT018 29/26 A2992 Q1013 RETS NOSIG RMK CBTOP-W DIST SHWR-W HRYR 251930Z 05005KT 9999 FEW026 BKN100 23/09 Q1021 NOSIG YSDU 251930Z AUTO 00000KT 0250 // ////// 00/M00 Q1019 SVJC 251900Z 09015KT 9999 FEW020 XX/XX Q1006 YROM 252000Z AUTO 01005KT 9999 // NCD 02/01 Q1019 YSGE 252000Z AUTO 00000KT //// // ////// 03/01 Q1020 SVJM 251900Z /////KT 9999 SCT020 33/20 Q1014 SUSO 251900Z 02012KT CAVOK 27/14 Q1012 MYNN 251900Z 04008KT 9999 VCSH FEW010 SCT015CB 32/25 A2994 RMK VCSH/S CB SW-NE K9L2 251856Z AUTO 24007KT 10SM CLR 35/M05 A2992 RMK AO2 SLP109 T03501050 $ TNCA 251900Z 08019KT 9999 FEW025 34/27 Q1006 A2973 NOSIG TNCB 251855Z 10017KT 080V150 9999 FEW022 32/23 Q1008 TNCC 251900Z 08013KT 9999 FEW025 32/26 Q1008 NOSIG TNCE 251855Z AUTO 08011KT 040V130 //// // ///////// 30/26 Q1013 RE// SVLF 251900Z 00000KT 9999 OVC070 XX/XX Q1009 DFFD 251900Z 23005KT 8000 TS FEW020 FEW033CB 27/24 Q1011 BECMG 06025G35KT 2500 SQ TSRA YSHK 252000Z AUTO 07005KT //// // ////// 08/06 Q1014 ZJHK 251900Z 22002MPS 6000 NSC 25/24 Q1004 NOSIG SVMC 251900Z 14002KT 9999 -TS FEW010CB BKN016 26/24 Q1008 HTKJ 251900Z 09012KT 9999 FEW026 20/12 Q1020 NOSIG HSSS 251930Z 19006KT CAVOK 33/14 Q1010 NOSIG SVMD 251900Z 29002KT 9999 SCT027 SCT100 26/20 Q1019 TNCM 251900Z 13011kt 9999 SCT021 31/26 Q1013 A2991 NOSIG K8W2 251935Z AUTO 22004KT 10SM SCT041 SCT050 SCT060 A3004 RMK AO1 SVMG 251900Z /////KT 9999 FEW010 34/18 Q1011 NOSIG SVMI 252000Z 31006KT 9999 FEW016 34/16 Q1008 NOSIG YSHT 251930Z AUTO 24003KT 9999 // NCD 01/01 Q1020 YSHW 251930Z AUTO 23005KT 9999 // NCD 04/03 Q1017 SVMN 251900Z 23003KT 9999 BKN013 35/// Q1008 UEEE 251930Z 29003MPS CAVOK 05/02 Q0997 R23L/19//55 NOSIG RMK QFE739 SVMT 251800Z /////KT 9999 BKN013 26/// Q1012 OIAA 251900Z 16004KT 9999 FEW040 BKN100 34/21 Q1002 K9MN 251934Z AUTO 26009KT 190V310 10SM CLR 23/14 A3008 RMK AO1 T02330141 YTAR 252000Z AUTO 28003KT //// // ////// 04/02 Q1024 YRTI 252000Z AUTO 03019KT //// // ////// 16/07 Q1012 OIAG 251900Z 10004KT 8000 NSC 35/22 Q1003 OIAH 251900Z 00000KT CAVOK 32/03 Q1011 SVPA 251000Z /////KT 9999 SCT090 24/24 Q1013 OIAI 251900Z 20002KT CAVOK 36/13 Q1004 OIBA 251500Z 15012KT CAVOK 35/27 Q1001 OIBB 251900Z 00000KT CAVOK 32/23 Q1003 A2963 DGAA 251900Z 21013KT 9999 FEW010 BKN038 25/23 Q1011 NOSIG OIAM 251900Z 00000KT 8000 NSC 35/27 Q1002 HTMW 251900Z 00000KT CAVOK 20/14 Q1016 NOSIG HUEN 251900Z 15006KT 9999 FEW021 FEW023CB BKN140 22/17 Q1019 OIBJ 251500Z 21014KT CAVOK 34/12 Q1008 OIBK 251900Z 28004KT 6000 NSC 31/29 Q1003 SVPM 251900Z 00000KT 9999 FEW060 XX/XX Q1012 OICC 251930Z 25004KT CAVOK 26/M07 Q1015 A3000 OIBL 251800Z 18006KT CAVOK 34/26 Q1003 OIAW 251930Z 23004KT CAVOK 36/16 Q1002 YSMH 252000Z AUTO 00000KT 9999 // SCT068 12/11 Q1016 YSMI 252000Z AUTO 25008KT //// // ////// 07/05 Q1017 OIBP 251700Z 00000KT CAVOK 33/26 Q1001 A2958 OIBQ 251500Z 24004KT 7000 NSC 35/29 Q1001 OICI 251900Z 11004KT CAVOK 26/M03 Q1016 A3003 OICJ 251650Z 36006KT 9999 FEW040 SCT090 29/04 Q1019 OIBS 251500Z 06006KT CAVOK 35/27 Q1001 OICK 251850Z 14004KT CAVOK 28/02 Q1015 YTEE 252000Z AUTO 26004KT 9999 // NCD 09/04 Q1020 KMG 252000Z AUTO 25007KT 9999 // OVC028 04/03 Q1019 OIBV 251400Z 23006KT CAVOK 36/29 Q0999 YTEF 252000Z AUTO 13008KT 9999 // NCD 10/M02 Q1017 YSNF 251936Z AUTO 29015G25KT 9999 -RA BKN009 OVC046 18/17 Q1014 SVSA 251900Z 18006KT 9999 SCT020 BKN300 35/19 Q1010 OICS 251852Z 34008KT 9999 BKN045 30/M04 Q1016 YTEM 251930Z AUTO 00000KT //// // ////// M00/M00 Q1020 CPBT 251800Z AUTO 35011KT 14/09 RMK AO1 T01410094 UDSG 251930Z 25009KT 9000 SCT040 14/09 Q1022 R02/19//60 NOSIG YSOL 252000Z AUTO 14001KT 9999 // NCD 08/M02 Q1017 YSNW 251930Z AUTO 29007KT 9999 // NCD 05/02 Q1017 SVSR 251600Z ///// 9999 BKN016 33/XX Q1012 CPEH 251800Z AUTO 32007KT 13/12 RMK AO1 4PAST HR M P0002 T01310115 50004 YTGM 252000Z AUTO 11005KT //// // ////// 10/06 Q1021 OIFK 251900Z 00000KT CAVOK 28/06 Q1014 OIFM 251930Z 14006KT CAVOK 24/M03 Q1019 A3011 OIGG 251900Z 00000KT 6000 NSC 23/22 Q1011 YTIB 252000Z AUTO 21004KT //// // ////// 06/05 Q1022 SVVA 251900Z 18002KT 9999 BKN016 32/24 Q1012 OIFS 251900Z 30006KT 9999 FEW040 21/M03 Q1023 OIGK 251650Z 00000KT 9999 FEW040 21/02 Q1022 CPFI 251900Z AUTO 31003KT 15/10 RMK AO1 T01470095 K9V9 251935Z AUTO 31011G14KT 10SM CLR 24/10 A3018 RMK AO2 T02370098 SVVG 251900Z 36004KT 9999 OVC013 32/19 Q1006 YSRI 251930Z AUTO 26002KT 9999 // SCT060 03/02 Q1017 DFOO 251900Z 26002KT 9999 TS FEW016 FEW033CB 24/22 Q1012 OIHH 251850Z 12008KT 9999 FEW040 23/01 Q1022 SVVL 251800Z 05004KT 9999 SCT030 33/17 Q1013 YSRN 252000Z AUTO 31007KT 9999 // SCT037 OVC044 08/05 Q1015 OIHM 251900Z 09014KT 9999 FEW040 26/03 Q1020 OIIE 251900Z 18006KT CAVOK 28/M01 Q1015 OIII 251930Z 01006KT CAVOK 26/06 Q1017 A3004 OIIK 251900Z 33002KT CAVOK 21/M01 Q1017 PAAD 251935Z AUTO 25007KT 10SM BKN070 OVC085 12/10 A3013 RMK AO2 YSTH 252000Z AUTO 31007KT 9999 // SCT017 SCT027 02/02 Q1014 OIIP 251800Z 22006KT CAVOK 25/04 Q1016 OJAI 251800Z 28007KT 8000 NSC 27/14 Q1012 NOSIG OIIS 251900Z 00000KT CAVOK 26/M01 Q1016 PABA 251856Z 27013KT 10SM OVC090 07/06 A3008 RMK AO2 SLP184 T00670056 OIKB 251930Z 00000KT 8000 NSC 30/23 Q1003 A2963 PAAK 251936Z AUTO 14007G21KT 090V170 10SM FEW020 SCT050 OVC085 11/06 A3015 RMK AO1 OJAM 251900Z 35005KT 6000 NSC 25/18 Q1013 NOSIG ZJSY 251900Z 33001MPS CAVOK 27/26 Q1004 NOSIG YSSY 251930Z 27011KT 9999 FEW032 08/03 Q1016 MOVING E 10KT NOSIG PABE 251953Z 18013KT 10SM BKN010 BKN020 16/14 A3022 RMK AO2 DZE00 SLP235 P0000 T01560139 OJAQ 251900Z 36014KT CA?OK 34/19 Q1005 NOSIG PAAQ 251953Z 14003KT 3SM -RA BR OVC020 13/13 A3025 RMK AO2 SLP244 P0003 T01330128 PABI 251953Z 26006KT 10SM -RA FEW050 OVC070 13/13 A3020 RMK AO2 SLP230 P0002 T01330128 CPIR 251800Z AUTO 34006KT 13/10 RMK AO1 4PAST HR M P0002 T01280104 50004 OIKK 251900Z 35004KT CAVOK 21/M10 Q1022 A3018 YSTW 251930Z AUTO 36002KT 9999 // NCD 01/M01 Q1018 PABL 251936Z 33004KT 10SM OVC025 12/09 A3014 RMK AO1 PACD 251953Z 07003KT 10SM OVC013 14/13 A3026 RMK AO2 SLP248 T01440133 OIKO 251350Z 18004KT CAVOK 40/15 Q1002 OIKQ 251800Z 00000KT 8000 NSC 32/25 Q1002 PABR 251953Z 24006KT 10SM FEW005 SCT120 BKN180 09/04 A3008 RMK AO2 SLP186 T00890044 HTZA 251900Z 13012KT 9999 FEW018 BKN080 25/20 Q1018 NOSIG OIMB 251900Z 03008KT CAVOK 20/M09 Q1016 PABT 251953Z 00000KT 10SM FEW011 FEW060 BKN090 17/12 A3013 RMK AO2 SLP210 T01670117 OIMC 251900Z AUTO 29002KT //// // ////// 23/M01 Q1014 YTMO 252000Z AUTO 34004KT //// // ////// 07/05 Q1020 PACM 251856Z AUTO 17008KT 10SM FEW016 13/10 A3017 RMK AO2 SLP211 T01330100 OIMD 251700Z 15004KT CAVOK 25/M05 Q1012 PABV 251951Z AUTO 00000KT 1 1/4SM -RA BR OVC004 13/13 A3026 RMK AO2 CIG 003V009 P0000 $ YTNG 252000Z AUTO 13003KT 9999 // BKN076 07/05 Q1018 YSWG 251930Z AUTO 34004KT 3200 // BKN001 M01/// Q1019 PADE 251953Z AUTO 30004KT 10SM CLR 14/05 A3012 RMK AO2 SLP199 T01390050 TSNO $ YSWH 252000Z AUTO 25003KT 9999 // NCD M01/M02 Q1022 PADG 251655Z 00000KT 15SM BKN025 07/07 A3011 UDYZ 251930Z VRB01KT 9999 NSC 22/10 Q1015 R09/000070 NOSIG YTNK 252000Z AUTO 09011KT 9999 // NCD 12/M01 Q1019 OINB 251900Z VRB02KT CAVOK 26/15 Q1012 PADK 251936Z AUTO 20017G22KT 10SM OVC014 12/08 A3014 RMK AO1 PAEC 251846Z 00000KT 1/4SM RA FG VV001 12/11 A3018 RMK NOSPECI PADL 251908Z 19007KT 10SM SCT009 BKN012 OVC024 16/14 A3027 RMK AO2 PADM 251743Z AUTO 00000KT 10SM SCT001 BKN026 OVC048 13/12 A3022 RMK VIA PHONE OIMM 251930Z 16008KT CAVOK 21/M06 Q1019 A3010 PACV 251953Z 07005KT 1 1/2SM R27/5500VP6000FT +RA BR FEW003 OVC014 13/13 A3029 RMK AO2 SLP256 P0028 T01330128 PAED 251938Z 18010KT 5SM BR OVC004 15/15 A3025 RMK AO2A OIMN 251900Z 32002KT CAVOK 22/05 Q1019 OINE 251800Z 12008KT CAVOK 24/07 Q1012 UERP 251900Z 26004G09MPS 9999 SCT040 BKN100 M01/M04 Q1005 R35/090060 NOSIG RMK QFE710 OING 251900Z 00000KT CAVOK 20/14 Q1014 PAEG 251953Z AUTO 11006KT 10SM OVC080 15/11 A3013 RMK AO2 SLP205 T01500106 TSNO UERR 251900Z 26002MPS CAVOK 00/M04 Q1009 R25/290350 NOSIG RMK QFE725 OIMQ 251700Z 00000KT CAVOK 26/M03 Q1016 PADQ 251953Z 00000KT 9SM -RA OVC100 16/15 A3030 RMK AO2 SLP262 P0002 T01560150 PACZ 251937Z AUTO 20016KT 10SM OVC009 12/10 A3015 RMK AO2 PK WND 20076/1907 SLP209 $ PAEH 251916Z AUTO 20009KT 170V230 10SM BKN008 13/12 A3026 RMK AO2 SLP247 PAEI 251943Z VRB01KT 9SM -RA BKN007 OVC028 14/13 A3017 RMK AO2A NSFA 251900Z 09005KT 9999 FEW024 26/22 Q1016 PAFA 251953Z 20004KT 6SM -RA BR SCT011 BKN033 OVC044 14/14 A3017 RMK AO2 SLP220 VIS LWR N P0001 T01440139 OINK 251700Z 19004KT CAVOK 27/12 Q1011 PAFB 251948Z 26004KT 4SM -RA BR BKN004 OVC037 14/13 A3018 RMK AO2A CIG 004V038 BKN V SCT PAEL 251849Z 00000KT 2SM -RA BR OVC003 13/13 A3042 RMK NOSPECI PADU 251906Z 00000KT 8SM FEW000 SCT003 OVC032 12/11 A3028 RMK AO2 FG FEW000 FG BNK NE-E MH PAEM 251943Z AUTO 13005KT 10SM SCT019 OVC039 A3018 RMK AO2 FZRANO $ OINN 251900Z 18004KT CAVOK 25/22 Q1011 PAEN 251953Z 20013KT 1/2SM FG VV002 13/13 A3025 RMK AO2 SLP246 T01330128 PAFE 251936Z AUTO 30004KT 10SM CLR 17/12 A3044 RMK AO1 OINR 251900Z 00000KT CAVOK 27/23 Q1011 PAGA 251858Z AUTO 00000KT 10SM OVC006 15/14 A3013 RMK AO2 SLP207 T01500139 PAFM 251923Z AUTO 05003KT 10SM FEW007 SCT022 SCT080 14/12 A3016 RMK AO2 OINZ 251900Z 18004KT CAVOK 22/15 Q1012 PAGH 251857Z AUTO 11006KT 10SM FEW007 15/13 A3012 RMK AO2 SLP228 T01500133 $ SYCJ 251900Z 26006KT 9999 FEW017CB BKN019 BKN039 28/25 Q1010 CB SE-W NOSIG PAFR 251953Z AUTO 18006KT 3SM OVC012 15/15 A3026 RMK AO1 PAFS 251946Z AUTO 22008KT 10SM BKN015 OVC036 16/13 A3021 RMK AO2 PAGK 251953Z AUTO 19006KT 6SM -RA BR BKN060 OVC075 13/12 A3024 RMK AO2 SLP244 P0004 T01280122 TSNO YTRE 251930Z AUTO 27006KT 9999 // NCD 07/04 Q1016 PAGL 251936Z 29004KT 10SM OVC024 12/06 A3017 RMK AO1 PAHC 251927Z AUTO 24006KT 10SM FEW010 SCT027 OVC034 16/13 A3018 RMK AO2 PNO $ PAGM 251936Z AUTO 16016KT 10SM OVC110 08/06 A3006 RMK AO1 PAGN 251856Z AUTO 00000KT 10SM CLR 18/14 A3045 RMK AO2 SLP299 T01830139 PAGS 251902Z AUTO 31003KT 3SM BR OVC004 13/13 A3045 RMK AO2 CIG 003V006 SYEC 251900Z 10008KT 9999 FEW019CB SCT020 BKN300 30/24 Q1011 CB ESE-NW PAHL 251936Z AUTO 00000KT 10SM SCT017 OVC060 15/12 A3012 RMK AO1 PAHN 251946Z AUTO 11004KT 1 3/4SM -RA BR OVC007 13/13 A3041 RMK AO2 RAB41 P0000 T01330128 TSNO PAHO 251853Z 14003KT 5SM BR SCT002 BKN010 OVC050 15/13 A3028 RMK SLP254 T01500133 VIA AUTODIAL PAGY 251953Z AUTO 25008KT 10SM FEW031 OVC050 15/12 A3039 RMK AO2 SLP289 T01500122 TSNO PAHP 251856Z AUTO 20014KT 10SM BKN024 OVC029 13/11 A3015 RMK AO2 SLP247 T01280106 PAIG 251911Z AUTO 21008KT 10SM BKN011 OVC014 16/14 A3028 RMK AO2 CIG 008V012 $ PAII 251856Z AUTO 21003KT 10SM SCT006 BKN020 OVC026 15/14 A3030 RMK AO2 SLP263 T01500139 OISA 251850Z 00000KT CAVOK 20/M07 Q1021 NTAA 251930Z 07011KT 9999 FEW020 BKN050 BKN120 27/21 Q1017 NOSIG PAIK 251926Z AUTO 33006KT 10SM -RA OVC009 08/08 A3016 RMK AO2 RAB24 P0000 PAIL 251953Z 14003KT 1SM -RA BR OVC003 14/14 A3031 RMK AO2 RAB01E17B28 SLP263 P0002 T01440139 $ PAJC 251941Z AUTO 00000KT 1 3/4SM -RA BR FEW009 SCT014 OVC021 14/13 A3030 RMK AO2 RAB06 P0001 PAIM 251855Z AUTO 08002KT 10SM BKN070 14/12 A3013 RMK AO2 SLP202 T01420116 PAIN 251936Z AUTO 00000KT 7SM FEW002 SCT009 BKN019 12/12 A3021 RMK AO1 P0005 OISF 251900Z 28004KT CAVOK 23/M02 Q1013 PAHX 251953Z AUTO 25006KT 7SM BKN012 BKN017 OVC075 16/13 A3018 RMK AO2 YTTI 252000Z AUTO 12010KT //// // ////// 26/21 Q1012 PAHY 251856Z AUTO 36007KT 10SM CLR 19/13 A3039 RMK AO2 SLP287 T01940128 YTST 252000Z AUTO 11005KT 9999 // NCD 20/19 Q1012 OISL 251800Z 00000KT CAVOK 32/09 Q1009 PAJN 251953Z 00000KT 10SM SCT006 SCT023 OVC041 16/14 A3042 RMK AO2 SLP301 T01560144 PAIW 251858Z AUTO 19019KT 10SM CLR 08/03 A3012 RMK AO2 SLP201 T00780028 DIAD 251700Z 26008KT 9999 SCT013 26/22 Q1011 NOSIG PAKF 251935Z AUTO 03003KT 10SM BKN008 OVC027 34/ A3027 RMK AO2 $ CPRO 251900Z AUTO 27008KT 17/11 RMK AO1 T01650110 OISR 251400Z 22012KT CAVOK 39/15 Q1005 PAKI 251856Z AUTO 24007KT 10SM OVC041 14/12 A3019 RMK AO2 SLP226 T01440122 ZLLL 251900Z 00000MPS CAVOK 12/08 Q1025 NOSIG OISS 251930Z 27004KT CAVOK 26/00 Q1017 A3004 PAKK 251936Z AUTO 13003KT 10SM OVC016 12/03 A3012 RMK AO1 OKBK 251900Z 18007KT CAVOK 35/19 Q1003 NOSIG OITL 251851Z 13008KT 9999 FEW006 16/14 Q1019 OITM 251800Z 08010KT 9999 FEW042 26/04 Q1016 PAKN 251939Z 21007KT 10SM BKN011 OVC035 17/14 A3026 RMK AO2 T01720144 OITP 251900Z 11006KT CAVOK 24/21 Q1009 OISY 251900Z 10004KT CAVOK 22/07 Q1021 PAKP 251936Z AUTO 20006KT 10SM 12/07 A3011 RMK AO1 PALG 251954Z 19005KT 2 1/2SM BKN007 BKN015 OVC034 13/13 A3022 RMK AO2 SLP302 P0001 PWINO FZRANO TSNO RVRNO PALH 251953Z 18007KT 4SM BR OVC005 14/13 A3026 RMK AO2 RAB11E31 CIG 004V009 SLP249 P0001 T01440133 PAJZ 251925Z AUTO 21009KT 6SM BR BKN010 OVC075 16/14 A3031 RMK AO2 $ YTWB 252000Z AUTO 25005KT 9999 // NCD 03/02 Q1018 CPRY 251900Z AUTO 35010KT 14/09 RMK AO1 T01350088 OITR 251900Z 31004KT 9999 FEW035CB SCT040 22/11 Q1015 DIAP 251930Z 24007KT 8000 SCT012 BKN040 25/23 Q1012 NOSIG PALJ 251650Z 05006KT 10SM -RA OVC010 12/12 A3025 RMK EST PASS CLSD NOSPECI OITT 251930Z 08008KT 030V130 9999 FEW040 26/04 Q1018 A3009 PAKT 251853Z 32015G20KT 10SM CLR 22/13 A3035 RMK SLP276 HARBOR WIND 28015G23KT T02170128 VIA AUTODIAL PAMB 251932Z AUTO 21007KT 9SM -RA BKN012 OVC018 16/14 A3027 RMK AO2 RAB24 P0000 $ PAKU 251945Z VRB02KT 10SM R24/P6000FT BKN080 14/11 A3012 OITU 251850Z 00000KT CAVOK 25/08 Q1019 PAMC 251900Z 18008KT 10SM FEW015 SCT021 OVC035 16/12 A3019 RMK T01560122 $ VIA AUTODIAL DIBK 251900Z VRB02KT 9999 FEW011 26/23 Q1014 NOSIG CPST 251900Z AUTO 33014KT 17/10 RMK AO1 PK WND 33019/1858 T01660100 PAKV 251953Z AUTO 00000KT 10SM FEW007 BKN050 OVC090 16/14 A3016 RMK AO2 SLP216 T01610139 TSNO PAMD 251936Z AUTO 23013G18KT 3SM OVC003 14/13 A3028 RMK AO1 PAKW 251853Z AUTO 18007KT 10SM CLR 18/13 A3040 RMK AO2 SLP295 T01780128 TSNO CPSV 251900Z AUTO 17002KT 13/11 RMK AO1 4PAST HR M P0005 T01300109 50014 PALP 251946Z 00000KT 10SM SCT055 15/11 A3010 OITZ 251500Z 36006KT 9999 FEW035 30/02 Q1017 PAMH 251936Z AUTO 00000KT 10SM FEW017 BKN026 OVC045 14/12 A3019 RMK AO1 PANA 251934Z AUTO 18011KT 10SM BKN013 OVC025 16/13 A3020 RMK AO2 PAMK 251951Z AUTO 21011KT 10SM FEW007 OVC012 13/11 A3019 RMK AO2 RAE28 P0001 PANC 251953Z 17005KT 4SM BR BKN003 OVC010 14/14 A3025 RMK AO2 RAE25 SLP245 P0001 T01440139 PALU 251855Z AUTO 23019G26KT 10SM FEW015 BKN180 09/06 A3003 RMK AO2 PK WND 23030/1817 SLP168 T00910058 DIBU 251700Z 00000KT 9999 SCT015 28/22 Q1012 NOSIG PAMO 251745Z AUTO 12003KT 5SM BR SCT001 OVC037 11/11 A3018 RMK VIA PHONE PAMR 251953Z 18006KT 2SM BR OVC006 15/13 A3025 RMK AO2 CIG 004V011 SLP245 T01500133 PANI 251936Z AUTO 23006KT 10SM BKN013 OVC021 14/13 A3022 RMK AO1 P0001 UHBB 251900Z 33002MPS CAVOK 11/07 Q1006 R36/090060 NOSIG RMK QFE737/0983 DIDK 251700Z ///// 9999 FEW013TCU BKN015 30/24 Q1011 NOSIG DIDL 251700Z ///// 9999 BKN013 28/24 Q1011 NOSIG PANN 251953Z AUTO 22003KT 10SM -RA SCT008 SCT070 OVC085 15/14 A3017 RMK AO2 SLP222 P0001 T01500144 TSNO $ PAMY 251856Z AUTO 18007KT 10SM FEW007 OVC028 12/11 A3017 RMK AO2 SLP219 T01220111 PAOH 251914Z AUTO 00000KT 9SM SCT006 OVC027 16/15 A3043 RMK AO2 PAPB 251953Z AUTO 20017KT 10SM OVC012 10/08 A3017 RMK AO2 RAB1858E04 SLP202 P0000 T01000083 TSNO PANT 251953Z 33013G20KT 10SM FEW030 BKN200 24/13 A3031 RMK AO2 SLP265 T02390133 PAOM 251953Z 00000KT 10SM BKN020 BKN100 09/06 A3015 RMK AO2 SLP210 T00940061 PANV 251936Z AUTO 28007KT 10SM OVC070 16/10 A3015 RMK AO1 PANW 251918Z AUTO 22007KT 10SM BKN007 OVC010 15/14 A3028 RMK AO2 CIG 004V008 UGKO 251900Z 06012KT 9999 OVC045CB 24/21 Q1011 R07/09//70 NOSIG PAOO 251928Z AUTO 19007KT 10SM FEW011 OVC036 13/11 A3019 RMK AO2 PAPG 251936Z 09007KT 10SM SCT048 17/10 A3038 RMK AO1 PAPH 251949Z AUTO 05005KT 2 1/2SM -RA BR FEW003 BKN028 OVC032 14/14 A3030 RMK AO2 P0004 PAOR 251953Z 00000KT 7SM -RA FEW001 OVC075 13/11 A3016 RMK AO2 SLP218 P0001 T01330111 OIZB 251900Z 35012KT CAVOK 29/M02 Q1009 PAOT 251953Z 00000KT 10SM BKN010 14/11 A3012 RMK AO2 SLP200 T01390111 $ DIGA 251700Z 22004KT 9999 BKN013TCU FEW020CB 28/24 Q1012 NOSIG PAOU 251951Z AUTO 36003KT 10SM OVC028 15/13 A3027 RMK AO2 PAPM 251856Z AUTO 19010KT 10SM 14/12 A3024 RMK AO2 SLP243 T01390122 $ CPXL 251900Z AUTO 07003KT 13/10 RMK AO1 T01280104 PAPN 251926Z AUTO 14003KT 10SM SCT005 OVC025 15/14 A3029 RMK AO2 PAPO 251932Z AUTO 19018KT 5SM BR SCT005 08/07 A3006 RMK AO2 OIZH 251900Z 35004KT CAVOK 24/M05 Q1017 A3004 PAQH 251856Z AUTO 16011KT 10SM SCT009 BKN015 OVC021 14/13 A3022 RMK AO2 SLP236 T01440128 OIZI 251900Z 35006KT CAVOK 35/M04 Q1008 OIZJ 251800Z 22006KT 7000 NSC 33/28 Q1003 PARC 251916Z AUTO 00000KT 10SM OVC070 12/09 A3011 RMK AO1 OIYY 251930Z 22004KT CAVOK 26/M05 Q1018 PASA 251936Z 00000KT 10SM CLR 08/M21 RMK AO1 PAQT 251953Z AUTO 15004KT 10SM CLR 14/11 A3012 RMK AO2 SLP199 T01440106 TSNO PASC 251953Z 00000KT 10SM OVC075 14/12 A3010 RMK AO2 SLP195 T01390117 PASD 251936Z 33003KT 9SM SCT005 BKN012 OVC030 14/14 A3027 RMK AO1 WEA YWCA 251930Z AUTO 25007KT //// // ////// 02/01 Q1022 PASI 251953Z 25003KT 10SM OVC017 16/14 A3046 RMK AO2 SLP313 T01610144 YWBL 252000Z AUTO 31009KT 9999 // OVC044 07/// Q1021 OLBA 251900Z 25004KT 230V290 7000 BKN026 28/23 Q1010 NOSIG PARS 251949Z AUTO VRB03KT 10SM SCT012 BKN020 BKN047 15/13 A3020 RMK AO2 $ PATA 251952Z 12004KT 10SM FEW006 BKN009 OVC028 16/14 A3015 RMK AO2 RAE10 SLP212 P0000 T01560144 PASK 251936Z AUTO 00000KT 10SM OVC004 12/11 A3014 RMK AO1 PASL 251936Z AUTO 20003KT 14/13 A3028 RMK AO1 PATC 251953Z AUTO 18012KT 10SM SCT002 BKN220 06/05 A3012 RMK AO2 SLP203 PASM 251945Z AUTO 11005KT 10SM BKN004 BKN008 OVC048 13/13 A3021 RMK AO2 PATE 251858Z AUTO 15003KT 10SM CLR 07/04 A3014 RMK AO2 SLP220 T00670044 PASN 251853Z 20013KT 10SM OVC024 11/08 A3012 RMK SLP199 T01060083 VIA AUTODIAL PASO 251953Z AUTO 00000KT 10SM CLR 13/13 A3028 RMK AO2 SLP253 T01330133 TSNO $ YWBR 252000Z AUTO 14002KT //// // ////// 04/M04 Q1022 PARY 251951Z AUTO 00000KT 1SM -RA BR FEW002 SCT007 OVC013 14/13 A3013 RMK AO2 RAE26B46 P0001 PATG 251856Z AUTO 20006KT 10SM FEW015 OVC024 15/13 A3027 RMK AO2 SLP249 P0001 T01500128 MSV 251930Z AUTO 22008KT 9999 // NCD 01/01 Q1016 PATK 251953Z 20006KT 1 1/4SM BR OVC008 14/13 A3023 RMK AO2 RAE09 SLP240 P0001 T01440133 PATL 251947Z AUTO 00000KT 10SM BKN010 14/12 A3022 RMK AO2 SLP233 $ PASV 251943Z AUTO 01004KT 10SM BKN009 13/11 A3027 RMK AO2 SLP246 MUI 251930Z AUTO 31004KT 270V350 9999 // NCD 03/01 Q1016 YWDH 252000Z AUTO 00000KT 9999 // NCD 08/07 Q1020 PATO 251953Z AUTO 00000KT 10SM OVC042 12/09 A3028 RMK AO2 SLP252 T01220094 TSNO PASX 251936Z AUTO 20004KT 10SM OVC012 16/13 A3024 RMK AO1 UHHH 251930Z 26007MPS 9999 FEW010 11/09 Q0998 R23L/CLRD60 NOSIG RMK QFE742/0990 PASY 251917Z 27010KT 5SM BR OVC003 12/11 A2996 RMK AO2 WND DATA ESTMD $ PATQ 251856Z AUTO 24004KT 10SM CLR 08/04 A3009 RMK AO2 SLP197 T00830044 TSNO PAVA 251935Z AUTO 23011KT 10SM BKN012 OVC016 13/11 A3017 RMK AO2 NSTU 251853Z 14017KT 11SM FEW023 SCT100 26/20 A3004 RMK SLP173 T02620204 PAVC 251928Z AUTO 27007KT 10SM FEW006 SCT012 OVC019 14/13 A3028 RMK AO2 PAVD 251936Z 12003KT 1SM FEW000 BKN003 OVC035 12/10 A3028 RMK AO1 1847Z WEA PAUN 251936Z AUTO 31005KT 10SM BKN014 OVC021 13/13 A3016 RMK AO1 DIKO 251800Z 22004KT 9999 FEW013 28/23 Q1011 NOSIG UIAA 251900Z 18003MPS 9999 NSC 08/06 Q1017 R29/CLRD70 NOSIG RMK QFE704 UGSB 251900Z VRB04KT 9999 FEW023 27/18 Q1012 R13/29//50 NOSIG PAUT 251935Z AUTO 00000KT 5SM BR SCT003 OVC031 11/11 A3027 RMK AO2 T01080108 PAVL 251953Z AUTO 18008KT 6SM HZ CLR 10/06 A3012 RMK AO2 SLP199 T01000061 TSNO $ PAWD 251953Z AUTO 31003KT 10SM CLR 16/14 A3026 RMK AO2 SLP247 T01560139 TSNO PAWG 251936Z 25006KT 10SM SCT040 BKN075 19/12 A3040 RMK AO1 WEA PAWI 251953Z AUTO 18009KT 10SM CLR 09/05 A3005 RMK AO2 SLP178 T00890050 TSNO UIBB 251930Z 26003MPS 9999 NSC 09/08 Q1018 R30/CLRD60 NOSIG RMK QFE720/0961 UGTB 251900Z 05007KT 9999 SCT050CB 26/17 Q1016 R13R/CLRD70 NOSIG PAWM 251858Z AUTO 00000KT 9SM OVC025 11/08 A3015 RMK AO2 SLP222 T01110083 DIMN 251700Z 20004KT 9999 FEW013 28/23 Q1012 NOSIG YWHA 252000Z AUTO 30005KT 9999 // NCD 02/02 Q1024 PAYA 251953Z 17006KT 1 1/4SM R11/4500V6000FT -RA BR BKN005 OVC008 16/14 A3039 RMK AO2 SLP289 P0008 T01560144 PAWS 251936Z 00000KT 1 3/4SM OVC005 14/13 A3024 RMK AO1 P0001 ZLXY 251900Z 24003MPS 9999 -RA OVC060 20/18 Q1017 NOSIG DIOD 251700Z 16002KT 9999 BKN013 30/23 Q1011 NOSIG UHMA 251930Z 12004MPS 9999 SCT010 BKN018 OVC080 11/11 Q1009 RMK MT OBSC QFE753/1004 YWGT 251930Z AUTO 00000KT 1000 // SCT001 01/01 Q1020 YVRD 252000Z AUTO 24001KT //// // ////// 14/02 Q1015 UHMD 250430Z 20006MPS 9999 BKN016 BKN100 11/10 Q1016 RMK QBB500 MT OBSC QFE761/1015 UGTZ 250000Z 07007KT CAVOK23/16 Q1018 R31L/CLRD70 NOSIG=?METAR UGSB 250000Z 13007KT 9999 FEW025 24/22 Q1013 R13/CLRD70 NOSIG PAZK 251936Z AUTO 25004KT 10SM SCT004 BKN029 OVC060 11/09 A3023 RMK AO1 UHMM 251900Z 09008MPS 9999 BKN019CB 13/10 Q0998 RMK MT OBSC QFE734 YWIS 252000Z AUTO 17006KT //// // ////// 14/10 Q1016 OMAA 251900Z 04009KT 320V080 CAVOK 36/19 Q1003 NOSIG OMAD 251900Z 02006KT CAVOK 35/22 Q1003 NOSIG ZMUB 252000Z VRB01MPS CAVOK 03/M01 Q1023 NOSIG RMK QFE659.6 80 OMAL 251900Z 09005KT CAVOK 38/10 Q1005 NOSIG YWLG 251930Z AUTO 28003KT 9999 // NCD 00/00 Q1020 TQPF 252000Z 12011KT 9999 VCSH SCT018 BKN280 32/24 Q1013 YWLM 251930Z AUTO 30010KT //// // NCD 06/03 Q1017 DITB 251400Z 22008KT 9999 SCT013 27/23 Q1012 NOSIG UHPP 251930Z 33002MPS 9999 NSC 09/08 Q1014 R34L/CLRD70 NOSIG RMK QFE757/1009 EBBE 251925Z AUTO 16004KT 9999 /// 27/17 Q1014 BLU DISP 251900Z 22008KT 9999 BKN013 25/22 Q1012 NOSIG OMDB 251900Z 11007KT CAVOK 39/08 Q1003 NOSIG DISS 251700Z ///// 9999 FEW015 26/22 Q1012 NOSIG EBBL 251925Z VRB01KT 9999 FEW220 24/21 Q1014 BLU EBAW 251950Z 14003KT CAVOK 24/19 Q1013 NOSIG UIII 251930Z 09002MPS 9999 FEW003 06/06 Q1021 R12/CLRD60 NOSIG RMK QBB090 QFE723/0964 EBCI 251950Z 16005KT CAVOK 27/17 Q1015 NOSIG EBBR 251950Z 15004KT CAVOK 24/20 Q1014 NOSIG CTCK 251900Z AUTO 22005KT 27/22 RMK AO1 SLP098 T02720216 58012 VAAH 251930Z 20004KT 4000 BR SCT015 SCT020 BKN080 26/25 Q1004 NOSIG YWOL 251930Z AUTO 25007KT 9999 // BKN105 08/02 Q1017 VABB 251930Z 22007KT 3000 HZ SCT018 SCT025 BKN100 27/24 Q1007 NOSIG KA08 251935Z AUTO 06003KT 10SM CLR 33/24 A3007 RMK AO2 T03330238 OMDW 251900Z 09004KT CAVOK 34/15 Q1004 NOSIG EBCV 251925Z AUTO 14008KT 9999 NCD 28/18 Q1013 BLU UHSS 251930Z 26003MPS 9999 -SHRA BKN014CB 16/16 Q0997 RMK MT OBSC QFE746/0995 OMFJ 251900Z 22003KT 7000 NSC 32/29 Q1004 A2965 VAAU 251800Z 27004KT 6000 FEW020 SCT025 BKN100 25/23 Q1010 EBDT 251925Z AUTO 16003KT 9999 NCD 26/20 Q1014 BLU VABO 251500Z 20008KT 3000 DZ BKN010 SCT020 OVC080 25/24 Q1005 VABP 251800Z 25006KT 6000 SCT100 25/23 Q1009 VABV 251230Z 23005KT 4000 RA FEW016 SCT025 OVC080 27/26 Q1004 EBFN 251925Z 31003KT 4800 BR FEW250 20/18 Q1013 GRN KA39 251935Z AUTO 27005KT 10SM CLR 36/09 A2996 RMK AO2 EBFS 251925Z AUTO VRB01KT 9999 FEW150/// 23/18 Q1016 BLU DIYO 251900Z 16004KT 9999 FEW011 27/22 Q1011 NOSIG YWUD 252000Z AUTO 03003KT //// // ////// M01/M02 Q1024 YWTN 252000Z AUTO 20004KT //// // ////// 08/06 Q1019 UHWW 251930Z 00000MPS 3900 1500N R25L/P2000N BR SCT001 10/10 Q1008 R25L/150065 BECMG 0300 FG RMK QFE755 TRPG 251900Z 12014KT 9999 SCT012 BKN250 28/24 Q1014 VAID 251800Z 25004KT 6000 FEW020 23/22 Q1009 NOSIG EBLB 251925Z AUTO VRB01KT 9999 NCD 19/16 Q1018 BLU EBLG 251950Z 17005KT CAVOK 28/18 Q1015 NOSIG YWWL 251930Z AUTO 24006KT //// // ////// 02/02 Q1019 VAJB 251500Z 00000KT 6000 SCT020 BKN100 26/25 Q1008 VAJJ 251300Z 27011G21KT 240V330 4000 HZ SCT018 SCT025 BKN100 29/24 Q1007 TEMPO 3000 -RA UKBB 251930Z 36004MPS CAVOK 16/12 Q1022 R88/CLRD// NOSIG VBAO 250200Z 20007KT 6000 SCT015 SCT020 OVC080 26/24 Q1005 YWYM 252000Z AUTO 00000KT //// // ////// 17/05 Q1013 CTNK 251900Z AUTO 26002KT 26/16 RMK AO1 SLP115 T02630160 56003 UKDD 251930Z 36004MPS 330V030 9999 SCT011 BKN033CB 18/17 Q1016 R08/210358 TEMPO 2100 -SHRA BR BKN006 BKN015CB UKDE 251900Z 33004MPS 9999 -SHRA SCT033CB BKN033 18/16 Q1016 R02/CLRD70 TEMPO 2100 -SHRA SCT007 BKN020CB YWYY 252000Z AUTO 25004KT 9999 // SCT041 01/00 Q1016 TTCP 251900Z 12014KT 9999 FEW012CB 31/24 Q1011 NOSIG RMK DIST CB SW UIUU 251930Z VRB01MPS 9999 NSC 08/05 Q1020 R26/010095 NOSIG RMK QFE720/0961 EBOS 251950Z 31006KT 4500 BR NSC 20/18 Q1014 NOSIG UKDR 251930Z 01005MPS 330V050 9999 OVC026 18/15 Q1018 R36/09//70 NOSIG OMRK 251900Z 30005KT CAVOK 31/10 Q1004 A2965 CTRA 251900Z AUTO 35006KT 14/13 RMK AO1 SLP114 T01400127 53019 VANP 251830Z 00000KT 3000 -RA FEW018 BKN080 27/25 Q1008 NOSIG NVSG 250900Z VRB02KT 9999 SCT020 BKN040 26/23 Q1014 RMK DZ OMSJ 251900Z 14007KT 9999 FEW230 37/10 Q1003 NVSS 251800Z 08006KT 9999 SCT020 OVC110 23/23 Q1014 RMK RESH EDAH 251450Z 12015KT CAVOK 26/13 Q1021 EDBC 251750Z 12010KT CAVOK 28/13 Q1018 UKHH 251930Z 35004MPS 9999 SCT020CB BKN030 17/14 Q1016 R07/290064 NOSIG YYNG 251930Z AUTO 20003KT //// // ////// M01/M02 Q1018 ULAA 251930Z 00000MPS 9999 BKN026 10/09 Q1015 R26/CLRD70 NOSIG RMK QFE760/1013 VARK 250600Z 29010KT 6000 SCT010 BKN080 28/25 Q1005 EDDB 251950Z 12009KT CAVOK 23/12 Q1019 NOSIG EDDC 251950Z 11004KT CAVOK 20/12 Q1020 NOSIG EDDE 251950Z 18011KT CAVOK 26/09 Q1018 NOSIG EDDF 251950Z 07004KT CAVOK 23/15 Q1016 NOSIG EDDG 251950Z 25002KT CAVOK 21/17 Q1014 NOSIG EDDH 251950Z 12008KT CAVOK 24/12 Q1015 NOSIG KC07 251937Z AUTO 27008G16KT 220V310 10SM SCT034 SCT043 SCT110 11/02 A3046 RMK AO2 LTG DSNT E THRU S KAAA 251935Z AUTO 00000KT 10SM SCT029 28/23 A3005 RMK AO2 T02800230 KC09 251935Z AUTO 28005KT 10SM SCT032 28/20 A3003 RMK AO2 T02760201 PFEL 251919Z AUTO 28007KT 10SM SCT021 OVC110 13/09 A3014 RMK AO2 NVVV 251800Z 34002KT 9999 SCT020 OVC040 23/22 Q1015 RMK DZ EDDK 251950Z 13006KT CAVOK 26/15 Q1015 NOSIG EDDL 251950Z 12005KT 100V160 CAVOK 27/15 Q1014 NOSIG EDDM 251950Z 05003KT CAVOK 16/12 Q1020 NOSIG KAAF 251953Z AUTO 06011G15KT 10SM FEW060 33/21 A3002 RMK AO2 SLP167 T03330211 EDDN 251950Z 08004KT CAVOK 23/13 Q1019 NOSIG VCBI 251910Z 23009KT 9999 BKN017 27/23 Q1010 NOSIG EDDP 251950Z 13010KT CAVOK 24/13 Q1018 NOSIG UKKK 251930Z 01004MPS CAVOK 18/11 Q1022 R08/CLRD70 NOSIG EDDR 251950Z 10004KT CAVOK 23/15 Q1017 NOSIG VAUD 251400Z 18006KT 4000 BR SCT020 SCT025 26/23 Q1006 NOSIG EDDS 251950Z 09003KT 060V130 CAVOK 22/16 Q1018 NOSIG UKKM 251930Z AUTO 34002MPS 9000 NCD 16/11 Q1022 EDDT 251950Z 13010KT CAVOK 24/11 Q1019 NOSIG ZPPP 251900Z VRB01MPS CAVOK 16/15 Q1022 NOSIG KABE 251951Z 25011KT 10SM BKN031 BKN065 OVC090 28/21 A3002 RMK AO2 SLP164 T02780211 $ EDDV 251950Z 03003KT 330V070 CAVOK 24/11 Q1015 NOSIG EDFE 251850Z 11002KT CAVOK 23/17 Q1015 EDDW 251950Z VRB02KT CAVOK 22/14 Q1014 NOSIG KAAO 251954Z AUTO 36006KT 10SM FEW032 SCT090 28/21 A3008 RMK AO2 SLP173 T02780206 UKLI 251930Z 31001MPS CAVOK 15/10 Q1025 R28/090070 NOSIG KABH 251856Z AUTO 16010G17KT CLR A3029 RMK AO2 SLPNO $ KABI 251952Z 14007KT 10SM CLR 33/17 A3007 RMK AO2 SLP152 T03330167 EDFH 251950Z 13004KT CAVOK 23/13 Q1018 UKLL 251930Z 04002MPS CAVOK 14/12 Q1025 R31/CLRD// NOSIG KACB 251934Z AUTO 00000KT 10SM CLR 25/15 A2997 RMK AO2 T02460153 KAAT 251855Z AUTO VRB05KT 10SM CLR 25/M03 A3013 RMK AO2 SLP162 T02501028 $ KC29 251935Z AUTO 28006KT 10SM CLR 27/16 A3006 RMK AO1 T02650155 UKLN 251930Z 33004MPS CAVOK 19/08 Q1024 R33/09//70 NOSIG EDFM 251950Z 00000KT CAVOK 23/15 Q1015 KC35 251935Z AUTO 23007KT 10SM CLR 24/16 A3006 RMK AO2 T02430163 UKLR 251500Z 36004MPS 310V030 9999 FEW033 24/08 Q1023 NOSIG KABQ 251952Z 00000KT 10SM FEW070 BKN270 26/07 A3020 RMK AO2 SLP149 CB DSNT W-NW TCU DSNT NE-SE T02610072 KABR 251953Z AUTO 30009KT 10SM BKN038 OVC047 19/10 A3014 RMK AO2 SLP208 T01890100 KACJ 251935Z AUTO 03004KT 10SM BKN050 BKN065 32/16 A3011 RMK AO2 UKLU 251900Z 10001MPS 9999 SKC 18/12 Q1023 NOSIG KACK 251953Z 20011KT 10SM CLR 23/19 A3007 RMK AO2 SLP183 T02330194 KADC 251953Z AUTO 27014G19KT 10SM SCT030 BKN038 BKN046 18/12 A3005 RMK AO2 KADF 251941Z AUTO 00000KT 3SM +TSRA BR FEW020 BKN046 OVC055 23/22 A3010 RMK AO2 LTG DSNT ALQDS RAB06 PNO $ KADG 251953Z AUTO 27013G20KT 10SM FEW039 FEW050 BKN080 30/21 A2999 RMK AO2 SLP150 T03000211 KABY 251953Z 07015G21KT 10SM CLR 34/19 A3009 RMK AO2 SLP185 T03390189 KACP 251935Z AUTO 00000KT 10SM VCTS SCT090 32/25 A3001 RMK AO2 LTG DSNT ALQS T03170246 KACQ 251934Z AUTO 27010KT 10SM CLR 21/13 A3011 RMK AO2 KADH 251935Z AUTO 15004KT 10SM SCT060 SCT080 33/18 A3005 RMK AO2 EDHI 251920Z 13005KT 100V160 CAVOK 26/11 Q1015 EDGS 251850Z 13007KT CAVOK 22/13 Q1019 KACT 251951Z 17008KT 10SM SCT025 33/22 A3004 RMK AO2 SLP165 T03330222 EDHK 251550Z 17006KT 130V200 CAVOK 30/16 Q1016 KACV 251953Z AUTO 23005KT 5SM BR OVC004 13/12 A2993 RMK AO2 SLP139 T01330117 EDHL 251750Z 13004KT 100V160 CAVOK 28/14 Q1016 KADM 251855Z 00000KT 10SM SCT049 SCT055 33/21 A3005 UKOH 251500Z 36005MPS 330V060 9999 SCT040 BKN100 22/15 Q1016 R03/CLRD95 NOSIG KACY 251854Z 17009KT 10SM CLR 29/20 A3006 RMK AO2 SLP177 T02890200 KAEG 251951Z VRB04KT 10SM SCT050CB BKN200 26/08 A3023 RMK CB DSNT ALQDS KAEJ 251935Z AUTO 33021G29KT 10SM SCT080 SCT085 SCT120 18/00 A3032 RMK AO2 LTG DSNT N E AND S T01801002 KADS 251947Z AUTO 00000KT 13SM FEW055 34/19 A3005 DNAA 251800Z 32002KT 9999 SCT010 FEW020CB 26/22 Q1011 NOSIG RMK CB N TO SE EDJA 251950Z 05002KT CAVOK 18/15 Q1020 KADU 251935Z AUTO 34003KT 10SM CLR 23/16 A3014 RMK AO2 KAEL 251935Z AUTO 28005KT 10SM CLR 23/16 A3010 RMK AO2 UKON 251700Z 06004MPS 020V080 9999 SCT033CB OVC100 21/15 Q1017 NOSIG KC62 251955Z AUTO 27011G15KT 10SM SCT028 SCT038 SCT047 28/20 A3004 RMK AO2 T02880205 UKOO 251930Z 02005MPS CAVOK 23/11 Q1018 R34/090060 NOSIG KADW 251858Z AUTO 21009G17KT 10SM FEW050 30/22 A3005 RMK AO2 VIS 1 1/2 RWY01R SLP180 T03010219 CWAE 251900Z 36005KT 15SM SCT050 SCT200 27/06 A3020 RMK CU3CI1 CI TR WND ESTD SLP217 DENSITY ALT 3700FT KAFF 251858Z AUTO 18009KT 10SM CLR 19/08 A3029 RMK AO2 SLP198 T01920077 CWAF 251900Z AUTO 21026KT 16/16 RMK AO1 PK WND 21034/1820 T01610161 KAFJ 251935Z AUTO 22006KT 10SM BKN031 BKN038 29/23 A3007 RMK AO1 CWBA 251900Z AUTO 21007KT 27/18 RMK AO1 T02670178 CWAJ 251900Z AUTO 21008KT 26/23 RMK AO1 SLP141 T02620234 58008 KAFK 251935Z AUTO 00000KT 10SM OVC110 21/16 A3014 RMK AO2 T02120163 KAGC 251953Z 23010G17KT 10SM SCT040 31/21 A3004 RMK AO2 SLP166 T03060206 KAFN 251952Z AUTO 20006KT 10SM SCT110 26/18 A3002 RMK AO2 SLP165 T02610178 TTPP 251900Z 11011KT 9999 VCSH FEW016CB SCT018 34/25 Q1010 NOSIG RMK CB AND SHWRS TO NW CWBE 251900Z AUTO 17005KT 22/19 RMK AO1 T02180189 KAEX 251953Z 15009KT 3SM +TSRA BR SCT055 BKN070 OVC090 24/23 A3001 RMK AO2 LTG DSNT ALQDS TSE07B09 SLP165 P0012 T02390228 KAFO 251935Z AUTO 00000KT 10SM CLR 21/M01 A3019 RMK AO2 TSNO KAFP 251940Z AUTO 00000KT 10SM BKN055 BKN080 34/18 A3009 RMK AO2 T03350181 KC75 251935Z AUTO 29004KT 10SM SCT025 BKN055 OVC065 27/21 A3004 RMK AO2 T02720209 CWAQ 251900Z AUTO 31010G17KT 20/02 RMK AO1 PK WND 31018/1809 SLP205 T01950017 58011 CWAR 251900Z AUTO 21014G20KT 19/17 RMK AO1 PK WND 20022/1808 SLP162 T01880173 56007 PFKT 251952Z AUTO 10005KT 10SM BKN010 08/04 A3017 RMK AO2 CWCA 251900Z 22006KT 10SM -RA FEW025 OVC090 16/14 A2970 RMK CU1AS8 CU TR SLP060 DENSITY ALT 300FT CWBK 251900Z AUTO 21006KT 28/18 RMK AO1 SLP137 T02770178 58016 PFKW 251856Z AUTO 20009KT 10SM FEW009 BKN027 OVC035 14/13 A3020 RMK AO2 RAE26 SLP228 P0000 T01440133 CWAV 251900Z AUTO 34011G16KT 13/09 RMK AO1 SLP269 T01270088 58006 KAFW 251953Z 14005KT 10SM FEW065 SCT250 34/18 A3003 RMK AO2 SLP152 T03440178 CWCF 251800Z AUTO 29010G15KT 18/08 RMK AO1 SLP151 T01810082 51001 CWBO 251900Z AUTO 26006KT 16/12 RMK AO1 SLP236 T01550117 58007 CWCI 251900Z AUTO 27013KT 19/17 RMK AO1 SLP121 T01890166 53005 KAIA 251953Z AUTO 07007KT 10SM CLR 20/07 A3026 RMK AO2 SLP228 T02000072 KAGS 251953Z 03005KT 10SM SCT070 34/20 A3008 RMK AO2 SLP185 T03390200 CWDA 251900Z AUTO 20010G20KT 20/18 RMK AO1 PK WND 21020/1859 SLP079 T02010181 58014 CWBS 251900Z AUTO 20018KT 24/21 RMK AO1 PK WND 20023/1832 T02370206 CWCJ 251900Z AUTO 23007KT 21/16 RMK AO1 SLP106 T02090158 50004 KAIB 251955Z AUTO 21006G16KT 10SM CLR 26/04 A3020 RMK AO2 LTG DSNT N SE AND W EDMA 251850Z VRB02KT CAVOK 22/09 Q1019 CWBT 251900Z AUTO 14001KT 16/16 RMK AO1 SLP064 T01550155 56014 KAID 251948Z 28010KT 10SM SCT040 31/21 A3006 CWDC 251900Z AUTO 34007KT 17/09 RMK AO1 SLP187 T01720089 50001 CWBU 251900Z AUTO 28005KT 22/09 RMK AO1 SLP174 T02160088 57010 CWBV 251900Z AUTO 22017KT 20/ RMK AO1 PK WND 21019/1859 SLP174 T0201 58017 KAHN 251951Z 06004KT 10SM FEW044 33/22 A3013 RMK AO2 SLP195 T03280217 EDLN 251820Z 12003KT CAVOK 26/18 Q1014 CWCO 251900Z AUTO 02002KT 24/21 RMK AO1 SLP125 T02410208 55003 KAIG 251935Z AUTO 27011G18KT 10SM SCT046 24/14 A3001 RMK AO2 T02420140 CWBY 251900Z AUTO 23004KT 17/17 RMK AO1 6PAST HR 6008 SLP066 P0002 T01710167 50006 EDLP 251950Z 16004KT CAVOK 25/09 Q1016 KAHQ 251935Z AUTO 01004KT 10SM CLR 23/16 A3014 RMK AO2 T02310160 CWBZ 251900Z AUTO 26009KT 27/23 RMK AO1 PK WND 27018/1829 SLP111 T02690233 56007 KD07 251856Z AUTO 34013G21KT 18/08 A3022 RMK AO1 SLP235 T01780078 UMBB 251330Z 03003MPS 9999 FEW036 23/11 Q1026 R11/CLRD// NOSIG OOMS 251850Z 28003KT CAVOK 32/18 Q1003 NOSIG CWDJ 251900Z AUTO 33008KT 20/05 RMK AO1 SLP201 T01950051 58011 KAIK 251955Z AUTO 22003KT 10SM SCT050 BKN060 BKN080 32/20 A3014 RMK AO2 KBAB 251858Z AUTO 17005KT 10SM CLR 27/12 A2986 RMK AO2 SLP114 T02650115 $ CWCT 251900Z AUTO 33010G15KT 17/12 RMK AO1 PK WND 31018/1815 SLP220 T01660115 58011 CWDK 251900Z AUTO 35005KT 12/11 RMK AO1 1PAST HR 0000 SLP270 P0004 T01240112 50011 KBAC 251935Z AUTO 32010KT 10SM BKN040 BKN050 OVC060 18/10 A3011 RMK AO2 KBAD 251858Z AUTO 25003KT 10SM FEW060 33/24 A3005 RMK AO2 LTG DSNT N SLP177 T03340243 CWDM 251900Z AUTO 20009KT 15/14 RMK AO1 SLP074 T01450140 58006 EDLV 251950Z 00000KT CAVOK 23/17 Q1014 PFNO 251926Z AUTO 07006KT 10SM OVC004 11/10 A3014 RMK AO2 CIG 004V007 KBAF 251853Z 18013G19KT 10SM SCT042 28/19 A2999 RMK AO2 SLP155 T02830194 EDLW 251950Z 14002KT CAVOK 24/09 Q1015 KAIO 251935Z AUTO 01004KT 10SM CLR 23/16 A3013 RMK AO2 CWDO 251900Z AUTO 21008KT 23/17 RMK AO1 SLP113 T02260173 58014 EDMO 251720Z 09007KT CAVOK 24/15 Q1020 KAJG 251936Z AUTO 24006KT 10SM SCT034 SCT040 SCT050 32/24 A3007 RMK AO2 T03210240 CWDQ 251900Z AUTO 20004KT 25/19 RMK AO1 SLP094 T02510194 57003 CWEH 251900Z AUTO 32012G18KT 18/06 RMK AO1 PK WND 34018/1854 SLP229 T01800063 58007 EEEI 251350Z 23012KT 9999 FEW035 21/15 Q1021 NOSIG KBAK 251945Z 28006KT 10SM SCT039 SCT050 SCT070 32/24 A3006 KAIT 251932Z AUTO 25004KT 10SM SCT026 OVC043 20/11 A3002 RMK AO2 KBBB 251933Z AUTO 32009KT 10SM OVC038 19/11 A3011 RMK AO2 CWDT 251900Z AUTO 26004KT 20/17 RMK AO1 SLP087 T01990171 51006 CWEK 251900Z AUTO 32013KT 17/13 RMK AO1 SLP259 T01690131 58013 NWWW 251930Z AUTO 00000KT 9999 BKN038 BKN046 BKN058 20/18 Q1016 NOSIG CWDV 251900Z AUTO 25011G18KT 20/12 RMK AO1 PK WND 27020/1837 SLP104 T02000119 57004 KBAN 251952Z AUTO 24013KT 10SM 26/M09 A3017 RMK AO2 SLP112 T02611094 $ KAJO 251856Z AUTO 23004KT 10SM CLR 27/16 A2994 RMK AO2 SLP142 T02720161 $ KBBF 251935Z AUTO 10006KT 10SM CLR 32/24 A3001 RMK A01 ULLI 251930Z 23003MPS 9999 SCT025CB BKN040 17/15 Q1018 R28R/290050 NOSIG KBBG 251945Z 32005KT 10SM SCT045 BKN250 32/22 A3010 KD25 251935Z AUTO 25016G22KT 10SM SCT050 SCT065 23/13 A2996 RMK AO2 T02310126 KAKH 251854Z AUTO 24004KT 10SM SCT060 32/19 A3013 RMK AO2 SLP193 T03220194 KAIZ 251856Z AUTO 26005KT 10SM CLR 32/23 A3007 RMK AO2 SLP189 T03170233 CWDZ 251900Z AUTO 30006KT 17/12 RMK AO1 0PAST HR M P0004 T01690124 50010 CWEQ 251900Z AUTO 35012KT 15/11 RMK AO1 3PAST HR 3003 SLP184 P0001 T01510106 50003 KAJR 251935Z AUTO 00000KT 10SM SCT042 BKN050 BKN055 31/22 A3017 RMK AO2 T03070220 KALB 251951Z 00000KT 3SM -RA BR FEW024 BKN035 OVC055 23/22 A2997 RMK AO2 SFC VIS 4 SLP147 P0025 T02330222 $ KBCB 251935Z AUTO 23006KT 10SM SCT036 31/22 A3020 RMK AO2 T03050220 TSNO CWEU 251900Z VRB02KT 15SM FEW025 FEW180 FEW220 04/M01 A3017 RMK SC1AC1CI1 SC TR AC TR CI TR SLP218 KBCE 251953Z AUTO 01010KT 10SM FEW030 SCT070 BKN110 16/03 A3030 RMK AO2 LTG DSNT E AND W RAB28E38 SLP165 P0000 T01610028 KAKO 251953Z AUTO 11016G20KT 10SM CLR 23/04 A3023 RMK AO2 SLP193 T02330044 KBAX 251935Z AUTO 27005KT 10SM BKN025 BKN100 26/20 A2995 RMK AO2 T02610204 KBBP 251935Z AUTO 00000KT 10SM SCT050 SCT065 34/18 A3009 RMK AO2 EDNY 251920Z 00000KT CAVOK 20/19 Q1018 EDOP 251650Z 13008KT 090V170 CAVOK 29/11 Q1018 KBAZ 251951Z VRB05KT 10SM FEW047 33/22 A3002 RMK AO2 SLP157 T03280217 KAKQ 251854Z AUTO 23007KT 10SM CLR 32/19 A3008 RMK AO2 SLP186 T03170189 TSNO KAJZ 251935Z AUTO 11005KT 10SM CLR 28/03 A3014 RMK AO2 LTG DSNT SE T02800026 KALI 251953Z AUTO 15010KT 10SM CLR 35/22 A2997 RMK AO2 SLP146 T03500217 TSNO KAKR 251854Z AUTO 22014G18KT 10SM CLR 33/21 A3002 RMK AO2 SLP157 T03280211 KAMA 251953Z 34007KT 10SM CLR 26/16 A3015 RMK AO2 LTG DSNT SE SLP165 T02610161 KALK 251856Z AUTO 22006KT 10SM FEW075 BKN110 27/09 A3019 RMK AO2 SLP131 T02720094 ULMM 251930Z VRB01MPS 9999 BKN026CB 10/08 Q1011 R13/290150 NOSIG RMK QFE751 KD39 251932Z AUTO 28010G15KT 10SM BKN027 OVC035 18/12 A3009 RMK AO2 T01780120 KBCK 251935Z AUTO 23008KT 10SM CLR 26/15 A3003 RMK AO2 T02590152 KALM 251935Z AUTO 16005KT 10SM VCTS FEW048 28/09 A3014 RMK AO2 LTG DSNT E AND SE KBDE 251953Z AUTO 32016G20KT 10SM FEW015 SCT020 OVC036 18/13 A2995 RMK AO2 RAE1854 SLP144 P0000 T01780133 TSNO KBBW 251953Z AUTO VRB03KT 10SM CLR 23/10 A3020 RMK AO2 SLP212 T02330100 KALN 251945Z 25004KT 10SM BKN070 30/22 A3005 KALO 251854Z 00000KT 10SM CLR 24/14 A3008 RMK AO2 SLP182 T02390144 KAMG 251953Z AUTO VRB05KT 10SM CLR 32/19 A3008 RMK AO2 SLP184 T03220189 KBDG 251935Z AUTO 19011G16KT 10SM CLR 25/05 A3026 RMK AO1 T02510047 KBDH 251935Z AUTO 28012G17KT 10SM SCT035 SCT040 20/13 A3012 RMK AO2 NZAA 251930Z AUTO 31019KT 8000 -SHRA BKN018/// BKN025/// 17/15 Q1000 TEMPO 6000 SHRA BKN010 OOSA 251850Z 18006KT 9000 SCT014 BKN025 25/23 Q1008 NOSIG CWHI 251800Z AUTO 31013KT 16/12 RMK AO1 PK WND 31017/1746 T01610123 50017 CWGR 251900Z AUTO 21014G21KT 23/17 RMK AO1 PK WND 20025/1803 SLP117 T02290167 58011 ZSAM 251900Z 04002MPS 4500 BR NSC 28/27 Q1003 NOSIG KALS 251952Z AUTO 06004KT 10SM CLR 20/04 A3030 RMK AO2 SLP187 T02000044 KBEA 251935Z AUTO 09011G15KT 10SM SCT047 BKN060 BKN080 32/24 A3002 RMK AO2 LTG DSNT NE T03150244 KBCT 251951Z 06015KT 10SM FEW022 32/26 A2995 KANB 251953Z AUTO 36007KT 10SM SCT055 SCT070 BKN090 35/20 A3010 RMK AO2 SLP179 T03500200 KD50 251935Z AUTO 31011G14KT 9SM SCT065 23/04 A3014 RMK AO2 DNIB 251300Z 17006KT 9999 BKN012 30/23 Q1014 KBDL 251951Z 18013G17KT 10SM FEW041 FEW120 SCT170 BKN220 BKN250 29/18 A3000 RMK AO2 SLP157 T02890183 CWGT 251900Z AUTO 34005KT 19/13 RMK AO1 SLP202 T01930132 58011 CWHL 251900Z AUTO 27004KT 14/13 RMK AO1 SLP261 T01420131 58010 KAND 251856Z AUTO VRB03KT 10SM FEW050 32/20 A3015 RMK AO2 SLP197 T03170200 KBED 251856Z 21014G19KT 10SM CLR 29/17 A2999 RMK AO2 SLP165 T02940167 CWID 251900Z AUTO 25007KT 23/09 RMK AO1 SLP207 T02250092 58019 CWHM 251900Z AUTO 20006KT 22/21 RMK AO1 T02240208 KANE 251950Z 28013G19KT 10SM FEW030 BKN250 23/13 A3005 KALW 251953Z 10SM CLR 29/04 A3005 RMK AO2 SLP170 T02890044 KBDN 251935Z AUTO RMK AO2 PNO PWINO TSNO KAMN 251932Z AUTO 28013KT 10SM SCT032 SCT045 29/21 A2996 RMK AO2 T02850209 EDQM 251750Z 13004KT CAVOK 24/07 Q1021 CWHN 251901Z AUTO ///// 9SM BKN018 OVC058 OVC076 OVC089 16/13 A3008 CWGW 251900Z AUTO 34004KT 16/07 RMK AO1 SLP254 T01580068 56015 KALX 251935Z AUTO 00000KT 10SM CLR 34/27 A3013 RMK AO2 T03370271 CWGX 251900Z AUTO 29006KT 23/11 RMK AO1 SLP105 T02270110 57011 CWHO 251900Z AUTO 00006KT RMK AO1 56002 KD55 251955Z AUTO 30008G15KT 10SM OVC001 20/09 A3006 RMK AO2 PFSH 251912Z AUTO 26003KT 10SM SCT012 OVC020 13/12 A3016 RMK AO2 CWIG 251900Z AUTO 22011G16KT RMK AO1 PK WND 21017/1801 CWGY 251900Z AUTO 29005KT 16/12 RMK AO1 PK WND 30018/1836 SLP213 T01620118 56015 KBEH 251953Z AUTO 30007KT 270V340 10SM FEW013 SCT050 25/21 A3004 RMK AO2 SLP167 T02500206 CWGZ 251900Z 00000KT 15SM SCT070 BKN120 05/01 A3003 RMK AC4CS2 SLP173 KBDR 251952Z 19011KT 10SM CLR 28/19 A3002 RMK AO2 SLP167 T02780194 ULPB 251900Z AUTO 23004MPS 9999 NCD 13/11 Q1017 RMK QFE759/1012 CWHQ 251900Z AUTO 24004KT 25/22 RMK AO1 T02520218 KD57 251935Z AUTO 30004G10KT 10SM SCT060 OVC075 18/06 A3018 RMK AO2 CWII 251900Z AUTO 34008KT 20/11 RMK AO1 T02040113 KANJ 251855Z AUTO 32008KT 10SM CLR 23/16 A2991 RMK AO2 SLP123 T02330156 CWIJ 251900Z AUTO 24006KT 08/M02 RMK AO1 SLP206 T00821016 57019 KD60 251935Z AUTO 33010KT 9SM BKN070 21/04 A3018 RMK AO2 KANK 251955Z AUTO 01004G17KT 10SM CLR 24/02 A3033 RMK AO1 T02440021 OPKC 251925Z 26013KT 6000 FEW020 BKN100 29/24 Q1005 NOSIG CWJB 251900Z AUTO 25003KT 24/20 RMK AO1 T02390204 CWHT 251900Z AUTO 19003KT 19/10 RMK AO1 SLP241 T01890097 58031 CWIK 251900Z AUTO 33006KT 21/07 RMK AO1 SLP193 T02080068 58006 EDSB 251950Z 21003KT CAVOK 23/20 Q1015 KBDU 251936Z AUTO 00000KT 10SM CLR 20/05 A3024 RMK AO2 UKWW 251930Z 01003MPS 9999 SCT040 18/10 Q1023 R31/0///65 NOSIG CWJC 251900Z AUTO 34018KT 09/06 RMK AO1 PK WND 35023/1833 SLP163 T00870060 57002 ULOO 251930Z 25002MPS P5000 NSC 18/14 Q1022 R19/090070 NOSIG RMK QFE762 CWIL 251900Z AUTO 32020KT 01/ A2999 RMK SLP164 KBFD 251953Z AUTO 27007KT 10SM FEW039 SCT050 28/21 A3006 RMK AO2 SLP158 T02780211 CWHV 251900Z AUTO 22004KT 25/19 RMK AO1 SLP117 T02480193 56009 CWJD 251900Z AUTO 26006KT 22/13 RMK AO1 SLP150 T02210128 56008 UMGG 251900Z 35003MPS CAVOK 16/12 Q1023 R28/CLRD// NOSIG KAMW 251953Z AUTO 30003KT 10SM CLR 24/17 A3011 RMK AO2 SLP189 T02390167 NZAP 251927Z 27010KT 25KM VCSH SCT014 BKN021 14/12 Q0999 RMK NZRO VATSIM USE ONL KBFF 251953Z AUTO VRB05KT 10SM SCT049 SCT090 20/07 A3027 RMK AO2 SLP226 T02000072 CXAF 251900Z AUTO 35007KT 14/11 RMK AO1 T01360114 TUPJ 252000Z 14009KT 9999 FEW018 SCT060 BKN180 31/26 Q1012 RMK A2991 CXAG 251900Z AUTO 31007KT 14/13 RMK AO1 0PAST HR M P0004 T01390132 50010 CWIP 251900Z AUTO 35002KT 18/ RMK AO1 T0176 KAOH 251953Z AUTO 25016KT 10SM CLR 31/23 A3003 RMK AO2 SLP159 T03060228 KANQ 251955Z AUTO 30008KT 10SM FEW031 SCT035 BKN050 28/25 A3003 RMK CWJH 251900Z AUTO 27003KT 24/07 RMK AO1 SLP138 T02350071 58014 KBFI 251953Z 36005KT 10SM CLR 28/13 A3007 RMK AO2 SLP180 T02830128 $ OPLA 251855Z 03003KT 4000 FU SCT040 SCT100 24/23 Q1006 NOSIG CWJI 251900Z AUTO 27007KT 21/07 RMK AO1 SLP212 T02120071 58013 KAPA 251953Z 32006KT 10SM FEW050 FEW120 SCT220 20/07 A3025 RMK AO2 SLP199 OCNL LTGICCC DSNT SW AND NW CB DSNT SW AND NW MOV E T02000072 PHBK 251856Z AUTO 21006KT 10SM CLR 29/21 A3007 RMK AO2 SLP185 T02940211 CXBA 251900Z AUTO 30010KT 18/12 RMK AO1 PK WND 29017/1824 T01760118 CXAJ 251900Z AUTO 34011KT 14/13 RMK AO1 7PAST HR M PK WND 33017/1850 P0003 T01390129 50007 CWIS 251900Z AUTO 24005KT 17/17 RMK AO1 SLP110 T01650172 56007 EEKA 251550Z 23008KT 180V260 9999 BKN012 19/16 Q1021 CXAK 251900Z AUTO 31011KT 15/13 RMK AO1 7PAST HR M PK WND 32017/1859 P0003 T01510133 50007 KAPC 251903Z VRB05KT 10SM FEW013 17/11 A2995 RMK AO2 T01720111 KBFL 251854Z 30004KT 10SM CLR 32/07 A2988 RMK AO2 SLP112 T03220072 KBFM 251953Z 12009KT 10SM CLR 33/22 A3006 RMK AO2 LTG DSNT W SLP177 T03330222 KBGD 251951Z AUTO 08006KT 10SM BKN031 26/16 A3015 RMK AO2 SLP174 T02610161 CWKD 251900Z AUTO 26006KT 16/14 RMK AO1 SLP086 T01600140 53010 KANW 251935Z AUTO 33008KT 10SM CLR 21/10 A3023 RMK AO2 T02090099 KBGE 251935Z AUTO 07011G19KT 10SM CLR 33/19 A3007 RMK AO2 CWIW 251900Z AUTO 20002KT 21/08 RMK AO1 SLP194 T02060076 58010 KAPF 251953Z 27011KT 4SM TSRA BR FEW038 SCT070 BKN100 28/26 A2994 RMK AO2 LTG DSNT ALQDS SLP137 P0021 T02780256 $ KAOO 251953Z AUTO 26005KT 10SM SCT045 29/21 A3007 RMK AO2 SLP171 T02940206 EEKE 251950Z AUTO VRB01KT 9999NDV NSC 17/16 Q1021 KBGF 251935Z AUTO 32004KT 10SM CLR 32/22 A3014 RMK KAPG 251859Z 21010KT 7SM OVC050 28/22 A3004 CWIX 251900Z AUTO 32003KT 20/19 RMK AO1 SLP081 T02000187 53006 CWJO 251900Z AUTO 23004KT 22/20 RMK AO1 SLP091 T02160197 53001 NZCH 251937Z 23007KT 15KM DZ SCT007 BKN020 08/08 Q1001 RMK VATSIM USE ONLY NZCI 251927Z 22004KT 20KM BKN010 OVC046 11/11 Q0996 RMK NZNR VATSIM USE ONLY CWKG 251900Z AUTO 25008G15KT 27/15 RMK AO1 PK WND 26021/1847 SLP174 T02710152 56016 CWIZ 251900Z AUTO 19005KT 21/21 RMK AO1 2PAST HR M P0005 T02120208 50012 CWKH 251900Z AUTO 26/07 RMK AO1 SLP192 T02610067 57008 CXBI 251900Z AUTO 29007KT 26/19 RMK AO1 SLP133 T02580188 55004 CWJR 251900Z AUTO 30002KT 23/07 RMK AO1 SLP218 T02260073 58020 CXCA 251900Z AUTO 21005KT 23/12 RMK AO1 SLP079 T02270116 58005 KBHB 251856Z AUTO 19015KT 10SM CLR 23/19 A2998 RMK AO2 SLP155 T02280189 NZCM 251755Z 32008KT 9999 SKC M22/M39 A2904 RMK SLPNO CWKK 251900Z AUTO 04010KT 20/16 RMK AO1 SLP084 T01960155 57003 CXAT 251900Z AUTO 30003KT 08/07 RMK AO1 SLP095 T00840066 CXBK 251900Z AUTO 28009G16KT 21/03 RMK AO1 SLP195 T02080034 58011 CWLB 251900Z AUTO 33006KT 14/12 RMK AO1 2PAST HR 4000 SLP217 P0001 T01430115 50002 CWJT 251900Z AUTO 22004KT 26/21 RMK AO1 0PAST HR 6011 SLP100 P0008 T02580207 50020 KBHC 251935Z AUTO 07004KT 10SM SCT060 32/21 A3009 RMK AO2 PNO EDTL 250950Z 22004KT 190V250 CAVOK 26/16 Q1018 CWLC 251900Z AUTO 33001KT 18/14 RMK AO1 T01810136 CWJU 251900Z AUTO 30017G22KT 13/13 RMK AO1 PK WND 30022/1855 SLP304 T01290129 58009 KBGM 251953Z 21006KT 10SM BKN016 BKN050 24/21 A3003 RMK AO2 SLP158 T02390211 CXCD 251900Z AUTO 22004KT 21/10 RMK AO1 T02130102 CWJV 251900Z AUTO 30002KT 25/08 RMK AO1 SLP208 T02510076 58018 CWKM 251900Z AUTO 32005KT A3007 KAPN 251854Z AUTO 25007KT 10SM CLR 29/15 A2993 RMK AO2 SLP130 T02890150 KBFW 251934Z AUTO 26007KT 210V310 10SM SCT041 OVC070 21/12 A2992 RMK AO2 CWJW 251900Z AUTO 30001KT 16/09 RMK AO1 SLP260 T01560093 58015 DNKN 250700Z 23009KT 8000 -TSRA FEW013 FEW019CB 22/21 Q1014 BECMG NSW SCT014 CWLE 251900Z AUTO 30011KT 16/11 RMK AO1 SLP211 T01590107 58005 VCRI 251810Z 25012KT CAVOK 27/19 Q1009 NOSIG CWJX 251900Z AUTO 26012KT 17/11 RMK AO1 SLP219 T01680108 58009 CXBO 251900Z AUTO 25007KT RMK AO1 CWKO 251900Z AUTO 27009G16KT 18/07 RMK AO1 SLP223 T01810070 58010 UMII 251600Z 32002MPS 9999 FEW033 21/11 Q1024 R23/CLRD// NOSIG UNAA 251930Z 00000MPS 9000 NSC 10/09 Q1021 R02/090065 NOSIG RMK QFE743 CWKP 251900Z AUTO 29008KT 06/ A3007 RMK SLP210 CXCH 251900Z AUTO 26/16 RMK AO1 T02620161 KBGR 251953Z 17011KT 10SM SCT100 BKN250 26/19 A2992 RMK AO2 SLP127 T02610189 CXBR 251900Z AUTO 03008KT 15/09 RMK AO1 T01520090 CWLI 251900Z AUTO ///// 10/ A3012 RMK SLP210 KARA 251953Z 19004KT 10SM VCTS -RA SCT035 BKN045 OVC050 26/24 A3007 RMK AO2 PK WND 14026/1910 LTG DSNT ALQDS TSB15E52 SLP180 P0001 T02560239 KBHK 251951Z AUTO 33009KT 10SM BKN070 BKN080 19/04 A3022 RMK AO2 SLP227 T01940044 KARB 251953Z 10SM FEW085 30/21 A2997 RMK AO2 PK WND 19031/1909 SLP140 T03000206 CXDB 251900Z AUTO 31008KT 17/05 RMK AO1 T01670047 CXCK 251900Z AUTO 27001KT 15/12 RMK AO1 3PAST HR 8016 SLP250 P0001 T01460117 50003 NZDN 251905Z VRB03KT 5KM RADZ SCT010 OVC020 06/06 Q1001 RMK VATSIM USE ONLY KBHM 251953Z 06006KT 10SM FEW046 SCT120 33/22 A3012 RMK AO2 SLP188 T03330222 KBID 251856Z AUTO 22013G19KT 10SM CLR 26/20 A3008 RMK AO2 SLPNO T02610200 CWLM 251900Z AUTO 19002KT 22/11 RMK AO1 SLP198 T02190109 57011 KBIE 251935Z AUTO 05004KT 10SM CLR 23/16 A3014 RMK AO2 T02310163 CXBW 251800Z AUTO 34007KT 14/08 RMK AO1 T01350084 CWME 251900Z AUTO 06015KT 21/13 RMK AO1 PK WND 07020/1805 SLP213 T02080134 58019 CXDE 251900Z AUTO 31004KT 22/08 RMK AO1 SLP202 T02150078 58014 CWKW 251800Z AUTO ///// A2955 EDVE 251750Z 12010KT CAVOK 30/10 Q1016 KBIF 251858Z AUTO 00000KT 9SM CLR 27/12 A3013 RMK AO2 SLP140 T02710119 KAQO 251935Z AUTO 22003KT 10SM CLR 33/19 A3009 RMK AO2 OPNH 251900Z 18004KT 4000 HZ FEW035 SCT100 31/24 Q1003 CWKX 251900Z AUTO 17004KT 18/08 RMK AO1 SLP294 T01800083 57026 KARG 251335Z AUTO 14004KT 10SM CLR 26/23 A3011 RMK AO1 KAQP 251934Z AUTO 30012G18KT 10SM OVC041 20/11 A3011 RMK AO2 KD95 251933Z AUTO 28003KT 10SM BKN060 BKN070 OVC085 23/22 A2997 RMK AO2 P0001 T02290222 KAPY 251935Z AUTO 12006G21KT 10SM CLR 35/15 A2996 RMK AO2 T03560151 CXCP 251900Z AUTO 32009KT 15/10 RMK AO1 T01470103 CWLP 251900Z AUTO 32004KT 12/ RMK AO1 SLP227 T0123 58010 EDTY 251750Z 10005KT CAVOK 25/12 Q1018 KBIH 251856Z AUTO 10SM CLR 32/M08 A2999 RMK AO2 SLP099 T03221078 UNBB 251930Z 03002MPS CAVOK 13/09 Q1020 R06/CLRD66 NOSIG RMK QFE742 KAQR 251935Z AUTO 17004KT 10SM SCT060 35/16 A3005 RMK AO2 CXDI 251900Z AUTO 20009G15KT 27/22 RMK AO1 PK WND 20017/1835 SLP132 T02710217 58009 OPMT 251950Z 09004KT 4000 FU SCT120 29/25 Q1004 NOSIG KBIJ 251935Z AUTO 08008KT 10SM CLR 34/19 A3008 RMK AO2 VEBD 251330Z VRB01KT 6000 FEW025 FEW030CB SCT250 30/28 Q1003 NOSIG CXCS 251900Z AUTO 30012KT 17/11 RMK AO1 PK WND 30023/1823 T01700114 CXEA 251900Z AUTO 01005KT 15/12 RMK AO1 SLP129 T01530119 53013 CWLS 251900Z AUTO 26004KT 25/19 RMK AO1 SLP141 T02520194 56001 CWMJ 251900Z AUTO 23005KT 27/19 RMK AO1 SLP099 T02740189 56007 CWNB 251700Z AUTO RMK AO1 EDVK 251920Z VRB01KT CAVOK 26/11 Q1017 CXDK 251900Z AUTO 22001KT 20/09 RMK AO1 SLP221 T02020091 58028 KBJC 251947Z 05004KT 15SM FEW070 SCT120 BKN220 22/05 A3028 RMK TCU DSNT SW-NW KBIL 251953Z VRB03KT 10SM SCT060 SCT200 18/03 A3023 RMK AO2 SLP226 T01830028 KE11 251935Z AUTO 00000KT 10SM SCT047 29/17 A3011 RMK AO2 LTG DSNT NE AND SW T02890167 CXEC 251900Z AUTO 33009KT 18/11 RMK AO1 PK WND 32018/1844 SLP224 T01750114 58007 CWNC 251900Z AUTO 25005KT 24/20 RMK AO1 SLP121 T02410195 57008 KASD 251953Z AUTO VRB04KT 10SM FEW027 32/25 A3004 RMK AO2 LTG DSNT NE AND E SLP170 T03220250 KCAD 251935Z AUTO 27011KT 10SM SCT042 27/15 A2998 RMK AO2 T02700157 KAQV 251937Z AUTO 18007KT 3SM -TSRA BR SCT026 BKN100 24/24 A3006 RMK AO2 RAB1857 P0032 T02440239 KARM 251935Z AUTO 11008KT 10SM -RA CLR 28/24 A3003 RMK AO2 LTG DSNT NE T02750240 CWND 252325Z M01/M01 RMK 6009 T10111007 KAQW 251952Z AUTO VRB06KT 10SM FEW041 BKN055 OVC100 27/19 A2998 RMK AO2 SLP149 T02670189 CWMM 251900Z AUTO 14002KT 28/13 RMK AO1 SLP195 T02820130 58014 KASE 251953Z VRB05KT 10SM -RA FEW029 BKN060 13/05 A3040 RMK AO2 LTG DSNT S TSE49 SLP210 P0002 T01330050 KCAE 251856Z 09004KT 10SM BKN050 BKN065 33/19 A3011 RMK AO2 SLP191 T03280189 DNMM 251900Z VRB02KT 9999 FEW009 26/22 Q1013 NOSIG CWNE 251900Z AUTO 22016KT 26/16 RMK AO1 PK WND 22027/1823 SLP104 T02640162 56016 KAQX 251935Z AUTO VRB04G10KT 10SM SCT065 SCT075 33/17 A3009 RMK AO2 KASG 251948Z 15007KT 10SM SCT050 SCT060 32/21 A3009 VEBI 250830Z 24013KT 4000 TS SCT018 FEW025CB BKN090 29/24 Q1009 NOSIG CWLX 251900Z AUTO 13011KT 13/ A2966 RMK SLP053 KCAG 251953Z AUTO 28012KT 10SM CLR 22/02 A3023 RMK AO2 SLP184 T02170022 CXDP 251900Z AUTO 32013KT 16/14 RMK AO1 PK WND 31018/1853 T01610138 CXEG 251900Z AUTO 17/13 RMK AO1 T01660130 CWLY 251900Z AUTO 03004KT 300V040 9SM SCT120 26/10 A3015 RMK SLP209 DENSITY ALT 1800FT KASH 251856Z VRB05KT 10SM FEW050 29/19 A2999 RMK AO2 SLP162 T02940194 KE16 251935Z AUTO 16003KT 10SM CLR 20/13 A2996 RMK AO2 KARR 251952Z 28005KT 10SM BKN085 28/19 A3005 RMK AO2 SLP171 T02780194 UMKK 251930Z 00000MPS CAVOK 16/16 Q1024 R24/CLRD70 NOSIG RMK QFE767/1023 VEAT 251300Z 00000KT 5000 HZ FEW020 FEW030CB 32/28 Q1001 NOSIG CWMQ 251900Z AUTO 33006KT 16/09 RMK AO1 SLP240 T01580094 58006 CWNH 251900Z AUTO 21009G19KT 21/19 RMK AO1 PK WND 23020/1810 SLP090 T02090187 54000 ZSHC 251930Z 04002MPS CAVOK 27/26 Q1004 NOSIG KBJI 251933Z AUTO 27014G22KT 10SM SCT020 BKN041 18/12 A3001 RMK AO2 T01790124 PFWS 251856Z AUTO 21011KT 10SM OVC006 15/13 A3030 RMK AO2 SLP265 T01500133 KASJ 251940Z AUTO 18003KT 10SM CLR 30/21 A3008 RMK AO2 T02960205 KBJJ 251856Z AUTO 23011G18KT 10SM FEW037 30/23 A3003 RMK AO2 SLP160 T03000228 VECC 251930Z 00000KT 3200 HZ FEW020 SCT100 29/27 Q1004 BECMG 3000 HZ KBIS 251952Z 34010KT 10SM BKN070 OVC085 20/09 A3016 RMK AO2 SLP212 T02000089 KCAK 251951Z 23015KT 10SM SCT043 32/21 A3002 RMK AO2 SLP153 T03170211 KART 251923Z AUTO 25010KT 8SM BKN018 27/22 A2991 RMK AO2 T02720222 KBKB 251940Z AUTO VRB03KT 5SM -TSRA BR SCT030 BKN060 BKN095 24/22 A3004 RMK AO2 T02390222 PNO $ VEBN 251830Z 00000KT 3000 HZ FEW100 30/27 Q1004 CWNK 251900Z AUTO 31005KT 19/12 RMK AO1 T01880116 CWMT 251900Z AUTO 30007KT 20/11 RMK AO1 SLP195 T02020107 58013 KASL 251935Z AUTO 00000KT 10SM SCT040 SCT050 SCT065 31/23 A3006 RMK AO1 T03080229 CWNL 251900Z AUTO 30007KT 22/18 RMK AO1 SLP128 T02240182 51002 CWOC 251900Z AUTO 24003KT 24/19 RMK AO1 SLP082 T02390192 56016 KBIV 251953Z AUTO 28007KT 10SM CLR 25/19 A3002 RMK AO2 SLP162 T02500189 KARV 251930Z AUTO 26017G20KT 10SM SCT048 SCT055 25/15 A2998 RMK AO2 T02500146 KBKD 251930Z AUTO 17005KT 7SM SCT070 34/17 A3005 RMK AO2 T03420165 CWOD 251900Z AUTO 28005KT 23/19 RMK AO1 SLP064 T02330192 50005 CWNM 251900Z AUTO 01003KT 25/07 RMK AO1 SLP204 T02480071 58026 KCBE 251946Z AUTO 29004KT 10SM SCT049 33/19 A3007 RMK AO1 ZSFZ 251900Z 02001MPS 9999 SCT050 29/25 Q1003 NOSIG KARW 251955Z AUTO 12008KT 350V140 7SM CLR 32/19 A3009 RMK AO2 KBKE 251953Z AUTO 28006KT 10SM CLR 25/03 A3012 RMK AO2 SLP183 T02500028 TSNO KASN 251935Z AUTO 00000KT 10SM SCT050 SCT075 BKN085 33/23 A3011 RMK AO2 LTG DSNT S T03280225 CWOE 251900Z AUTO 29007KT 19/04 RMK AO1 SLP234 T01900040 58010 CXDW 251900Z AUTO 33009KT 19/12 RMK AO1 PK WND 31018/1818 SLP173 T01920115 56001 KBIX 251945Z AUTO VRB01KT 10SM VCTS SCT040 26/26 A3004 RMK AO2 LTG DSNT NE RAB03E41 TSE45 KCBF 251935Z AUTO 35005KT 10SM CLR 23/17 A3014 RMK AO2 KCAO 251855Z AUTO 06004KT 10SM BKN042 23/13 A3024 RMK AO2 SLP186 T02280128 KBKF 251858Z 06003KT 10SM FEW060 SCT110 SCT220 19/08 A3027 RMK AO2A SLP199 T01900082 KCBG 251935Z AUTO 25010G18KT 10SM SCT036 22/13 A3003 RMK AO2 VEBS 251800Z 23004KT 2000 HZ SCT018 BKN090 27/26 Q1005 CWNP 251900Z AUTO 24001KT 19/06 RMK AO1 SLP218 T01910055 57019 CWMZ 251900Z AUTO 24003KT 23/20 RMK AO1 SLP127 T02260196 55004 CWNQ 251900Z AUTO 21011G18KT 26/21 RMK AO1 PK WND 22018/1852 SLP103 T02570212 56009 KCAR 251854Z AUTO 24009KT 10SM BKN060 OVC075 27/18 A2983 RMK AO2 SLP103 T02670178 KCCA 251935Z AUTO 00000KT 9SM CLR 34/23 A3006 RMK AO2 KAST 251855Z AUTO 35006KT 10SM CLR 27/16 A3004 RMK AO2 SLP172 T02720156 KCBK 251935Z AUTO 11011G17KT 10SM CLR 25/08 A3022 RMK AO2 KATL 251952Z 26004KT 10SM FEW045 FEW250 32/22 A3013 RMK AO2 SLP193 TCU DSNT N T03170217 CXET 251900Z AUTO 34004KT 26/19 RMK AO1 SLP131 T02640189 55003 KBKL 251953Z 20012G20KT 10SM FEW055 BKN080 34/20 A2995 RMK AO2 SLP136 T03390200 EFET 251950Z AUTO 35004KT CAVOK 07/04 Q1013 CWPC 251900Z AUTO 24017KT 25/22 RMK AO1 PK WND 25023/1830 SLP145 T02450215 58008 KCBM 251858Z AUTO VRB06KT 10SM CLR 36/26 A3008 RMK AO2 SLP186 T03560261 $ CXFM 251900Z AUTO 03008KT 16/08 RMK AO1 T01640075 CWPD 251900Z AUTO 20005KT 17/17 RMK AO1 SLP078 T01730173 56003 UMMG 251500Z 36003MPS 9999 BKN033 23/13 Q1025 R35/CLRD// NOSIG KASW 251935Z AUTO 26009KT 10SM SCT028 SCT043 BKN048 27/26 A3004 RMK AO2 KBLF 251952Z AUTO 28008KT 10SM SCT030 BKN038 BKN046 27/20 A3024 RMK AO2 SLP199 T02720200 CWPE 251900Z AUTO 19007KT 18/17 RMK AO1 SLP152 T01840169 58014 KASX 251953Z AUTO 24019G25KT 10SM BKN055 BKN065 24/13 A2994 RMK AO2 RAE18 SLP139 P0000 T02440128 KAUG 251953Z AUTO 20007G17KT 170V260 10SM CLR 26/18 A2994 RMK AO2 SLP136 T02560183 CWPF 251945Z AUTO 20003KT 17/11 RMK AO1 T01690106 KATP 251935Z AUTO 33017KT 7SM FEW050 FEW060 SCT080 27/25 A3003 RMK A01 KBLH 251952Z AUTO 17013G24KT 10SM CLR 39/14 A2982 RMK AO2 SLP091 T03890144 KAUH 251935Z AUTO 08007KT 10SM CLR 24/13 A3017 RMK AO2 T02380132 PHHI 251858Z AUTO VRB03KT 10SM CLR 27/22 A3011 RMK AO2 SLP184 T02670220 $ NZGS 251934Z 15004KT 30KM VCFG FEW020 SCT055 10/10 Q0996 RMK VATSIM USE ONLY CXGH 251900Z AUTO 05006KT 17/12 RMK AO1 T01740116 CWNZ 251900Z AUTO 03003KT 20/16 RMK AO1 SLP087 T02020159 56013 KBLI 251953Z 27006KT 10SM CLR 27/13 A3008 RMK AO2 SLP191 T02720133 OPPS 252000Z 36006KT 4000 HZ FEW040 SCT100 29/21 Q1006 NZHK 251937Z 23007KT 15KM DZ SCT007 BKN020 08/08 Q1001 RMK NZCH VATSIM USE ONLY ULWC 251930Z 21001MPS 9999 SCT020 14/13 Q1019 R03/010060 NOSIG RMK QFE755/1006 KATS 251935Z AUTO 05005KT 10SM CLR 25/17 A3013 RMK AO2 LTG DSNT SE-W KBKS 251935Z AUTO 12007KT 10SM BKN050 BKN060 35/21 A2997 RMK AO1 T03540207 KCDA 251935Z AUTO 13010KT 100V160 10SM SCT027 SCT050 BKN070 25/20 A2996 RMK AO2 T02480198 KE38 251935Z AUTO 24004KT 10SM VCTS CLR 25/13 A3024 RMK AO2 LTG DSNT NW T02540134 CXHA 251900Z AUTO 24010KT 29/22 RMK AO1 SLP133 T02910224 58007 UMMM 251430Z 35005MPS 9999 BKN040 22/09 Q1025 R30/CLRD60 NOSIG RMK QFE749 EFHA 251950Z AUTO 29009KT CAVOK 14/10 Q1017 KATT 251851Z AUTO VRB04KT 10SM SCT041 33/23 A3008 RMK AO2 SLP169 T03280228 PFYU 251936Z 00000KT 10SM BKN046 OVC050 15/12 A3012 RMK AO1 UNEE 251930Z 16002MPS CAVOK 11/09 Q1020 R23/CLRD60 NOSIG RMK QFE742 KCDC 251953Z AUTO 03013G19KT 10SM VCTS -RA FEW045 SCT080 OVC095 19/08 A3018 RMK AO2 LTG DSNT SW RAB30 SLP161 P0001 T01890083 KAVC 251936Z AUTO 21009KT 10SM SCT047 32/21 A3014 RMK AO2 T03240213 KBMC 251935Z AUTO 34007KT 10SM 25/M04 A3009 RMK AO1 T02471040 NZHN 251828Z 30010KT 20KM SHRA BKN020 15/13 Q0999 RMK VATSIM USE ONLY KCDD 251941Z AUTO 26005G14KT 7SM SCT022 BKN031 BKN042 17/13 A2993 RMK AO2 KBKV 251953Z AUTO 06015G18KT 10SM FEW060 33/21 A2999 RMK AO2 SLP152 T03330206 KAUM 251935Z AUTO 28009KT 10SM CLR 23/13 A3009 RMK AO2 KBLM 251756Z AUTO 16011G15KT 10SM CLR 29/19 A3007 RMK AO2 SLP185 T02940194 10294 20206 57019 KBKW 251951Z AUTO 27006KT 10SM BKN030 BKN039 BKN046 28/21 A3021 RMK AO2 SLP191 T02780206 CXHD 251900Z AUTO 34013KT 16/12 RMK AO1 PK WND 31019/1800 T01570119 KAUN 251935Z AUTO 23005KT 10SM CLR 29/06 A2994 RMK AO1 KATW 251945Z 25010KT 10SM FEW030 BKN120 25/12 A3001 KAUO 251656Z AUTO 00000KT 10SM BKN033 29/22 A3020 RMK AO2 SLP235 T02940217 EDXW 251650Z 09005KT CAVOK 26/21 Q1015 KBKX 251856Z AUTO 30012KT 10SM CLR 19/12 RMK AO2 SLPNO T01940117 $ KCCO 251935Z AUTO 00000KT 10SM SCT041 BKN055 32/23 A3015 RMK AO2 T03180232 DNPO 251700Z VRB02KT 5000 -TSRA BKN008 FEW020CB 24/24 Q1011 NOSIG CXHF 251900Z AUTO 27/21 RMK AO1 T02740210 CWPO 251900Z AUTO 32011KT 19/08 RMK AO1 PK WND 31020/1820 SLP186 T01890075 50000 KBMG 251953Z 29008KT 10SM SCT036 31/23 A3008 RMK AO2 SLP175 T03060233 KATY 251953Z AUTO 29010G17KT 10SM BKN042 19/11 A3013 RMK AO2 SLP200 T01940106 EFHF 251950Z AUTO 24004KT 9999 BKN030 BKN044 BKN167 17/15 Q1018 CWOY 251900Z AUTO 29005KT 20/08 RMK AO1 SLP197 T01970077 58007 UMMS 251930Z 30001MPS CAVOK 12/11 Q1025 R31/CLRD// NOSIG KCDH 251935Z AUTO 34006KT 8SM -RA FEW110 26/22 A3006 RMK AO2 NZHS 251927Z 22004KT 20KM BKN010 OVC046 11/11 Q0996 RMK NZNR VATSIM USE ONLY CWQH 251900Z AUTO 22007KT 25/20 RMK AO1 PK WND 20017/1822 T02540196 KCCR 251953Z 31010KT 10SM CLR 24/12 A2990 RMK AO2 SLP112 T02390117 KBMI 251922Z 23008KT 8SM BKN020 27/21 A3008 RMK AO2 NZHT 251903Z 35003KT 40KM OVC023 06/05 Q1000 RMK NZQN VATSIM USE ONLY CWPR 251900Z AUTO 08005KT 25/05 RMK AO1 SLP206 T02480054 58029 KBNA 251953Z 27006KT 10SM BKN048TCU BKN250 33/22 A3010 RMK AO2 LTG DSNT E-S SLP185 TCU OHD-ALQDS T03330222 KAUS 251953Z VRB05KT 10SM SCT046 SCT300 33/22 A3003 RMK AO2 SLP158 T03330222 KCDJ 251852Z AUTO 04008KT 25/21 A3008 RMK AO1 SLP174 T02500211 KAVK 251710Z AUTO 03003KT 10SM SCT019 25/19 A3013 RMK AO2 ZSJN 250414Z 05004G12MPS 030V090 1700 RA BR SCT006 OVC033 23/22 Q1008 NOSIG CWPS 251900Z AUTO 24/22 RMK AO1 SLP141 T02420219 58006 CWRA 251900Z AUTO 24018G24KT 19/17 RMK AO1 PK WND 24025/1801 SLP177 T01860172 57006 KBML 251952Z AUTO VRB04KT 10SM SCT045 OVC060 26/18 A2995 RMK AO2 SLP138 T02610183 KBLU 251952Z AUTO 19008G16KT 10SM CLR 24/M05 A3015 RMK AO2 SLP109 T02441050 TSNO CWQK 251900Z AUTO 11008KT 21/11 RMK AO1 SLP197 T02090106 58009 CXIB 251900Z AUTO 22003KT 25/16 RMK AO1 SLP147 T02530163 58004 EFHK 251950Z 23006KT 9999 FEW030 SCT043 BKN150 17/16 Q1018 NOSIG KCCU 251936Z AUTO 30005KT 10SM SCT046 OVC060 05/M01 A3057 RMK AO2 LTG DSNT SW THRU NW P0004 KAVL 251854Z 34006KT 10SM CLR 30/17 A3022 RMK AO2 SLP202 T03000167 KCEC 251944Z AUTO 21008KT 3SM BR OVC002 13/11 A2993 RMK AO2 T01280111 EEPU 251250Z 21014KT CAVOK 21/16 Q1023 OPRN 251930Z 13004KT CAVOK FEW100 27/22 Q1007.7/29.76 KBLV 251858Z AUTO 22007KT 10SM FEW050 33/22 A3004 RMK AO2 SLP171 T03330220 PGRO 250950Z 20005KT 7SM SCT015 27/25 A2986 RMK LAST KAUW 251854Z AUTO 27010KT 10SM FEW045 25/14 A3000 RMK AO2 SLP156 T02500139 KCEF 251858Z 18014G20KT 10SM FEW039 SCT150 BKN200 30/19 A2999 RMK AO2A SLP160 T02950194 PHJH 251845Z 03012G16KT 10SM VCSH FEW030 FEW060 27/21 A3010 RMK VCSH E CWQO 251900Z AUTO 26021G26KT 13/11 RMK AO1 PK WND 24026/1856 T01300112 CWRF 251900Z AUTO ///// 02/ A2970 RMK SLP087 KAWG 251955Z AUTO 00000KT 10SM BKN110 24/20 A3008 RMK AO2 KCCY 251955Z AUTO VRB05KT 10SM CLR 24/17 A3010 RMK AO2 KAVP 251854Z 20010KT 5SM -RA BKN025 OVC030 25/21 A3003 RMK AO2 RAB47 SLP162 P0000 T02500206 CWQP 251900Z AUTO 24011KT 25/22 RMK AO1 SLP128 T02530216 56008 CXHP 251800Z AUTO 32007KT 18/11 RMK AO1 T01790113 KBMQ 251953Z AUTO 19006KT 10SM CLR 32/16 A3009 RMK AO2 SLP169 T03220156 KAVQ 251935Z AUTO 00000KT 10SM CLR 34/08 A2998 RMK AO2 T03400076 CWPZ 251900Z AUTO 28002KT 24/07 RMK AO1 SLP266 T02360070 58020 CWRH 251900Z AUTO ///// 05/ A2960 RMK SLP049 KCDR 251953Z AUTO 00000KT 10SM FEW032 OVC110 18/08 A3026 RMK AO2 SLP242 T01780083 CXHR 251900Z AUTO 30007KT 15/13 RMK AO1 T01540131 CWQR 251900Z AUTO 17003KT 13/ RMK AO1 T0128 KCDS 251953Z AUTO 18006KT 10SM SCT075 SCT090 31/19 A3006 RMK AO2 LTG DSNT W AND NW SLP152 T03060189 OPSK 252000Z 00000KT 4000 HZ FEW040 SCT200 32/25 QNH 1001 KAXA 251935Z AUTO VRB04KT 10SM CLR 23/15 A3012 RMK AO2 CWQS 251900Z AUTO 32028G33KT 13/12 RMK AO1 PK WND 32033/1846 SLP286 T01270124 56011 CWRJ 251900Z AUTO 19004KT 15/13 RMK AO1 2PAST HR 8007 SLP205 P0001 T01460131 50002 CWSA 251900Z AUTO 21013KT 9SM CLR 21/18 A3013 RMK SLP205 DENSITY ALT 400FT EGAA 251950Z 14006KT CAVOK 15/10 Q1013 KBMT 251935Z AUTO 32003KT 10SM SCT039 SCT050 33/23 A3003 RMK AO2 LTG DSNT E SW AND W T03290232 CYAB 251900Z 00000KT 15SM FEW020 BKN040 OVC080 10/06 A2980 RMK SC2SC4AC2 WND ESTD SLP095 CWRK 251900Z AUTO 26004KT 28/16 RMK AO1 SLP122 T02790163 56004 ORBD 251755Z 01003KT 8000 HZ FEW120 40/03 A2961 RMK SLP026 WND DATA/ALSTG/SLP ESTMD 52018 LAST EGAC 251950Z 19005KT 150V210 9999 FEW045 16/09 Q1013 UMOO 251400Z 36005MPS 9999 BKN040 22/11 Q1023 R31/CLRD// NOSIG KAWM 251953Z AUTO 00000KT 10SM CLR 33/24 A3005 RMK AO2 LTG DSNT E AND NW RAB02E12 SLP169 P0000 T03330239 PGSN 251854Z 00000KT 10SM BKN110 28/26 A2986 RMK AO2 SLP131 T02780256 $ KCFD 251720Z AUTO 28003KT 10SM BKN030 A3011 RMK AO2 CWSD 251900Z AUTO 21022G29KT 24/18 RMK AO1 PK WND 20033/1828 SLP129 T02360175 56012 CWQV 251900Z AUTO 30004KT RMK AO1 CWRM 251900Z AUTO 32011G20KT 12/09 RMK AO1 PK WND 34020/1851 SLP252 T01170094 58009 KCDW 251953Z VRB04KT 10SM OVC049 29/20 A3000 RMK AO2 SLP163 T02890200 KCFE 251935Z AUTO 26010G14KT 10SM SCT035 21/13 A3008 RMK AO2 T02090125 KAVX 251951Z AUTO 24006KT 9SM CLR 19/15 A2998 RMK AO2 SLP138 T01890150 TSNO $ EGAE 251550Z 19008KT 160V230 9999 SCT048 22/12 Q1012 CWRN 251900Z AUTO 22023G30KT 21/18 RMK AO1 PK WND 22030/1833 SLP168 T02080177 58010 KBNO 251953Z AUTO VRB04KT 10SM CLR 24/M03 A3015 RMK AO2 SLP181 T02441033 KAWO 251935Z 31006KT 10SM CLR 27/11 A3009 RMK AO1 CWRO 251900Z AUTO 29016KT 15/ RMK AO1 PK WND 29020/1847 SLP278 T0154 58009 CWSF 251900Z AUTO 18008KT 22/18 RMK AO1 SLP064 T02180175 56014 NZKI 251820Z 27005KT 30KM BKN028 07/06 Q0998 RMK NZWB VATSIM USE ONLY CWSG 251900Z AUTO 26016KT 15/14 RMK AO1 PK WND 26018/1852 SLP071 T01500135 53001 PHJR 251953Z 08007G19KT 10SM CLR 30/21 A3009 RMK AO2 SLP195 T03000211 ORBI 251930Z 31006KT CAVOK 35/07 Q1002 KAXH 251935Z AUTO 04003KT 7SM -RA SCT028 BKN044 OVC065 30/24 A3004 RMK AO2 LTG DSNT N AND NE P0001 T02950235 VEGK 251230Z 08002KT 6000 FEW250 34/25 Q1001 NOSIG CYAH 251900Z AUTO 33006KT 200V350 9SM BKN033 13/05 A2980 RMK SLP102 DENSITY ALT 1100FT KBOI 251953Z VRB03KT 10SM CLR 26/M01 A3007 RMK AO2 SLP160 T02611006 PGUA 251858Z AUTO 19003KT 10SM CLR 25/24 A2988 RMK AO2 SLP109 T02520242 $ NZKK 251928Z 28018G30KT 15KM SHRA BKN016 BKN040 17/14 Q1000 RMK NZWP VATSIM USE KCFJ 251955Z AUTO 25010KT 10SM SCT038 29/21 A3007 RMK AO2 T02860214 OPST 251900Z 00000KT 4000 FU SCT040 26/23 Q1005 NOSIG RH84 CXKA 251900Z AUTO 25002KT 21/16 RMK AO1 SLP073 T02130163 58010 KBOK 251856Z AUTO 18003KT 10SM CLR 16/12 A2993 RMK AO2 SLP149 T01560117 CYBB 251900Z 34013KT 15SM OVC009 05/03 A2976 RMK ST8 SLP082 CWSK 251900Z AUTO 02002KT 30/09 RMK AO1 SLP182 T02990087 57027 CWRT 251900Z AUTO 09003KT 14/09 RMK AO1 T01350089 EGBB 251950Z 01004KT 4200 -SHRA BR FEW010 SCT019 BKN031CB 19/18 Q1014 KCEU 251854Z AUTO VRB03KT 10SM CLR 32/21 A3016 RMK AO2 SLP201 T03220211 KCGC 251935Z AUTO 06008G16KT 10SM SCT049 SCT090 33/21 A3001 RMK AO2 KBPC 251935Z AUTO 03005KT 10SM BKN028 BKN033 24/16 A3016 RMK AO2 CWRU 251900Z AUTO 36020KT 13/12 RMK AO1 PK WND 36027/1827 SLP204 T01340123 56007 CWSL 251900Z AUTO 01001KT 23/10 RMK AO1 SLP213 T02330095 58019 CYBC 251900Z AUTO 25012G18KT 9SM FEW065 OVC081 18/17 A2973 RMK SLP069 DENSITY ALT 600FT CYBD 251900Z 27003KT 210V020 15SM FEW200 26/15 A3018 RMK CI1 CI TR SEAGULL VC RWY SLP221 DENSITY ALT 1100FT CYAM 251900Z 32011KT 15SM FEW025 FEW150 FEW230 24/16 A2991 RMK CF1AC1CC1 CC TR SLP128 DENSITY ALT 1800FT VDPP 251930Z 00000KT 9000 FEW017 SCT040 27/26 Q1005 KCGE 251942Z AUTO 19004KT 10SM SCT060 SCT070 28/21 A3005 RMK AO1 PHKO 251953Z 24007KT 10SM CLR 31/20 A3003 RMK AO2 SLP169 T03060200 KAXN 251953Z AUTO 29013KT 10SM BKN028 OVC037 18/12 A3010 RMK AO2 SLP194 T01780117 KCEW 251953Z AUTO 08008KT 10SM CLR 34/21 A3006 RMK AO2 SLP176 T03390206 EFIV 251950Z AUTO 35002KT 9999 -SHRA FEW013 OVC034 09/08 Q1012 KBNW 251935Z AUTO VRB04KT 10SM CLR 24/15 A3011 RMK AO2 KCGF 251945Z 21008KT 15SM SCT035 BKN060 BKN180 32/24 A2998 KAXO 251840Z 10006KT 5SM SCT020 OVC030 28/25 A3007 RMK TS MOVED NE EGBE 251950Z VRB03KT 5000 -RA BR SCT012 BKN032 21/19 Q1014 CXKE 251900Z AUTO 22006KT 29/21 RMK AO1 SLP109 T02860212 58013 EFKE 251950Z 29004KT CAVOK 11/10 Q1012 CWRX 251900Z AUTO 07013KT 11/ A2964 EFJO 251950Z 22003KT 9999 OVC005 13/12 Q1015 KBPG 251935Z AUTO 20005KT 10SM SCT055 SCT095 SCT110 31/17 A3010 RMK AO2 LTG DSNT NW T03080167 KCEY 251935Z AUTO 25007KT 10SM FEW050 33/22 A3009 RMK AO1 CWTG 251900Z AUTO 27010KT 12/12 RMK AO1 SLP067 T01170115 56004 CWSP 251900Z AUTO 10006KT 20/10 RMK AO1 SLP197 T01960100 58010 CWRY 251900Z AUTO 36010KT 17/06 RMK AO1 SLP248 T01700057 56005 CYBG 251937Z 26006KT 8SM -SHRA FEW022 OVC035 21/20 A2978 RMK SC2SC6 SLP085 ZSNB 251900Z VRB01MPS 6000 FEW023 26/26 Q1004 NOSIG PHLI 251953Z 07011KT 10SM SCT025 BKN035 29/23 A3012 RMK AO2 SLP195 T02890228 KCEZ 251953Z AUTO 00000KT 10SM CLR 24/04 A3019 RMK AO2 SLP155 T02440039 KCGI 251953Z 21004KT 10SM FEW049 32/22 A3007 RMK AO2 SLP177 T03220217 VEGT 251530Z 18004KT 4000 -TA FEW020 FEW025CB BKN100 29/26 Q1004 NOSIG CWRZ 251900Z AUTO 24009KT 18/16 RMK AO1 SLP074 T01830164 56016 KBPI 251953Z AUTO VRB03G16KT 10SM CLR 18/01 A3027 RMK AO2 SLP174 T01830011 KBOS 251854Z 21017G20KT 10SM FEW045 SCT160 BKN250 29/16 A2999 RMK AO2 SLP155 T02940156 CWSR 251900Z AUTO 27009KT 18/10 RMK AO1 SLP182 T01820102 56005 CXKI 251900Z AUTO 21/18 RMK AO1 SLP104 T02120179 58002 KCHA 251953Z 18003KT 10SM SCT055 BKN090 BKN250 33/19 A3011 RMK AO2 SLP186 TCU DSNT NW MDT CU OHD T03330194 EFKI 251950Z 20003KT 9000 -RA FEW004 BKN010 BKN028 13/12 Q1013 KCFS 251935Z AUTO 28005KT 10SM SCT044 SCT075 SCT085 26/22 A2995 RMK AO2 T02610224 KAXS 251935Z AUTO 18004KT 10SM CLR 32/22 A3007 RMK AO2 T03190218 NZMC 251903Z 35003KT 40KM OVC023 06/05 Q1000 RMK NZQN VATSIM USE ONLY CYAS 251900Z 24004KT 15SM -SHRA FEW015 OVC030 10/07 A2959 RMK ST1SC7 LAST STFD OBS NEXT 261200UTC SLP026 EGBJ 251750Z 31003KT 6000 BKN006 OVC009 20/19 Q1014 CWSS 251900Z AUTO 20009G16KT 26/18 RMK AO1 SLP136 T02610180 56012 KBPK 251953Z AUTO VRB03KT 10SM CLR 32/23 A3008 RMK AO2 SLP174 T03220228 KE80 251935Z AUTO 05003KT 10SM CLR 26/06 A3019 RMK AO2 LTG DSNT NE T02620057 CWST 251900Z AUTO 23013G22KT 22/19 RMK AO1 PK WND 24022/1856 SLP094 T02220194 55002 CXLB 251900Z AUTO 17018KT 22/17 RMK AO1 PK WND 17022/1851 SLP170 T02240173 57018 CYCB 251900Z 28005KT 270V330 15SM FEW007 SCT015 BKN085 BKN120 06/M00 A3004 RMK SF1SC2AC2AC2 SLP177 CYBK 251900Z 33018G25KT 20SM BKN022 07/02 A2988 RMK SC7 SLP121 CYAT 251900Z AUTO 00000KT 9SM SCT090 OVC120 14/07 A2985 RMK SLP109 EFKK 251950Z 24004KT CAVOK 13/11 Q1015 PGUM 251954Z 00000KT 10SM CLR 27/25 A2989 RMK AO2 SLP113 T02670250 KAZC 251935Z AUTO 14006KT 10SM -TSRA BKN100 28/05 A3011 RMK AO2 LTG DSNT NE AND E CYBL 251900Z 30008KT 260V360 30SM SCT250 30/12 A3012 RMK CI3 SLP199 DENSITY ALT 1900FT KCHD 251947Z 18005KT 10SM FEW120 36/10 A2991 KCFV 251952Z AUTO 24006KT 10SM FEW085 34/19 A3002 RMK AO2 SLP158 T03390194 CXLC 251900Z AUTO 19006KT 13/08 RMK AO1 SLP195 T01270084 58015 EGCC 251950Z 26004KT 200V290 3300 RA BR FEW002 BKN010 17/17 Q1014 RERA KAXV 251932Z AUTO 23014KT 7SM SCT040 31/22 A3004 RMK AO2 NZMF 251903Z 35003KT 40KM OVC023 06/05 Q1000 RMK NZQN VATSIM USE ONLY CYCD 251900Z 01008KT 350V050 35SM FEW035 SCT250 28/13 A3010 RMK CU1CI2 SLP194 DENSITY ALT 1400FT CXKM 251900Z AUTO 31012KT 15/13 RMK AO1 T01530126 KBOW 251947Z 05011G20KT 10SM SCT048 33/21 A2998 KAZE 251935Z AUTO 08004G15KT 10SM CLR 34/17 A3008 RMK AO2 T03360171 VEGY 251500Z 00000KT 3000 HZ SCT018 BKN100 31/27 Q1004 CWSW 251900Z 35006KT 300V010 20SM FEW045TCU OVC065 16/06 A3026 RMK TCU1SC7 SLP254 DENSITY ALT 4300FT CYAW 251900Z 22010G17KT 15SM FEW160 OVC250 25/18 A3005 RMK AC1CI2 DA1404FT LAST OBS/NXT 261000 UTC SLP175 CWTN 251900Z AUTO 27004KT 22/21 RMK AO1 SLP097 T02190211 57009 CYBN 251900Z AUTO 34005KT 9SM SCT041 27/20 A2993 RMK SLP134 EETN 251950Z 24006KT CAVOK 17/15 Q1020 NOSIG KAXX 251935Z AUTO 13003KT 10SM SCT065 18/03 A3037 RMK AO2 T01800031 ZSNJ 251900Z 05003MPS 010V080 8000 NSC 27/24 Q1006 NOSIG CYCG 251900Z VRB04KT 15SM FEW070 23/07 A3014 RMK CU2 SLP207 DENSITY ALT 2700FT CYAY 251922Z AUTO 17010KT 9SM SCT020 BKN027 BKN110 20/19 A2973 RMK LTNG DIST N NW SLP069 DENSITY ALT 800FT EFJY 251950Z AUTO 29006KT CAVOK 12/10 Q1016 CYAZ 251900Z 17005KT 15SM FEW240 22/14 A3011 RMK CI1 SLP197 DENSITY ALT 600FT CYBQ 251903Z AUTO 03006KT 340V110 9SM SCT021 BKN075 BKN110 18/12 A2986 RMK SLP123 DENSITY ALT 1500FT CYBR 251900Z 33009G15KT 15SM FEW055 BKN240 20/07 A3005 RMK CU1CI4 SLP184 DENSITY ALT 2100FT KCGS 251943Z AUTO 17007KT 160V220 10SM SCT047 SCT065 30/21 A3003 RMK AO1 PHMK 251854Z 04014G21KT 10SM CLR 28/21 A3009 RMK AO2 SLP190 T02830211 KAYS 251935Z AUTO 08008KT 10SM 34/21 A3007 RMK AO2 T03400213 CYDA 251900Z 05004KT 360V070 15SM -RA FEW008 BKN050 OVC080 12/11 A3020 RMK ST2SC4AC2 SLP239 VEIM 251300Z 16005KT 5000 -TSRA FEW008 SCT018 FEW025CB BKN090 23/22 Q1008 NOSIG KBPT 251953Z 19006KT 10SM FEW046 BKN060 OVC075 33/24 A3001 RMK AO2 LTG DSNT SW AND W SLP160 T03330239 EFMA 251950Z AUTO 20006KT 9999 -RA BKN027 OVC065 16/16 Q1018 EFKS 251950Z AUTO 21005KT 180V250 6000 -RA OVC004 11/10 Q1010 KCHK 251935Z AUTO 27006KT 10SM CLR 35/20 A3005 RMK AO2 KF00 251935Z AUTO 14005KT 10SM CLR 33/18 A3005 RMK AO2 KBQK 251935Z AUTO 06013KT 10SM CLR 31/23 A3009 RMK AO2 CWTT 251900Z AUTO 22003KT 25/20 RMK AO1 T02460204 CXKT 251900Z AUTO 22011G18KT 28/16 RMK AO1 PK WND 21018/1853 SLP157 T02790157 56017 CYDB 251900Z 13010G20KT 30SM FEW055 FEW090 SCT150 BKN230 16/10 A3017 RMK CF1AC1AS2CS2 ACSL SLP232 DENSITY ALT 3000FT ZSOF 251900Z 02004MPS CAVOK 25/23 Q1008 NOSIG CYCK 251900Z AUTO 22014G20KT 9SM FEW019 28/24 A2996 RMK SLP142 DENSITY ALT 2200FT EFKT 251950Z AUTO 33006KT CAVOK 09/08 Q1012 KCIC 251851Z 00000KT 25SM SKC 27/12 A2990 CYDC 251900Z 07006KT 020V120 25SM SCT060TCU BKN120 26/08 A3019 RMK TCU4AC1 SLP211 DENSITY ALT 3700FT KCID 251952Z 00000KT 10SM FEW120 24/18 A3006 RMK AO2 SLP175 T02440183 CXLL 251900Z AUTO 23003KT 20/12 RMK AO1 SLP212 T02020123 58020 CWTU 251900Z AUTO ///// 10/ A2972 RMK SLP077 CYBU 251944Z AUTO 24003KT 9SM -RA FEW065 SCT089 SCT110 SCT130 21/11 A3002 RMK SLP173 DENSITY ALT 2000FT KBRD 251953Z AUTO 24012KT 10SM SCT028 OVC038 18/12 A3004 RMK AO2 SLP172 T01830122 EETU 251950Z AUTO 23004KT 9999 NCD 17/13 Q1022 EFKU 251950Z AUTO 23008KT CAVOK 14/13 Q1015 CYBV 251900Z 29012KT 15SM FEW025 SCT220 19/11 A2996 RMK SC1CS2 SLP152 DENSITY ALT 1300FT CXMD 251900Z AUTO 35008KT 19/09 RMK AO1 PK WND 31018/1820 SLP170 T01940092 50003 CWVD 251900Z AUTO 07016G24KT 05/ A2972 RMK SLP098 CYBW 251945Z AUTO 31014KT 9SM SCT060 SCT075 OVC095 13/09 A3027 RMK SLP271 DENSITY ALT 4100FT KAZO 251953Z 29010KT 10SM BKN025 27/21 A3001 RMK AO2 SLP156 T02720206 KCHO 251953Z 19010KT 10SM BKN039 OVC049 33/24 A3005 RMK AO2 SLP168 T03280239 EGCN 251950Z VRB03KT 4200 -DZ BKN004 OVC008 18/17 Q1015 PHNG 251857Z 07005KT 10SM BKN022 OVC060 28/23 A3008 RMK AO2 SLP180 T02780228 $ CYCO 251900Z 02007KT 15SM FEW011 FEW030 FEW050 BKN090 OVC140 09/04 A3008 RMK CF1SC1SC1AC4AC2 CF TR SLP188 CYBX 251949Z 24010KT 1/2SM -SHRA FG VV001 16/16 A2974 RMK FG8 SLP073 DENSITY ALT 400FT CYDF 251900Z 22015G21KT 15SM FEW035 BKN200 25/19 A2983 RMK SC2CI5 SLP102 DENSITY ALT 1300FT CWVF 251945Z AUTO 34008KT 19/ RMK AO1 T0187 KF05 251935Z AUTO 21005KT 10SM SCT065 SCT075 35/13 A3004 RMK AO1 T03450130 KBQP 251935Z AUTO 00000KT 10SM SCT044 SCT050 BKN070 33/24 A3004 RMK AO2 T03300244 CYCP 251900Z 02006KT 350V070 15SM FEW070 24/07 A3021 RMK CU2 SLP233 DENSITY ALT 3500FT CXMG 251900Z AUTO 01005KT 20/11 RMK AO1 T02040106 CWTY 251900Z AUTO 21017KT 24/21 RMK AO1 PK WND 21023/1843 SLP097 T02350207 56010 CWUP 251900Z AUTO 05026KT 06/ A2976 RMK SLP098 EFLP 251950Z AUTO 22003KT 0350 R06/1100VP1500D R24/P1500N FG SKC 14/14 Q1017 KCGZ 251935Z AUTO 30006KT 250V310 10SM CLR 36/09 A2996 RMK AO1 CYCQ 251900Z 22004KT 190V300 35SM FEW065TCU SCT080 BKN120 BKN180 19/12 A3028 RMK TCU2AC1AS3CS1 VIRGA S SLP266 DENSITY ALT 2500FT CWVH 251900Z AUTO 07008KT A3007 CWVI 251900Z AUTO 32010KT 15/13 RMK AO1 4PAST HR 0000 SLP210 P0002 T01490131 50004 CXMI 251900Z AUTO 23018KT 23/18 RMK AO1 PK WND 23023/1847 SLP169 T02300178 57017 ZSPD 251930Z 07003MPS 010V110 CAVOK 28/25 Q1005 NOSIG EFMI 251950Z AUTO 24005KT 210V270 CAVOK 15/15 Q1016 KCHS 251856Z VRB03KT 10SM SCT050 33/18 A3010 RMK AO2 SLP193 T03330183 KDAA 251858Z AUTO VRB04KT 10SM CLR 29/22 A3004 RMK AO2 SLP175 T02940223 CYCS 251900Z 31018KT 15SM SCT070 BKN100 14/03 A2968 RMK AC3AC3 SLP052 DENSITY ALT 100FT CWWA 251900Z AUTO 20001KT 26/09 RMK AO1 SLP199 T02560089 58009 CWUS 251900Z AUTO 09004KT 25/09 RMK AO1 SLP203 T02470092 58015 PHNL 251953Z 08015G21KT 10SM FEW025 FEW055 29/21 A3008 RMK AO2 SLP184 T02940206 KDAB 251953Z 04014KT 10SM FEW029 SCT090 SCT150 31/23 A3004 RMK AO2 SLP170 T03060228 CWWB 251900Z AUTO 23003KT 28/21 RMK AO1 SLP128 T02750212 58009 KBRL 251953Z AUTO 27004KT 10SM FEW110 24/20 A3007 RMK AO2 RAB22E32 SLP178 P0000 T02440200 EGEC 251950Z VRB12KT 9999 FEW012 15/12 Q1012 CYDL 251900Z AUTO 18005KT 110V200 9SM CLR 18/09 A3036 RMK SLP280 DENSITY ALT 3000FT CXMM 251900Z AUTO 35011G18KT 18/09 RMK AO1 PK WND 35020/1825 SLP202 T01770092 50003 EGDM 251850Z AUTO 32002KT 9999 SCT070/// SCT150/// 21/19 Q1014 CYED 251953Z AUTO 33009G19KT 9SM SCT021 BKN096 17/12 A3017 KCIN 251935Z AUTO 34004KT 10SM CLR 24/14 A3012 RMK AO2 NZNP 251853Z 10003KT 2000 FG BR FEW002 BKN003 OVC004 12/11 Q0996 RMK VATSIM USE CWVN 251900Z AUTO 31010KT 16/09 RMK AO1 PK WND 31019/1846 SLP228 T01630094 56010 CWWE 251900Z AUTO 20020KT 20/17 RMK AO1 PK WND 20024/1854 SLP184 T01960169 57011 CYDN 251900Z AUTO 32006KT 290V030 9SM SCT075 21/07 A3003 RMK SLP175 DENSITY ALT 1700FT KBRO 251953Z 12012G22KT 10SM FEW043 FEW055 35/23 A2997 RMK AO2 SLP147 T03500228 PHOG 251854Z 07016G22KT 10SM FEW025 SCT050 28/21 A3009 RMK AO2 SLP194 T02830211 KBQX 251935Z AUTO 10006KT 10SM CLR 31/25 A3003 RMK A01 NZOH 251931Z 07005KT 8KM RA BKN005 OVC013 11/11 Q0995 RMK VATSIM USE ONLY CXMO 251900Z AUTO 33014KT 15/11 RMK AO1 PK WND 33021/1858 T01450113 CWWF 251900Z AUTO 35009KT 22/03 RMK AO1 PK WND 00017/1839 SLP202 T02180032 58012 CWUX 251900Z AUTO 27003KT 21/21 RMK AO1 SLP082 T02120206 51002 CYCX 251900Z 19011KT 15SM BKN180 BKN250 27/18 A2990 RMK AC6CS2 DA1821FT SLP124 VDSR 251930Z 00000KT 9000 SCT020 27/27 Q1005 KDAG 251950Z AUTO 23010KT 10SM CLR 37/M01 A2988 RMK AO2 SLP085 T03721011 NZNR 251927Z 22004KT 20KM BKN010 OVC046 11/11 Q0996 RMK VATSIM USE ONLY CYDP 251900Z 33003KT 300V030 15SM BKN025 13/06 A2964 RMK SC7 SLP040 VEJS 251200Z 09004KT 3000 HZ SCT015 SCT025 BKN100 32/26 Q1001 ORER 251900Z 33004KT CAVOK 34/01 Q1008 NOSIG CWVP 251900Z AUTO 35006KT 13/07 RMK AO1 SLP237 T01300068 58007 CYCY 251900Z 12007KT 25SM FEW050 FEW100 12/07 A2989 RMK SC1AC1 SC TR AC TR ACSL W QUAD SLP126 CYEG 251900Z 36009KT 15SM SCT026TCU SCT063 BKN100 BKN250 17/11 A3019 RMK TCU3SC1AC2CI1 TCU+SH W-NW SLP233 DENSITY ALT 2800FT NZNS 251916Z 21009KT 40KM FEW038 SCT065 BKN100 09/06 Q0997 RMK VATSIM USE ONLY CWVQ 251900Z AUTO 24006KT 23/22 RMK AO1 SLP115 T02310220 56007 CYDQ 251900Z AUTO 31005KT 9SM FEW110 20/11 A3028 RMK SLP265 DENSITY ALT 2800FT KF17 251935Z AUTO 00000KT 10SM CLR 33/23 A3005 RMK AO2 T03320233 KCIR 251935Z AUTO 25005KT 10SM SCT047 32/24 A3008 RMK AO2 T03210244 UNKL 251930Z 00000MPS 9999 MIFG NSC 06/06 Q1019 R29/CLRD65 NOSIG RMK QFE739 ZSQD 251900Z 36006MPS CAVOK 21/13 Q1011 NOSIG PGWT 250950Z 21005KT 7SM FEW016 FEW160 28/26 A2984 RMK LAST KBTA 251935Z AUTO 02006KT 10SM CLR 23/15 A3014 RMK AO2 T02300154 EGDR 251850Z AUTO 35003KT 9999 // OVC090/// 15/13 Q1015 TVSV 251900Z 11012KT 9999 SCT022 31/26 Q1012 CWXA 251900Z AUTO 25003KT 15/07 RMK AO1 2PAST HR 7009 SLP265 P0001 T01490066 50002 KCKB 251953Z 24007KT 10SM FEW028 SCT035 BKN048 29/23 A3009 RMK AO2 SLP171 T02940233 NZNV 251907Z VRB04KT 18KM OVC041 07/07 Q1001 RMK VATSIM USE ONLY CYFB 251900Z 17015KT 30SM FEW006 FEW013 SCT041 BKN140 07/05 A2959 RMK SF1SC2SC1AC4 SF TR SLP023 CWWK 251900Z AUTO 22003KT 22/16 RMK AO1 SLP197 T02240163 58013 CWVT 251900Z AUTO 36006KT 15/13 RMK AO1 SLP197 T01530128 50003 CYEK 251900Z 34016KT 15SM BKN019 OVC042 13/09 A2982 RMK SC7SC1 SLP101 KDAL 251953Z 00000KT 10SM FEW055 BKN300 34/19 A3003 RMK AO2 SLP159 MDT CU SW T03390194 $ KCKC 251933Z AUTO 26010G15KT 10SM SCT044 OVC060 19/09 A2991 RMK AO2 KCIU 251913Z AUTO VRB04KT 10SM SCT028 SCT038 23/17 A2992 RMK AO2 VEKO 251200Z 25005KT 3000 -RA FEW010 SCT020 BKN100 27/25 Q1003 CWWL 251900Z AUTO 34017KT 12/10 RMK AO1 PK WND 35021/1805 SLP255 T01210095 56008 CWXC 251900Z AUTO 18002KT 19/18 RMK AO1 2PAST HR 3004 SLP080 P0001 T01900184 50002 CWVU 251900Z AUTO 18015G25KT 21/17 RMK AO1 PK WND 18026/1829 SLP184 T02110171 58013 CYFC 251900Z AUTO 19010G19KT 9SM SCT160 SCT180 27/19 A2988 RMK SLP119 DENSITY ALT 1500FT CXNM 251900Z AUTO 25013G20KT 21/15 RMK AO1 PK WND 24022/1839 T02090153 KDAN 251953Z AUTO 23005KT 10SM FEW043 32/22 A3008 RMK AO2 SLP174 T03170222 NZPG 242155Z 00000KT 9999 -SN SCT030 BKN050 BKN070 M30/M34 A2927 RMK SLP916 LSR12 SDP/HDF LAST CYEN 251931Z 33011KT 270V350 15SM FEW072 FEW250 24/06 A3011 RMK CU2CI1 CI TR WSHFT 1921 SLP202 DENSITY ALT 3100FT PHNY 251856Z AUTO 03007KT 10SM FEW024 26/21 A3014 RMK AO2 SLP182 T02610206 PNO $ KCKF 251935Z AUTO 05004KT 10SM BKN065 OVC080 33/20 A3010 RMK AO2 T03330196 EGEO 251520Z 15010KT 9999 SCT034 18/12 Q1015 EGDX 251850Z AUTO 30004KT 3900 BR FEW004/// BKN011/// BKN036/// 17/17 Q1014 RERA EGFF 251950Z 28005KT 1600 SHRA FEW002 FEW005CB BKN009 BKN037 17/17 Q1015 CXNP 251900Z AUTO 24014G22KT 23/18 RMK AO1 PK WND 24022/1851 SLP150 T02290180 58016 EGDY 251850Z AUTO 30006KT 5000 HZ SCT060/// SCT180/// 19/18 Q1014 CXMY 251900Z AUTO 24/18 RMK AO1 T02380176 KCKI 251935Z AUTO 00000KT 10SM CLR 33/16 A3009 RMK AO2 KCJR 251935Z AUTO 18004KT 10SM CLR 32/25 A3005 RMK AO2 T03200249 KDCA 251952Z 19009KT 10SM CLR 31/23 A3003 RMK AO2 SLP170 T03110233 CWXI 251900Z AUTO 18027G32KT 18/17 RMK AO1 PK WND 15033/1849 SLP066 T01790166 58017 CYER 251900Z AUTO 02007KT 350V070 9SM CLR 15/10 A2981 RMK SLP097 DENSITY ALT 200FT CWWS 251900Z AUTO 29006KT 20/10 RMK AO1 SLP140 T02000095 58003 CXPA 251900Z AUTO 27005KT 19/11 RMK AO1 T01930114 NZPM 251856Z 08012KT 8KM RA FEW018 OVC022 11/10 Q0995 RMK VATSIM USE ONLY KBTL 251953Z 26012KT 10SM BKN065 27/22 A3001 RMK AO2 SLP155 T02670217 CYET 251901Z AUTO 35010G16KT 9SM FEW055 SCT072 BKN100 17/11 A3027 RMK LTNG DIST SE W SLP261 DENSITY ALT 3500FT CWWU 251000Z 24007KT 15SM FEW120 SCT200 17/14 A3006 RMK AC1CI3 SLP180 CXOL 251900Z AUTO 32017KT 15/10 RMK AO1 PK WND 31023/1828 T01490096 CXPC 251900Z AUTO 24/19 RMK AO1 SLP120 T02390186 55005 CWXL 251900Z AUTO 04007KT 14/11 RMK AO1 6PAST HR M P0002 T01440111 50006 KBTM 251953Z AUTO 26006KT 10SM CLR 17/M02 A3024 RMK AO2 SLP216 T01671022 KCKM 251955Z AUTO 25005KT 10SM SCT043 SCT050 SCT090 34/26 A3005 RMK A01 KDAW 251951Z AUTO 10SM CLR 29/18 A2995 RMK AO2 SLP138 T02890183 CYEV 251900Z VRB03KT 15SM FEW100 FEW240 21/11 A3004 RMK AC1CI1 CI TR SLP177 DENSITY ALT 700FT VELP 250900Z 36005KT 5000 HZ SCT015 SCT025 FEW030CB 33/27 Q1000 NOSIG KCLE 251951Z 24011G19KT 10SM FEW035 SCT080 BKN180 BKN250 33/21 A2999 RMK AO2 SLP149 T03280211 EGGD 251950Z 27006KT 0900 R27/P1500 FG BKN002 17/17 Q1015 KCKN 251934Z AUTO 34012G17KT 10SM BKN050 19/09 A3004 RMK AO2 KDBN 251935Z AUTO 07008KT 10SM SCT055 SCT080 33/17 A3012 RMK AO2 NZPP 251705Z 16010KT 30KM BKN027 11/10 Q0997 RMK NZWN VATSIM USE ONLY CYGE 251900Z 29005KT 260V330 20SM FEW065TCU BKN120 21/08 A3022 RMK TCU2AC4 TCU N-E+W SLP238 DENSITY ALT 3400FT KBUF 251854Z 24018G27KT 10SM FEW023 SCT100 BKN200 27/22 A2996 RMK AO2 PK WND 24027/1846 SLP140 T02670217 CYFO 251938Z 24007KT 15SM SCT050TCU BKN100 BKN250 22/07 A2995 RMK TCU3AC2CI1 SLP148 DENSITY ALT 1900FT CWWX 251900Z AUTO 28007KT 24/20 RMK AO1 SLP124 T02360199 53001 VELR 250700Z 11002KT 4000 HZ SCT020 36/28 Q1003 NOSIG KCKP 251935Z AUTO 33004KT 10SM CLR 23/14 A3014 RMK AO2 T02280138 KDAY 251856Z 23014KT 10SM SCT035TCU 31/23 A3007 RMK AO2 SLP174 TCU E T03110228 KDBQ 251953Z 31004KT 10SM CLR 26/17 A3008 RMK AO2 SLP179 T02560167 CYGH 251900Z 27006KT 20SM FEW040 FEW088 BKN190 BKN270 21/11 A3006 RMK CU1AC1AC6CI1 CU TR CI TR SLP185 DENSITY ALT 800FT CWWZ 251900Z AUTO 23002KT 27/21 RMK AO1 SLP130 T02730210 56010 KBTR 251953Z 00000KT 10SM SCT012 28/25 A3004 RMK AO2 RAE15 TSE09 SLP173 P0016 T02830250 KCLI 251935Z AUTO 27011G14KT 10SM CLR 26/13 A3000 RMK AO2 CYFR 251927Z 32008KT 270V340 7SM -RA BKN048 OVC090 17/13 A3014 RMK SC5AC3 FU PRSNT SLP213 CWXR 251900Z AUTO 30009KT 06/ A3009 RMK SLP199 KCMA 251855Z 22009KT 6SM HZ CLR 23/16 A2995 RMK AO2 SLP149 T02280161 NZRC 251907Z VRB04KT 18KM OVC041 07/07 Q1001 RMK NZNV VATSIM USE ONLY CYHA 251900Z 22005KT 15SM FEW014 OVC071 09/07 A2957 RMK SF1AS8 SF TR LAST STFD OBS/NEXT 261200 UTC SLP017 CWZA 251900Z AUTO 19004KT 28/11 RMK AO1 SLP190 T02800106 56017 CWYJ 251900Z AUTO 36006KT 26/11 RMK AO1 SLP196 T02580109 58012 CYFS 251900Z 16003KT 120V210 15SM FEW037 FEW080 FEW210 22/12 A3014 RMK CU1AC1CI1 CU TR AC TR CONTRAIL SLP212 DENSITY ALT 1200FT CYGK 251900Z 18012KT 12SM SCT018 BKN230 26/23 A2989 RMK CU3CI3 SLP123 DENSITY ALT 1600FT CYFT 251900Z 04008KT 15SM SCT030 BKN075 13/06 A2969 RMK SC3AC2 SLP059 KDDC 251952Z AUTO VRB05KT 10SM BKN022 23/17 A3016 RMK AO2 SLP191 T02330167 VEMN 250930Z 02007KT 5000 HZ FEW020 SCT100 36/28 Q1001 NOSIG CWYK 251900Z AUTO 27003KT 09/ A2962 RMK SLP055 KCLL 251953Z 12006KT 10SM OVC045 33/22 A3004 RMK AO2 SLP165 T03280222 NZQN 251903Z 35003KT 40KM OVC023 06/05 Q1000 RMK VATSIM USE ONLY CXPL 251900Z AUTO 27011KT 17/12 RMK AO1 T01670120 CWYL 251900Z AUTO 24003KT 16/06 RMK AO1 SOG 00 8009 SLP251 T01590058 CYGL 251900Z 31005KT 230V340 15SM FEW030 SCT210 SCT240 15/04 A2983 RMK SC1CC4CI1 SC TR CI TR SLP111 DENSITY ALT 800FT KCLM 251953Z AUTO VRB05KT 10SM CLR 29/09 A3011 RMK AO2 SLP194 T02940089 $ KCKV 251952Z AUTO 27007KT 10SM CLR 33/22 A3009 RMK AO2 SLP184 T03280222 EFOU 251950Z AUTO 33006KT 9999 SCT072/// 14/11 Q1013 KDCM 251935Z AUTO 00000KT 10SM SCT055 32/17 A3012 RMK AO2 KBTV 251854Z 19011G21KT 10SM BKN065 BKN120 27/19 A2990 RMK AO2 SLP124 ACC S ACSL E-SW T02670189 KCMD 251935Z AUTO 15003KT 10SM CLR 33/22 A3016 RMK AO2 T03260220 PWINO CYHD 251951Z AUTO 34006KT 290V010 7SM -RA SCT010 OVC019 14/13 A2989 RMK SLP130 DENSITY ALT 1600FT CWYM 251900Z AUTO 07016KT 03/ A2964 RMK SLP073 KBVE 251951Z AUTO 06007KT 10SM SCT080 BKN095 29/24 A3004 RMK AO2 SLP173 T02940239 EGHE 251650Z 36007KT 9999 FEW030 16/13 Q1016 CYHE 251900Z AUTO 12009KT 9SM CLR 29/10 A3009 RMK SLP192 DENSITY ALT 1500FT KF44 251935Z AUTO 00000KT 10SM SCT033 BKN044 30/22 A3005 RMK AO2 VEMR 250700Z 07005KT 6000 FEW020 34/25 Q1002 NOSIG CXOX 251900Z AUTO 20004KT 24/08 RMK AO1 SLP159 T02350075 58013 EFPO 251950Z AUTO 17002KT CAVOK 14/13 Q1018 CXOY 251900Z AUTO 29011KT 16/12 RMK AO1 PK WND 26017/1823 T01630118 KCMH 251951Z 23014G24KT 10SM SCT030 SCT036 31/23 A3003 RMK AO2 SLP162 T03060233 CWZG 251900Z AUTO 21002KT 13/06 RMK AO1 SLP265 T01280058 58012 CYGP 251900Z 27011G21KT 15SM FEW040 OVC070 25/17 A2973 RMK SC2AS6 SLP070 DENSITY ALT 1500FT EGGP 251950Z 10005KT 3500 RA FEW004 SCT007 BKN030 17/16 Q1013 KDDH 251949Z AUTO 00000KT 2 1/2SM -RA BR BKN004 BKN032 OVC042 23/22 A3000 RMK AO2 RAB08 P0014 TSNO KF46 251935Z AUTO 22006G14KT 1 3/4SM HZ BKN047 32/22 A3005 RMK AO2 VIS 1/4V5 T03200216 KCKZ 251935Z AUTO 23006KT 10SM SCT030 BKN044 OVC050 27/22 A3005 RMK AO2 KBVI 251947Z 19008KT 10SM SCT036 32/21 A3004 CYGQ 251918Z 31011G17KT 260V340 15SM FEW025 SCT045TCU BKN055 21/15 A2978 RMK CF2TCU2SC1 WSHFT 1904 SLP088 DENSITY ALT 2200FT KCMI 251953Z 24006KT 10SM BKN037 28/23 A3006 RMK AO2 SLP174 T02830228 KBUR 251953Z 18009KT 10SM CLR 27/14 A2991 RMK AO2 SLP117 T02670144 EGHH 251950Z 25004KT CAVOK 21/17 Q1014 CYHI 251937Z 33012KT 15SM BKN008 04/02 A3006 RMK SC7 CIG ESTD CIG RAG SLP183 CYGR 251900Z 21015G25KT 20SM BKN180 BKN270 23/18 A2989 RMK AC6CI1 SLP122 DENSITY ALT 1000FT EGHI 251950Z VRB02KT 9999 FEW030 21/17 Q1014 KCLS 251955Z AUTO 04008G13KT 10SM CLR 31/12 A3006 RMK AO2 KCLT 251952Z 00000KT 10SM SCT070 SCT250 34/17 A3011 RMK AO2 SLP186 T03440172 KCNB 251935Z AUTO 31013G21KT 10SM SCT038 21/13 A3013 RMK AO2 T02120130 CYGT 251924Z 04010KT 15SM BKN010 OVC015 09/08 A2967 RMK SC6SC2 SLP053 CXRB 251900Z AUTO 06011KT 05/03 RMK AO1 PK WND 05017/1829 SLP136 T00520030 CYHK 251900Z 33020KT 15SM OVC012 03/M00 A2988 RMK ST8 SLP123 KDCU 251953Z AUTO 00000KT 8SM CLR 35/21 A3010 RMK AO2 SLP183 T03500211 KCNC 251935Z AUTO 10SM 22/16 A3010 RMK AO2 KDEC 251854Z 23010KT 10SM FEW040 30/21 A3007 RMK AO2 SLP176 T03000211 KBUU 251935Z AUTO 26003KT 10SM CLR 26/15 A3004 RMK AO2 T02550148 CWZL 251900Z AUTO 34020G25KT 20/14 RMK AO1 PK WND 34029/1817 SLP273 T01960141 58015 KBWD 251935Z AUTO 00000KT 10SM CLR 32/16 A3007 RMK AO2 KDED 251935Z AUTO 03013KT 010V070 10SM BKN037 BKN044 BKN090 31/22 A3003 RMK AO2 NZRO 251927Z 27010KT 25KM VCSH SCT014 BKN021 14/12 Q0999 RMK VATSIM USE ONLY CYHM 251936Z 19008KT 15SM SCT024 BKN042 BKN170 26/23 A2993 RMK CU4SC2AC1 SLP132 DENSITY ALT 2200FT CYGV 251952Z AUTO 19006KT 150V210 1 3/4SM -RA BR OVC003 16/16 A2971 RMK SLP063 DENSITY ALT 400FT KCLW 251935Z AUTO 06008KT 10SM SCT049 SCT060 SCT075 32/22 A2997 RMK AO2 PHSF 251856Z AUTO 27001KT 10SM CLR 21/06 A3043 RMK AO2 SLP184 T02110055 $ KBVN 251935Z AUTO 03006KT 10SM CLR 22/12 A3019 RMK AO2 T02220123 CWZN 251900Z AUTO 21019KT 19/16 RMK AO1 PK WND 21022/1800 SLP154 T01920163 58007 CYGW 251925Z AUTO 26006KT 6SM BR OVC003 08/07 A2982 RMK SLP101 KBVO 251953Z AUTO VRB05KT 10SM FEW065 SCT075 36/20 A3002 RMK AO2 SLP153 T03610200 EGGW 251950Z AUTO VRB01KT 9999 NCD 22/18 Q1014 CWZO 251900Z AUTO 36005KT RMK AO1 CYGX 251900Z 29006KT 15SM FEW040 FEW220 23/11 A2983 RMK SC1CC1 CC TR SLP107 DENSITY ALT 1600FT ZSSS 251930Z 00000MPS 9999 FEW020 27/25 Q1005 NOSIG KBWG 251953Z AUTO 27010KT 10SM FEW047 34/22 A3010 RMK AO2 SLP185 T03390222 KBUY 251854Z AUTO 21006KT 10SM SCT049 BKN055 33/21 A3010 RMK AO2 SLP186 T03280211 KDCY 251935Z AUTO 10SM SCT039 SCT047 31/24 A3006 RMK AO2 T03140244 CWYY 251900Z AUTO 19002KT 26/10 RMK AO1 SLP194 T02610098 58025 KDEH 251935Z AUTO VRB05KT 10SM CLR 23/16 A3008 RMK AO2 EGHQ 251920Z 29008KT 9999 VCSH FEW006 BKN045 15/14 Q1016 UNNT 251930Z 19002MPS CAVOK 15/12 Q1019 R07/090070 R16/090070 NOSIG RMK QFE754/1005 CXRH 251900Z AUTO 23010G20KT 25/ RMK AO1 20 T0245 CWZQ 251940Z AUTO 20011G18KT 26/18 RMK AO1 T02600175 KBWI 251854Z 20008KT 10SM SCT050 SCT120 BKN180 BKN250 31/22 A3003 RMK AO2 SLP168 T03060217 KCNI 251935Z AUTO 00000KT 10SM BKN046 BKN055 32/14 A3016 RMK AO2 KBXA 251935Z AUTO 16008KT 10SM VCTS CLR 33/23 A3007 RMK AO2 LTG DSNT SE AND W T03250227 KBVS 251935Z AUTO 29009KT 7SM CLR 26/12 A3009 RMK A01 EGJA 251720Z 35005KT 8000 NSC 19/18 Q1014 CWZS 251900Z AUTO 20002KT 24/19 RMK AO1 SLP075 T02400189 57006 EFSA 251950Z AUTO 22004KT 140V280 9999 BKN006 15/15 Q1016 KCNK 251855Z AUTO 03007KT 10SM CLR 23/16 A3014 RMK AO2 SLP196 T02280156 CYIK 251800Z 24008KT 15SM -RA BKN009 OVC040 08/07 A2940 RMK ST5SC3 SLP961 EGJB 251950Z 34003KT 8000 BKN038 18/17 Q1015 KBVU 251935Z AUTO 15016G26KT 10SM CLR 37/07 A2989 RMK AO2 CXSC 251900Z AUTO 26008KT 14/12 RMK AO1 T01380121 UNOO 251930Z 00000MPS 8000 NSC 18/13 Q1016 R25/CLRD60 NOSIG RMK QFE754 CXRL 251800Z AUTO 33006KT 13/12 RMK AO1 7PAST HR M P0003 T01270124 50012 CYHU 251951Z AUTO 17005KT 2 1/4SM -RA BR OVC008 22/22 A2986 RMK SLP113 DENSITY ALT 900FT KCNM 251953Z AUTO 02008KT 10SM CLR 26/17 A3010 RMK AO2 LTG DSNT SW SLP143 T02610172 KCOD 251935Z AUTO 36004KT 10SM BKN060 15/06 A3026 RMK AO1 CWZV 251900Z AUTO 26009G15KT 15/13 RMK AO1 PK WND 31018/1801 SLP258 T01470130 56009 KDEN 251953Z VRB03KT 10SM SCT045 SCT120 SCT220 21/07 A3024 RMK AO2 SLP187 T02060072 $ KCOE 251935Z AUTO 03009KT 320V040 10SM CLR 26/04 A3012 RMK AO1 NZTG 251928Z 29008KT 25KM VCSH BKN025 17/13 Q0998 RMK VATSIM USE ONLY NZSP 251750Z 05012KT 9999 IC SCT020 M58/ A2828 RMK CLN AIR 04013KT ALL WNDS GRID SDG/HDF CXSE 251900Z AUTO 36009KT 00/M01 RMK AO1 SLP184 T00001013 58008 CWZW 251900Z AUTO 18005KT 16/10 RMK AO1 SLP278 T01560104 58022 CYIN 251900Z AUTO 32012G19KT 9SM CLR 20/09 A3029 RMK SLP252 DENSITY ALT 4600FT KCNO 251953Z 24006KT 7SM FEW200 32/13 A2992 RMK AO2 SLP124 T03170133 KCMX 251853Z AUTO 27021G30KT 10SM CLR 23/11 A2991 RMK AO2 PK WND 28030/1852 SLP123 T02330106 KBVX 251335Z AUTO 12004KT 10SM CLR 27/24 A3012 RMK AO1 KCOF 251858Z AUTO 03017KT 10SM CLR 32/24 A3001 RMK AO2 SLP167 T03160237 CYJF 251900Z 20007KT 7SM SCT120 BKN190 20/11 A3016 RMK AC4AC2 LOCAL FU SLP217 DENSITY ALT 1100FT KBVY 251953Z 23013KT 10SM BKN120 29/18 A2997 RMK AO2 SLP142 T02940178 CYIO 251900Z 06014KT 30SM FEW008 BKN065 BKN200 09/05 A2982 RMK ST1SC6CI1 ST TR SLP105 EFRO 251950Z AUTO 32008KT 9999 FEW010 BKN075 10/09 Q1011 KBWP 251935Z AUTO 28012G18KT 10SM SCT029 SCT040 OVC049 18/11 A3009 RMK AO1 KCMY 251935Z AUTO 25008KT 10SM CLR 25/16 A3006 RMK AO2 T02450157 CYHY 251900Z 30007KT 15SM FEW050 SCT090 SCT140 BKN220 21/12 A3015 RMK CU1AC2AC1CS2 SLP215 DENSITY ALT 1000FT ZUCK 251900Z VRB01MPS CAVOK 33/22 Q1006 NOSIG KDEQ 251953Z AUTO VRB05KT 10SM CLR 33/25 A3001 RMK AO2 SLP158 T03330250 CXSH 251800Z AUTO 22009KT 25/20 RMK AO1 8002 SLP096 T02480200 50008 CWZZ 251900Z AUTO 29005KT 5SM //// NCD 09/05 A2958 CYHZ 251900Z 22013G21KT 15SM FEW130 BKN280 26/18 A3002 RMK AC1CI4 SLP168 DENSITY ALT 1700FT KDFI 251953Z AUTO 26009G16KT 10SM CLR 30/19 A3001 RMK AO2 SLP155 T03000194 EFSI 251950Z AUTO 24002KT CAVOK 13/11 Q1017 EGKA 251850Z 25003KT 8000 NSC 21/18 Q1013 CYKA 251900Z 14004KT 090V160 40SM FEW070 SCT280 27/09 A3015 RMK CU2CI1 COTRA SLP208 DENSITY ALT 2400FT KDET 251953Z 30010G19KT 10SM -RA FEW065 BKN090 28/21 A2994 RMK AO2 RAB48 SLP134 P0000 T02830211 EGJJ 251950Z 34005KT 290V040 CAVOK 19/17 Q1014 NOSIG KF70 251935Z AUTO 20009G15KT 10SM CLR 28/13 A2995 RMK AO1 KBXK 251935Z AUTO 15004KT 10SM FEW120 34/10 A2992 RMK AO1 KCNU 251952Z AUTO 00000KT 10SM FEW043 SCT085 31/21 A3004 RMK AO2 SLP163 T03060211 EGKB 251920Z 24003KT CAVOK 23/18 Q1014 KCPC 251940Z AUTO 00000KT 10SM SCT060 31/19 A3009 RMK AO2 T03140193 EHAK 251925Z AUTO 32009KT 4800 BR FEW002/// 17/17 Q1015 CXSL 251900Z AUTO 34008KT 14/11 RMK AO1 T01430114 KCOM 251935Z AUTO 17007KT 10SM CLR 33/14 A3008 RMK AO2 T03310140 CYKD 251900Z 04003KT 15SM FEW240 20/12 A3005 RMK CI1 CU TR AC TR SLP177 DENSITY ALT 400FT KCNW 251855Z 18006KT 10SM SKC 32/22 A3007 KCON 251951Z AUTO 20008KT 10SM CLR 29/19 A2996 RMK AO2 SLP144 T02940189 CXTD 251900Z AUTO 19012KT 26/18 RMK AO1 PK WND 20019/1811 SLP169 T02620184 57013 CYIV 251900Z 27007KT 15SM FEW040 SCT070 21/09 A2990 RMK SC2AC1 SLP130 DENSITY ALT 1600FT PHTO 251953Z 03005KT 10SM SCT032 SCT060 28/22 A3010 RMK AO2 SLP192 T02780217 KDEW 251953Z AUTO 19007KT 10SM CLR 27/00 A3014 RMK AO2 SLP195 T02670000 KBWW 251955Z AUTO VRB03G12KT 10SM OVC070 18/04 A3012 RMK AO2 EHAM 251925Z 11002KT CAVOK 24/21 Q1013 NOSIG KCNY 251953Z AUTO 10SM CLR 29/06 A3004 RMK AO2 SLP113 T02940056 CZBF 251900Z 22007KT 15SM BKN030 OVC120 28/18 A2978 RMK SC6AS2 SLP086 DENSITY ALT 1800FT KBYG 251953Z AUTO 18011G14KT 10SM SCT043 SCT100 16/03 A3029 RMK AO2 SLP228 T01610033 CYKF 251954Z AUTO 20016KT 1 3/4SM +TSRA BR SCT008 BKN023 OVC041 22/21 A2994 RMK LTNG DIST SE SW W SLP137 DENSITY ALT 2000FT KBYH 251855Z 24008G14KT 10SM SCT048 BKN060 30/24 A3009 CYKG 251900Z 13011KT 10SM OVC025 07/06 A2950 RMK SC8 INTMT -RA SLP001 CXSP 251700Z AUTO 16/12 RMK AO1 T01590121 KCOQ 251935Z AUTO 26012G19KT 10SM SCT032 SCT040 OVC049 18/10 A2999 RMK AO2 KBYI 251953Z AUTO 06006KT 10SM CLR 23/03 A3009 RMK AO2 SLP159 T02330028 CXTH 251900Z AUTO 30014KT 14/12 RMK AO1 8PAST HR M PK WND 29018/1845 P0003 T01370115 50008 VEPT 251600Z 14004KT 4000 HZ SCT100 29/28 Q1003 NOSIG CXSR 251900Z AUTO 32006KT 17/09 RMK AO1 SLP263 T01680091 57009 VERC 251500Z 10003KT 4000 HZ SCT015 FEW030CB BKN100 27/24 Q1008 NOSIG KCOS 251854Z 13009KT 10SM SCT060 SCT120 BKN250 19/07 A3030 RMK AO2 SLP197 T01940067 NZTU 251937Z 23007KT 15KM DZ SCT007 BKN020 08/08 Q1001 RMK NZCH VATSIM USE ONLY CYLA 251900Z 29007KT 15SM -RA FEW020 BKN036 11/08 A2962 RMK CU1SC6 SLP033 CYKJ 251900Z AUTO 32008KT 9SM CLR 21/10 A2997 RMK SLP162 DENSITY ALT 2600FT KCOT 251953Z AUTO 14012G15KT 10SM CLR 34/19 A3000 RMK AO2 SLP148 T03440189 $ KCQB 251935Z AUTO 21007G14KT 10SM CLR 35/22 A3004 RMK AO2 KCPK 251935Z AUTO 16007KT 7SM SCT044 31/19 A3008 RMK AO2 T03050193 CYJT 251900Z 27008KT 15SM FEW020 SCT080 BKN210 21/18 A2992 RMK SC2AC2CI2 SLP133 DENSITY ALT 700FT EGKK 251950Z 26004KT 240V300 CAVOK 21/18 Q1014 KCOU 251854Z 25006KT 10SM SCT034 BKN042 30/22 A3007 RMK AO2 SLP175 T03000222 EHBK 251925Z AUTO 20002KT 9999 NCD 25/19 Q1014 NOSIG KBYL 251935Z AUTO 32003KT 10SM FEW035 FEW070 32/23 A3014 RMK AO1 KCQC 251853Z AUTO VRB06KT 10SM CLR 22/06 A3033 RMK AO2 SLP188 T02220056 CYLC 251900Z 15007KT 3SM VCFG BKN003 05/04 A2957 RMK FG3ST4 VCFG ALL QUADS SLP019 CYKL 251900Z AUTO 31007G15KT 280V010 9SM OVC036 11/04 A2972 RMK SLP084 DENSITY ALT 1800FT EGLC 251950Z 33005KT CAVOK 25/18 Q1013 CYLD 251900Z 28008KT 200V320 15SM BKN028TCU BKN180 23/17 A2986 RMK TCU6AC1 SLP115 DENSITY ALT 2800FT KDFW 251953Z VRB03KT 10SM FEW055 BKN300 34/19 A3003 RMK AO2 SLP157 T03390194 CXTN 251900Z AUTO 04002KT 08/M06 RMK AO1 SLP209 T00831055 56011 KCQF 251935Z AUTO 12007KT 10SM SCT048 31/22 A3005 RMK AO2 EGLF 251950Z 23002KT 9999 FEW034 21/19 Q1014 CXTO 251900Z AUTO 28/20 RMK AO1 SLP127 T02840200 56008 CXTP 251900Z AUTO 24011G18KT 25/17 RMK AO1 PK WND 24021/1805 SLP134 T02500174 58003 OSDI 251800Z 22012KT CAVOK 29/20 Q1011 EFTP 251950Z AUTO VRB02KT CAVOK 14/12 Q1018 CYKP 251941Z AUTO 04006KT 9SM FEW010 OVC016 12/10 A2983 RMK SLP103 CYKQ 251900Z 28005KT 12SM FEW020 BKN050 BKN250 15/12 A2981 RMK CU1SC5CI1 SLP098 DENSITY ALT 200FT CYLH 251903Z AUTO 05004KT 010V110 9SM -RA SCT010 BKN025 OVC050 12/11 A2986 RMK SLP122 KCPR 251953Z 06010G17KT 10SM SCT034 OVC055 17/07 A3028 RMK AO2 SLP216 T01670072 NZWB 251820Z 27005KT 30KM BKN028 07/06 Q0998 RMK VATSIM USE ONLY KCPS 251953Z VRB06KT 10SM FEW043 OVC065 33/21 A3004 RMK AO2 SLP167 T03330211 KBYS 251855Z AUTO 21017G31KT 10SM CLR 32/M01 A2995 RMK AO2 SLP084 WND DATA ESTMD T03201010 PWINO $ CYLJ 251900Z 27006KT 15SM SCT020 OVC060 18/14 A3005 RMK CU3SC5 TCU NW SLP188 DENSITY ALT 2100FT CYMA 251939Z 00000KT 20SM -RA OVC040 14/10 A3019 RMK SC8 VIS N 10 SLP241 EFVA 251950Z AUTO 25004KT 9999 FEW052/// 14/11 Q1016 KCPT 251935Z AUTO 12006KT 10SM CLR 33/19 A3007 RMK AO2 CYLK 251900Z 29006KT 25SM FEW015 BKN025 13/08 A3009 RMK SC2SC5 SLP200 ORMM 251900Z 15004KT CAVOK 34/14 Q1002 NOSIG CZDB 251900Z AUTO 25011G17KT 27/17 RMK AO1 PK WND 26019/1824 SLP156 T02740171 57018 CYLL 251900Z 34005KT 310V010 15SM BKN028CB BKN095 BKN250 19/11 A3008 RMK CB5AC1CI1 SLP194 DENSITY ALT 2900FT EGMC 251950Z 09005KT CAVOK 21/18 Q1013 EFTU 251950Z AUTO 22004KT 190V250 9999 -RA FEW009/// BKN029/// OVC036/// 17/16 Q1018 EGLL 251950Z AUTO 30002KT 9999 NCD 24/19 Q1014 KCQM 251935Z AUTO 25008KT 10SM BKN032 OVC040 17/12 A2994 RMK AO2 CXTV 251900Z AUTO 06004KT 14/11 RMK AO1 SLP180 T01400106 56011 VERP 251300Z 25003KT 3000 -TSH SCT 012 BKN018 FEW030CB BKN090 25/24 Q1005 NOSIG KDHN 251953Z AUTO 07007KT 10SM FEW049 32/22 A3011 RMK AO2 SLP189 T03170222 KDGW 251953Z AUTO 13010KT 10SM OVC032 15/07 A3030 RMK AO2 SLP228 T01500067 KCRE 251953Z 14008G16KT 100V170 10SM CLR 30/22 A3010 RMK AO1 SLP192 T03000217 EGMD 251950Z AUTO 20003KT 9999 NCD 20/17 Q1014 KCPW 251942Z AUTO 04010KT 10SM TS SCT038 BKN050 OVC065 05/00 A3061 RMK AO2 LTG DSNT W AND NW KBZN 251856Z 00000KT 10SM CLR 17/02 A3025 RMK AO2 SLP233 T01670022 KCRG 251953Z 04012KT 10SM BKN080 32/19 A3006 RMK AO2 SLP179 T03170194 KBYY 251935Z AUTO 14006KT 7SM SCT030 SCT043 SCT055 32/25 A3002 RMK AO2 T03270248 ORNI 251900Z 26004KT 5000 HZ NSC 38/09 Q1002 NOSIG CZCP 251900Z AUTO 33004KT 280V030 3SM //// NCD 07/M00 A3011 CYKY 251944Z 03003KT 15SM -TSRA SCT020CB BKN030 OVC240 16/12 A3010 RMK CB4SC3CI1 CB ALQDS SLP203 DENSITY ALT 2700FT CYKZ 251900Z 26007KT 210V300 15SM FEW050 SCT130 BKN150 BKN200 29/18 A2991 RMK CU1AC3AC3CI1 CU TR SLP128 DENSITY ALT 2300FT CYMH 251915Z AUTO 21011G16KT 9SM FEW060 SCT090 BKN110 BKN130 19/17 A2971 RMK SLP062 DENSITY ALT 600FT NZWK 251927Z 27010KT 25KM VCSH SCT014 BKN021 14/12 Q0999 RMK NZRO VATSIM USE ONL CZCR 251900Z AUTO 24008G15KT 26/18 RMK AO1 PK WND 26022/1824 SLP083 T02590180 KDIJ 251856Z AUTO 26006KT 10SM CLR 20/01 A3024 RMK AO2 SLP202 T02000011 CYMJ 251900Z 27005KT 15SM SCT044 BKN300 21/10 A3012 RMK CU4CI0 TCU ASOCTD SLP208 CYNA 251900Z AUTO 26006KT 9SM SCT055 OVC096 18/16 A2973 RMK SLP068 DENSITY ALT 600FT KDHT 251953Z AUTO 08009KT 10SM FEW036 24/14 A3020 RMK AO2 SLP175 T02440144 KCQT 251947Z AUTO VRB03KT 10SM CLR 27/16 A2991 RMK AO2 SLP126 T02670161 $ KDIK 251856Z AUTO 30011G18KT 10SM BKN050 OVC070 17/04 A3019 RMK AO2 SLP223 T01720044 CYLT 251900Z 08007KT 15SM SCT043 02/M00 A3029 RMK SC4 SLP259 CXWB 251900Z AUTO 35019KT 08/04 RMK AO1 PK WND 35030/1824 SLP051 T00830041 EFUT 251950Z AUTO 24006KT CAVOK 16/15 Q1018 CYNC 251900Z 31010KT 270V340 15SM SCT100 SCT220 15/05 A2984 RMK AC3CI1 SLP106 DENSITY ALT 100FT CYLU 251900Z 31006KT 10SM BR FEW005 BKN008 OVC030 09/08 A2963 RMK ST1SC4SC3 INTMT -RA LAST STFD OBS/NEXT 261200UTC SLP039 EGNC 251650Z 07006KT 9999 FEW010 BKN019 16/14 Q1014 NZWN 251930Z AUTO 17011KT 9999 OVC060/// 12/10 Q0997 NOSIG TXKF 251855Z 20009KT 9999 VCSH BKN017 BKN180 BKN300 26/23 Q1017 RMK VIS LWR W EHDL 251925Z AUTO 10002KT 9999 NCD 22/17 Q1014 BLU CYND 251900Z 22007KT 200V270 15SM SCT044 BKN220 28/22 A2983 RMK CU3CI3 SLP103 DENSITY ALT 1800FT CXVM 251900Z AUTO 32009KT 18/12 RMK AO1 PK WND 34017/1848 T01800123 CYMM 251900Z AUTO 33011G20KT 9SM BKN036 18/11 A3012 RMK SLP208 DENSITY ALT 1500FT KCQW 251935Z AUTO 16005KT 10SM FEW050 33/14 A3009 RMK AO2 NZWP 251928Z 28018G30KT 15KM SHRA BKN016 BKN040 17/14 Q1000 RMK VATSIM USE ONLY KCQX 251952Z AUTO 21012G20KT 10SM CLR 24/20 A3006 RMK AO2 SLP179 T02440200 CXVN 251900Z AUTO 21010KT 29/22 RMK AO1 SLP121 T02940216 56008 CYLW 251900Z AUTO 35007KT 9SM CLR 25/09 A3015 RMK SLP208 DENSITY ALT 2600FT CYNE 251900Z AUTO VRB02KT 9SM CLR 23/10 A2992 RMK SLP138 DENSITY ALT 1700FT CYMO 251900Z AUTO VRB05KT 9SM OVC041 14/10 A2983 RMK SLP102 KCSG 251951Z 00000KT 10SM FEW050 SCT060 BKN080 33/20 A3009 RMK AO2 SLP182 T03280200 KCRP 251951Z 12010G16KT 10SM FEW035 SCT046 SCT080 SCT250 36/22 A2999 RMK AO2 SLP152 CB DSNT N NE NW MOV NW TCU DSNT N E SE T03560217 NZWR 251928Z 28018G30KT 15KM SHRA BKN016 BKN040 17/14 Q1000 RMK NZWP VATSIM USE KCRQ 251953Z AUTO 27009KT 10SM CLR 21/16 A2994 RMK AO2 SLP136 T02110161 NZWS 251916Z 21009KT 40KM FEW038 SCT065 BKN100 09/06 Q0997 RMK NZNS VATSIM USE O EGNH 251950Z 08003KT 4500 -RA SCT011 BKN046 17/16 Q1013 EHEH 251925Z AUTO 00000KT 9999 NCD 24/21 Q1013 BLU VRB03KT CAVOK KCRS 251953Z AUTO 19007KT 130V230 10SM FEW039 33/23 A3006 RMK AO2 SLP174 T03280228 TSNO KEBA 251935Z AUTO 00000KT 10SM SCT047 SCT055 35/23 A3014 RMK AO2 T03540232 NZWU 251931Z 07005KT 8KM RA BKN005 OVC013 11/11 Q0995 RMK NZOH VATSIM USE ONLY CZFA 251900Z 00000KT 30SM SCT090 OVC120 16/10 A3024 RMK AC4AC4 SLP256 DENSITY ALT 2600FT CYOA 251900Z 31003KT 15SM FEW020 BKN045 OVC090 09/04 A3006 RMK SC1SC4AC3 EGNJ 251950Z VRB03KT 4000 BR BKN003 17/17 Q1014 KCTB 251856Z AUTO 28004KT 10SM CLR 19/01 A3024 RMK AO2 SLP229 T01890006 KDKB 251935Z AUTO 32005KT 10SM CLR 26/19 A3007 RMK AO2 T02590193 CYMT 251900Z 27005KT 230V310 15SM BKN025 20/17 A2980 RMK CU7 SLP094 DENSITY ALT 2200FT CYOC 251900Z 23004KT 170V260 35SM FEW027 BKN044 BKN100 16/11 A3009 RMK CU1SC7AC1 CU TR AC TR SLP199 DENSITY ALT 900FT CYMU 251900Z 23011KT 0SM -DZ FG VV000 06/06 A2979 RMK FG8 SLP093 CZEL 251900Z AUTO 28007KT 26/21 RMK AO1 SLP139 T02590208 58006 KCSM 251953Z 25009KT 10SM SCT044 32/19 A3009 RMK AO2 SLP162 T03170189 CZEM 251900Z 33010KT 15SM FEW025 SCT070 SCT130 15/10 A2981 RMK SC1AC3AC1 SC TR SLP095 DENSITY ALT 100FT CXWM 251900Z AUTO 33010KT 14/07 RMK AO1 T01350072 CYOD 251951Z 36005KT 6SM -TSRA OVC024CB 14/13 A3009 RMK CB8 TS SE QUAD MOVG SE LTNG DTCTRS REP STRIKES 5 NM SE QUAD VIS VRB 4-8 SLP197 CYNM 251930Z AUTO 30004KT 1 1/2SM -RA BR SCT005 OVC010 17/16 A2981 RMK SLP101 DENSITY ALT 1400FT EGNM 251950Z VRB02KT 3800 BR SCT004 BKN008 16/16 Q1015 KCRW 251854Z 24010KT 10SM SCT036TCU BKN050 31/22 A3011 RMK AO2 SLP184 TCU ALQDS T03060217 KEAN 251935Z AUTO 00000KT 10SM OVC049 17/07 A3030 RMK AO2 T01730071 EHDV 251925Z AUTO 36019KT 4900 BR FEW003/// SCT004/// 18/17 Q1013 EHFD 251925Z AUTO 09008KT 2800 BR NSC 19/18 Q1013 EGMW 251650Z 01008KT 6000 NSC 20/18 Q1013 CXVW 251900Z AUTO 27006KT 18/11 RMK AO1 T01800112 CXWN 251900Z AUTO 36007KT 20/08 RMK AO1 SLP154 T01970075 51004 KCRX 251935Z AUTO VRB04KT 10SM FEW045 FEW120 34/23 A3008 RMK AO2 LTG DSNT NE EGNO 251720Z 09003KT 6000 FEW009 BKN015 17/16 Q1014 CYMX 251900Z 23006KT 200V280 15SM SCT013 OVC021 24/21 A2987 RMK SF4SC4 SLP117 DENSITY ALT 1400FT KEBG 251935Z AUTO 15008G15KT 120V180 10SM SCT065 37/17 A2997 RMK AO2 LTG DSNT S AND W T03710167 KCSQ 251935Z AUTO 00000KT 10SM SCT018 OVC110 21/17 A3015 RMK AO2 UNTT 251900Z 20003MPS CAVOK 11/10 Q1018 NOSIG RMK QFE748 KEAR 251935Z AUTO 07003KT 10SM CLR 24/12 A3017 RMK AO1 EGNR 251950Z 13004KT 4500 -RA SCT008 BKN020 18/17 Q1014 KCTJ 251935Z AUTO 06004KT 10SM SCT043 BKN065 BKN075 33/21 A3018 RMK AO2 T03310209 CYPA 251900Z 25008KT 180V270 15SM FEW063 BKN250 23/09 A3003 RMK CU1CI6 SLP180 DENSITY ALT 2500FT KDKK 251953Z AUTO 24007KT 10SM CLR 28/21 A2996 RMK AO2 SLP139 T02830206 KCUB 251953Z AUTO VRB04KT 10SM BKN060 34/19 A3010 RMK AO2 SLP188 T03390194 EGPA 251950Z AUTO 12009KT 9999 OVC016/// 14/10 Q1016 CYOJ 251900Z 35007KT 300V020 12SM FEW032 SCT260 19/10 A3021 RMK CU1CI2 FU SLP239 DENSITY ALT 1500FT KEAT 251855Z AUTO VRB03KT 10SM CLR 27/06 A3011 RMK AO2 SLP187 T02720056 EGNS 251920Z 07003KT 5000 0800E BCFG FEW000 SCT002 15/15 Q1013 TEMPO 1200 EGNT 251950Z VRB03KT 3000 BR OVC002 14/14 Q1014 EGPB 251950Z 08006KT 9999 BKN020 12/09 Q1017 NOSIG KEAU 251856Z 24018G23KT 10SM CLR 26/14 A3002 RMK AO2 SLP160 T02560139 CYPC 251900Z 05005KT 350V060 15SM FEW006 FEW090 FEW240 08/03 A3013 RMK ST1AC1CI1 ST TR SLP206 ZUGY 251900Z 16001MPS 7000 NSC 22/22 Q1012 NOSIG KCSV 251953Z AUTO 30007KT 10SM CLR 32/20 A3019 RMK AO2 LTG DSNT S SLP199 T03170200 EGPC 251950Z 11007KT 9999 FEW007 BKN012 13/12 Q1015 CZFM 251900Z 22004KT 35SM SCT090 BKN180 20/11 A3004 RMK AC3AC2 SLP177 DENSITY ALT 600FT CZEV 251900Z AUTO 27001KT 20/08 RMK AO1 SLP182 T01980077 57011 EGOM 251850Z AUTO 08004KT 1000 OVC001/// 14/14 Q1014 CYPD 251900Z AUTO 23009G18KT 190V250 9SM CLR 26/17 A3001 RMK SLP162 DENSITY ALT 1600FT EGNV 251950Z 32004KT 2500 RA BR SCT003 OVC006 16/15 Q1014 EGPD 251950Z 12004KT 090V150 2000 BR SCT003 OVC004 13/12 Q1015 NOSIG CZFN 251900Z 12004KT 080V210 30SM FEW050 FEW270 21/12 A3010 RMK CU1CI1 CU TR SLP197 DENSITY ALT 900FT CYPE 251900Z 29003KT 260V030 15SM SCT035TCU 18/10 A3024 RMK TCU3 SLP252 DENSITY ALT 2300FT EGPE 251950Z 21003KT 9999 FEW036 13/11 Q1013 KDLF 251858Z 16014KT 10SM FEW050 FEW190 31/21 A3003 RMK AO2A SLP154 T03130205 CYOO 251900Z AUTO 21011KT 9SM FEW055 OVC170 28/21 A2990 RMK SLP125 DENSITY ALT 2000FT EGNX 251920Z 29005KT 3000 -DZ OVC008 18/17 Q1015 EGPF 251950Z AUTO 08009KT 020V100 9999 BKN008 15/13 Q1014 KECG 251854Z 13007KT 10SM BKN048 29/18 A3011 RMK AO2 SLP196 T02940178 EGOP 251850Z AUTO 22007KT 8000 // OVC090/// 18/17 Q1014 CYPG 251900Z 33008KT 15SM SCT035 BKN250 19/10 A3002 RMK CU3CI2 SLP169 EHGG 251925Z AUTO 03001KT 9999 NCD 22/19 Q1013 NOSIG KDLH 251855Z 26016G23KT 10SM FEW037 BKN045 19/12 A2997 RMK AO2 SLP150 T01940122 KCUH 251935Z AUTO 21007G14KT 10SM SCT060 SCT090 35/19 A3002 RMK AO2 T03540192 CXYH 251900Z AUTO 20/13 RMK AO1 SLP205 T02010126 58021 EGPH 251950Z 06007KT 1500 BR OVC001 14/13 Q1014 CYPH 251900Z AUTO 25015G20KT 9SM BKN008 OVC034 08/06 A2969 RMK SLP056 KDKR 251930Z AUTO 00000KT 10SM FEW037 SCT049 SCT085 32/31 A3008 RMK AO2 EGPI 251920Z AUTO 14012KT 110V170 9999 NCD 15/13 Q1012 KEBS 251935Z AUTO 00000KT 10SM CLR 24/17 A3010 RMK AO2 KDMA 251858Z AUTO VRB05KT 10SM CLR 33/11 A3004 RMK AO2 SLP126 T03260110 $ EGQA 251550Z 03012KT 9999 FEW008 18/// Q1016 BLU CZFS 251900Z AUTO 17003KT 22/12 RMK AO1 SLP211 T02220124 58020 EGOS 251850Z 32003KT 4000 -RADZ FEW005 SCT009 BKN090 17/17 Q1014 RERA GRN TEMPO SCT005 YLO1 CYQA 251900Z AUTO 26007KT 230V300 9SM CLR 26/18 A2992 RMK SLP129 DENSITY ALT 2400FT KCVB 251935Z AUTO 16007KT 10SM CLR 32/19 A3006 RMK AO2 T03230187 EHFS 251925Z AUTO 30005KT 9999 NSC 25/19 Q1013 CYQB 251900Z 26011KT 15SM FEW016 OVC024 24/21 A2984 RMK SC2SC6 SLP106 DENSITY ALT 1400FT KEDC 251935Z AUTO 19003KT 10SM SCT040 32/22 A3006 RMK AO2 EGPK 251950Z 14002KT 9999 SCT024 16/13 Q1013 KCUL 251935Z AUTO 21008KT 10SM CLR 33/24 A3007 RMK AO2 T03250238 KCVC 251934Z AUTO 00000KT 7SM SCT050 SCT065 33/21 A3012 RMK AO2 KDLL 251930Z AUTO 23008KT 10SM CLR 24/15 A3006 RMK AO2 T02430154 CYPL 251900Z 04006KT 010V080 4SM -RA BR OVC008 11/10 A2986 RMK SF8 SLP122 CXZC 251900Z AUTO 04004KT 15/10 RMK AO1 SLP101 T01470102 58006 EGPL 251950Z 09003KT 9999 FEW030 13/11 Q1012 VGEG 251000Z 24005KT 5000 FEW120 32/26 Q1001 NOSIG CYQD 251900Z 31008KT 250V320 15SM FEW025TCU FEW040 FEW200 SCT240 23/10 A2997 RMK TCU1CU1CS1CI3 CU TR CS TR CONTRAILS TCU NW - NE CC ASOCTD SLP156 DENSITY ALT 1900FT KEDE 251940Z AUTO 00000KT 10SM CLR 31/17 A3009 RMK AO2 T03110168 KDLN 251953Z AUTO VRB03KT 10SM CLR 18/M01 A3021 RMK AO2 SLP200 T01781011 EGPM 251950Z AUTO 10007KT 9999 OVC018/// 11/08 Q1018 EGOV 251850Z 35005KT 9999 FEW014 SCT120 BKN160 16/13 Q1013 BLU EGPN 251950Z 07005KT 6000 FEW003 BKN006 14/14 Q1015 CYOW 251900Z 19009KT 160V250 15SM BKN030 BKN035 30/22 A2985 RMK CU5SC1 SLP107 DENSITY ALT 2200FT KDKX 251935Z AUTO 00000KT 10SM FEW085 32/23 A3012 RMK A01 CYQF 251924Z 30009G18KT 15SM VCSH BKN038CB BKN090 13/11 A3022 RMK CB5AC2 OCNL -SHRA SLP252 DENSITY ALT 3000FT KECP 251953Z 02013G18KT 10SM SCT050 33/19 A3003 RMK AO2 SLP178 T03330194 EGPO 251950Z 07002KT 9999 FEW028 14/11 Q1013 CYPO 251900Z AUTO 27007KT 230V320 9SM FEW044 BKN055 18/08 A2980 RMK SLP092 DENSITY ALT 700FT KDLP 251935Z AUTO 09014KT 10SM CLR 31/25 A3004 RMK A01 KCTY 251935Z AUTO 06009G15KT 10SM SCT049 32/21 A3004 RMK AO2 KCVG 251952Z 23012G16KT 10SM SCT039 SCT070 32/23 A3007 RMK AO2 SLP172 T03220228 CYQG 251900Z 23014G20KT 15SM SCT030 BKN260 30/23 A2995 RMK CU4CI1 TCU ASOCTD SLP138 DENSITY ALT 2300FT KCTZ 251940Z AUTO 09003KT 10SM SCT048 SCT060 31/21 A3010 RMK AO2 T03140214 KCVH 251955Z AUTO 27009KT 10SM CLR 21/14 A2995 RMK AO1 CYOY 251924Z 27003KT 160V300 8SM FEW012 BKN022 OVC042 23/21 A2983 RMK SF2SC5SC1 DA1998FT SLP105 KDMH 251854Z AUTO 31/21 A3003 RMK AO1 SLP168 T03060211 CYPQ 251900Z AUTO 31009KT 9SM FEW044 BKN170 29/19 A2990 RMK SLP124 DENSITY ALT 2300FT CYQH 251900Z 23003KT 30SM FEW060 OVC130 16/08 A3029 RMK SC1AC7 SLP273 DENSITY ALT 2500FT EHFZ 251925Z AUTO 14014KT 4700 BR NSC 20/19 Q1013 CYQI 251900Z 23015G23KT 12SM FEW025 FEW180 OVC250 22/18 A3008 RMK SC1AC1CI8 SC TR AC TR SLP187 DENSITY ALT 800FT CYPR 251900Z AUTO 28005KT 250V360 9SM CLR 19/15 A3030 RMK SLP263 KDLS 251953Z AUTO 00000KT 10SM CLR 31/03 A3002 RMK AO2 SLP162 T03110028 EHGR 251925Z AUTO 00000KT 9999 OVC360 25/20 Q1013 BLU KEDJ 251930Z AUTO 27009G17KT 10SM SCT042 30/21 A3006 RMK AO1 KECS 251935Z AUTO 32007KT 10SM CLR 17/03 A3028 RMK AO2 KCWA 251845Z 25013G18KT 10SM SCT043 24/14 A3003 CYRA 251926Z 02006KT 320V030 15SM -RA BKN025 17/13 A3007 RMK SC7 SLP192 DENSITY ALT 900FT KCUT 251953Z AUTO 10009KT 10SM FEW023 OVC042 13/07 A3030 RMK AO2 SLP226 T01280072 CYQK 251900Z 34006KT 310V010 15SM BKN010 BKN022 15/12 A2992 RMK SC5SC2 SLP139 DENSITY ALT 1600FT EGQK 251850Z AUTO 09009KT 9999 NCD 17/12 Q1013 CYRB 251915Z 07013G19KT 12SM -DZ SCT065 OVC100 05/03 A2994 RMK SC3AC5 SLP145 KCWC 251935Z AUTO 15005KT 10SM SCT090 34/17 A3004 RMK AO2 T03410170 KECU 251935Z AUTO 16010KT 10SM CLR 31/14 A3013 RMK AO2 CYQL 251925Z 29008KT 15SM FEW020TCU SCT055 BKN070 13/11 A3025 RMK TCU1SC2AC4 SLP260 DENSITY ALT 3100FT EGPU 251920Z AUTO 13012KT 9999 NCD 16/13 Q1011 KEED 251856Z AUTO 21012G18KT 10SM FEW110 40/06 A2986 RMK AO2 SLP071 T04000061 EGQL 251850Z 06006KT 2000 DZ OVC002 13/13 Q1015 AMB CYQM 251900Z 20021G28KT 15SM FEW070 SCT150 BKN270 27/17 A2991 RMK AC2AC1CI4 SLP131 DENSITY ALT 1600FT KDMN 251953Z AUTO 06010G16KT 10SM FEW080 31/08 A3012 RMK AO2 LTG DSNT NW SLP120 T03060078 KCVN 251935Z AUTO 14006KT 10SM FEW100 25/15 A3018 RMK AO1 LTG DSNT N EGQM 251850Z AUTO 02003KT 4500 BR OVC002/// 15/15 Q1014 CYPW 251900Z 28007KT 50SM FEW035 SCT270 22/12 A3013 RMK CF1CI3 CF TR SLP204 DENSITY ALT 1100FT KDMO 251953Z AUTO 22004KT 10SM SCT036 SCT044 30/22 A3006 RMK AO2 SLP171 T03000222 KCVO 251935Z 01011G15KT 330V050 10SM 33/08 A3000 RMK AO1 KCWF 251950Z 10003KT 10SM SCT027 33/25 A3003 CYPX 251946Z AUTO 24019G24KT 9SM BKN009 OVC031 09/07 A2956 RMK SLP014 CYPY 251900Z AUTO 01009G15KT 290V030 9SM CLR 19/08 A3011 RMK SLP204 DENSITY ALT 1100FT KDLZ 251934Z AUTO 23009G16KT 10SM SCT045 28/22 A3004 RMK AO2 CYQQ 251900Z 36007KT 20SM FEW220 24/13 A3012 RMK CI1 SLP201 KCWI 251856Z AUTO 24005KT 10SM SCT100 BKN120 24/18 RMK AO2 SLPNO T02440183 PNO $ CYQR 251900Z 35003KT 290V040 15SM SCT056 SCT300 21/07 A3011 RMK CU3CI1 SLP206 DENSITY ALT 2800FT KCVS 251858Z 12005KT 10SM -RA FEW044 BKN090 OVC110 24/16 A3019 RMK AO2A RAB42 SLP171 P0000 T02370163 $ CYRJ 251939Z 25003KT 25SM FEW015TCU BKN030 21/20 A2978 RMK TCU1SC6 SLP086 DENSITY ALT 1500FT EGQS 251850Z 12011KT CAVOK 16/11 Q1014 BLU EHJA 251925Z AUTO VRB09KT 4700 BR FEW005/// 18/17 Q1013 CYQT 251900Z 28012G21KT 220V300 20SM SCT055 BKN080 25/12 A2980 RMK CU4AC2 SLP095 DENSITY ALT 2100FT CYSB 251900Z 25008KT 220V310 20SM SCT035 BKN220 24/18 A2988 RMK CU4CI3 SLP118 DENSITY ALT 2500FT OTBD 251900Z 02006KT CAVOK 34/29 Q1003 NOSIG KDNL 251953Z AUTO VRB03KT 10SM FEW080 34/19 A3011 RMK AO2 SLP188 T03390194 KEDU 251935Z AUTO 22004KT 10SM CLR 27/11 A2989 RMK AO1 CYRL 251900Z 36007G15KT 310V050 15SM FEW015 BKN025 BKN210 14/11 A2993 RMK CF2SC4CI1 CI TR SLP143 DENSITY ALT 1400FT KEFD 251850Z 20008KT 10SM RA BKN030CB BKN040 BKN250 31/25 A3006 RMK OCNL LTGCG DSNT N RA S-SW MOV N EGSC 251820Z 02003KT CAVOK 22/18 Q1013 UOOO 251900Z VRB01MPS 9999 BKN048CB 03/01 Q1014 R01/19//55 NOSIG RMK QFE745 CYSC 251900Z AUTO 23004KT 9SM OVC040 25/20 A2989 RMK SLP123 DENSITY ALT 2100FT CYQU 251900Z 24006KT 25SM FEW030 SCT120 BKN250 19/12 A3028 RMK CU2AC2CI2 ACC ASOCTD SLP264 DENSITY ALT 2700FT CXZV 251900Z AUTO 20001KT 17/16 RMK AO1 SLP058 T01670158 55002 CYQV 251900Z AUTO 34004KT 310V050 9SM CLR 20/09 A3007 RMK SLP192 DENSITY ALT 2400FT KDMW 251945Z AUTO 24007KT 10SM CLR 31/18 A3005 RMK AO2 KEEN 251856Z AUTO 20010KT 10SM CLR 28/19 A2998 RMK AO2 SLP166 T02780194 KCXE 251935Z AUTO 00000KT 10SM SCT070 32/20 A3008 RMK AO1 T03210202 KCWN 251901Z AUTO 19006KT 10SM FEW028 FEW037 SCT090 BKN130 15/09 A3028 RMK AO2 LTG DSNT SW SHRAE01 $ KCVW 251940Z AUTO 12005KT 10SM CLR 31/25 A3002 RMK A01 KEDW 251927Z 22015G20KT 20SM CLR 35/M01 A2990 RMK AO2A KDNN 251935Z AUTO 02005KT 10SM SCT049 33/20 A3012 RMK AO2 CYQW 251900Z AUTO 24006KT 9SM FEW015 OVC085 17/12 A3010 RMK SLP205 DENSITY ALT 2200FT KEEO 251953Z AUTO 24011KT 10SM SCT095 20/01 A3024 RMK AO2 RAE03 SLP171 P0000 T02000006 KCVX 251935Z AUTO 25008KT 10SM CLR 23/16 A2998 RMK AO2 T02320162 EHHW 251925Z AUTO 13010KT 090V160 9999 NCD 23/18 Q1013 CYSF 251900Z AUTO 02008KT 330V050 9SM FEW028 BKN037 OVC044 16/11 A3000 RMK SLP169 DENSITY ALT 1000FT CYQX 251900Z 23011G20KT 20SM FEW030 BKN230 25/18 A2992 RMK CU1CC6 SLP133 DENSITY ALT 1700FT OTBH 251858Z AUTO 04004KT 9999 CLR 34/27 A2963 RMK AO2 SLP034 T03400274 CZHY 251900Z AUTO 30008KT 20/11 RMK AO1 SLP212 T02030110 56016 CYQY 251900Z 22007KT 15SM BKN210 OVC230 24/18 A2999 RMK CS5CI3 SLP158 DENSITY ALT 1200FT CYRQ 251921Z AUTO 21019KT 9SM SCT022 BKN026 BKN240 25/21 A2983 RMK SLP103 DENSITY ALT 1400FT CYQZ 251900Z AUTO 35006KT 280V020 9SM CLR 24/10 A3027 RMK SLP257 DENSITY ALT 2800FT EGSH 251950Z 00000KT 8000 NSC 18/17 Q1014 KDPA 251952Z 30008KT 10SM CLR 27/17 A3004 RMK AO2 SLP166 T02670167 KDNS 251935Z AUTO 00000KT 10SM CLR 23/16 A3012 RMK AO2 KEET 251953Z AUTO 00000KT 10SM FEW045 SCT070 33/22 A3010 RMK AO2 SLP183 T03330222 OSKL 251800Z 06008KT CAVOK 36/03 Q1007 CYSJ 251900Z 21019G24KT 3/8SM R23/3000VP6000FT/D FG VV001 18/18 A2998 RMK FG8 SLP156 DENSITY ALT 600FT ORSU 252000Z VRB03KT CAVOK 25/02 Q1012 KEFK 251935Z AUTO 19009KT 10SM BKN048 OVC050 25/20 A2992 RMK AO2 T02510195 CYSK 251900Z 27011KT 3SM BR BKN004 05/05 A2979 RMK SF7 BLN DSAPRD 500FT SLP091 CYRT 251900Z 33021KT 15SM BKN032 12/06 A2973 RMK SC6 SLP072 EGTC 251650Z 05005KT 8000 FEW030 22/19 Q1013 KCWV 251935Z AUTO 03008KT 7SM SCT060 33/18 A3008 RMK AO2 T03310182 KDNV 251935Z AUTO 24007KT 7SM BKN034 29/22 A3005 RMK AO2 T02900223 CZKD 251900Z AUTO 23003KT 23/10 RMK AO1 SLP104 T02320103 58013 CYSM 251900Z 34007G16KT 310V030 15SM FEW053 FEW170 FEW240 19/06 A3013 RMK CU1AC1CI1 CU TR AC TR CI TR SLP208 DENSITY ALT 1000FT CYRV 251900Z AUTO VRB02KT 9SM BKN130 22/08 A3016 RMK SLP214 DENSITY ALT 2300FT EHKD 251955Z AUTO 14006KT 9999 NCD 25/20 Q1013 BLU KEGE 251950Z 18022G25KT 10SM VCSH SCT090 BKN100 18/02 A3030 CYSN 251944Z 21010KT 170V230 12SM -SHRA BKN029TCU BKN100 OVC150 29/22 A2990 RMK TCU5AC1AC2 SLP124 DENSITY ALT 1900FT CYTE 251942Z AUTO 10021G27KT 5SM BR OVC003 05/05 A2941 RMK SLP966 EGTE 251950Z VRB02KT 6000 -SHRA FEW008 SCT020 18/17 Q1015 KCXO 251953Z 00000KT 10SM BKN041 30/24 A3005 RMK AO2 LTG DSNT NE-S SLP170 T03000239 KCXP 251955Z AUTO 09005G16KT 10SM CLR 28/M07 A3011 RMK AO2 CYSP 251900Z VRB08G17KT 15SM SCT016 SCT260 20/15 A2984 RMK SC3CI1 CU TOPS N HRZN SLP109 DENSITY ALT 1900FT CYTH 251900Z 24008KT 15SM SCT050CB BKN170 23/10 A2987 RMK CB4AC2 CB SOUTH SLP124 DENSITY ALT 1800FT KEGI 251855Z 06008KT 10SM SCT060 SCT250 34/20 A3007 RMK AO2A SLP183 T03350196 $ EHJR 251925Z AUTO 17015G16KT //// ///////// 20/17 Q1013 W///H6 OSLK 251800Z 13003KT CAVOK 27/23 Q1009 KEHA 251948Z AUTO 03007KT 22/14 RMK AO1 PK WND 11 000 T02170145 EGSS 251950Z AUTO 02003KT 9999 NCD 20/18 Q1014 KEFT 251935Z AUTO 29004KT 10SM SCT110 25/15 A3007 RMK AO2 KDPL 251940Z AUTO 14004KT 10SM SCT048 31/20 A3010 RMK AO2 EGTK 251950Z 34002KT 8000 FEW028 20/20 Q1014 CYUB 251900Z 08010KT 15SM FEW080 FEW220 13/09 A3008 RMK AC1CI1 CI TR SLP186 EGUB 251850Z AUTO 00000KT 4700 // BKN070/// 21/20 Q1014 KEHC 251935Z AUTO 10SM SCT027 SCT032 SCT037 28/25 A3003 RMK A01 CYTL 251900Z AUTO 21008KT 170V260 9SM FEW046 18/10 A2984 RMK SLP116 DENSITY ALT 1200FT KDOV 251858Z AUTO 20012KT 10SM FEW041 31/23 A3003 RMK AO2 SLP172 T03080230 $ KCXY 251856Z 19005KT 10SM OVC060 30/21 A3002 RMK AO2 SLP163 T03000206 CYSY 242300Z 35007KT 330V040 15SM FEW080 FEW250 06/M03 A3031 RMK AC1CC1 LAST OBS/NEXT 251300Z SLP275 KDQH 251935Z AUTO 06011G14KT 10SM CLR 32/15 A3010 RMK AO2 VGHS 251930Z 36003KT 3500 TSRA BKN010 FEW025CB BKN100 26/25 Q1004 TEMPO +TSRA CYTQ 251900Z 29017KT 15SM -SHRA SCT027 BKN055 BKN080 12/07 A2964 RMK SC4SC2AC1 LAST STFD OBS/NEXT 261200UTC SLP041 CYTR 251900Z 22012KT 10SM FEW033 OVC250 27/22 A2990 RMK SC2CI3 MDT CU EMBD SLP123 KCYS 251953Z 10005G16KT 10SM BKN043 BKN050 18/06 A3029 RMK AO2 SLP203 T01780061 KDRA 251853Z AUTO 22022G30KT 10SM CLR 34/M01 A2996 RMK AO2 PK WND 22030/1852 SLP087 T03391006 CYTS 251900Z 23006KT 190V260 15SM BKN020 BKN100 23/16 A2980 RMK SF5AC1 SLP092 DENSITY ALT 2200FT EGVA 251938Z AUTO 35006KT M M BKN015 BKN075 21/21 A2995 RMK AO2 CIG 015V075 BKN015 V SCT $ EHMA 251925Z AUTO 10008KT 9999 NCD 24/19 Q1014 EICK 251930Z 20008KT 9999 SCT004 BKN007 BKN060 14/13 Q1015 BECMG BKN018 KCZL 251935Z AUTO 00000KT 10SM SCT060 35/17 A3011 RMK AO2 T03520171 CYUL 251952Z 24010KT 15SM BKN012 BKN120 25/22 A2986 RMK SC5AC2 SLP111 DENSITY ALT 1300FT CYVC 251900Z 23005KT 160V280 15SM SCT055 BKN250 24/10 A2998 RMK CU3CI2 SLP162 DENSITY ALT 2400FT EGUL 251858Z AUTO 05004KT 9999 CLR 21/19 A2991 RMK AO2 SLP131 T02140186 KEGV 251935Z AUTO 23017G24KT 10SM SCT050 24/12 A2996 RMK AO2 T02350120 CZMD 251900Z AUTO 31007KT 200V340 9SM FEW044 19/08 A2987 RMK SLP123 DENSITY ALT 1600FT EHKV 251925Z AUTO 13013KT //// // NSC 22/18 Q1013 RE// KEHO 251940Z AUTO 16004KT 10SM BKN048 BKN055 BKN080 31/20 A3012 RMK AO2 T03100202 EGUN 251858Z AUTO 02002KT 9999 SCT100 22/20 A2991 RMK AO2 SLP131 T02150196 $ EGUO 251250Z 00000KT 3000 BR BKN003 19/17 Q1017 YLO2 EHMG 251925Z AUTO 13011KT 9999 NCD 22/18 Q1013 CYTZ 251900Z AUTO 21009KT 9SM FEW050 SCT060 BKN150 24/21 A2990 RMK RVR MISG SLP126 DENSITY ALT 1400FT KEHR 251935Z AUTO 26006KT 10SM CLR 34/21 A3006 RMK AO1 KDRI 251935Z AUTO 19003KT 10SM SCT036 33/23 A3004 RMK AO2 LTG DSNT N AND NE T03260229 CZMJ 251900Z AUTO 25007KT 21/10 RMK AO1 SLP210 T02090097 58013 CYWA 251900Z 29007KT 230V320 15SM FEW047 BKN250 29/19 A2982 RMK CU2CI2 DA2556FT SLP100 CYUS 251900Z AUTO 31018KT 5SM //// OVC015 05/03 A2978 KEIK 251935Z AUTO 08005KT 10SM CLR 22/04 A3024 RMK AO2 T02160038 KCZT 251935Z AUTO 14012G16KT 10SM CLR 33/18 A3000 RMK AO2 CYUT 251900Z 34022G31KT 10SM -DZ FEW008 OVC025 04/03 A2959 RMK SF2SC6 SLP024 EIDL 251830Z 21004KT 180V240 9000 RA SCT013 BKN020 OVC032 14/13 Q1014 EGWC 251450Z 06004KT 4500 BR BKN007 18/17 Q1016 GRN CYVL 251900Z AUTO 23009KT 9SM CLR 18/10 A3005 RMK SLP189 DENSITY ALT 1300FT KDRM 251934Z AUTO 22005KT 10SM CLR 24/19 A2991 RMK AO2 T02380185 CYVM 251900Z 23010G15KT 5SM BR SCT110 08/05 A2976 RMK AC4 SLP079 CYWE 251900Z AUTO 23003KT 200V290 9SM OVC019 12/07 A3007 RMK SLP202 KDRO 251953Z AUTO 33016G28KT 10SM TS BKN075 BKN090 BKN110 19/06 A3026 RMK AO2 PK WND 33028/1948 WSHFT 1938 LTG DSNT N AND NE TSB39 SLP187 T01890056 EHLW 251942Z AUTO 09003KT 4200 BR NCD 22/21 Q1013 GRN EGUW 251850Z 19003KT CAVOK 22/18 Q1013 BLU NOSIG EGVN 251907Z 00000KT 5000 HZ FEW025 BKN070 21/19 Q1014 WHT NOSIG KFAF 251858Z AUTO 16008KT 110V190 10SM CLR 32/22 A3006 RMK AO2 SLP182 T03220217 $ CYUX 251900Z 05010KT 12SM FEW006 FEW017 BKN046 OVC055 06/05 A2965 RMK ST1SC2SC4SC2 ST TR SLP042 CYVO 251900Z 27005KT 220V310 15SM BKN029 23/18 A2983 RMK CU5 SLP107 DENSITY ALT 2300FT EGVO 251850Z 33001KT CAVOK 23/19 Q1014 BLU NOSIG KEHY 251935Z AUTO 10SM CLR 16/05 A3028 RMK AO2 EGVP 251850Z 31002KT 9999 FEW050CB SCT070 BKN160 22/18 Q1014 BLU TEMPO 7000 -SHRA WHT CYVP 251920Z 32008KT 12SM -SHRA SCT032 BKN055 BKN090 OVC150 12/07 A2966 RMK CU4SC2AC1AC1 CVCTV CLD EMBD SLP046 CYUY 251900Z 26011KT 15SM FEW018 BKN035 22/17 A2983 RMK CU1SC6 SLP106 DENSITY ALT 2000FT CYWG 251900Z 32011G16KT 290V360 15SM SCT040 BKN260 21/11 A2999 RMK CU3CI3 SLP159 DENSITY ALT 1500FT KCZZ 251952Z AUTO 21015G21KT 31/08 A2996 RMK AO1 SLP109 T03110083 CYWH 251900Z 23005KT 15SM FEW040 BKN250 16/11 A3011 RMK SC1CI5 SC TR SLP197 CYVQ 251900Z 15005KT 30SM FEW050 SCT190 SCT270 21/12 A3009 RMK CU1AC2CI1 SLP194 DENSITY ALT 700FT KEIR 251935Z AUTO 00000G12KT 8SM FEW037 SCT046 BKN070 26/24 A3007 RMK A01 CYVR 251900Z 30011KT 30SM FEW040 FEW250 22/15 A3011 RMK CU1CI1 CU TR CI TR SLP196 DENSITY ALT 600FT KDTA 251935Z AUTO 19009KT 10SM CLR 24/M05 A3012 RMK AO1 CYWJ 251900Z 32004KT 250V360 40SM FEW050 FEW080 20/08 A3009 RMK SC1AC1 SC TR AC TR SLP198 DENSITY ALT 1200FT KDRT 251953Z AUTO 14009G17KT 10SM CLR 32/19 A3000 RMK AO2 SLP141 T03220194 CZMT 251900Z 32015G22KT 15SM FEW002 SCT210 17/13 A3038 RMK ST2CI2 CONTRAIL SLP289 CYVT 251909Z 02004KT 15SM -RA SCT008 BKN015 OVC020 15/13 A3005 RMK CF3ST3SC2 PCPN VRY LGT CIG RAG SLP186 DENSITY ALT 1600FT CYWK 251900Z 27008KT 15SM SCT034 16/08 A2972 RMK CU4 SLP071 DENSITY ALT 2500FT CZMU 251900Z AUTO 33010KT 14/12 RMK AO1 T01410123 CYXC 251900Z 04006KT 350V070 25SM FEW060 BKN120 BKN180 17/05 A3025 RMK CU1AC5AC1 SLP243 DENSITY ALT 3600FT CYWL 251900Z 33007KT 220V360 15SM FEW040 FEW240 21/08 A3029 RMK CU1CI1 CU TR CI TR SLP255 DENSITY ALT 4000FT KDSM 251854Z 10003KT 10SM FEW047 BKN085 BKN130 OVC150 23/17 A3009 RMK AO2 RAE15 SLP184 P0000 T02330167 KFAM 251856Z AUTO VRB05KT 10SM SCT043 32/22 A3010 RMK AO2 SLP210 T03170217 EGXC 251850Z 02004KT 9999 BKN007 BKN160 19/17 Q1014 GRN NOSIG CYVV 251900Z 23012KT 15SM BKN018 OVC080 24/20 A2994 RMK SC6AC2 SLP137 DENSITY ALT 1900FT EGXE 251850Z AUTO 06003KT 3300 -RA OVC003/// 16/16 Q1014 CYXE 251900Z 28005KT 160V320 15SM FEW048 FEW090 BKN300 22/10 A3009 RMK CU1AC1CI3 SLP200 DENSITY ALT 2600FT EIDW 251930Z 13006KT 9999 FEW020 SCT220 15/11 Q1013 NOSIG KFBG 251920Z AUTO 17006KT 10SM CLR 33/19 A3008 RMK AO2 CYXH 251900Z 00000KT 10SM -SHRA FEW020 BKN070 OVC095 14/11 A3021 RMK CF1AC5AC2 SLP241 DENSITY ALT 2400FT KFAR 251953Z 31009KT 10SM BKN050 21/10 A3006 RMK AO2 SLP179 T02060100 KDUA 251935Z AUTO 16003KT 10SM CLR 34/19 A3006 RMK AO2 KELA 251935Z AUTO 00000KT 10SM CLR 32/21 A3002 RMK AO2 LTG DSNT NE T03210211 CYXJ 251900Z 23009KT 200V270 15SM FEW040 FEW110 BKN230 21/10 A3028 RMK CU1AC1CI5 SLP263 DENSITY ALT 3100FT KFAT 251953Z 29006KT 10SM CLR 32/07 A2987 RMK AO2 SLP111 MTNS OBSC FU HZ DSNT ALQDS T03170067 KDUB 251935Z AUTO 16004KT 10SM SCT034 SCT050 SCT100 13/02 A3029 RMK AO2 CYYB 251900Z 24009G17KT 30SM FEW025 BKN120 BKN200 24/18 A2989 RMK CU2AC4CI1 SLP119 DENSITY ALT 2500FT KFBL 251954Z AUTO 25012KT 10SM CLR 22/14 A3009 RMK AO2 PWINO KDTL 251935Z AUTO 31009KT 10SM SCT019 BKN024 BKN034 17/12 A3007 RMK AO2 KDUC 251935Z AUTO 19004KT SCT075 35/20 A3005 RMK AO2 PWINO TSNO KEKM 251950Z 27012KT 10SM SCT020 SCT026 BKN050 26/22 A3004 RMK AO2 CZOL 251900Z AUTO 34008KT 16/12 RMK AO1 T01630121 CYYC 251949Z 31015G21KT 30SM SCT035TCU SCT140 BKN250 16/09 A3024 RMK TCU3AC1CI1 SLP254 DENSITY ALT 4100FT EGWU 251850Z 36002KT CAVOK 24/19 Q1013 NOSIG CZPC 251900Z AUTO 34007KT 9SM FEW036 SCT050 BKN065 BKN077 15/10 A3028 RMK SLP265 DENSITY ALT 4300FT CYXL 251943Z 35008KT 310V030 15SM SCT015 OVC025TCU 16/13 A2986 RMK CF4TCU4 SLP119 DENSITY ALT 1700FT KELD 251953Z AUTO 23005KT 10SM VCTS SCT038 SCT070 BKN090 33/24 A3003 RMK AO2 LTG DSNT SW-NW SLP164 T03330239 KDSV 251854Z AUTO 28008KT 10SM CLR 30/21 A2997 RMK AO2 SLP150 T03000206 EGYD 251850Z AUTO 33004KT 9999 // SCT007/// BKN090/// BKN150/// 19/17 Q1014 CYYD 251900Z 34003KT 280V360 25SM FEW060 SCT240 21/11 A3030 RMK CF1CI3 CF TR SLP265 DENSITY ALT 2400FT KDTN 251953Z 31005KT 10SM FEW070 33/23 A3001 RMK AO2 LTG DSNT N-E SLP160 T03330228 KEKN 251951Z AUTO 31005KT 10SM SCT029 BKN034 BKN045 28/21 A3015 RMK AO2 SLP198 T02780206 TSNO CYXN 251900Z 33020G26KT 15SM BKN020 11/06 A2976 RMK SC7 SLP081 EGYE 251350Z 32008KT 9999 -RA SCT010 BKN012 ///// Q1016 GRN CYYE 251900Z VRB02KT 30SM FEW070 SCT210 SCT230 22/11 A3021 RMK CU2CS1CS1 SLP237 DENSITY ALT 2000FT KDTO 251953Z VRB03KT 10SM CLR 33/19 A3003 RMK AO2 SLP160 T03280194 KEKO 251856Z AUTO VRB03KT 10SM CLR 24/M06 A3013 RMK AO2 SLP148 T02441056 CYYF 251900Z 35010KT 15SM FEW080 FEW250 24/10 A3013 RMK CU1CI1 CI TR SLP202 DENSITY ALT 2200FT OTHH 251900Z 04007KT CAVOK 34/28 Q1003 NOSIG KFAY 251953Z AUTO VRB03KT 10SM FEW050 33/19 A3008 RMK AO2 SLP180 T03330189 KDUG 251856Z AUTO 10SM CLR 29/11 A3014 RMK AO2 LTG DSNT N AND NE SLP138 T02890106 CYWY 251900Z VRB02KT 15SM FEW040 SCT100 SCT290 19/12 A3014 RMK CU1AC2CI1 SLP212 DENSITY ALT 800FT CYXP 251900Z 25019KT 15SM FEW015 BKN050 08/05 A2963 RMK SF1SC6 SF TR SLP036 EGXP 251850Z AUTO 01003KT 7000 // BKN006/// BKN042/// 18/17 Q1014 CYYG 251900Z 22016G24KT 15SM SCT230 BKN280 26/18 A2994 RMK CC3CS4 OBS TAKEN +08 SLP139 DENSITY ALT 1400FT KDUH 251935Z AUTO 24006KT 10SM SCT040 SCT046 SCT060 31/21 A2998 RMK AO2 T03070212 KEKQ 251856Z AUTO 36012G16KT 10SM FEW041 A3015 RMK AO2 SLPNO $ KFCH 251935Z AUTO 10SM CLR 32/07 A2988 RMK A01 EHPG 251925Z AUTO 09009KT 9999 FEW015CB 21/18 Q1013 CYXQ 251923Z 06006KT 30SM FEW050 OVC090 13/11 A3016 RMK CU2AC6 SLP229 EGYH 251450Z 03011KT 9999 FEW045 BKN090 21/18 Q1015 BLU CYYH 251900Z 34012G17KT 15SM FEW015 BKN030 08/02 A2979 RMK CU1SC5 SLP091 KFCI 251855Z AUTO 22005G14KT 10SM FEW075 33/17 A3008 RMK AO1 KFBR 251935Z AUTO 00000KT 10SM SCT100 BKN120 18/02 A3030 RMK AO2 T01780016 CYXR 251900Z AUTO 26008KT 230V290 9SM SCT029 23/18 A2984 RMK SLP106 DENSITY ALT 2000FT KDUJ 251953Z AUTO 24011KT 10SM FEW034 29/20 A3006 RMK AO2 SLP163 T02890200 KDTS 251953Z AUTO 08010KT 10SM SCT060 33/21 A3004 RMK AO2 SLP171 T03330206 KEKS 251935Z AUTO VRB06G13KT 10SM CLR 18/M01 A3027 RMK A01 EGXS 251850Z AUTO 36007KT 9999 // OVC002/// 16/16 Q1014 CYYJ 251900Z 06006KT 010V100 30SM FEW035 FEW250 26/12 A3010 RMK SC1CI1 SC TR SLP196 DENSITY ALT 1100FT CYXS 251900Z AUTO 36005KT 320V070 9SM CLR 22/09 A3031 RMK SLP270 DENSITY ALT 3100FT KELK 251935Z AUTO 31006KT 10SM SCT041 BKN046 BKN050 29/20 A3008 RMK AO2 T02860201 EGXT 251850Z AUTO 07003KT 9999 SCT080/// BKN120/// 20/17 Q1014 CYXT 251900Z VRB06KT 20SM SCT240 23/12 A3028 RMK CI3 SLP255 DENSITY ALT 1300FT CYXU 251947Z 20009KT 7SM SCT007 BKN040TCU BKN100 24/23 A2994 RMK CF3TCU2AC2 SLP135 DENSITY ALT 2100FT CYYL 251900Z AUTO /////KT 9SM CLR 24/07 A2989 RMK WND MISG SLP128 DENSITY ALT 2500FT KFCM 251953Z AUTO 28009G17KT 10SM CLR 23/13 A3005 RMK AO2 SLP175 T02280133 KELM 251953Z AUTO 24006KT 10SM FEW031 FEW043 29/22 A2997 RMK AO2 SLP141 T02890217 EGXU 251850Z AUTO 08001KT 5000 // BKN009/// BKN080/// 17/16 Q1014 KELN 251953Z AUTO VRB03KT 10SM CLR 30/06 A3010 RMK AO2 SLP183 T03000056 KDTW 251953Z 22014KT 10SM BKN045 BKN095 31/22 A2996 RMK AO2 SLP139 T03060217 EGYM 251850Z 07006KT 8000 HZ SCT080 BKN130 18/17 Q1013 BLU EGXV 251850Z AUTO 06001KT 9999 -DZ OVC004/// 16/16 Q1014 CYZE 251900Z AUTO 26014G19KT 9SM CLR 26/17 A2989 RMK SLP122 DENSITY ALT 2000FT CYYN 251900Z AUTO 29012KT 9SM SCT090 17/11 A3016 RMK SLP220 DENSITY ALT 3200FT KELO 251953Z AUTO 25013G18KT 10SM SCT034 BKN039 OVC050 18/11 A2993 RMK AO2 EHQE 251925Z AUTO 13007KT 9999 NSC 22/19 Q1013 EGXW 251850Z 03003KT 7000 HZ FEW006 BKN100 18/17 Q1014 WHT CYZF 251900Z 21006KT 190V260 15SM FEW020 FEW050TCU BKN092 16/12 A3010 RMK CF1TCU1AC6 CF TR SLP201 CYXX 251900Z 01003KT 300V050 30SM SCT070 SCT230 29/11 A3009 RMK CU3CI1 SLP191 DENSITY ALT 1600FT KELP 251951Z 17003KT 10SM FEW070 BKN180 28/13 A3010 RMK AO2 SLP119 CB DSNT NE E SE AND NW T02830128 KEKY 251856Z AUTO VRB03KT 10SM SCT034 SCT070 31/23 A3014 RMK AO2 SLP211 T03110233 CYZG 251900Z 20015KT 10SM -DZRA BKN028 OVC049 08/06 A2942 RMK SC5SC3 SLP978 CYXY 251900Z 16009KT 40SM SCT140 BKN220 17/09 A3027 RMK AC3CI4 SLP265 DENSITY ALT 2600FT EGYP 251950Z 28009KT 9999 -DZ FEW007 BKN010 07/05 Q1004 GRN TEMPO SCT005 YLO1 CYXZ 251900Z 24010G17KT 210V270 15SM SCT010 19/16 A2988 RMK SC4 SLP121 DENSITY ALT 1600FT EGXZ 251850Z AUTO 00000KT 6000 -RA OVC006/// 17/16 Q1014 CYYQ 251953Z 02013KT 15SM FEW004 BKN060 OVC090 12/11 A2983 RMK SF2SC4AC2 SLP105 CYZH 251954Z AUTO 18003KT 100V190 9SM BKN025 BKN047 BKN070 15/13 A3021 RMK SLP239 DENSITY ALT 2000FT KFCS 251858Z AUTO 12009KT 10SM FEW100 21/08 A3026 RMK AO2 SLP208 T02080076 CYYR 251920Z 26003KT 10SM FEW013 OVC068 16/12 A2969 RMK CF2AC6 SLP055 CZPS 251900Z AUTO 33007KT 16/10 RMK AO1 T01560104 KFDK 251947Z 20005KT 10SM BKN036 BKN046 30/24 A3005 KDVK 251935Z AUTO 25007KT 10SM SCT041 SCT050 32/22 A3013 RMK AO2 CYYT 251900Z 25016G24KT 15SM FEW190 BKN230 24/17 A3000 RMK AC2CS5 SLP159 DENSITY ALT 1500FT KDVL 251856Z AUTO 29011KT 10SM SCT042 SCT050 BKN075 19/09 A3009 RMK AO2 WSHFT 1822 SLP202 T01940094 KEMM 251859Z AUTO 07007KT 10SM 16/02 A3030 RMK AO2 CYYU 251900Z 00000KT 15SM FEW035 FEW043 SCT260 21/16 A2978 RMK CU1SC1CI1 SLP090 DENSITY ALT 1700FT KEND 251858Z 30006KT 10SM SCT060 BKN180 BKN250 31/21 A3007 RMK AO2A SLP171 WND DATA ESTMD T03050206 VISNO RWY35C CHINO RWY35C $ KDVN 251952Z AUTO 25003KT 10SM OVC110 24/18 A3007 RMK AO2 SLP178 T02390183 EHRD 251925Z AUTO VRB02KT 9999 NCD 25/20 Q1013 NOSIG CYYW 251900Z AUTO 36003KT 300V040 9SM -RA SCT020 BKN033 OVC100 17/14 A2979 RMK ICG MISG SLP084 DENSITY ALT 1600FT KDUX 251940Z AUTO 06006KT 10SM SCT026 24/16 A3019 RMK AO2 T02360155 KDVO 251935Z AUTO 02007KT 340V040 10SM CLR 21/13 A2994 RMK AO2 KDVP 251925Z AUTO 28013G16KT 10SM CLR 21/12 A3014 RMK AO2 KEMP 251953Z AUTO 00000KT 10SM SCT032 SCT042 28/21 A3007 RMK AO2 SLP171 T02780206 KELY 251953Z AUTO 24013G20KT 10SM CLR 27/M07 A3013 RMK AO2 SLP118 T02671067 CYYY 251948Z 23011KT 2SM RA BR FEW006 OVC030 16/16 A2976 RMK SF2SC6 SLP081 DENSITY ALT 500FT CYZP 251900Z AUTO 35013KT 9SM CLR 22/15 A3034 RMK SLP275 DENSITY ALT 300FT KDWH 251953Z 10008KT 10SM FEW085 SCT110 27/23 A3005 RMK AO2 LTG DSNT NE-SE TSE02 SLP172 T02720228 KELZ 251856Z AUTO 24011G16KT 10SM FEW029 SCT034 BKN045 28/20 A3007 RMK AO2 SLP167 T02780200 CYYZ 251900Z 27012KT 15SM SCT045 BKN150 28/20 A2992 RMK CU3AC4 SLP129 DENSITY ALT 2200FT KFDR 251953Z AUTO 00000KT 10SM SCT065 34/19 A3001 RMK AO2 SLP141 T03440194 CYZR 251900Z AUTO 22009KT 9SM FEW020 SCT029 BKN095 29/24 A2992 RMK SLP129 DENSITY ALT 2200FT KFFA 251940Z AUTO 11005KT 10SM CLR 31/20 A3010 RMK AO2 T03140204 KEMT 250245Z 23005KT 10SM CLR 24/13 A2994 EHSA 251925Z AUTO 07008G08KT 9000 ///////// 22/19 Q1013 W19/H5 CYZS 251900Z 01016G21KT 15SM FEW015 BKN040 10/06 A2937 RMK SC1SC6 SLP952 KDVT 251953Z 20008KT 10SM CLR 36/11 A2991 RMK AO2 LTG DSNT N SLP100 T03560111 CYZT 251915Z 06003KT 020V080 15SM VCFG SCT002 13/12 A3020 RMK FG2SF2 VIS NW-E 1 SLP228 KFFC 251953Z AUTO 33007KT 10SM SCT047 31/21 A3014 RMK AO2 SLP198 T03110211 KENL 251935Z AUTO 19007KT 10SM SCT041 32/25 A3005 RMK AO2 T03230252 CYZU 251900Z 34008KT 15SM SCT030 BKN060 BKN130 17/11 A3025 RMK CU3SC2AC2 SLP252 DENSITY ALT 3000FT EHSC 251925Z AUTO 07007G08KT 7000 ///////// 22/19 Q1012 W20/H3 KEMV 251935Z AUTO 18007KT 10SM CLR 31/20 A3009 RMK AO2 CYZV 251900Z 19005KT 170V240 30SM FEW002 FEW007 OVC020 18/17 A2970 RMK SF1SF1SC7 SF TR SLP060 DENSITY ALT 800FT KFDW 251955Z AUTO 00000KT 10SM CLR 32/20 A3011 RMK AO1 KEOE 251935Z AUTO 14003KT 10SM BKN050 BKN085 33/20 A3014 RMK AO2 CYZW 251900Z 18006KT 30SM BKN060 16/10 A3032 RMK SC7 SLP280 DENSITY ALT 2400FT CYZX 251900Z 23017G24KT 15SM FEW030 OVC250 29/16 A3000 RMK CU1CI6 WNDY HILL 25014G19KT SLP158 KFDY 251953Z AUTO 24014G22KT 10SM CLR 32/20 A3000 RMK AO2 SLP147 T03170200 KFEP 251935Z AUTO 25004KT 10SM SCT110 25/17 A3008 RMK AO2 T02480167 CZRP 251900Z AUTO 02014KT M01/M02 RMK AO1 SLP203 T10061017 57009 CYZY 251900Z AUTO 33007KT 270V010 9SM CLR 20/10 A3032 RMK SLP277 DENSITY ALT 2900FT KDYA 251955Z AUTO 01004KT 10SM 33/22 A3007 RMK AO2 T03330223 CZSJ 251900Z AUTO 28009G16KT 250V340 9SM SCT048 19/07 A2990 RMK SLP134 DENSITY ALT 1600FT KDYB 251955Z AUTO 34006KT 10SM CLR 33/19 A3010 RMK AO1 KEOK 251935Z AUTO 33003KT 7SM -RA SCT044 BKN050 BKN055 24/22 A3007 RMK AO2 KFET 251935Z AUTO 34004KT 10SM CLR 23/15 A3015 RMK AO2 T02320147 CZTB 251900Z AUTO 25014G19KT 25/12 RMK AO1 PK WND 25019/1859 SLP094 T02460119 58008 KDWU 251935Z AUTO 27009G16KT 10SM FEW050 33/23 A3005 RMK AO1 KFFL 251935Z AUTO 07004KT 10SM CLR 23/16 A3007 RMK AO2 PWINO KFFM 251954Z AUTO 28011KT 10SM SCT043 OVC049 18/13 A3009 RMK AO2 KENV 251935Z AUTO 13009KT 10SM CLR 25/M02 A3009 RMK AO1 CZSM 252300Z AUTO 28003KT 25/09 RMK AO1 SLP171 T02510088 56004 KENW 251953Z 28006KT 10SM FEW120 27/17 A3003 RMK AO2 SLP165 T02670167 KFEW 251924Z AUTO 12014G21KT 10SM FEW032 FEW043 17/05 A3031 RMK AO2 WSHFT 22 $ KDWX 251935Z AUTO 20003KT 10SM CLR 20/03 A3028 RMK AO2 T02000032 KFFO 251858Z AUTO 21015KT 10SM FEW028 32/25 A3005 RMK AO2 SLP171 T03160247 VHHH 251930Z VRB02KT CAVOK 29/23 Q1003 NOSIG PLCH 251900Z 16006KT 9999 SCT018 BKN100 27/22 Q1014 CZSP 251900Z AUTO 21017G23KT 26/18 RMK AO1 PK WND 20023/1852 SLP142 T02590178 58014 KEPH 251953Z AUTO 36007KT 10SM CLR 30/03 A3009 RMK AO2 SLP179 T03000033 ZUUU 251900Z 27002MPS 210V010 9999 -TSRA FEW030 FEW030CB 24/24 Q1011 BECMG NSW KDXR 251953Z 19010KT 10SM FEW055 SCT090 27/18 A3004 RMK AO2 SLP167 T02670183 KEQA 251935Z AUTO 33005KT 10SM SCT034 SCT044 28/20 A3008 RMK AO2 KFFT 251953Z AUTO 29008KT 10SM BKN049 33/21 A3009 RMK AO2 SLP179 T03280206 KDZB 251935Z AUTO 14006KT 10SM CLR 33/17 A3007 RMK AO2 T03270168 KFHB 251935Z AUTO 03009G16KT 10SM CLR 32/23 A3006 RMK AO1 CZST 251900Z 16002KT 15SM FEW220 SCT240 20/15 A3029 RMK CS2CI2 SLP257 DENSITY ALT 100FT KDYL 251854Z AUTO 22010KT 10SM BKN035 BKN047 OVC070 29/21 A3003 RMK AO2 SLP163 T02890211 FABL 251900Z AUTO 20003KT 9999 ///////// 12/01 Q1027 KFGN 251954Z AUTO 32007KT 10SM SCT018 SCT039 BKN065 16/13 A2995 RMK AO2 KDXX 251953Z AUTO 33010KT 10SM SCT041 SCT048 19/12 A3011 RMK AO2 KFFX 251932Z AUTO 27008KT 10SM CLR 27/12 A2999 RMK AO2 T02680117 EIKN 251930Z 21006KT 180V240 9999 FEW020CB SCT040 13/12 Q1013 NOSIG KFFZ 251947Z 24006KT 40SM SKC A2989 FACH 251200Z 15008KT 9999 FEW015 24/09 Q1025 PKMJ 250055Z 15017KT 5SM -SHRA SCT014TCU BKN045 OVC110 26/24 A2982 RMK TCU VC ALQDS KDYR 251935Z AUTO 10SM CLR RMK AO1 LTG DSNT E KDZJ 251935Z AUTO 10SM A3020 RMK AO2 KDYS 251858Z AUTO VRB03KT 10SM FEW180 33/17 A3007 RMK AO2 SLP133 T03300167 $ KDYT 251954Z AUTO 26019KT 10SM BKN041 OVC060 21/13 A2997 RMK AO2 VIAG 251930Z VRB01KT 6000 SCT025 SCT090 28/28 Q1005 NOSIG CZUM 251900Z AUTO 07003KT 020V150 9SM FEW021 SCT042 13/09 A2971 RMK SLP075 DENSITY ALT 1800FT EIME 251900Z 19007KT 9999 FEW020 17/12 Q1013 KFGX 251935Z AUTO 22008G16KT 10SM SCT046 33/22 A3010 RMK AO2 T03290216 KFIG 251854Z AUTO 26008KT 10SM BKN036 BKN050 BKN060 29/21 A3007 RMK AO2 SLP172 T02890211 EIKY 251830Z 21007KT 9999 SCT027 17/12 Q1014 PKMR 251850Z 15005KT 15SM FEW015 SCT050 BKN120 BKN300 28/25 A2984 RMK SLP105 T02820249 KFHR 251953Z AUTO 02007KT 10SM CLR 28/10 A3010 RMK AO2 SLP192 T02830100 KERI 251951Z 31004KT 10SM FEW033 29/23 A2996 RMK AO2 SLP139 T02940228 $ FACT 251900Z 19012KT CAVOK 16/12 Q1021 NOSIG EHVK 251925Z AUTO 07002KT 9999 NCD 24/20 Q1013 BLU KESC 251856Z AUTO 26009KT 10SM CLR 26/13 A2993 RMK AO2 SLP150 T02610128 KFHU 251947Z VRB03KT 10SM VCSH SCT110 BKN140 28/09 A3016 RMK AO2A LTG DSNT SW SH ALQDS CZVL 251952Z AUTO 30013G18KT 9SM SCT032 BKN041 BKN050 OVC080 17/11 A3017 RMK LTNG DIST W WSHFT AT 1939Z SLP224 DENSITY ALT 2700FT EHVL 251925Z AUTO 09010KT 6000 BR NCD 23/21 Q1013 WHT KGAD 251856Z AUTO 09004KT 10SM CLR 34/23 A3013 RMK AO2 SLP209 T03390233 FACV 250831Z 10009KT CAVOK 24/M05 Q1024 KFIN 251950Z 03012G19KT 10SM SCT070 29/22 A3004 KESF 251953Z AUTO VRB03KT 10SM VCTS CLR 34/24 A3001 RMK AO2 LTG DSNT S-NW SLP159 T03440244 KGAF 251955Z AUTO 31012G18KT 10SM SCT075 21/08 A3005 RMK AO2 VIAR 251930Z 00000KT 2200 BR SCT035 SCT090 25/25 Q1006 NOSIG KEQY 251953Z AUTO VRB04KT 10SM BKN055 BKN070 33/18 A3010 RMK AO2 SLP189 T03330183 KGAG 251953Z AUTO 34005KT 10SM SCT038 28/17 A3011 RMK AO2 SLP170 T02780167 KI16 251935Z AUTO 10SM SCT032 32/19 A3021 RMK AO2 T03150188 KGAI 251935Z AUTO 23007KT 10SM FEW038 FEW046 SCT055 31/22 A3008 RMK AO1 KFKA 251953Z AUTO 28010KT 10SM CLR 23/15 A3009 RMK AO2 T02300152 KFIT 251952Z AUTO 19011G16KT 10SM CLR 29/18 A2999 RMK AO2 SLP155 T02890178 KETB 251930Z AUTO 27005KT 10SM CLR 26/12 A3003 RMK AO2 KI19 251931Z AUTO 26011G15KT 10SM SCT030 SCT035 SCT047 31/23 A3009 RMK AO2 KETC 251940Z AUTO 19003KT 10SM BKN044 31/21 A3009 RMK AO2 T03110212 FAEL 251800Z 25007KT 9999 BKN023 17/14 Q1023 KGBD 251935Z AUTO 06012G15KT 10SM FEW032 24/14 A3013 RMK AO1 KERV 251935Z AUTO 15009KT 10SM CLR 32/18 A3009 RMK AO2 T03170182 VICG 250730Z 19006KT 6000 SCT020 SCT030 33/27 Q1007 NOSIG KESN 251950Z 21010KT 10SM SCT100 30/24 A3008 KGAO 251935Z AUTO 00000KT 10SM -TSRA SCT026 BKN075 OVC110 A3007 RMK AO2 LTG DSNT ALQS P0002 EINN 251930Z 20006KT 9999 FEW014 FEW020CB 16/13 Q1014 NOSIG FAEO 251153Z 35004KT CAVOK 23/M05 Q1029 VIBR 250600Z 00000KT 8000 SCT030 28/19 Q1012 EHWO 251925Z AUTO 06002KT 9999 OVC330 24/21 Q1013 REDZ BLU KERY 251935Z AUTO 24007KT 10SM SCT044 25/14 A2991 RMK AO2 T02500140 KGBG 251935Z AUTO 32003KT 10SM SCT019 SCT031 OVC042 25/21 A3007 RMK AO2 T02500214 FADY 250848Z 01004KT CAVOK 21/M06 Q1028 KETH 251941Z AUTO 28007KT 10SM BKN037 BKN043 20/13 A3011 RMK AO2 KEST 251952Z AUTO 28007KT 10SM CLR 22/15 A3012 RMK AO2 SLP194 T02220150 VIDD 251300Z 32003KT 2500 BR SCT030 FEW035 BKN100 Q1004 NOSIG KGBK 251935Z AUTO 04017KT 10SM CLR 30/25 A3002 RMK A01 KGCC 251953Z AUTO VRB04KT 10SM SCT095 17/03 A3027 RMK AO2 SLP229 T01720033 KFKL 251935Z 24009G14KT 10SM 29/21 A3005 RMK AO1 KFLD 251953Z AUTO 24009KT 10SM CLR 26/13 A3003 RMK AO2 SLP165 T02610133 KGCD 251935Z AUTO 31003KT 10SM CLR 26/M02 A3014 RMK AO2 T02561022 KFKN 251935Z AUTO 17007KT 10SM SCT045 31/20 A3008 RMK AO2 T03140200 KEUF 251858Z AUTO VRB03KT 10SM SCT070 BKN085 34/21 A3010 RMK AO2 SLP187 T03390206 KEUG 251854Z 36010KT 10SM FEW250 29/08 A3000 RMK AO2 SLP158 FU W T02890078 KFLG 251857Z 25010KT 10SM SCT060 SCT075 22/07 A3029 RMK AO2 SLP165 T02220072 KI35 251935Z AUTO 29004KT BKN042 BKN049 BKN060 31/19 A3017 RMK AO1 FAGG 251900Z AUTO 36004KT CAVOK 12/10 Q1024 KFKS 251932Z AUTO 25006KT 10SM CLR 24/16 A2999 RMK AO2 T02380156 KEVB 251947Z 04016G24KT 10SM SCT035 29/22 A3004 KGDB 251933Z AUTO 28010G19KT 10SM SCT035 22/14 A3012 RMK AO2 T02210142 KGCK 251952Z 05005KT 10SM BKN023 BKN029 OVC036 22/16 A3017 RMK AO2 VIDN 251030Z 24005KT 6000 SCT030 32/25 Q1006 KFLL 251953Z 06011KT 10SM SCT023 SCT070 BKN090 BKN250 31/25 A2994 RMK AO2 RAB42E51 SLP137 P0000 T03060250 KEUL 251856Z AUTO VRB06KT 10SM CLR 25/03 A3009 RMK AO2 SLP174 T02500033 KGCM 251935Z AUTO 18011G16KT 10SM SCT055 SCT065 BKN100 35/19 A3004 RMK AO2 FAGM 251400Z 02005KT 9000 HZ NSC 23/M10 Q1030 VIDP 251930Z 00000KT 3200 BR FEW030 SCT100 29/27 Q1005 NOSIG KFME 251945Z AUTO 18004KT 10SM SCT042 SCT048 SCT060 A3005 RMK AO1 KGCN 251947Z VRB05KT 4SM VCTS -RA FEW037 SCT090 OVC110 19/09 A3028 RMK AO2 PK WND 21033/1856 LTG DSNT N-E RAB02E18B43 TSB20E41 P0006 T01890089 KFLO 251953Z 11005KT 10SM SCT055 33/18 A3009 RMK AO2 SLP185 T03280178 KFLP 251335Z AUTO 00000KT 10SM CLR 23/20 A3009 RMK AO1 KFMH 251935Z 21014G21KT 26/18 RMK AO2 PWINO FZRANO TSNO . KGDJ 251935Z AUTO 00000KT 10SM CLR 35/15 A3005 RMK AO2 T03510153 CZZJ 251900Z AUTO 00000KT 16/09 RMK AO1 SLP265 T01610090 58008 KFNB 251953Z AUTO 06006KT 10SM CLR 25/18 A3011 RMK AO2 SLP189 T02500178 KEWB 251953Z 19015KT 10SM CLR 28/18 A3003 RMK AO2 SLP168 T02780183 URFF 251930Z 02006MPS 9999 FEW040CB 21/17 Q1015 R01/010095 TEMPO -TSRA KEVM 251953Z AUTO 26013KT 10SM SCT034 BKN045 18/11 A2997 RMK AO2 T01780105 KGED 251854Z AUTO 20014KT 10SM BKN038 30/21 A3007 RMK AO2 SLP181 T03000206 KFMM 251935Z AUTO 09011G19KT 060V120 10SM CLR 24/02 A3023 RMK AO2 T02430024 KFMN 251953Z 10SM CLR 26/01 A3017 RMK AO2 LTG DSNT SE SLP162 T02560006 KGEG 251953Z 03005KT 10SM FEW070 FEW200 26/M01 A3014 RMK AO2 SLP190 T02611006 KFLY 251935Z AUTO 18008G14KT 10SM SCT048 20/05 A3032 RMK AO2 T02040047 KGDP 251951Z AUTO 22012G20KT 200V260 10SM OVC060 23/14 A3024 RMK AO2 SLP164 T02330144 KFOA 251935Z AUTO 20005KT 10SM SCT036 SCT044 SCT050 32/25 A3006 RMK AO2 T03230251 KGFA 251858Z 23001KT 10SM CLR 18/03 A3024 RMK AO2A SLP243 WND DATA ESTMD T01760028 TSNO $ FAHS 251600Z AUTO 10004KT //// // ////// 25/M01 Q1023 KEWK 251945Z AUTO 01007KT 10SM BKN025 BKN030 25/20 A3011 RMK AO2 KFNL 251935Z AUTO 01007KT 10SM FEW065 SCT100 20/04 A3024 RMK AO1 FAJB 251900Z AUTO 00000KT //// // ////// 12/M03 Q1029 KEVV 251854Z 24011KT 10SM FEW047 33/21 A3009 RMK AO2 SLP183 T03280211 KFOD 251935Z AUTO 25004KT 10SM CLR 24/17 A3013 RMK AO1 KGDV 251856Z AUTO 30009G15KT 10SM FEW060 SCT085 21/05 A3021 RMK AO2 SLPNO T02110050 VIGG 250930Z 23004KT 7000 SCT030 SCT080 31/24 Q1010 DRRM 251800Z 28006KT 9999 FEW033 30/22 Q1010 KFOE 251953Z VRB05KT 10SM FEW030 SCT038 28/21 A3007 RMK AO2 SLP170 T02830206 KEVW 251953Z AUTO VRB05KT 10SM BKN110 18/M03 A3026 RMK AO2 SLP175 T01831028 TSNO KEWN 251854Z 07004KT 10SM CLR 30/19 A3012 RMK AO2 SLP200 T03000189 KI63 251935Z AUTO 35006KT 10SM BKN020 BKN028 OVC034 26/22 A3007 RMK AO2 T02610221 DRRN 251900Z VRB03KT 9999 FEW020 27/24 Q1010 NOSIG KFMY 251953Z 05013G19KT 10SM VCTS FEW034 33/24 A2994 RMK AO2 LTG DSNT SE-SW SLP140 T03280239 EISG 251930Z 20004KT 160V230 4800 +RA BKN014 BKN020 15/14 Q1012 KEWR 251951Z 17008KT 10SM BKN045 BKN060 BKN150 OVC250 29/19 A2999 RMK AO2 SLP156 T02940194 EKAH 251950Z AUTO 15006KT 9999NDV NCD 21/14 Q1016 KI67 251935Z AUTO 29007KT 10SM SCT040 BKN050 BKN060 31/21 A3005 RMK AO1 FAIR 250837Z 07002KT CAVOK 23/M01 Q1031 KFOK 251953Z 20010G17KT 10SM CLR 26/19 A3006 RMK AO2 SLP180 T02560194 KFNT 251953Z 23007KT 3SM HZ FEW034 OVC080 26/22 A2997 RMK AO2 RAE19 SLP144 P0022 T02610222 KGFK 251953Z 31015G19KT 10SM SCT050 BKN070 21/10 A3004 RMK AO2 SLP172 T02060100 KI69 251934Z AUTO 24008KT 10SM SCT041 SCT049 SCT070 32/22 A3007 RMK AO2 T03230215 KGEU 251947Z 21009KT 20SM FEW100 SCT150 38/10 A2991 DRRT 251800Z 26012KT 9999 FEW040CB 33/20 Q1009 KGFL 251953Z AUTO 20006KT 10SM OVC033 24/20 A2996 RMK AO2 SLP143 T02440200 KGEV 251940Z AUTO 30005KT 10SM SCT033 SCT042 BKN080 27/19 A3025 RMK AO2 T02670187 KEYE 251953Z AUTO 25007KT 200V280 10SM FEW042 31/21 A3005 RMK AO2 SLP168 T03110211 KGGE 251955Z AUTO 13009KT 090V160 10SM CLR 30/22 A3011 RMK AO2 KEYF 251940Z AUTO 11003KT 10SM BKN050 BKN060 31/20 A3010 RMK AO2 T03130197 VIGR 251800Z 00000KT 3000 HZ FEW020 SCT100 29/27 Q1006 KGEY 251953Z AUTO VRB04KT 10SM FEW085 19/02 A3022 RMK AO2 SLP213 T01890022 KGGG 251953Z 24003KT 10SM SCT049 32/22 A3002 RMK AO2 SLP159 T03220217 KI75 251935Z AUTO 00000KT 10SM SCT110 22/16 A3012 RMK AO2 T02190162 KGEZ 251953Z AUTO 25011KT 10SM FEW042 31/22 A3005 RMK AO2 SLP169 T03110217 KGGI 251935Z AUTO 00000KT 10SM CLR 23/16 A3010 RMK AO2 T02250158 EKBI 251950Z AUTO 10005KT 9999NDV NCD 20/17 Q1016 FALA 251900Z 19003KT 140V220 CAVOK 18/M03 Q1029 NOSIG KFPK 251935Z AUTO 23007KT 10SM SCT020 SCT030 BKN050 26/22 A2998 RMK AO2 T02630217 KFOT 251930Z AUTO 30007KT 10SM CLR 19/13 A2993 RMK AO1 KGHB 251935Z AUTO 06015KT 9SM CLR 27/23 A3006 RMK A01 KFQD 251940Z AUTO 31006KT 10SM 33/21 A3014 RMK AO2 T03320208 FAKM 251900Z 02002KT CAVOK 15/M02 Q1026 KEXX 251940Z AUTO 00000KT 10SM BKN050 32/21 A3011 RMK AO2 T03230208 FAKN 251900Z AUTO 04005KT //// // ////// 18/M02 Q1027 FALE 251920Z 19007KT CAVOK 17/11 Q1019 NOSIG KEZF 251935Z AUTO 23004KT 10SM 31/23 A3004 RMK AO2 T03070233 KGHG 251935Z AUTO 22011G20KT 190V250 10SM CLR 28/17 A3001 RMK AO2 KGGP 251935Z AUTO 29008G14KT 10SM SCT031 SCT038 SCT045 27/21 A3006 RMK AO2 KFOZ 251952Z AUTO 24012G16KT 10SM SCT017 SCT029 SCT055 18/13 A2995 RMK AO2 WAAA 251900Z VRB01KT 8000 FEW020 25/24 Q1010 NOSIG KFPR 251953Z 03007KT 10SM OVC055 29/25 A2997 RMK AO2 SLP149 T02890250 EKCH 251950Z 14013KT CAVOK 20/16 Q1018 NOSIG PKWA 251940Z AUTO 15008KT 10SM CLR 27/23 A2988 RMK AO2 T02740231 KGIC 251935Z AUTO 05003KT 10SM CLR 22/04 A3014 RMK AO1 KEZM 251935Z AUTO 03009KT 10SM BKN065 BKN080 34/08 A3011 RMK AO2 T03360084 KGGW 251953Z AUTO 27008G14KT 10SM SCT090 22/03 A3016 RMK AO2 SLP213 T02170028 KEYW 251953Z AUTO 04007KT 10SM SCT027 BKN060 31/26 A2991 RMK AO2 SLP128 T03110261 KGIF 251953Z AUTO 03010G16KT 10SM FEW055 35/19 A2999 RMK AO2 SLP152 T03500189 KFRG 251953Z 20016G22KT 10SM CLR 28/18 A3004 RMK AO2 SLP171 T02780183 URKA 251930Z 01002MPS CAVOK 21/19 Q1012 R04/010070 RMK QFE755/1007 KFRI 251928Z AUTO 05008KT 10SM OVC031 24/19 A3010 RMK AO2 KEZS 251935Z AUTO 27009G16KT 10SM CLR 27/13 A2999 RMK AO2 T02700132 EKEB 251950Z AUTO 10003KT 9999NDV NCD 21/17 Q1015 VIJO 250330Z 23005KT 5000 BR BKN008 SCT015 BKN090 26/25 Q1005 NOSIG KFRM 251856Z AUTO 27007KT 10SM CLR 22/13 A3012 RMK AO2 SLP200 T02170133 KFSD 251856Z 30010G17KT 10SM FEW035 SCT250 22/13 A3015 RMK AO2 SLP207 T02170128 VIJP 251930Z 18003KT 5000 HZ FEW030 26/24 Q1007 NOSIG FAMM 251900Z AUTO 04004KT //// // ////// 17/M04 Q1027 KHAE 251935Z AUTO 35003KT 10SM OVC023 27/20 A3007 RMK AO2 KGHW 251933Z AUTO 28009KT 10SM SCT037 18/12 A3010 RMK AO2 KFSE 251935Z AUTO 30011G18KT 10SM SCT023 BKN042 OVC048 16/12 A3004 RMK AO2 FALW 251900Z AUTO 21003KT //// // ////// 13/09 Q1019 KHAF 251935Z AUTO 00000KT 9SM BKN008 BKN013 15/14 A3000 RMK AO2 PMDY 251951Z AUTO 11005KT 10SM -RA FEW020 SCT042 OVC050 24/22 A3001 RMK AO2 RAB09 PNO $ EIWF 251930Z 24009KT 200V300 CAVOK 14/// Q1015 KFSI 251858Z AUTO 25006KT 10SM FEW050 32/21 A3004 RMK AO2 SLPNO T03230214 URKK 251930Z 29003MPS CAVOK 23/18 Q1012 R23C/CLRD60 NOSIG RMK QFE755 KHAI 251935Z AUTO 27005G08KT 10SM SCT021 SCT031 SCT060 27/22 A3003 RMK AO2 T02700216 KFRR 251935Z AUTO 28004KT 10SM SCT048 SCT050 31/22 A3005 RMK AO1 VIJU 251230Z 31003KT 6000 RA SCT025 BKN100 27/26 Q1004 NOSIG USCC 251930Z 19002MPS 9999 FEW040CB 18/12 Q1016 R27/000060 NOSIG RMK QFE742 VILD 251200Z 00000KT 3000 HZ SCT025TCU FEW030 33/27 Q1005 FAOB 251900Z AUTO 12001KT //// // ////// 12/10 Q1024 KFSM 251953Z 30005KT 10SM SCT055 33/19 A3002 RMK AO2 SLP161 T03330194 VILH 251230Z 27025G35KT 6000 FEW070 SCT100 24/04 Q1020 NOSIG RMK C E-PC REST AC KHAO 251953Z AUTO 28008KT 10SM SCT040 SCT049 BKN065 32/23 A3006 RMK AO2 SLP174 T03220233 KFSO 251935Z AUTO 00000KT 10SM OVC037 23/20 A2988 RMK AO2 T02330199 KFTG 251950Z 14005KT 7SM HZ SCT030 SCT120 SCT200 23/07 A3024 KHBG 251953Z AUTO 08009G17KT 10SM -RA FEW040 SCT060 BKN075 32/23 A3005 RMK AO2 LTG DSNT SE AND S RAB51 SLP171 P0000 T03170228 KHBI 251935Z AUTO 00000KT 10SM SCT045 31/21 A3013 RMK AO2 T03110205 VILK 251930Z 00000KT 4000 HZ SCT020 SCT100 29/28 Q1004 KGKJ 251953Z AUTO 20009KT 10SM CLR 28/20 A3002 RMK AO2 SLP154 T02830200 TSNO WADD 251900Z 11008KT 9999 FEW017 26/22 Q1010 NOSIG USDD 251900Z 04005MPS 9999 SCT031CB 05/05 Q1014 NOSIG RMK QFE754/1006 USCM 251930Z 33004MPS 8000 BKN040CB 18/14 Q1019 R01/090065 TEMPO VRB21MPS 2000 TSRA SQ RMK QFE725 KFST 251953Z AUTO 24007KT 200V270 10SM BKN070 32/15 A3006 RMK AO2 LTG DSNT E AND SE SLP130 T03220150 KGJT 251953Z 18003KT 10SM CLR 26/03 A3010 RMK AO2 SLP130 T02560033 KFTK 251928Z AUTO 21010KT 10SM CLR 33/22 A3008 RMK AO2 KGLD 251953Z AUTO 12011KT 10SM CLR 24/08 A3021 RMK AO2 SLP199 T02390078 KHCD 251953Z AUTO 25012G16KT 10SM CLR 22/15 A3009 RMK AO2 T02180150 URMG 251930Z 03003MPS 360V120 9999 SCT033CB 25/17 Q1010 R08/190060 NOSIG RMK QFE743/0991 KFSW 251935Z AUTO 00000KT 10SM CLR 23/20 A3009 RMK AO2 KGLE 251935Z AUTO 19005KT 32/20 A3007 RMK AO2 T03200203 PWINO KFTN 251935Z AUTO RMK A01 PNO FAPE 251900Z 26012KT 9999 FEW027 15/11 Q1023 NOSIG KGLH 251953Z AUTO VRB04KT 10SM FEW060 34/24 A3003 RMK AO2 SLP173 T03440239 KHBR 251953Z AUTO 20008G15KT 10SM FEW048 SCT055 33/19 A3006 RMK AO2 SLP158 T03330189 URML 251930Z 16005MPS 9999 NSC 25/21 Q1011 R14/01//70 NOSIG RMK QFE758/1011 WADL 251930Z AUTO VRB02KT 9999 FEW013 22/21 Q1011 FAOR 251930Z 33007KT 230V340 CAVOK 17/M02 Q1031 NOSIG DRZA 251800Z 34012KT 9999 TSRA FEW040CB 28/21 Q1012 URMM 251930Z 26005MPS 9999 NSC 22/18 Q1012 R30/290050 NOSIG RMK QFE731/0975 KGKT 251355Z AUTO 00000KT 10SM FEW050 26/21 A3021 RMK URMN 251900Z 00000MPS 9999 SCT///CB BKN/// 21/17 Q1013 R24/010070 NOSIG RMK QFE723 FBFT 251900Z 13005KT CAVOK 17/M01 Q1026 KFUL 251953Z 18008KT 10SM CLR 26/15 A2992 RMK AO2 SLP129 T02610150 KHDC 251935Z AUTO 00000KT 10SM -TSRA SCT070 SCT100 SCT120 24/22 A3006 RMK AO2 LTG DSNT ALQS URMO 251530Z 35002MPS 320V030 9999 BKN045CB 27/18 Q1012 R10/010070 NOSIG RMK QFE715/0954 KHBV 251935Z AUTO 14006KT 10SM CLR 34/17 A3000 RMK AO2 T03420169 ZWSH 251900Z AUTO 00000MPS CAVOK 18/15 Q1022 KFVE 251953Z AUTO 23007KT 10SM BKN042 BKN049 OVC065 23/18 A2983 RMK AO2 RAE08 SLP095 P0000 T02280183 KFTW 251953Z 13005KT CLR 35/17 A3003 RMK AO2 SLP156 T03500172 $ KHDE 251935Z AUTO 02005KT 10SM CLR 23/10 A3018 RMK AO2 T02320104 FAPN 251900Z AUTO 26003KT //// // ////// 17/M06 Q1026 KHCO 251954Z AUTO 35013KT 10SM SCT055 21/09 A3001 RMK AO2 KFTY 251953Z 07005KT 10SM SCT060 BKN080 32/20 A3012 RMK AO2 SLP190 T03220200 KGKY 251953Z 10SM CLR 34/19 A3003 RMK AO2 SLP158 T03390189 FAPP 251900Z AUTO 09004KT //// // ////// 15/M02 Q1028 URMT 251930Z 06005MPS 9999 -TSRA BKN030CB 22/18 Q1014 R07/010070 NOSIG RMK QFE720 KGLR 251953Z AUTO 25011KT 10SM CLR 25/14 A2997 RMK AO2 SLP143 T02500144 KGLS 251952Z 13008KT 10SM FEW024 SCT034 32/26 A3003 RMK AO2 LTG DSNT NW SLP168 T03170256 FAPR 250749Z 10004KT CAVOK 18/M03 Q1030 KFWA 251854Z 25010G17KT 10SM SCT039 SCT250 29/21 A3004 RMK AO2 SLP166 T02940206 KGMJ 251935Z AUTO 21007G14KT 10SM SCT050 SCT065 34/20 A3006 RMK AO2 KGNA 251856Z AUTO 26008KT 19/14 A2986 RMK AO1 SLP106 T01890144 KFWB 251935Z AUTO 21006KT 10SM FEW041 33/22 A3010 RMK AO2 KFWC 251935Z AUTO 22004KT 10SM SCT035 31/24 A3006 RMK AO1 T03130242 KGNC 251935Z AUTO 00000KT 10SM SCT031 27/18 A3013 RMK AO2 T02660180 KHDN 251935Z AUTO 28009G16KT 10SM CLR 20/02 A3024 RMK AO1 LTG DSNT SE KGLW 251935Z AUTO 26006KT 10SM CLR 33/23 A3011 RMK AO2 T03310226 KHDO 251951Z AUTO 15006KT 10SM CLR 33/19 A3004 RMK AO2 SLP155 T03280189 TSNO KHEF 251845Z 19005KT 10SM CLR 29/23 A3005 KGLY 251955Z AUTO 00000KT 10SM FEW031 30/23 A3005 RMK AO2 ZYCC 251900Z 22003MPS CAVOK 12/08 Q1013 NOSIG KHEI 251953Z AUTO 33006KT 10SM BKN075 19/06 A3022 RMK AO2 SLP232 T01890056 DRZR 251800Z 24006KT 9999 FEW040 30/22 Q1010 FASB 250954Z 02013KT CAVOK 26/M06 Q1023 KGMU 251953Z 00000KT 10SM BKN043 BKN050 31/21 A3014 RMK AO2 LTG DSNT W SLP195 T03110206 KHFD 251953Z 21014G18KT 10SM CLR 30/18 A3000 RMK AO2 SLP158 T03000183 KFXE 251953Z 06013KT 10SM FEW028 SCT032 BKN042 33/23 A2994 RMK AO2 SLP141 T03280233 KFWN 251953Z AUTO 21005KT 10SM BKN037 OVC046 27/22 A3002 RMK AO2 RAB27E41 SLP161 P0000 T02670222 KHFF 251945Z 10005KT 10SM BKN060 33/18 A3013 RMK AO2 $ KFVX 251940Z AUTO 22005KT 10SM CLR A3005 RMK AO2 KHEQ 251935Z AUTO 10008KT 10SM CLR 26/07 A3024 RMK AO2 KGNR 251856Z AUTO 19006KT 24/16 A2992 RMK AO1 SLP128 T02440161 KFWS 251950Z 14005KT 10SM FEW060 34/19 A3006 KHFJ 251930Z AUTO 19009G15KT 10SM SCT043 SCT049 SCT055 32/21 A3008 RMK AO2 DTKA 251900Z 05011KT CAVOK 26/16 Q1015 NOSIG EKKA 251950Z AUTO 15003KT 9999NDV NCD 23/19 Q1016 KGOK 251953Z AUTO VRB03KT 10SM FEW039 34/19 A3002 RMK AO2 RAB22E37 SLP153 P0000 T03440194 KGNT 251935Z AUTO 26009KT 10SM BKN110 22/00 A3030 RMK AO2 LTG DSNT N AND NW T02210000 FCBB 251900Z 28003KT 240V310 8000 SCT023 25/19 Q1015 NOSIG KGNV 251953Z 03013KT 10SM FEW055 SCT085 34/19 A3003 RMK AO2 SLP163 T03390194 KGON 251856Z 21011KT 10SM CLR 27/20 A3006 RMK AO2 SLP177 T02670200 USHH 251930Z 13001MPS 9999 TS SCT030CB 18/15 Q1009 R24/010060 TEMPO 2000 TSRA OVC010CB RMK QFE753 FBKE 251700Z 13006KT CAVOK 24/M01 Q1022 KGOO 251940Z AUTO 23006KT 10SM CLR 29/M03 A3002 RMK AO1 KFYG 251935Z AUTO 23006KT 180V250 10SM CLR 32/21 A3003 RMK AO2 KHEY 251953Z AUTO 08005KT 10SM FEW047 FEW055 32/21 A3006 RMK AO2 SLP067 T03220206 KGOP 251930Z AUTO 14004KT 10SM CLR 33/20 A3008 RMK AO2 KGPH 251955Z AUTO 00000KT 10SM SCT027 BKN036 OVC050 27/20 A3005 RMK AO2 KHEZ 251935Z AUTO 05004KT 10SM SCT040 SCT047 BKN055 32/23 A3003 RMK AO1 FATH 250750Z 12003KT CAVOK 22/05 Q1039 KGPI 251855Z 11008KT 10SM CLR 19/02 A3021 RMK AO2 SLP229 T01940022 KFYJ 251935Z AUTO 19007KT 160V220 10SM SCT045 32/19 A3008 RMK AO2 T03150189 KGOV 251934Z AUTO 31007G15KT 10SM SCT043 27/16 A2997 RMK AO2 T02740164 KGPM 251950Z 13004KT 10SM SKC 33/18 A3005 KFYM 251935Z AUTO VRB04KT 10SM CLR 33/23 A3013 RMK A01 KHHF 251935Z AUTO 02007KT 10SM BKN038 25/19 A3014 RMK AO2 T02470194 KFXY 251935Z AUTO RMK AO2 PWINO PNO KFZG 251935Z AUTO 07008G15KT 340V090 SCT055 35/20 A3011 RMK AO2 T03460203 PWINO KHHG 251935Z AUTO 24012G18KT 10SM SCT036 SCT042 SCT048 A3004 RMK AO2 UTAA 251900Z 19002KT 9999 NSC 22/03 Q1014 NOSIG KHGR 251953Z 22007KT 10SM CLR 32/20 A3003 RMK AO2 SLP171 T03170200 KGPT 251953Z 12005KT 1SM +RA BR FEW018 BKN027 OVC080 26/25 A3004 RMK AO2 PK WND 13027/1929 RAB34 SLP173 P0016 T02560250 RVRNO KGRB 251953Z 26012KT 10SM CLR 26/16 A2999 RMK AO2 SLP154 T02560161 KHIB 251953Z AUTO 25008KT 10SM BKN033 OVC044 17/12 A2997 RMK AO2 SLP152 T01720117 DTMB 251930Z 01012KT CAVOK 27/19 Q1015 NOSIG KFYV 251953Z 13005KT 10SM SCT050 32/22 A3007 RMK AO2 SLP168 T03170217 KGRD 251856Z AUTO VRB04KT 10SM BKN050 BKN055 32/19 A3015 RMK AO2 SLP202 T03220194 KK02 251935Z AUTO 24006G14KT 10SM SCT045 34/23 A3005 RMK AO2 T03350226 KHIE 251952Z AUTO 00000KT 10SM OVC060 25/19 A2995 RMK AO2 RAB17E29 SLP141 P0000 T02500194 KGRF 251917Z AUTO 02013KT 10SM CLR 29/11 A3008 RMK AO2 WSHFT 15 KHIF 251858Z 08011KT 10SM BKN110 BKN180 24/01 A3011 RMK AO2A PK WND 07028/01 SLP145 VIRGA W-N MIDFLD WND 08012G19KT T02380011 URRR 251930Z 29002MPS 8000 NSC 22/16 Q1011 R22/CLRD70 NOSIG RMK QFE751/1001 FAUP 251900Z AUTO 36007KT //// // ////// 18/M05 Q1022 KGPZ 251928Z AUTO 25007KT 220V300 10SM BKN027 BKN036 18/12 A3000 RMK AO2 WAJJ 251900Z 00000KT 9999 FEW013 25/23 Q1009 NOSIG UTAK 251900Z 00000KT CAVOK 20/10 Q1013 NOSIG KHII 251930Z AUTO 20013G20KT 10SM CLR 39/04 A2985 RMK AO2 KGRI 251953Z VRB05KT 10SM CLR 24/11 A3017 RMK AO2 SLP211 T02440111 KHHR 251953Z 25011KT 10SM CLR 24/17 A2993 RMK AO2 SLP135 T02440167 VISM 250600Z 27003KT 6000 SCT040 BKN060 25/21 Q1017 UTAM 251900Z 00000KT 6000 SKC 24/08 Q1013 NOSIG ZWWW 251930Z VRB01MPS CAVOK 21/05 Q1016 NOSIG KIAB 251858Z AUTO VRB03KT 10SM CLR 28/20 A3008 RMK AO2 SLP176 T02820198 KGSB 251858Z AUTO 13004KT 10SM FEW055 31/20 A3010 RMK AO2 SLP195 T03110202 $ KGRK 251858Z AUTO 19005KT 10SM FEW047 31/21 A3008 RMK AO2 SLP174 T03140205 FAWB 251900Z AUTO 14001KT //// // ////// 13/M00 Q1027 FAUT 251900Z AUTO 19007KT //// // ////// 15/06 Q1025 KIAD 251952Z 23008KT 10SM SCT043 BKN220 32/21 A3003 RMK AO2 SLP166 T03170211 KHHV 251905Z AUTO 04008KT 9SM CLR 35/25 A3003 RMK A01 KHHW 251935Z AUTO 27004KT 10SM SCT044 34/21 A3005 RMK AO2 T03390212 FBMN 251900Z 13008KT CAVOK 22/M01 Q1024 KHIO 251953Z 05007KT 10SM CLR 33/04 A3001 RMK AO2 SLP158 T03280039 VISR 251230Z VRB02KT 5000 RABR FEW015 SCT020 BKN080 19/19 Q1019 NOSIG KIAG 251753Z 21015KT 10SM FEW030 SCT040 SCT140 BKN220 29/22 A2995 RMK AO2 WSHFT 1711 SLP133 MDT CU NE-E 60000 T02940222 10306 20239 56005 KFZY 251954Z AUTO 22005KT 10SM FEW022 FEW028 SCT035 28/22 A2993 RMK AO2 SLP131 T02780222 URSS 251930Z 06002MPS 9999 SCT083 24/22 Q1011 WS ALL RWY R02/090070 R06/090070 NOSIG RMK R06/00000MPS QFE757 ZYHB 251900Z 20001MPS CAVOK 10/09 Q1011 NOSIG KGSH 251953Z AUTO 28012KT 10SM FEW022 OVC050 26/21 A3003 RMK AO2 SLP165 T02610206 KIAH 251953Z 09008KT 4SM R27/6000VP6000FT -TSRA BR SCT033CB BKN085 OVC250 24/23 A3005 RMK AO2 SLP176 VIS S-NW 7 FRQ LTGCCCG NE-SE TS NE-SE MOVG NW P0038 T02390233 KHJH 251935Z AUTO 04005KT 10SM CLR 23/16 A3015 RMK AO2 T02310157 UTAT 251900Z 33004KT CAVOK 22/10 Q1015 NOSIG DTNH 251930Z AUTO 01012KT CAVOK 26/20 Q1015 KGRR 251953Z 30012KT 10SM FEW030 FEW045 SCT090 SCT180 28/17 A3000 RMK AO2 SLP153 T02780172 KHKA 251953Z AUTO 21004KT 10SM CLR 32/26 A3008 RMK AO2 LTG DSNT E AND SE RAE13 SLP181 P0004 T03220256 UTAV 251900Z 31004KT 7000 SKC 21/12 Q1012 NOSIG KGTB 251928Z AUTO 21010KT 10SM SCT016 26/22 A2992 RMK AO2 FAWK 251900Z AUTO 03003KT //// // ////// 18/M02 Q1030 EKOD 251650Z 16010KT CAVOK 27/14 Q1016 FAVV 251900Z AUTO /////KT //// // ////// 12/// Q1028 KGTF 251953Z VRB04KT 10SM FEW060 19/02 A3022 RMK AO2 SLP229 T01890022 KHJO 251953Z AUTO 28005KT 10SM CLR 33/04 A2987 RMK AO2 SLP113 T03280039 KGSO 251854Z 29006KT 10SM SCT040 BKN250 32/21 A3012 RMK AO2 SLP186 CB DSNT W AND NW TCU DSNT N T03220206 KGSP 251953Z 16005KT 10SM SCT046 SCT055 SCT085 32/20 A3012 RMK AO2 SLP187 T03170200 KGRY 251940Z AUTO 00000KT 4SM HZ FEW011 SCT046 BKN060 27/24 A3007 RMK A01 WALL 251230Z 18007KT 150V210 9000 SCT018 28/25 Q1009 NOSIG UTDD 251930Z VRB02MPS 9000 NSC 20/09 Q1015 R09/CLRD// NOSIG RMK QFE693/0924 KHLC 251953Z AUTO 07007KT 10SM CLR 22/12 A3018 RMK AO2 SLP205 T02220122 TSNO KGUC 251935Z 04007KT 10SM BKN070 BKN095 16/04 A3033 RMK AO1 LTG DSNT SW TSE08 P0001 KIBM 251935Z AUTO 12011G15KT 10SM SCT049 SCT110 20/08 A3027 RMK AO2 T02010078 KHLG 251953Z 23011KT 10SM BKN028 31/23 A3005 RMK AO2 SLP167 T03060228 URWA 251930Z 09003MPS CAVOK 19/15 Q1014 R09/010070 NOSIG RMK QFE762/1017 UTDK 251930Z 02005MPS 9999 NSC 24/07 Q1014 R01/09//70 RMK QFE703/0937 KGTR 251950Z 12004KT 10SM SCT055 35/21 A3007 UTDL 251930Z 24005MPS 9999 FEW130 23/07 Q1012 88CLRD70 NOSIG RMK QFE722/0962 KHKS 251953Z 13007KT 10SM BKN046 BKN060 33/23 A3005 RMK AO2 SLP166 T03330228 KIDA 251953Z VRB04KT 7SM FU SCT120TCU 23/00 A3015 RMK AO2 SLP179 TCU NE-S T02280000 WAMM 251800Z VRB01KT 9999 FEW024 24/22 Q1010 NOSIG KICL 251935Z AUTO 10SM 23/18 A3015 RMK AO2 PWINO KGTU 251950Z 16006KT 10SM SCT050 32/21 A3004 KGUL 251935Z AUTO 07010KT 10SM CLR 33/25 A3003 RMK A01 KHLN 251953Z VRB05KT 10SM CLR 21/01 A3023 RMK AO2 SLP235 T02060006 KGVE 251917Z AUTO 21006KT 10SM CLR 32/24 A3005 RMK AO1 URWI 251930Z AUTO 15007MPS 9999 ///140/// 26/15 Q1012 KGUP 251953Z AUTO 31008KT 10SM BKN090 24/03 A3025 RMK AO2 LTG DSNT W AND NW SLP100 T02440028 KHKY 251953Z 10SM FEW085 32/21 A3013 RMK AO2 SLP177 T03220206 UTFA 242100Z 18004KT 8000 NSC 19/14 Q1009 R88/09//70 UTDT 251930Z 35001MPS 9999 FEW180 22/13 Q1011 35CLRD70 RMK QFE719/0959 KICR 251953Z AUTO 28011G17KT 10SM CLR 23/09 A3020 RMK AO2 SLP218 T02330094 KIDI 251935Z AUTO 22008KT 10SM BKN038 BKN045 29/22 A3009 RMK A01 KHLR 251858Z AUTO 16004KT 10SM SCT043 31/21 A3006 RMK AO2 SLP167 T03130214 KGUS 251858Z AUTO 28011KT 10SM FEW037 29/21 A3005 RMK AO2 SLP173 T02900211 KICT 251953Z 34007G14KT 10SM SCT032 BKN120 29/20 A3008 RMK AO2 SLP169 T02940200 KHNB 251935Z AUTO 20010KT 10SM FEW043 33/23 A3008 RMK AO1 KGWB 251935Z AUTO 25007G15KT 10SM SCT036 SCT047 SCT060 29/20 A3004 RMK AO2 USNN 251930Z 22002MPS 9999 FEW033CB 17/17 Q1008 R21/220157 TEMPO 2000 TSRA SCT020CB RMK QFE751 KGVL 251953Z AUTO 11003KT 10SM FEW046 32/21 A3017 RMK AO2 SLP197 T03220206 $ UTFF 251930Z 12005KT 9999 NSC 23/11 Q1013 R18/CLRD70 KHND 251856Z 22013G23KT 10SM CLR 36/04 A2994 RMK AO2 SLP103 T03610039 KHMN 251855Z 00000KT 10SM FEW140 27/11 A3013 RMK AO2A SLP126 T02730105 KHLX 251935Z AUTO 30008KT 10SM SCT080 28/20 A3022 RMK AO2 LTG DSNT E AND S T02770204 KGUY 251953Z AUTO 04006KT 10SM OVC019 21/15 A3018 RMK AO2 SLP183 T02060150 KIDP 251935Z AUTO 25005KT 10SM CLR 33/17 A3003 RMK AO2 WBGB 251900Z 21002KT 6000 -RA FEW005 SCT014 OVC140 23/22 Q1009 KGXA 251855Z AUTO 33009G15KT 10SM FEW065 33/M01 A2997 RMK AO2 SLP096 WND DATA ESTMD T03281014 $ KIFA 251955Z AUTO 28005KT 10SM CLR 25/16 A3012 RMK AO2 T02450162 KHOB 251950Z VRB04KT 10SM SCT025 BKN030 26/20 A3014 KGVT 251935Z AUTO 15006KT 10SM SCT040 SCT046 32/21 A3006 RMK AO2 UTFN 251900Z 34004KT 9999 SCT050CB 25/14 Q1012 R28/CLRD70 NOSIG URWW 251930Z 17009MPS 9999 -TSRA BKN050CB 21/16 Q1013 R24/290060 TEMPO 1000 TSRAGR EKSB 251950Z 14006KT CAVOK 21/16 Q1015 EKRK 251950Z AUTO 12007KT 9999NDV NCD 18/16 Q1018 WAOO 251830Z AUTO 33004KT 9000NDV FEW046 BKN055 OVC090 26/23 Q1009 WBGG 251930Z 09004KT 9999 SCT020 BKN150 23/23 Q1008 NOSIG KIEN 251952Z AUTO 31006KT 10SM BKN100 17/09 A3027 RMK AO2 SLP239 T01670094 KHOE 251935Z AUTO 08008KT 10SM CLR 33/17 A3008 RMK AO2 KGXF 251858Z VRB03KT 10SM SCT140 37/11 A2989 RMK AO2A SLP107 T03730106 EKRN 251950Z AUTO 13008KT 9999NDV NCD 20/17 Q1020 KGWO 251953Z AUTO 07004KT 10SM CLR 35/22 A3004 RMK AO2 SLP168 T03500222 KHMZ 251935Z AUTO 30006KT 10SM SCT050 30/19 A3005 RMK AO2 T03010188 KGWR 251955Z AUTO 28008KT 10SM FEW026 BKN038 OVC046 18/14 A3012 RMK AO1 KHNR 251935Z AUTO 36005KT 6SM HZ CLR 23/16 A3017 RMK AO2 KIER 251935Z AUTO 03003KT 10SM SCT044 SCT110 35/24 A3002 RMK AO2 LTG DSNT ALQS T03490241 DTTA 251930Z 35007KT CAVOK 25/21 Q1016 NOSIG KGYB 251935Z AUTO 20003KT 10SM SCT043 BKN050 BKN060 32/22 A3007 RMK AO2 T03220222 DTTB 251900Z 02005KT CAVOK 25/20 Q1016 FBSK 251900Z VRB01KT CAVOK 19/M01 Q1026 NOSIG USPP 251930Z 23004MPS CAVOK 19/09 Q1012 R21/090060 NOSIG RMK QFE748 DTTD 251900Z 07006KT 020V140 9999 SCT026 27/14 Q1015 KGWW 251945Z AUTO 00000KT 10SM SCT048 30/23 A3009 RMK AO2 T03030226 KHON 251855Z AUTO 28014G20KT 10SM FEW046 22/09 A3015 RMK AO2 SLP206 T02220094 EKSN 251350Z 05007KT CAVOK 24/18 Q1017 WBGR 251900Z 22013KT 9999 -RA SCT014 BKN150 24/23 Q1009 DTTF 251900Z 10007KT 9999 SCT026 29/14 Q1013 KIFP 251935Z AUTO 21007KT 10SM CLR 38/08 A2983 RMK AO2 KHOP 251858Z AUTO 25008KT 10SM CLR 33/23 A3011 RMK AO2 SLP191 T03290225 WBGS 251900Z 12003KT 9999 SCT016 BKN150 25/23 Q1009 KHNZ 251940Z AUTO 19005KT 10SM CLR 29/20 A3009 RMK AO2 T02900196 DTTG 251900Z 10009KT 9999 FEW020 26/18 Q1015 NOSIG FBSP 251800Z VRB02KT CAVOK 20/07 Q1025 EKSP 251950Z 11006KT CAVOK 21/18 Q1015 KGYH 251947Z 22004KT 10 SM BKN044 32/21 A3014 KGYI 251930Z AUTO 14003KT 10SM CLR 34/18 A3006 RMK AO2 T03430182 DTTJ 251930Z 07005KT 9999 FEW020 27/21 Q1014 NOSIG KHOT 251953Z AUTO 16006KT 10SM TS SCT110 28/24 A3008 RMK AO2 LTG DSNT ALQDS RAE05 TSB47 SLP180 P0000 T02780239 DTTK 251900Z VRB01KT 9999 FEW023 28/17 Q1015 KGYL 251955Z AUTO 27009G14KT 10SM CLR 21/15 A3008 RMK AO2 T02130153 KHOU 251953Z 01011KT 10SM TS BKN039CB BKN065 BKN250 29/23 A3004 RMK AO2 SLP176 VCSH NE OCNL LTGICCG W-NE TS W-NE MOV NE T02940233 KIGM 251951Z AUTO 19017G22KT 10SM CLR 33/08 A3003 RMK AO2 PK WND 23028/1928 LTG DSNT NE SLP090 T03330078 DTTL 251900Z 35005KT 290V100 9999 SCT020 25/21 Q1015 WBGY 251900Z 11002KT 9999 FEW022 BKN150 24/23 Q1009 KHPN 251856Z 16012G18KT 10SM FEW050 28/18 A3004 RMK AO2 SLP165 T02780178 WAQQ 242330Z 26002KT 9000 FEW018 28/25 Q1009 DTTN 251900Z 06012KT 9999 FEW020 29/18 Q1014 KGXY 251935Z 12009G14KT 9SM CLR 23/03 A3024 RMK AO1 KHQG 251935Z AUTO 05006KT 10SM OVC014 19/14 A3020 RMK AO2 T01880143 KGZH 251953Z AUTO VRB03KT 10SM FEW044 33/22 A3007 RMK AO2 SLP179 T03280217 KIGQ 251935Z AUTO 31004KT 10SM SCT029 SCT040 28/22 A3003 RMK AO2 T02770222 KGYR 251947Z VRB06KT 10SM FEW110 SCT160 SCT220 36/09 A2991 KHQI 251935Z AUTO 09011KT 9SM CLR 29/24 A3002 RMK A01 DTTR 251800Z 02010KT 9999 SCT023 31/13 Q1014 KK88 251935Z AUTO 20005KT 10SM SCT031 SCT038 SCT090 29/22 A3007 RMK AO1 T02880216 KIIB 251935Z AUTO 00000KT 10SM CLR 23/16 A3009 RMK AO2 KGZL 251935Z AUTO 00000KT 10SM CLR 35/13 A3004 RMK AO2 KHQM 251953Z AUTO 14005KT 8SM CLR 28/13 A3005 RMK AO2 SLP180 T02830128 KGZN 251920Z AUTO VRB05KT 10SM FEW055 33/18 A3009 RMK AO2 EKVD 251950Z AUTO 11007KT //// ///////// 22/17 Q1015 KIGX 251856Z AUTO VRB03KT 10SM CLR 31/21 A3011 RMK AO2 SLP191 T03110206 WARR 251900Z 16002KT 6000 FEW020 26/22 Q1009 NOSIG USRR 251930Z 28004MPS 7000 NSC 18/18 Q1009 R25/250255 NOSIG RMK QFE751 DTTX 251900Z 04010KT 9999 FEW020 26/21 Q1014 NOSIG KGYY 251945Z 04005KT 10SM SCT037 SCT250 27/22 A3004 EKVG 251950Z AUTO 13008KT 9999NDV FEW012/// BKN023/// BKN040/// 11/11 Q1016 DTTZ 251900Z 32003KT 9999 FEW026 32/14 Q1013 NOSIG KHRI 251953Z AUTO 35005KT 10SM CLR 30/08 A3005 RMK AO2 SLP170 T03000078 KHSA 251850Z 10005KT 7SM SCT040 32/22 A3007 UUBC 251900Z AUTO 34002MPS 9999 // NCD 14/12 Q1022 RMK QFE749/0999 KHRJ 251940Z AUTO 17004KT 10SM CLR 32/22 A3009 RMK AO2 T03150215 KGZS 251935Z AUTO VRB03KT 10SM CLR 34/24 A3011 RMK A01 EKVJ 251350Z 21012KT 150V270 CAVOK 25/17 Q1017 KHSB 251935Z AUTO 25005KT 10SM CLR 33/23 A3008 RMK AO2 T03280233 KHRL 251952Z AUTO 13012G18KT 10SM FEW047 FEW065 35/23 A2995 RMK AO2 SLP142 T03500233 KJAC 251935Z RMK AO1 LTG DSNT E KHQU 251935Z AUTO 10SM CLR 33/22 A3016 RMK AO1 T03300218 KIJD 251952Z AUTO 19010G18KT 10SM FEW037 28/19 A3002 RMK AO2 SLP163 T02830189 KHSD 251935Z AUTO 27005G12KT 10SM FEW070 34/19 A3004 RMK A01 KHSE 251951Z AUTO 12006KT 10SM FEW044 31/19 A3010 RMK AO2 SLP194 T03060189 TSNO KHRO 251953Z AUTO 00000KT 10SM CLR 32/19 A3010 RMK AO2 SLP175 T03220194 ELLX 251950Z 09003KT CAVOK 27/16 Q1017 NOSIG KHSG 251935Z AUTO 15007G19KT 10SM SCT042 SCT060 19/06 A3023 RMK AO2 T01850060 USSS 251930Z 19003MPS CAVOK 20/15 Q1015 R26R/220040 NOSIG RMK QFE741/0988 KHQZ 251850Z 16011G14KT 10SM CLR 33/21 A3007 WBKK 251930Z 10005KT 9999 FEW014 SCT140 BKN270 26/22 Q1008 NOSIG KHSI 251953Z AUTO VRB04KT 10SM CLR 24/13 A3017 RMK AO2 SLP207 T02390133 WBKL 251900Z 11001KT 9999 FEW010 OVC290 27/26 Q1008 KL18 251935Z AUTO 21006KT 10SM CLR 26/16 A2996 RMK AO2 KHRT 251936Z AUTO 09011KT 10SM SCT060 33/19 A3003 RMK AO2 RAB13E20DZB27E36 $ UUBP 251500Z 35005MPS 9999 SCT020 22/11 Q1020 R34/CLRD70 NOSIG RMK QFE748/0997 KJAN 251854Z 12004KT 10SM SCT039 SCT060 33/23 A3008 RMK AO2 SLP180 T03330233 KHRX 251935Z AUTO 05005KT 10SM SCT042 28/16 A3017 RMK AO2 LTG DSNT SW T02800158 USTR 251930Z 21004MPS CAVOK 20/15 Q1014 R12/CLRD65 NOSIG RMK QFE752/1003 KIIY 251935Z AUTO 00000KT 10SM SCT045 32/21 A3013 RMK AO2 KHSP 251930Z AUTO 29005KT 10SM BKN021 OVC033 26/20 A3026 RMK AO2 T02550203 WBKS 251900Z 23001KT 9999 FEW015 FEW016CB BKN290 25/24 Q1008 RETS KJAQ 251935Z AUTO 25004KT 10SM CLR 28/07 A2994 RMK AO1 T02830066 WATT 251400Z 11006KT 8000 SCT018 26/20 Q1013 NOSIG WBKT 251900Z 00000KT 9999 FEW014 SCT140 BKN270 25/24 Q1008 KJCA 251935Z AUTO 00000KT 10SM SCT041 SCT047 30/22 A3014 RMK AO2 KJAS 251935Z AUTO 00000KT 10SM BKN041 33/23 A3005 RMK AO2 T03290232 KHUA 251858Z AUTO VRB02KT 10SM SCT047 BKN065 34/22 A3011 RMK AO2 SLP189 T03370222 UUDD 251930Z 36003MPS CAVOK 12/10 Q1022 R88/010095 NOSIG KIKK 251935Z AUTO 29004KT 10SM SCT025 BKN033 BKN039 27/22 A3005 RMK AO2 T02740215 KHST 251858Z AUTO 07013KT 10SM FEW020 32/26 A2993 RMK AO2 LTG DSNT N SLP138 T03210263 UUBW 251930Z 33002MPS CAVOK 14/10 Q1021 R30/////// NOSIG WBKW 251900Z 00000KT 9999 FEW017 BKN140 25/23 Q1008 KHTL 251953Z AUTO 26008KT 10SM FEW045 27/16 A2997 RMK AO2 SLP144 T02670161 KJAU 251935Z AUTO VRB04KT 10SM SCT037 OVC055 31/23 A3016 RMK A01 KHSV 251953Z 25006KT 10SM SCT048 36/22 A3010 RMK AO2 SLP182 TCU DSNT E T03610217 KILE 251856Z AUTO 11008G14KT 10SM FEW042 32/22 A3008 RMK AO2 SLP186 T03170222 KHUF 251953Z 24009KT 10SM BKN043 32/22 A3007 RMK AO2 SLP175 T03170222 KJAX 251856Z 08014KT 10SM SCT040 SCT080 BKN250 32/22 A3007 RMK AO2 SLP182 T03170222 KHTO 251935Z AUTO 21007G15KT 10SM CLR 25/19 A3005 RMK AO2 T02450194 KIJX 251935Z AUTO 27004KT 10SM SCT035 BKN045 29/22 A3005 RMK AO2 T02930221 KILG 251951Z 25010KT 10SM BKN050 OVC075 29/22 A3004 RMK AO2 RAB26E35 SLP171 P0000 T02890217 KL35 251935Z AUTO 25011G16KT 224V284 10SM CLR 22/00 A3025 RMK AO2 KJBR 251953Z AUTO 28004KT 10SM SCT043 BKN050 OVC090 31/24 A3006 RMK AO2 RAE1857 SLP174 P0000 T03060244 KHTS 251951Z 26008KT 10SM FEW060 33/22 A3008 RMK AO2 SLP176 T03280222 UUDL 251830Z 00000MPS CAVOK 13/12 Q1020 R23/010095 NOSIG RMK QFE757 KL38 251935Z AUTO 00000KT 1SM TSHZ VV007 29/24 A3004 RMK AO2 VIS M1/4V5 LTG DSNT ALQS T02910243 KIKT 251935Z AUTO 07019KT 10SM CLR 31/22 A3002 RMK A01 UUEE 251930Z 31002MPS CAVOK 13/11 Q1022 R24R/CLRD62 R24L/CLRD62 NOSIG KHUL 251953Z AUTO 21011G18KT 160V230 10SM FEW090 BKN120 27/19 A2985 RMK AO2 SLP107 T02670194 KILM 251953Z AUTO 15006KT 10SM CLR 29/20 A3010 RMK AO2 SLP191 T02940200 KIKV 251935Z AUTO RMK AO2 PNO PWINO KHUM 251947Z 13005KT 7SM SCT010 SCT032 24/24 A3007 KILN 251854Z AUTO 22012KT 10SM SCT027 BKN034 BKN043 31/24 A3007 RMK AO2 SLP167 T03110239 KIKW 251935Z AUTO 26008KT 10SM SCT037 29/19 A2994 RMK AO2 T02850185 FCPP 251900Z 27005KT 7000 FEW010 BKN023 23/21 Q1015 NOSIG KHUT 251952Z 02008KT 10SM BKN025 24/18 A3011 RMK AO2 SLP177 T02440183 KJCT 251951Z AUTO 14010KT 110V190 10SM CLR 34/13 A3006 RMK AO2 SLP139 T03390133 PWINO UTNN 251330Z 36011KT CAVOK 31/M00 Q1015 R33/CLRD60 NOSIG EKYT 251950Z 16003KT CAVOK 23/19 Q1015 KIML 251953Z AUTO VRB05G16KT 10SM CLR 24/06 A3021 RMK AO2 SLP207 T02440061 KHWD 251903Z VRB05KT 10SM SCT014 18/11 A2996 RMK AO2 T01780106 KIND 251854Z 23014G22KT 10SM SCT038 31/22 A3007 RMK AO2 SLP175 T03110217 KJDN 251948Z AUTO VRB04KT 23/03 A3019 RMK AO1 SLP219 T02280028 KHVN 251953Z 18011KT 10SM CLR 27/19 A3003 RMK AO2 SLP170 T02720194 KJEF 251953Z 18005KT 10SM SCT047 31/22 A3003 RMK AO2 SLP156 T03110222 KINF 251935Z AUTO 04012G20KT 10SM BKN090 33/22 A3001 RMK AO2 ZYTL 251930Z VRB01MPS CAVOK 18/09 Q1013 NOSIG KHVR 251953Z AUTO 00000KT 10SM CLR 21/03 A3019 RMK AO2 SLP223 T02110028 UTNU 251900Z 00000KT CAVOK 18/09 Q1014 R31/CLRD70 NOSIG KHVS 251935Z AUTO 00000KT 10SM BKN055 33/18 A3010 RMK AO2 KIMS 251931Z AUTO 24009G14KT 10SM SCT045 32/21 A3010 RMK AO1 KINJ 251935Z AUTO 18007KT 10SM SCT050 32/20 A3006 RMK AO2 T03210204 KINK 251953Z AUTO VRB04KT 10SM CLR 28/18 A3006 RMK AO2 SLP137 T02780183 TSNO KIMT 251854Z AUTO 28010KT 10SM CLR 26/11 A2994 RMK AO2 SLP135 T02610106 KIOB 251935Z AUTO 27006KT 240V310 10SM BKN043 A3013 RMK AO2 KINL 251855Z AUTO 27008KT 10SM 18/13 A2990 RMK AO2 SLP126 T01830133 $ KHXD 251950Z 05005G12KT 10SM FEW040 33/22 A3010 KHWO 251853Z 07012KT 10SM SCT030 33/24 A2994 KJER 251953Z AUTO 11005KT 10SM CLR 24/02 A3010 RMK AO2 SLP161 T02440022 KHYA 251856Z 21015G23KT 10SM FEW021 SCT026 27/19 A3006 RMK AO2 PK WND 23027/1836 SLP178 T02670194 $ KINS 251954Z AUTO 25016G18KT 10SM SCT140 35/M05 A2992 RMK AO2 WSHFT 45 KJES 251935Z AUTO 09006KT 10SM SCT047 SCT055 SCT070 32/23 A3008 RMK AO2 KJFK 251951Z 17019G26KT 10SM FEW045 SCT100 SCT180 BKN260 26/22 A3004 RMK AO2 SLP170 T02610222 $ KINT 251854Z 00000KT 10SM FEW039 32/20 A3014 RMK AO2 SLP192 T03170200 ZYTX 251930Z VRB01MPS CAVOK 11/10 Q1014 NOSIG KHWV 251856Z AUTO 19014KT 10SM CLR 26/19 A3007 RMK AO2 SLP182 T02610194 TSNO ENAL 251950Z 04009KT 9999 BKN017 13/11 Q1018 KINW 251919Z AUTO 04003KT 10SM CLR 27/07 A3015 RMK AO2 LTG DSNT S-NW T02670067 ENAN 251950Z AUTO 23014KT 4400NDV DZ FEW008/// SCT015/// BKN023/// 09/08 Q1016 KHWY 251930Z AUTO 15004KT 10SM CLR 32/21 A3005 RMK AO2 T03160210 KJGG 251935Z AUTO 17007KT 10SM CLR 33/21 A3007 RMK AO1 KHYI 251945Z 17003KT 10SM SCT043 BKN050 32/22 A3005 FDJR 251900Z AUTO 01003KT //// // ////// 20/M06 Q1025 KIPJ 251940Z AUTO 00000KT 10SM CLR 33/17 A3012 RMK AO2 T03300172 FDLB 251900Z AUTO 15005KT //// // ////// 23/06 Q1025 ENAT 251950Z 00000KT 9999 BKN040 10/05 Q1013 RMK WIND 700FT 24007KT KIPL 251953Z AUTO 16006KT 10SM CLR 40/13 A2978 RMK AO2 SLP084 T04000133 ENBL 251950Z 32003KT 9999 FEW025 13/12 Q1017 KHZD 251935Z AUTO 22004KT 10SM CLR 30/24 A3010 RMK A01 KIOW 251952Z AUTO 30003KT 10SM SCT120 24/18 A3007 RMK AO2 RAE03 SLP179 P0000 T02440178 KHZE 251935Z AUTO 33013G19KT 10SM FEW050 BKN080 20/05 A3017 RMK AO2 ENBN 251920Z 26002KT 9999 FEW025 BKN035 11/08 Q1019 KJFX 251935Z AUTO VRB04KT FEW048 37/24 A3010 RMK AO2 PWINO ENBO 251950Z 25006KT 9999 VCSH FEW006 SCT014 BKN025 11/08 Q1019 TEMPO SCT008 BKN014 UTSA 251930Z 35002KT 9999 NSC 23/M03 Q1013 R25/CLRD70 NOSIG KJFZ 251935Z AUTO 24006KT 10SM SCT018 SCT046 SCT065 26/23 A3024 RMK AO2 T02640229 UTSB 251930Z 01007KT CAVOK 21/00 Q1013 R01/CLRD70 NOSIG WBSB 251930Z 22005KT 9999 FEW015 BKN270 26/24 Q1009 NOSIG KHYR 251953Z AUTO 26010G21KT 230V310 10SM SCT041 22/12 A3000 RMK AO2 SLP157 T02220117 ENBR 251950Z VRB01KT 9999 SCT012 BKN022 15/13 Q1016 RMK WIND 1200FT VRB02KT KHYS 251935Z 04011KT 10SM CLR 24/12 A3015 RMK AO1 ENBS 251950Z 25015KT CAVOK 07/03 Q1009 KIPT 251854Z VRB03KT 10SM FEW060 29/22 A3000 RMK AO2 SLP153 T02890217 KHZL 251935Z AUTO 00000KT 2SM DZ OVC010 22/21 A3011 RMK AO2 ENBV 251950Z 25018KT 9999 FEW025 BKN060 09/05 Q1009 KHYW 251955Z AUTO 18008KT 10SM SCT065 31/22 A3009 RMK AO2 KJHN 251935Z AUTO 07004KT 10SM OVC015 18/15 A3021 RMK AO2 T01810146 ENCN 251950Z 05002KT 9000 FEW005 BKN074 17/17 Q1016 KHYX 251934Z AUTO 29011G15KT 10SM SCT029 SCT038 SCT046 27/20 A2994 RMK AO2 UTSK 251930Z 05002KT 010V070 CAVOK 22/02 Q1012 R34/CLRD70 KHZR 251935Z AUTO 12011KT 10SM TS SCT038 BKN045 BKN050 28/23 A3004 RMK AO2 LTG DSNT ALQS T02750234 KM08 251940Z AUTO 00000KT 10SM FEW070 FEW090 32/25 A3009 RMK A01 KIRK 251926Z AUTO 06008KT 10SM SCT008 BKN047 OVC060 23/20 A3009 RMK AO2 T02330200 KJHW 251935Z AUTO 23007KT 10SM FEW031 27/20 A3002 RMK AO1 KHZX 251952Z AUTO 25008G15KT 211V281 10SM SCT028 BKN034 OVC043 17/11 A3002 RMK AO2 KHZY 251953Z AUTO 20009KT 10SM FEW034 30/23 A2999 RMK AO2 SLP147 T03000233 UTSS 251930Z 14005KT 110V180 6000 NSC 22/07 Q1014 R88/CLRD70 NOSIG UTST 251930Z VRB02KT CAVOK 24/01 Q1011 R88/CLRD70 NOSIG VLLB 251300Z 00000KT 8000 SCT017 SCT060 29/26 Q1004 NOSIG ENDR 251950Z AUTO 05005KT 13/10 Q1020 KIRS 251935Z AUTO 28007G14KT 260V320 10SM SCT020 SCT025 OVC060 27/21 A3002 RMK AO2 P0001 T02650207 KJKA 251935Z AUTO 10013G20KT 10SM CLR 32/20 A3005 RMK AO2 T03210203 FDMS 251700Z 01006KT CAVOK 22/03 Q1023 NOSIG KM19 251856Z AUTO 18004KT 10SM FEW060 33/23 A3008 RMK AO2 LTG DSNT SE AND S SLP186 T03280233 ENFB 251950Z AUTO 05010KT 9999NDV OVC021/// 12/08 Q1019 W///S3 ENEK 251920Z 36004KT 6000 -RA SCT007 BKN040 15/14 Q1017 W16/S3 KM21 251935Z AUTO 28005KT 10SM BKN042 BKN049 32/23 A3010 RMK AO2 T03230226 ENDU 251950Z 00000KT 9999 VCSH FEW020 SCT030 BKN040 ///// Q1016 RMK TEMP AT 1100FT 07 KISM 251856Z 06012G18KT 10SM FEW048 33/21 A3002 RMK AO2 SLP166 T03280211 FDMV 251800Z AUTO 28001KT //// // ////// 19/02 Q1029 KISN 251952Z AUTO 29009KT 260V330 10SM BKN090 23/04 A3014 RMK AO2 SLP201 T02330039 KISO 251856Z 00000KT 10SM SCT048 31/19 A3012 RMK AO2 FEFF 251900Z 00000KT 8000 BKN010 22/22 Q1013 BECMG SCT010 KM25 251955Z AUTO 25006KT 10SM SCT047 33/21 A3009 RMK AO2 PWINO KISP 251856Z 19014G19KT 10SM SCT200 OVC250 27/19 A3006 RMK AO2 SLP176 T02670194 LBBG 251930Z VRB04KT 9999 FEW047 19/16 Q1018 NOSIG KITH 251856Z 21004KT 10SM OVC020 25/22 A3000 RMK AO2 SLPNO T02500217 KISQ 251935Z AUTO 17006KT 10SM CLR 25/15 A2992 RMK AO2 T02490148 UTTT 251930Z 06007KT CAVOK 22/11 Q1013 R08L/CLRD70 NOSIG KJKJ 251954Z AUTO 32007KT 10SM BKN040 BKN050 BKN055 19/11 A3007 RMK AO2 KM30 250715Z AUTO 00000KT 7SM CLR 23/23 A3008 RMK AO2 T02330227 VLLN 251200Z 22002KT 9000 FEW020 FEW200 28/27 Q1006 NOSIG KJKL 251953Z AUTO VRB04KT 10SM SCT037 SCT050 32/23 A3014 RMK AO2 SLP188 T03170233 ENGC 251920Z 05012KT 9999 BKN020 13/08 Q1018 W11/S3 ENFL 251950Z AUTO 33004KT 9999NDV NCD 15/13 Q1016 ENEV 251950Z VRB01KT 9999 -SHRA FEW039 BKN055 BKN078 09/07 Q1017 RMK WIND 1400FT 27004KT KISW 251854Z AUTO 28011G18KT 10SM CLR 27/14 A3004 RMK AO2 SLP169 T02670139 KM33 251935Z AUTO 00000KT 10SM BKN041 BKN047 BKN055 33/25 A3013 RMK A01 KITR 251953Z AUTO 13011KT 10SM SCT048 24/08 A3023 RMK AO2 SLP195 T02390078 KM40 251955Z AUTO 00000KT 7SM CLR 36/25 A3008 RMK AO2 FEFT 251000Z 08004KT 9999 SCT020 24/21 Q1013 UUMO 251930Z 35003MPS CAVOK 13/10 Q1022 R26/090060 NOSIG RMK QFE751/1001 ENHD 251950Z 36006KT 9999 BKN005 15/14 Q1016 ENGM 251950Z 19003KT 4600 BR FEW002 OVC012 17/16 Q1017 TEMPO 2000 BR KJLN 251953Z 28007KT 10SM CLR 33/22 A3005 RMK AO2 SLP161 T03280217 ENHE 251950Z VRB01KT 9999 SCT027 12/09 Q1019 W///S3 ENHF 251950Z 23019KT 9000 SHRA FEW009 SCT012 BKN015 08/07 Q1011 RMK WIND 1254FT 26028KT FDPP 251800Z AUTO 05008KT //// // ////// M27/M41 Q1029 UUOB 251930Z 36005MPS CAVOK 16/14 Q1017 R29/090060 NOSIG KIWA 251950Z 30005KT 35SM FEW100 35/11 A2992 RMK TCU DSNT E ENHK 251420Z 28015KT 9999 SCT020 OVC041 10/05 Q1013 KIWD 251856Z AUTO 25017KT 10SM CLR 23/12 A2995 RMK AO2 SLP137 T02280122